Date: 01-Jun-2563

SAOM32 OOMS 010000
METAR OOMS 312350Z 15004KT 120V190 CAVOK 37/22 Q1002 NOSIG=
METAR OOSA 312350Z 10011KT 8000 FEW012 OVC025 FEW030CB 28/27 Q1006
NOSIG=
METAR OOSH 010000Z NIL=
METAR OODQ 312350Z AUTO 22014KT //// R22///// FEW022 28/27 Q1007
NOSIG=


......................................................................................


Date: 01-Jun-2563

SASD31 OEJD 010000
METAR OEDF 010000Z 30007KT CAVOK 29/09 Q1003 NOSIG=
METAR OEDR 010000Z 29004KT CAVOK 29/13 Q1002 NOSIG=
METAR OEJN 010000Z 36006KT CAVOK 26/17 Q1006 NOSIG=
METAR OEMA 010000Z 00000KT CAVOK 34/01 Q1010 NOSIG=
METAR OERK 010000Z NIL=
METAR OERY 010000Z NIL=
METAR OYAA 010000Z NIL=
METAR OYSN 010000Z NIL=


......................................................................................


Date: 01-Jun-2563

SATH31 VTBD 010000
METAR VTBD 010000Z 15007KT 9999 FEW020 SCT035 28/25 Q1011 NOSIG=


......................................................................................


Date: 01-Jun-2563

SATH31 VTBS 010000
METAR VTBS 010000Z 15006KT 9999 FEW020 SCT035 27/24 Q1011 NOSIG=


......................................................................................


Date: 01-Jun-2563

SATH31 VTCC 010000
METAR VTCC 010000Z 00000KT 9999 FEW035 27/23 Q1012 NOSIG=


......................................................................................


Date: 01-Jun-2563

SATH31 VTCT 010000
METAR VTCT 010000Z 00000KT 9999 FEW030 24/23 Q1012 NOSIG=


......................................................................................


Date: 01-Jun-2563

SATH31 VTPH 010000
METAR VTPH 010000Z 00000KT 9999 FEW022 27/24 Q1011 NOSIG=


......................................................................................


Date: 01-Jun-2563

SATH31 VTPN 010000
METAR VTPN 010000Z 00000KT 9999 SCT025 28/24 Q1009=


......................................................................................


Date: 01-Jun-2563

SATH31 VTPT 010000
METAR VTPT 010000Z /////KT 8000 FEW026 30/24 Q//// NOSIG=


......................................................................................


Date: 01-Jun-2563

SATH31 VTSB 010000
METAR VTSB 010000Z VRB02KT 0400 R22/1200 FG VV002 24/24 Q1011=


......................................................................................


Date: 01-Jun-2563

SATH31 VTSC 010000
METAR VTSC 010000Z 21004KT 9999 FEW020 24/23 Q1011 NOSIG =


......................................................................................


Date: 01-Jun-2563

SATH31 VTSR 010000
METAR VTSR 010000Z 00000KT 9999 FEW025 SCT100 26/25 Q1011 NOSIG=


......................................................................................


Date: 01-Jun-2563

SATH31 VTSS 010000
METAR VTSS 010000Z 00000KT 3000 BR SCT004 24/24 Q1011 NOSIG=


......................................................................................


Date: 01-Jun-2563

SATH31 VTUD 010000
METAR VTUD 010000Z 35005KT 9000 -RA BKN020 24/24 Q1012 NOSIG=


......................................................................................


Date: 01-Jun-2563

SATH31 VTUK 010000
METAR VTUK 010000Z 19005KT 160V220 9999 FEW030 27/24 Q1012 NOSIG=


......................................................................................


Date: 01-Jun-2563

SATH31 VTUV 010000
METAR VTUV 010000Z 19005KT 160V220 9000 FEW030 28/25 Q1011 NOSIG=


......................................................................................


Date: 01-Jun-2563

SAAE31 VDPP 010000
METAR VDPP 010000Z 12002KT 9999 SCT015 SCT040 28/25 Q1010=


......................................................................................


Date: 01-Jun-2563

SATH31 VTSP 010000
METAR VTSP 010000Z 12002KT 9999 FEW020 26/25 Q1010 NOSIG=


......................................................................................


Date: 01-Jun-2563

SATH31 VTUL 010000
METAR VTUL 010000Z 29001KT 9999 SCT030 SCT080 24/24 Q1012 NOSIG=


......................................................................................


Date: 01-Jun-2563

SATH31 VTUU 010000
METAR VTUU 010000Z 17003KT 100V230 9999 FEW030 26/25 Q1012 NOSIG =


......................................................................................


Date: 01-Jun-2563

SATH31 VTBU 010000
METAR VTBU 010000Z 33003KT 280V020 9999 -TSRA FEW018CB
SCT100
29/26 Q1012 TEMPO FM0010 TL0040 5000 TSRA=


......................................................................................


Date: 01-Jun-2563

SAHK31 VHHH 010000
METAR VHHH 010000Z 19010KT 9999 FEW012 30/25 Q1011 NOSIG=


......................................................................................


Date: 01-Jun-2563

SAIR31 OIII 010000
METAR OIAW 010000Z 31006KT CAVOK 31/M00 Q1003=
METAR OIFM 010000Z 01006KT CAVOK 19/M02 Q1018 A3008=
METAR OIII 010000Z NIL=
METAR OIKB 010000Z VRB02KT 2500 BR NSC 30/26 Q1002 A2960=
METAR OIKK 010000Z 27004KT CAVOK 16/M01 Q1018 A3007=
METAR OIMM 010000Z 26004KT CAVOK 18/00 Q1015 A2998=
METAR OISS 010000Z NIL=
METAR OITT 010000Z 05004KT CAVOK 16/M00 Q1017 A3003=
METAR OIZH 010000Z 18004KT CAVOK 16/M07 Q1015 A2998=


......................................................................................


Date: 01-Jun-2563

SAIR32 OIII 010000
METAR OIAA 010000Z NIL=
METAR OIBK 010000Z 00000KT 0200 FG NSC 28/27 Q1002=
METAR OICC 010000Z 15004KT CAVOK 12/M05 Q1017 A3003=
METAR OIGG 010000Z NIL=
METAR OIIE 010000Z 28012KT CAVOK 21/06 Q1012=
METAR OINZ 010000Z NIL=
METAR OITR 010000Z 24004KT CAVOK 13/M01 Q1014=
METAR OIYY 010000Z 34002KT 9999 FEW045 30/03 Q1015=


......................................................................................


Date: 01-Jun-2563

SAIR34 OIII 010000
METAR OIAG 010000Z NIL=
METAR OIAM 010000Z NIL=
METAR OICI 010000Z 08004KT CAVOK 18/M02 Q1017 A3004=
METAR OIKQ 010000Z 00000KT 3000 BR NSC 25/22 Q1002=
METAR OINN 010000Z 00000KT CAVOK 18/15 Q1012=
METAR OINR 010000Z 22002KT CAVOK 18/14 Q1011=
METAR OISL 010000Z 00000KT CAVOK 25/12 Q1008=
METAR OISY 010000Z 00000KT CAVOK 16/04 Q1022=
METAR OITZ 010000Z NIL=


......................................................................................


Date: 01-Jun-2563

SAIR35 OIII 010000
METAR OIAD 010000Z NIL=
METAR OIBJ 010000Z NIL=
METAR OIBS 010000Z NIL=
METAR OIHR 010000Z NIL=
METAR OIKM 010000Z NIL=
METAR OIKR 010000Z NIL=
METAR OING 010000Z 00000KT CAVOK 16/15 Q1014=
METAR OIZB 010000Z NIL=
METAR OIZI 010000Z NIL=


......................................................................................


Date: 01-Jun-2563

SAIR36 OIII 010000
METAR OIBA 010000Z NIL=
METAR OIBV 010000Z NIL=
METAR OIFS 010000Z 34004KT CAVOK 11/02 Q1022=
METAR OIIP 010000Z 29010KT CAVOK 16/10 Q1013 A2992=
METAR OIMB 010000Z NIL=
METAR OIMN 010000Z VRB02KT 7000 NSC 16/14 Q1016=
METAR OIMS 010000Z NIL=
METAR OIMT 010000Z NIL=
METAR OIZJ 010000Z 32008KT 5000 HZ NSC 33/23 Q1000=


......................................................................................


Date: 01-Jun-2563

SAIR37 OIII 010000
METAR OIBL 010000Z 00000KT 2000 BR NSC 28/28 Q1002=
METAR OIBQ 010000Z 00000KT CAVOK 29/24 Q1002=
METAR OIIK 010000Z NIL=
METAR OIMC 010000Z NIL=
METAR OIMD 010000Z NIL=
METAR OIMQ 010000Z NIL=
METAR OINE 010000Z 00000KT 9999 FEW100 17/16 Q1012=
METAR OITK 010000Z NIL=
METAR OITM 010000Z NIL=


......................................................................................


Date: 01-Jun-2563

SATH31 VTUI 010000
METAR VTUI 010000Z VRB01KT 9999 FEW030 28/25 Q1011 NOSIG=


......................................................................................


Date: 01-Jun-2563

SATH31 VTUQ 010000
METAR VTUQ 010000Z 22005KT 180V240 CAVOK 27/25 Q1012 NOSIG=


......................................................................................


Date: 01-Jun-2563

SATH40 VTBB 010000
METAR VTBD 010000Z 15007KT 9999 FEW020 SCT035 28/25 Q1011 NOSIG=
METAR VTBS 010000Z 15006KT 9999 FEW020 SCT035 27/24 Q1011 NOSIG=
METAR VTBU 010000Z 33003KT 280V020 9999 -TSRA FEW018CB
SCT100
29/26 Q1012 TEMPO FM0010 TL0040 5000 TSRA=
METAR VTCC 010000Z 00000KT 9999 FEW035 27/23 Q1012 NOSIG=
METAR VTCT 010000Z 00000KT 9999 FEW030 24/23 Q1012 NOSIG=
METAR VTSB 010000Z VRB02KT 0400 R22/1200 FG VV002 24/24 Q1011=
METAR VTSG 010000Z VRB02KT 1000 R14/0450N FG BKN015 OVC080 24/24
Q1011 BECMG TL0100 3000 BR=
METAR VTSP 010000Z 12002KT 9999 FEW020 26/25 Q1010 NOSIG=
METAR VTSS 010000Z 00000KT 3000 BR SCT004 24/24 Q1011 NOSIG=
METAR VTUD 010000Z 35005KT 9000 -RA BKN020 24/24 Q1012 NOSIG=
METAR VTUU 010000Z 17003KT 100V230 9999 FEW030 26/25 Q1012 NOSIG =


......................................................................................


Date: 01-Jun-2563

SATR31 UTAA 010000 RRA
METAR UTAK 010000Z 23008KT 9999 BKN014 17/15 Q1010 R16R/CLRD70
NOSIG=


......................................................................................


Date: 01-Jun-2563

SAAU65 AMMC 010000
METAR YLRE 010000Z AUTO 25007KT 9999 // NCD 23/12 Q1019=
METAR YMAV 010000Z AUTO 29019KT 9999 // BKN017 OVC025 10/08 Q1004=
METAR YMAY 010000Z AUTO 36008KT 9999 // SCT043 BKN050 10/09 Q1007=
METAR YMDG 010000Z AUTO 34010KT 9999 // SCT067 BKN085 14/09 Q1012=
METAR YMEK 010000Z AUTO 09009KT 9999 // NCD 12/05 Q1027=
METAR YMEN 010000Z AUTO 28012KT 9999 // OVC024 10/06 Q1005=
METAR YMER 010000Z AUTO 34004KT 9999 // NCD 15/08 Q1005=
METAR YMIA 010000Z AUTO 25012KT 9999 // NCD 10/05 Q1015=
METAR YMML 010000Z 28014KT 9999 FEW022 SCT049 BKN065 09/06 Q1005=
METAR YMOR 010000Z AUTO 36013KT 9999 // SCT086 19/08 Q1016=


......................................................................................


Date: 01-Jun-2563

SAOM32 OOMS 010000 RRA
METAR OOSH 312350Z AUTO VRB01KT //// ////// 34/22 Q1002=


......................................................................................


Date: 01-Jun-2563

SATH31 VTSE 010000
METAR VTSE 010000Z 00000KT 9000 NSC 27/26 Q1011 NOSIG=


......................................................................................


Date: 01-Jun-2563

SASD31 OEJD 010000 RRA
METAR OERK 010000Z 29002KT CAVOK 27/07 Q1010 NOSIG=


......................................................................................


Date: 01-Jun-2563

SAAE31 VTBB 010000
METAR VTBD 010000Z 15007KT 9999 FEW020 SCT035 28/25 Q1011 NOSIG=
METAR VTBS 010000Z 15006KT 9999 FEW020 SCT035 27/24 Q1011 NOSIG=
METAR VTBU 010000Z 33003KT 280V020 9999 -TSRA FEW018CB
SC
T100
29/26 Q1012 TEMPO FM0010 TL0040 5000 TSRA=
METAR VTCC 010000Z 00000KT 9999 FEW035 27/23 Q1012 NOSIG=
METAR VTCT 010000Z 00000KT 9999 FEW030 24/23 Q1012 NOSIG=
METAR VTSG 010000Z VRB02KT 1000 R14/0450N FG BKN015 OVC080 24/24
Q1011 BECMG TL0100 3000 BR=
METAR VTSP 010000Z 12002KT 9999 FEW020 26/25 Q1010 NOSIG=
METAR VTSS 010000Z 00000KT 3000 BR SCT004 24/24 Q1011 NOSIG=


......................................................................................


Date: 01-Jun-2563

SAAE32 VTBB 010000
METAR VDPP 010000Z 12002KT 9999 SCT015 SCT040 28/25 Q1010=
METAR VDSR 010000Z VRB01KT 9000 SCT015 26/26 Q1010=
METAR VDSV 010000Z NIL=
METAR VLVT 010000Z 18002KT 5000 -DZ SCT010 BKN040 BKN083 24/24 Q1011
NOSIG=
METAR VYMD 010000Z NIL=
METAR VYYY 010000Z 22003KT 6000 SCT015 FEW020CB SCT110 26/25 Q1010=
METAR VYNT 010000Z NIL=


......................................................................................


Date: 01-Jun-2563

SAAE33 VTBB 010000
METAR VLLB 010000Z 00000KT 9999 SCT010 SCT060 BKN080 26/24 Q1011
NOSIG=
METAR VLLN 010000Z 27002KT 3000 BR BKN010 OVC090 24/23 Q1013 NOSIG=
METAR VLPS 010000Z 09002KT 9999 FEW020 BKN050 26/24 Q1012 NOSIG=
METAR VLSK 010000Z 18002KT 3000 BR FEW040 27/25 Q1012 NOSIG=


......................................................................................


Date: 01-Jun-2563

SAAE34 VTBB 010000
METAR VVCI 010000Z 16005KT 9999 FEW015 30/27 Q1007 NOSIG=
METAR VVCR 010000Z 34003KT 9999 FEW015 31/25 Q1012 NOSIG=
METAR VVCT 010000Z VRB02KT 9999 FEW015TCU SCT040 27/27 Q1011
NOSIG TCU/SE=
METAR VVNB 010000Z 06005KT 020V080 9000 NSC 29/26 Q1007 NOSIG=
METAR VVPB 010000Z VRB02KT 9999 FEW020 BKN100 27/25 Q1011 NOSIG=
METAR VVPQ 010000Z VRB02KT 9999 FEW017 28/26 Q1010 NOSIG=
METAR VVTS 010000Z VRB01KT 8000 FEW017 SCT050 28/26 Q1011 NOSIG =
METAR VVDN 010000Z 19003KT 150V220 9999 FEW017 29/25 Q1011
NOSIG=


......................................................................................


Date: 01-Jun-2563

SAAU60 AMMC 010000
METAR YABA 010000Z AUTO 33007KT 9999 // SCT020 OVC025 13/12 Q1027=
METAR YAMB 010000Z 35005KT 320V030 9999 FEW017 SCT031 BKN300 19/15 Q1018
NOSIG=
METAR YARG 010000Z AUTO /////KT 9999 // NCD 28/09 Q1019=
METAR YAYE 010000Z AUTO 14005KT 9999 // NCD 13/00 Q1026=
METAR YBAS 010000Z AUTO 17005KT 140V210 9999 // NCD 15/M01 Q1026=
METAR YBBN 010000Z 00000KT CAVOK 19/16 Q1018=
METAR YBCG 010000Z AUTO 29011KT 9999 // NCD 21/14 Q1017=
METAR YBCS 010000Z AUTO 14006KT 9999 // OVC045 25/20 Q1017
NOSIG=
METAR YBCV 010000Z AUTO 21008KT 9999 // NCD 19/04 Q1019=
METAR YBDV 010000Z AUTO 25006KT //// // ////// 18/01 Q1022=


......................................................................................


Date: 01-Jun-2563

SAIR35 OIII 010000 RRA
METAR OIZB 010000Z 31010KT CAVOK 27/07 Q1006=
METAR OIZI 010000Z 04004KT CAVOK 28/07 Q1007=


......................................................................................


Date: 01-Jun-2563

SAIR36 OIII 010000 RRA
METAR OIMB 010000Z 12004KT CAVOK 16/M08 Q1016=


......................................................................................


Date: 01-Jun-2563

SAIR37 OIII 010000 RRA
METAR OIMC 010000Z AUTO 27004KT //// // ////// 22/06 Q1009=
METAR OIMD 010000Z AUTO 10008KT //// // ////// 26/M05 Q1010=
METAR OIMQ 010000Z AUTO 08010KT //// // ////// 26/M05 Q1014=
METAR OITM 010000Z 08010KT CAVOK 14/M03 Q1015=


......................................................................................


Date: 01-Jun-2563

SASR31 WSSS 010000
METAR WSSS 010000Z VRB01KT 9999 FEW018 FEW020CB SCT160 BKN300 28/24
Q1012 NOSIG=


......................................................................................


Date: 01-Jun-2563

SAIR31 OIII 010000 RRA
METAR OIII 010000Z 01004KT CAVOK 24/01 Q1012 A2991 NOSIG=


......................................................................................


Date: 01-Jun-2563

SAIR38 OIII 010000 RRA
METAR OIAH 010000Z 00000KT CAVOK 27/06 Q1009=
METAR OISF 010000Z 29006KT CAVOK 21/05 Q1011 A2987=
METAR OITP 010000Z 14008KT CAVOK 18/12 Q1011=


......................................................................................


Date: 01-Jun-2563

SAPK31 OPKC 010000
METAR OPGD 010000Z NIL=
METAR OPIS 010000Z 09009KT 4000 TSRA FEW030CB SCT040 OVC100 18/18
Q1010 TEMPO 09015G25KT 3000 TSRA=
METAR OPKC 010000Z 28010KT 6000 SCT020 30/25 Q1006 NOSIG=
METAR OPLA 010000Z 12006KT 4000 FU NSC 23/19 Q1008 BECMG 3500 RMK
QFE983 RMK A29.77=
METAR OPNH 010000Z 18006KT 5000M HZ NSC 29/18 Q1002 NOSIG=
METAR OPMT 010000Z 00000KT 5000 FU FEW100 26/19 Q1004 NOSIG=
METAR OPPS 010000Z 23006KT 7000 HZ FEW030TCU SCT035 BKN060 20/17
Q1009=
METAR OPRN 010000Z NIL=
METAR OPSK 010000Z NIL=
METAR OPST 010000Z 00000KT 4000 FU SCT100 22/18 Q1008 TEMPO
31010G25KT 2000 -TSRA FEW030CB RH78=


......................................................................................


Date: 01-Jun-2563

SAAU60 AMMC 010000 CCA
METAR YBBN 010000Z 00000KT CAVOK 19/16 Q1018
FM0030 02010KT 9999 FEW040=


......................................................................................


Date: 01-Jun-2563

SAAU65 AMMC 010000 CCA
METAR YMML 010000Z 28014KT 9999 FEW022 SCT049 BKN065 09/06 Q1005
FM0000 MOD TURB BLW 5000FT=


......................................................................................


Date: 01-Jun-2563

SAJP51 RJTD 010000 RRA
METAR RJFF 010000Z 14010KT 9999 FEW020 SCT035 BKN100 25/18 Q1009
BECMG FM0100 23004KT=
METAR RJFG 010000Z 10003KT 050V130 9999 FEW003 SCT008 BKN015 22/21
Q1011=
METAR RJFK 010000Z 11003KT 9999 VCSH BCFG FEW004 BKN015 BKN020 20/20
Q1012=
METAR RJFM 010000Z VRB01KT 9999 FEW006 BKN008 BKN010 22/20 Q1011=
METAR RJFO 010000Z 11007KT 9999 FEW003 SCT012 BKN016 20/18 Q1011=
METAR RJFR 010000Z VRB05KT 9999 FEW007 BKN050 BKN090 20/18 Q1010=
METAR RJFS 010000Z 16003KT 120V210 9999 FEW010 BKN030 BKN060 23/19
Q1010=
METAR RJFT 010000Z 27003KT 240V320 9999 FEW015 BKN025 BKN040 23/20
Q1011=
METAR RJFU 010000Z 13007KT 9999 FEW015 BKN020 23/20 Q1010=
METAR RJGG 010000Z 33007KT 9999 BKN025 21/16 Q1012 NOSIG=
METAR RJKA 010000Z 13004KT 9999 FEW005 SCT011 BKN015 25/24 Q1011=
METAR RJKI 010000Z AUTO VRB02KT 9999 FEW008 BKN025 OVC042 26/24
Q1011=
METAR RJNK 010000Z VRB01KT 9999 FEW030 SCT050 BKN080 21/17 Q1011=
METAR RJNS 010000Z 06007KT 020V100 9999 -SHRA FEW010 SCT020 BKN035
20/17 Q1013=
METAR RJNT 010000Z 31003KT 260V350 9999 FEW030 BKN080 BKN140 22/16
Q1011=
METAR RJNW 010000Z 11006KT 080V150 9999 FEW040 BKN060 BKN070 19/14
Q1011=
METAR RJOA 010000Z 17003KT 110V220 9999 FEW008 BKN030 BKN070 18/17
Q1012=
METAR RJOB 010000Z VRB03KT 9999 FEW010 SCT015 BKN045 21/17 Q1012=
METAR RJOC 010000Z VRB03KT 9999 FEW025 SCT050 BKN070 23/17 Q1009=
METAR RJOH 010000Z 17009KT 9999 FEW040 SCT050 BKN100 24/17 Q1009=


......................................................................................


Date: 01-Jun-2563

SAJP51 RJTD 010000 RRB
METAR RJOK 010000Z 15003KT 110V190 9999 FEW010 SCT030 BKN060 22/18
Q1011=
METAR RJOM 010000Z 35005KT 9999 FEW015 BKN035 BKN/// 20/18 Q1010=
METAR RJOO 010000Z 10006KT 050V150 9999 FEW020 SCT030 BKN060 24/18
Q1011=
METAR RJOR 010000Z 16009KT 9999 FEW030 SCT050 BKN060 22/16 Q1010=
METAR RJOS 010000Z 13005KT 100V160 9999 FEW015 BKN070 21/17 Q1011=
METAR RJOT 010000Z 06003KT 360V120 9999 FEW010 BKN/// 21/18 Q1011=
METAR RJOW 010000Z 17009KT 9999 FEW025 SCT060 BKN090 24/18 Q1009=
METAR RJOY 010000Z 11004KT 070V200 9999 FEW030 BKN/// 24/17 Q1011=
METAR RJSA 010000Z VRB02KT 9999 FEW050 BKN/// 22/09 Q1011=
METAR RJSC 010000Z VRB02KT 9999 FEW050 BKN/// 21/14 Q1012=
METAR RJSD 010000Z AUTO 27005KT 200V310 9999 -RA NSC 19/16 Q1012=
METAR RJSF 010000Z 18010KT 9999 FEW015 SCT020 BKN025 20/20 Q1014=
METAR RJSI 010000Z 22005KT 140V270 9999 FEW015 BKN020 BKN/// 21/16
Q1013=
METAR RJSK 010000Z 14006KT 090V190 9999 FEW035 BKN/// 22/15 Q1011=
METAR RJSM 010000Z VRB02KT 9999 BKN250 22/13 Q1011=
METAR RJSN 010000Z 19011KT 9999 -RA FEW050 BKN070 BKN100 22/13
Q1012=
METAR RJSR 010000Z VRB02KT 9999 FEW050 BKN/// 20/13 Q1011=
METAR RJSS 010000Z 11005KT 080V140 9999 FEW020 BKN/// 20/13 Q1013=
METAR RJSY 010000Z 12003KT 070V160 9999 FEW040 SCT120 BKN/// 23/15
Q1011=
METAR RJTF 010000Z 32004KT 290V360 2500 -RA BR FEW004 SCT006 BKN008
18/18 Q1014=


......................................................................................


Date: 01-Jun-2563

SAJP51 RJTD 010000 RRC
METAR RJTI 010000Z 08004KT 9999 FEW007 SCT012 BKN015 20/18 Q1014=
METAR RJTO 010000Z 07009KT 040V100 6000 -SHRA FEW003 SCT006 BKN007
20/19 Q1012=
METAR RJTT 010000Z 06003KT 9999 FEW009 BKN014 BKN020 20/18 Q1014
BECMG 08005KT=
METAR ROAH 010000Z 25006KT 220V280 9999 FEW007 SCT009 27/25 Q1012=
METAR ROIG 010000Z 28003KT 9999 -SHRA FEW011 BKN029 BKN042 27/27
Q1011=
METAR ROMD 010000Z AUTO 21013KT 9999 FEW005 SCT007 28/25 Q1013=
METAR ROMY 010000Z 20012KT 9999 FEW007 SCT050 BKN/// 29/26 Q1012=
METAR RORK 010000Z AUTO 20011KT 9999 NCD 28/26 Q1012=
METAR RORS 010000Z 20007KT 9999 FEW008 BKN050 28/27 Q1011=
METAR RORY 010000Z AUTO 35006KT 9999 SCT003 BKN007 OVC024 26/25
Q1011=
METAR ROYN 010000Z AUTO 09006KT 060V130 9999 FEW014 29/26 Q1011=


......................................................................................


Date: 01-Jun-2563

SAJP51 RJTD 010000
METAR RJAA 010000Z 14007KT 9999 FEW015 BKN025 21/17 Q1014 NOSIG=
METAR RJAF 010000Z 16012KT 9999 FEW025 SCT120 BKN/// 20/12 Q1014=
METAR RJAH 010000Z 18004KT 150V230 9999 FEW015 BKN025 BKN040 20/16
Q1014=
METAR RJBB 010000Z 34004KT 9999 FEW020 BKN/// 21/17 Q1011 NOSIG=
METAR RJBD 010000Z 30005KT 270V340 9999 FEW030 SCT045 BKN/// 22/17
Q1012=
METAR RJBE 010000Z 12005KT 9999 FEW020 BKN060 BKN/// 22/17 Q1011=
METAR RJBT 010000Z 17004KT 130V200 9999 FEW030 SCT050 BKN070 21/17
Q1010=
METAR RJCB 010000Z 02004KT 300V080 CAVOK 22/05 Q1011=
METAR RJCC 010000Z 18008KT 130V200 CAVOK 21/09 Q1011=
METAR RJCH 010000Z 15006KT 9999 FEW015 SCT/// 18/10 Q1011=
METAR RJCK 010000Z 17008KT 9999 R17/P2000N PRFG FEW001 SCT005 13/11
Q1012=
METAR RJCM 010000Z VRB03KT CAVOK 22/06 Q1011=
METAR RJCN 010000Z 21004KT 100V250 9999 FEW050 21/10 Q1011=
METAR RJCO 010000Z 11008KT 9999 NSC 23/10 Q1011=
METAR RJCW 010000Z 21020KT 9999 FEW030 23/06 Q1009=
METAR RJDC 010000Z 10012KT 9999 FEW015 SCT060 BKN090 21/18 Q1010=
METAR RJDT 010000Z 31003KT 250V040 9999 FEW000 BKN010 BKN070 20/19
Q1010=
METAR RJEB 010000Z 09006KT 050V110 9999 FEW050 18/10 Q1011=
METAR RJEC 010000Z VRB01KT CAVOK 21/10 Q1011=
METAR RJFE 010000Z 21004KT 170V250 8000 FEW003 SCT006 BKN008 23/22
Q1010=


......................................................................................


Date: 01-Jun-2563

SAMS31 WMKK 010000
METAR WBGG 010000Z 20004KT 170V230 0800 FG SCT000 25/24 Q1012 NOSIG=
METAR WBKK 010000Z VRB02KT 9999 FEW014 FEW017CB 29/26 Q1011 NOSIG=
METAR WBSB 010000Z 24005KT 9999 FEW014 FEW015CB BKN140 27/24 Q1012 NOSIG=
METAR WMKK 010000Z VRB01KT 9000 FEW010 FEW017CB 26/25 Q1012 NOSIG=
METAR WMKP 010000Z VRB02KT 9000 FEW020 27/24 Q1011 NOSIG=
METAR WSSL 010000Z VRB01KT 9999 FEW018TCU FEW020CB BKN300 27/24 Q1012=
METAR WSSS 010000Z VRB01KT 9999 FEW018 FEW020CB SCT160 BKN300 28/24 Q1012 NOSIG=


......................................................................................


Date: 01-Jun-2563

SATR31 UTAA 010000
METAR UTAA 010000Z 27004KT 9999 NSC 24/14 Q1010 R88/CLRD70
NOSIG=
METAR UTAK 010000Z 23008KT 9999 BKN014 17/15 Q1010 R16R/CLRD70 NOSIG=
METAR UTAV 010000Z 12004KT CAVOK 23/06 Q1007 R31/CLRD70 NOSIG=
METAR UTAM NIL=
METAR UTAT 010000Z 14006KT CAVOK 20/10 Q1007 NOSIG=


......................................................................................


Date: 01-Jun-2563

SAAU31 AMMC 010000
METAR YBAS 010000Z AUTO 17005KT 140V210 9999 // NCD 15/M01 Q1026=
METAR YBBN 010000Z 00000KT CAVOK 19/16 Q1018
FM0030 02010KT 9999 FEW040=
METAR YBCS 010000Z AUTO 14006KT 9999 // OVC045 25/20 Q1017
NOSIG=
METAR YBTL 010000Z 14004KT 9999 FEW025 25/20 Q1018
NOSIG=
METAR YMML 010000Z 28014KT 9999 FEW022 SCT049 BKN065 09/06 Q1005
FM0000 MOD TURB BLW 5000FT=
METAR YPAD 010000Z 23019KT 9999 FEW032 SCT040 13/05 Q1018
INTER 0100/0200 4000 SHRA SCT012 BKN018=
METAR YPCC 010000Z AUTO 13011KT 9999 // SCT020 BKN053 26/23 Q1014=
METAR YPDN 010000Z 06003KT CAVOK 29/20 Q1016=
METAR YPKU 010000Z AUTO 15010KT 9999 // NCD 28/03 Q1017=
METAR YPLM 010000Z AUTO 00000KT 9999 // SCT079 18/11 Q1020=
METAR YPPH 010000Z 07005KT 9999 BKN042 13/11 Q1028=
METAR YPTN 010000Z 06005KT CAVOK 28/12 Q1017
FM0030 10010KT CAVOK=
METAR YPXM 010000Z AUTO 11009KT 9999 // BKN009 OVC019 25/24 Q1014=
METAR YSSY 010000Z 36017KT CAVOK 20/08 Q1009
FM0000 MOD TURB BLW 5000FT=


......................................................................................


Date: 01-Jun-2563

SAHK31 VHHH 010000
METAR VHHH 010000Z 19010KT 9999 FEW012 30/25 Q1011 NOSIG=
METAR RCTP 010000Z 23008KT 9999 FEW012 SCT020 30/27 Q1011 NOSIG
RMK A2988=
METAR RCKH 010000Z VRB02KT 9999 FEW012 SCT020 31/25 Q1012 NOSIG
RMK A2991=
METAR RCSS 010000Z VRB01KT 9999 FEW012 SCT150 32/27 Q1011 NOSIG
RMK A2987=
METAR RCMQ 010000Z 19011KT 9999 FEW008 SCT200 29/24 Q1012 NOSIG
RMK A2991=
METAR RCNN 010000Z 14001KT 9999 FEW014 SCT025 BKN100 30/25 Q1013
NOSIG RMK A2992=
METAR RCFN 010000Z VRB01KT 9999 FEW012 30/24 Q1013 NOSIG RMK
A2992=
METAR VMMC 010000Z 20010KT 9999 FEW015 SCT028 30/28 Q1011 NOSIG=
METAR RPLL 010000Z VRB03KT 9999 FEW025 SCT100 31/22 Q1012 NOSIG RMK
A2988=
METAR RPVM 010000Z 05006KT 020V090 9999 FEW020 31/24 Q1013 RMK A2991=
METAR RPMD 010000Z 05007KT 9999 FEW016 SCT090 28/26 Q1012 RMK A2988=
METAR RPLB 010000Z 03003KT 360V090 9999 FEW020 30/23 Q1013 NOSIG RMK
A2991=
METAR RPLI 010000Z 00000KT 8000 FEW018 30/24 Q1012 NOSIG RMK A2988=
METAR RPMZ 010000Z VRB02KT 9999 SCT016CB FEW017 BKN090 27/26 Q1012
RMK A2988 CB W-E, SE-S=


......................................................................................


Date: 01-Jun-2563

SAJP31 RJTD 010000
METAR RJAA 010000Z 14007KT 9999 FEW015 BKN025 21/17 Q1014 NOSIG=
METAR RJBB 010000Z 34004KT 9999 FEW020 BKN/// 21/17 Q1011 NOSIG=
METAR RJTT 010000Z 06003KT 9999 FEW009 BKN014 BKN020 20/18 Q1014
BECMG 08005KT=
METAR RJOO 010000Z 10006KT 050V150 9999 FEW020 SCT030 BKN060 24/18
Q1011=
METAR ROAH 010000Z 25006KT 220V280 9999 FEW007 SCT009 27/25 Q1012=
METAR RJGG 010000Z 33007KT 9999 BKN025 21/16 Q1012 NOSIG=
METAR RJCH 010000Z 15006KT 9999 FEW015 SCT/// 18/10 Q1011=
METAR RJSS 010000Z 11005KT 080V140 9999 FEW020 BKN/// 20/13 Q1013=


......................................................................................


Date: 01-Jun-2563

SAJP32 RJTD 010000 RRA
METAR RJFO 010000Z 11007KT 9999 FEW003 SCT012 BKN016 20/18 Q1011=
METAR RJNT 010000Z 31003KT 260V350 9999 FEW030 BKN080 BKN140 22/16
Q1011=


......................................................................................


Date: 01-Jun-2563

SAJP32 RJTD 010000
METAR RJFF 010000Z 14010KT 9999 FEW020 SCT035 BKN100 25/18 Q1009
BECMG FM0100 23004KT=
METAR RJCC 010000Z 18008KT 130V200 CAVOK 21/09 Q1011=
METAR RJFK 010000Z 11003KT 9999 VCSH BCFG FEW004 BKN015 BKN020 20/20
Q1012=
METAR RJSN 010000Z 19011KT 9999 -RA FEW050 BKN070 BKN100 22/13
Q1012=
METAR RJFT 010000Z 27003KT 240V320 9999 FEW015 BKN025 BKN040 23/20
Q1011=
METAR RJFU 010000Z 13007KT 9999 FEW015 BKN020 23/20 Q1010=
METAR RJNK 010000Z VRB01KT 9999 FEW030 SCT050 BKN080 21/17 Q1011=
METAR RJOA 010000Z 17003KT 110V220 9999 FEW008 BKN030 BKN070 18/17
Q1012=
METAR RJOB 010000Z VRB03KT 9999 FEW010 SCT015 BKN045 21/17 Q1012=
METAR RJOT 010000Z 06003KT 360V120 9999 FEW010 BKN/// 21/18 Q1011=


......................................................................................


Date: 01-Jun-2563

SAJP38 RJTD 010000 RRA
METAR RJCK 010000Z 17008KT 9999 R17/P2000N PRFG FEW001 SCT005 13/11
Q1012=
METAR RJCM 010000Z VRB03KT CAVOK 22/06 Q1011=
METAR RJCB 010000Z 02004KT 300V080 CAVOK 22/05 Q1011=
METAR RJOC 010000Z VRB03KT 9999 FEW025 SCT050 BKN070 23/17 Q1009=
METAR RJOH 010000Z 17009KT 9999 FEW040 SCT050 BKN100 24/17 Q1009=
METAR ROIG 010000Z 28003KT 9999 -SHRA FEW011 BKN029 BKN042 27/27
Q1011=
METAR RJFS 010000Z 16003KT 120V210 9999 FEW010 BKN030 BKN060 23/19
Q1010=
METAR RJSI 010000Z 22005KT 140V270 9999 FEW015 BKN020 BKN/// 21/16
Q1013=


......................................................................................


Date: 01-Jun-2563

SAJP38 RJTD 010000
METAR RJNS 010000Z 06007KT 020V100 9999 -SHRA FEW010 SCT020 BKN035
20/17 Q1013=
METAR RJSA 010000Z VRB02KT 9999 FEW050 BKN/// 22/09 Q1011=
METAR RJSF 010000Z 18010KT 9999 FEW015 SCT020 BKN025 20/20 Q1014=
METAR RJOM 010000Z 35005KT 9999 FEW015 BKN035 BKN/// 20/18 Q1010=
METAR RJOK 010000Z 15003KT 110V190 9999 FEW010 SCT030 BKN060 22/18
Q1011=
METAR RJFM 010000Z VRB01KT 9999 FEW006 BKN008 BKN010 22/20 Q1011=
METAR RJEC 010000Z VRB01KT CAVOK 21/10 Q1011=
METAR RJFR 010000Z VRB05KT 9999 FEW007 BKN050 BKN090 20/18 Q1010=
METAR RJSK 010000Z 14006KT 090V190 9999 FEW035 BKN/// 22/15 Q1011=
METAR RJAH 010000Z 18004KT 150V230 9999 FEW015 BKN025 BKN040 20/16
Q1014=


......................................................................................


Date: 01-Jun-2563

SAPA31 KWBC 010000 CCA
METAR
PKMR 312355Z 10006KT 20SM FEW016 SCT050 SCT300 30/25 A2989 RMK
SLP124 60011 8/801 T03040252 10304 20256 58007=


......................................................................................


Date: 01-Jun-2563

SAPA31 KWBC 010000
METAR
AGGG NIL=
AGGH 010000Z 05006KT 9999 FEW019 FEW020CB 31/26 Q1013 RMK CB TO
NW=
ANAU NIL=
AYPY NIL=
PGNT NIL=
PGRO 312350Z 10014KT 7SM SCT015 29/23 A2994=
PGSN 312354Z AUTO 09015G19KT 10SM FEW023 SCT029 BKN035 31/23 A2997
RMK AO2 SLP167 T03110233 10322 20272 52004 TSNO=
PGUA 312356Z 12013KT 10SM SCT017 30/24 A2997 RMK AO2A SLP139
T02950239 10295 20263 51004 $=
PGUM 312354Z 09012G20KT 10SM FEW022 30/23 A2996 RMK AO2 SLP137
T03000233 10300 20272 50002=
PGWT NIL=
PHJH NIL=
PHJR NIL=
PHMK 312354Z 03013G23KT 10SM SCT028 27/20 A3007 RMK AO2 SLP183
T02670200 10283 20250 56013=
PJON NIL=
PKMJ NIL=
PKWA 010000Z AUTO 09011KT 10SM BKN055 31/25 A2993 RMK AO2
T03110254=
PLCH 010000Z 12006KT 9999 FEW020 30/23 Q1010=
PMDY 312356Z AUTO 20006KT 9SM 27/23 A3009 RMK AO2 SLP188 T02720233
10278 20250 58010=
PTKK 312350Z VRB04KT 15SM FEW014CB SCT120 OVC280 28/27 A2988 RMK
SHRAE11 CB NE SLP122 60008 8/371 T02820273 10287 20265
50000=
PTKR NIL=
PTPN NIL=
PTRO 312350Z 07008G14KT 15SM SCT016 BKN120 BKN300 30/24 A2989=
PTSA NIL=
PTTP 312353Z 10004KT 15SM BKN018TCU OVC300 31/26 A2991 RMK TCU
ALQDS SLP127 60001 8/201 T03110258 10311 20256 58002=
PTYA 312352Z 10009KT 12SM FEW017 SCT300 31/26 A2990 RMK SLP127
8/101 T03060255 10306 20256 52007=
PWAK 312358Z AUTO 10007KT 9999 SCT019 M A3002 RMK AO2 SLPNO 58004
FZRANO $=


......................................................................................


Date: 01-Jun-2563

SASD20 OEJD 010000
METAR OEAB 010000Z 00000KT CAVOK 20/10 Q1023 NOSIG=
METAR OEAH 010000Z 32005KT CAVOK 30/04 Q1004 NOSIG=
METAR OEAO 010000Z NIL=
METAR OEAR 010000Z NIL=
METAR OEBA 010000Z 35009KT 9999 FEW030 25/04 Q1018 NOSIG=
METAR OEBH 010000Z 19005KT CAVOK 28/01 Q1013 NOSIG=
METAR OEDF 010000Z 30007KT CAVOK 29/09 Q1003 NOSIG=
METAR OEDM 010000Z NIL=
METAR OEDR 010000Z 29004KT CAVOK 29/13 Q1002 NOSIG=
METAR OEGN 010000Z 00000KT 9000 NSC 31/26 Q1005 NOSIG=
METAR OEGS 010000Z 15003KT CAVOK 30/07 Q1008=
METAR OEGT 010000Z 28016KT CAVOK 19/05 Q1012 NOSIG=
METAR OEHL 010000Z 00000KT CAVOK 28/01 Q1012 NOSIG=
METAR OEJB 010000Z NIL=
METAR OEJN 010000Z 36006KT CAVOK 26/17 Q1006 NOSIG=
METAR OEKJ 010000Z 11005KT CAVOK 31/01 Q1011=
METAR OEKK 010000Z NIL=


......................................................................................


Date: 01-Jun-2563

SASD21 OEJD 010000
METAR OEKM 010000Z 00000KT CAVOK 21/12 Q1022 NOSIG=
METAR OEMA 010000Z 00000KT CAVOK 34/01 Q1010 NOSIG=
METAR OEMK 010000Z NIL=
METAR OENG 010000Z 00000KT CAVOK 25/07 Q1014 NOSIG=
METAR OEPA 010000Z 02006KT CAVOK 29/07 Q1007 NOSIG=
METAR OERF 010000Z 07012KT CAVOK 32/00 Q1008=
METAR OERK 010000Z 29002KT CAVOK 27/07 Q1010 NOSIG=
METAR OERR 010000Z 07007KT CAVOK 24/M01 Q1009=
METAR OERY 010000Z NIL=
METAR OESH 010000Z 09011KT 3000 DU NSC 28/08 Q1009 NOSIG=
METAR OESK 010000Z 07006KT CAVOK 27/M02 Q1012=
METAR OETB 010000Z 31014KT CAVOK 23/03 Q1012 NOSIG=
METAR OETF 010000Z 06004KT CAVOK 26/M01 Q1018 NOSIG=
METAR OETR 010000Z 03008KT CAVOK 21/08 Q1013=
METAR OEWD 010000Z 09007KT CAVOK 29/12 Q1008 NOSIG=
METAR OEWJ 010000Z 29008KT 9000 NSC 24/22 Q1007 NOSIG=
METAR OEYN 010000Z 27010KT CAVOK 25/17 Q1003 NOSIG=


......................................................................................


Date: 01-Jun-2563

SAAU31 AMMC 010000 CCA
METAR YPDN 010000Z 06003KT CAVOK 29/20 Q1016
NOSIG=


......................................................................................


Date: 01-Jun-2563

SAAU31 AMMC 010000 CCB
METAR YPPH 010000Z 07005KT 9999 BKN042 13/11 Q1028
NOSIG=


......................................................................................


Date: 01-Jun-2563

SAAU32 AMMC 010000 CCA
METAR YWLM 010000Z 01006KT CAVOK 19/12 Q1011=


......................................................................................


Date: 01-Jun-2563

SAAU32 AMMC 010000 CCB
METAR YWLM 010000Z 01006KT CAVOK 19/12 Q1011
FM0000 MOD TURB BLW 5000FT=


......................................................................................


Date: 01-Jun-2563

SAAU32 AMMC 010000
METAR YAMB 010000Z 35005KT 320V030 9999 FEW017 SCT031 BKN300 19/15 Q1018
NOSIG=
METAR YBCG 010000Z AUTO 29011KT 9999 // NCD 21/14 Q1017=
METAR YBHM 010000Z AUTO 15009KT 9999 // BKN014 BKN018 22/19 Q1019=
METAR YBMA 010000Z AUTO 17014KT 9999 // NCD 24/02 Q1021=
METAR YBRK 010000Z AUTO 11002KT 9999 // NCD 23/17 Q1019=
METAR YBRM 010000Z AUTO 11011KT 9999 // NCD 23/09 Q1019=
METAR YCIN 010000Z AUTO 14015KT 9999 // NCD 24/08 Q1018=
METAR YFRT 010000Z AUTO 25008KT 9999 // NCD 12/10 Q1027=
METAR YMAV 010000Z AUTO 29019KT 9999 // BKN017 OVC025 10/08 Q1004=
METAR YMHB 010000Z 33008KT 9999 FEW035 11/06 Q1002=
METAR YMLT 010000Z AUTO 34007KT 9999 // SCT012 OVC017 10/09 Q1003=
METAR YPEA 010000Z AUTO 07007KT 9999 // OVC040 15/13 Q1028=
METAR YPGV 010000Z 15010KT 9999 FEW030 28/21 Q1016=
METAR YPKG 010000Z AUTO 15004KT 9999 // NCD 12/10 Q1028=
METAR YPPD 010000Z AUTO 12009KT 9999 // NCD 20/05 Q1021=
METAR YSCB 010000Z AUTO 34014KT 9999 // NCD 11/06 Q1008
TEMPO 0000/0300 3000 SHRA BKN008=
METAR YSDU 010000Z AUTO 30013KT 9999 // BKN089 15/07 Q1013=
METAR YSNF 010000Z 25011KT 9999 SCT023 19/14 Q1020=
METAR YSRI 010000Z AUTO 01012KT 9999 // NCD 19/10 Q1009=
METAR YWLM 010000Z AUTO 01006KT 9999 // SCT091 SCT110 19/12 Q1011=


......................................................................................


Date: 01-Jun-2563

SAAU69 AMMC 010000 CCA
METAR YWLM 010000Z 01006KT CAVOK 19/12 Q1011=


......................................................................................


Date: 01-Jun-2563

SAAU69 AMMC 010000 CCB
METAR YWLM 010000Z 01006KT CAVOK 19/12 Q1011
FM0000 MOD TURB BLW 5000FT=


......................................................................................


Date: 01-Jun-2563

SAAU69 AMMC 010000
METAR YSTW 010000Z AUTO 36010KT 9999 // SCT062 OVC074 14/10 Q1015=
METAR YSWG 010000Z 29008KT 9000 -DZ FEW030 BKN050 BKN090 09/09 Q1009=
METAR YTEF 010000Z AUTO 12015KT 9999 // NCD 17/01 Q1024=
METAR YTNK 010000Z AUTO 12017KT 9999 // NCD 23/04 Q1021=
METAR YTRE 010000Z AUTO 00000KT 9999 // SCT120 16/12 Q1013=
METAR YWGT 010000Z AUTO 36009KT 5000 RA BKN006 BKN010 BKN014 09/09 Q1006=
METAR YWHA 010000Z AUTO 22017KT 9999 // ////// 13/04 Q1020=
METAR YWLM 010000Z AUTO 01006KT 9999 // SCT091 SCT110 19/12 Q1011=


......................................................................................


Date: 01-Jun-2563

SAIR31 OIII 010000 RRB
METAR OISS 010000Z 00000KT 9999 FEW040 22/05 Q1016 A3002=


......................................................................................


Date: 01-Jun-2563

SAJP35 RJTD 010000
METAR RJAA 010000Z 14007KT 9999 FEW015 BKN025 21/17 Q1014 NOSIG=
METAR RJBB 010000Z 34004KT 9999 FEW020 BKN/// 21/17 Q1011 NOSIG=
METAR RJTT 010000Z 06003KT 9999 FEW009 BKN014 BKN020 20/18 Q1014
BECMG 08005KT=
METAR RJOO 010000Z 10006KT 050V150 9999 FEW020 SCT030 BKN060 24/18
Q1011=
METAR RJGG 010000Z 33007KT 9999 BKN025 21/16 Q1012 NOSIG=
METAR RJSN 010000Z 19011KT 9999 -RA FEW050 BKN070 BKN100 22/13
Q1012=
METAR RJCH 010000Z 15006KT 9999 FEW015 SCT/// 18/10 Q1011=
METAR RJSA 010000Z VRB02KT 9999 FEW050 BKN/// 22/09 Q1011=
METAR RJSF 010000Z 18010KT 9999 FEW015 SCT020 BKN025 20/20 Q1014=
METAR RJSI 010000Z 22005KT 140V270 9999 FEW015 BKN020 BKN/// 21/16
Q1013=


......................................................................................


Date: 01-Jun-2563

SAJP37 RJTD 010000 RRA
METAR RJFR 010000Z VRB05KT 9999 FEW007 BKN050 BKN090 20/18 Q1010=


......................................................................................


Date: 01-Jun-2563

SAJP37 RJTD 010000
METAR RJAA 010000Z 14007KT 9999 FEW015 BKN025 21/17 Q1014 NOSIG=
METAR RJBB 010000Z 34004KT 9999 FEW020 BKN/// 21/17 Q1011 NOSIG=
METAR RJTT 010000Z 06003KT 9999 FEW009 BKN014 BKN020 20/18 Q1014
BECMG 08005KT=
METAR RJOO 010000Z 10006KT 050V150 9999 FEW020 SCT030 BKN060 24/18
Q1011=
METAR RJFF 010000Z 14010KT 9999 FEW020 SCT035 BKN100 25/18 Q1009
BECMG FM0100 23004KT=
METAR RJGG 010000Z 33007KT 9999 BKN025 21/16 Q1012 NOSIG=
METAR RJFK 010000Z 11003KT 9999 VCSH BCFG FEW004 BKN015 BKN020 20/20
Q1012=
METAR RJFU 010000Z 13007KT 9999 FEW015 BKN020 23/20 Q1010=
METAR RJCH 010000Z 15006KT 9999 FEW015 SCT/// 18/10 Q1011=
METAR RJNS 010000Z 06007KT 020V100 9999 -SHRA FEW010 SCT020 BKN035
20/17 Q1013=


......................................................................................


Date: 01-Jun-2563

SAMS31 WMKK 010000
METAR WBGG 010000Z NIL=
METAR WBKK 010000Z NIL=
METAR WBSB 010000Z NIL=
METAR WMKK 010000Z NIL=
METAR WMKP 010000Z NIL=
METAR WSSL 010000Z VRB01KT 9999 FEW018TCU FEW020CB BKN300 27/24
Q1012=
METAR WSSS 010000Z VRB01KT 9999 FEW018 FEW020CB SCT160 BKN300 28/24
Q1012 NOSIG=


......................................................................................


Date: 01-Jun-2563

SAMS32 WMKK 010000
NIL


......................................................................................


Date: 01-Jun-2563

SAMS33 WMKK 010000
METAR WMAU 010000Z 24005KT 6000 FEW008 SCT025 24/23 Q1012=
METAR WMBA 010000Z VRB02KT 7000 FEW010 25/24 Q1011=
METAR WMKA 010000Z NIL=
METAR WMKB 010000Z 00000KT 7000 FEW010 25/25 Q1011 NOSIG=
METAR WMKC 010000Z 20003KT 150V260 9999 FEW018 25/23 Q1011=
METAR WMKD 010000Z 00000KT 9999 FEW020 26/24 Q1011 NOSIG=
METAR WMKE 010000Z VRB02KT 7000 FEW001 27/25 Q1011=
METAR WMKI 010000Z 04005KT 010V070 9000 FEW006 25/23 Q1012=
METAR COR WMKL 010000Z VRB02KT 9999 FEW022 26/25 Q1011=
METAR WMKM 010000Z 00000KT 9999 FEW017CB 27/24 Q1013=
METAR WMKN 010000Z VRB02KT 9999 FEW020 27/25 Q1010=


......................................................................................


Date: 01-Jun-2563

SAMS34 WMKK 010000
NIL


......................................................................................


Date: 01-Jun-2563

SAPA31 KWBC 010000 RRA
METAR
PGWT 312359Z 11009KT 7SM SCT016 31/24 A2996=


......................................................................................


Date: 01-Jun-2563

SAMS34 WMKK 010000 RRA
METAR WBGS 010000Z VRB02KT 9999 -RA FEW007 SCT016 BKN150 26/25 Q1012=


......................................................................................


Date: 01-Jun-2563

SAIR36 OIII 010000 RRB
METAR OIMT 010000Z AUTO 06004KT //// // ////// 31/00 Q1008=


......................................................................................


Date: 01-Jun-2563

SAAE32 VTBB 010000 RRA
METAR VDSV 010000Z VRB02KT 9999 FEW015 27/25 Q1011=


......................................................................................


Date: 01-Jun-2563

SAUZ31 UTTW 010000
METAR UTFN 010000Z 33006KT 9999 NSC 21/08 Q1009 R28/CLRD70 NOSIG=
METAR UTNN 010000Z 07002KT CAVOK 23/03 Q1008 R33/CLRD60 NOSIG=
METAR UTNU 010000Z 01002KT CAVOK 21/08 Q1008 R31/CLRD70 NOSIG=
METAR UTSA 010000Z 10008KT 9999 NSC 20/06 Q1007 R07/CLRD70 NOSIG=
METAR UTSB 010000Z 28002KT CAVOK 22/07 Q1007 R01/CLRD70 NOSIG=
METAR UTSK 010000Z 07004KT CAVOK 19/10 Q1008 R16/CLRD70=
METAR UTSS 010000Z 16012KT 9999 NSC 22/09 Q1009 R09/CLRD70 NOSIG=
METAR UTST 010000Z VRB02KT CAVOK 20/11 Q1008 R88/CLRD70 NOSIG=
METAR UTFA 010000Z NIL=
METAR UTFF 010000Z 14008KT 9999 NSC 21/06 Q1009 R18/CLRD70=
METAR UTTT 010000Z 06008KT CAVOK 23/09 Q1009 R08R/CLRD70 NOSIG=


......................................................................................


Date: 01-Jun-2563

SAMS34 WMKK 010000 RRB
METAR WBKT 010000Z 11004KT 060V190 9999 FEW015 BKN280 30/25 Q1011=


......................................................................................


Date: 01-Jun-2563

SAAR20 OEJD 010000
METAR OBBI 010000Z 28008KT CAVOK 32/21 Q1002 NOSIG=
METAR OKBK 010000Z 36014KT CAVOK 34/05 Q1004 NOSIG=
METAR OMAA 010000Z 17006KT CAVOK 33/22 Q1003 NOSIG=
METAR OMAD 010000Z 22003KT 150V260 CAVOK 33/22 Q1003 NOSIG=
METAR OMAL 010000Z 16014KT 8000 NSC 34/18 Q1006 NOSIG=
METAR OMDB 010000Z 22005KT 160V280 CAVOK 33/22 Q1003 NOSIG=
METAR OMFJ 010000Z 17004KT 6000 NSC 32/27 Q1002 A2961=
METAR OMRK 010000Z 18005KT 8000 NSC 30/18 Q1003 A2963=
METAR OMSJ 010000Z 00000KT CAVOK 32/20 Q1003 NOSIG=
METAR OOMS 312350Z 15004KT 120V190 CAVOK 37/22 Q1002 NOSIG=
METAR OOSA 312350Z 10011KT 8000 FEW012 OVC025 FEW030CB 28/27 Q1006
NOSIG=
METAR OOSH 312350Z AUTO VRB01KT //// ////// 34/22 Q1002 RMK 0998=
METAR OODQ 312350Z AUTO 22014KT //// R22///// FEW022 28/27 Q1007
NOSIG RMK RH93? 0=
METAR OTBD 010000Z AUTO 25005KT 210V300 CAVOK 31/24 Q1003 NOSIG=
METAR OTBH 010000Z NIL=
METAR OTHH 010000Z AUTO 29003KT CAVOK 29/22 Q1002 NOSIG=
METAR OYAA 010000Z NIL=
METAR OYSN 010000Z NIL=


......................................................................................


Date: 01-Jun-2563

SAMS33 WMKK 010000 RRA
METAR WMKA 010000Z VRB01KT 8000 FEW012 25/24 Q1011=


......................................................................................


Date: 01-Jun-2563

SAAU61 AMMC 010000
METAR YBHI 010000Z AUTO 24022KT 9999 // SCT029 11/03 Q1018=
METAR YBHM 010000Z AUTO 15009KT 9999 // BKN014 BKN018 22/19 Q1019=
METAR YBLN 010000Z AUTO 15004KT //// // ////// 13/13 Q1027=
METAR YBMA 010000Z AUTO 17014KT 9999 // NCD 24/02 Q1021=
METAR YBMK 010000Z AUTO 20003KT 9999 // NCD 22/18 Q1019=
METAR YBNA 010000Z AUTO 01005KT 320V030 9999 // NCD 22/14 Q1017=
METAR YBOK 010000Z AUTO 33013KT 9999 // NCD 20/12 Q1018=
METAR YBPN 010000Z AUTO 11005KT 070V130 9999 // NCD 23/19 Q1018=
METAR YBRK 010000Z AUTO 11002KT 9999 // NCD 23/17 Q1019=
METAR YBRM 010000Z AUTO 11011KT 9999 // NCD 23/09 Q1019=


......................................................................................


Date: 01-Jun-2563

SAAU62 AMMC 010000
METAR YBTL 010000Z 14004KT 9999 FEW025 25/20 Q1018
NOSIG=
METAR YBUD 010000Z AUTO 23002KT 9999 // SCT056 OVC065 OVC078 19/16 Q1019=
METAR YBWP 010000Z AUTO 11010KT 9999 // NCD 27/20 Q1016=
METAR YBWX 010000Z AUTO 08023KT //// // ////// 23/13 Q1020=
METAR YCAS 010000Z AUTO 35011KT //// // ////// 22/15 Q1016=
METAR YCBA 010000Z AUTO 25017KT 3100 // BKN032 OVC040 OVC048 13/05 Q1015=
METAR YCBB 010000Z AUTO 33011KT //// // SCT100 14/08 Q1014=
METAR YCBP 010000Z AUTO 22015KT 9999 // SCT015 13/11 Q1024=
METAR YCCY 010000Z AUTO 21011KT 9999 // NCD 24/02 Q1019=


......................................................................................


Date: 01-Jun-2563

SAAU63 AMMC 010000
METAR YCDU 010000Z AUTO 27009KT 9999 // BKN037 OVC046 14/09 Q1023=
METAR YCIN 010000Z AUTO 14015KT 9999 // NCD 24/08 Q1018=
METAR YCNM 010000Z AUTO 32009KT //// // ////// 18/07 Q1014=
METAR YCOM 010000Z AUTO 34017KT 9999 // ////// 09/02 Q1005=
METAR YDBY 010000Z AUTO 13013KT 9999 // SCT099 24/10 Q1018=
METAR YEML 010000Z AUTO 33006KT 9999 // NCD 22/13 Q1019=
METAR YESP 010000Z AUTO 29006KT 2900 // OVC002 13/13 Q1028=
METAR YFRT 010000Z AUTO 25008KT 9999 // NCD 12/10 Q1027=
METAR YGEL 010000Z AUTO 11006KT 9999 // NCD 13/12 Q1027=


......................................................................................


Date: 01-Jun-2563

SAAU64 AMMC 010000
METAR YGFN 010000Z AUTO 35001KT 9999 // SCT005 16/16 Q1016=
METAR YGLA 010000Z AUTO 31002KT 9999 // NCD 24/15 Q1018=
METAR YGTE 010000Z AUTO 11004KT 070V130 9999 // NCD 28/22 Q1016=
METAR YGTH 010000Z AUTO 29015KT 9999 -SHRA OVC018 OVC075 10/08 Q1010=
METAR YHID 010000Z AUTO 12009KT 9999 // SCT017 28/24 Q1015=
METAR YHUG 010000Z AUTO 31005KT 9999 // NCD 24/11 Q1018=
METAR YKRY 010000Z AUTO 35007KT 9999 // SCT014 18/15 Q1020=
METAR YLEC 010000Z AUTO 19014KT 9999 // NCD 12/04 Q1021=
METAR YLIS 010000Z AUTO 35006KT 9999 // NCD 21/15 Q1016=


......................................................................................


Date: 01-Jun-2563

SAAU66 AMMC 010000
METAR YMTG 010002Z AUTO 24021G31KT 9999 -SHRA SCT037 BKN052 BKN062 07/04
Q1011=
METAR YNAR 010000Z AUTO 32012KT 9999 -SHRA BKN017 BKN021 OVC026 10/09 Q1010=
METAR YNBR 010000Z AUTO 36018KT 9999 // BKN094 OVC125 19/07 Q1015=
METAR YNTN 010000Z AUTO 15006KT 100V170 9999 // NCD 26/14 Q1017=
METAR YNWN 010000Z AUTO 14003KT 9999 // NCD 11/01 Q1026=
METAR YOLD 010000Z AUTO 20012KT 9999 // BKN040 13/07 Q1022=
METAR YPAD 010000Z 23019KT 9999 FEW032 SCT040 13/05 Q1018
INTER 0100/0200 4000 SHRA SCT012 BKN018=
METAR YPBO 010000Z AUTO /////KT 9999 // NCD 17/02 Q1024=
METAR YPCC 010000Z AUTO 13011KT 9999 // SCT020 BKN053 26/23 Q1014=


......................................................................................


Date: 01-Jun-2563

SAAU67 AMMC 010000
METAR YPDN 010000Z 06003KT CAVOK 29/20 Q1016
NOSIG=
METAR YPEA 010000Z AUTO 07007KT 9999 // OVC040 15/13 Q1028=
METAR YPGV 010000Z 15010KT 9999 FEW030 28/21 Q1016=
METAR YPKG 010000Z AUTO 15004KT 9999 // NCD 12/10 Q1028=
METAR YPKU 010000Z AUTO 15010KT 9999 // NCD 28/03 Q1017=
METAR YPLM 010000Z AUTO 00000KT 9999 // SCT079 18/11 Q1020=
METAR YPPD 010000Z AUTO 12009KT 9999 // NCD 20/05 Q1021=
METAR YPPH 010000Z 07005KT 9999 BKN042 13/11 Q1028
NOSIG=
METAR YPTN 010000Z 06005KT CAVOK 28/12 Q1017
FM0030 10010KT CAVOK=


......................................................................................


Date: 01-Jun-2563

SAAU68 AMMC 010000
METAR YCFS 010000Z AUTO 01008KT 9999 // NCD 21/09 Q1015=
METAR YPWR 010000Z AUTO 22014KT 9999 // NCD 12/06 Q1022=
METAR YPXM 010000Z AUTO 11009KT 9999 // BKN009 OVC019 25/24 Q1014=
METAR YRMD 010000Z AUTO 28007KT 9999 // NCD 24/09 Q1019=
METAR YSCB 010000Z AUTO 34014KT 9999 // NCD 11/06 Q1008
TEMPO 0000/0300 3000 SHRA BKN008=
METAR YSDU 010000Z AUTO 30013KT 9999 // BKN089 15/07 Q1013=
METAR YSNF 010000Z 25011KT 9999 SCT023 19/14 Q1020=
METAR YSNW 010000Z 34009KT 9999 FEW040 SCT230 19/06 Q1007
FM0000 MOD TURB BLW 5000FT=
METAR YSRI 010000Z AUTO 01012KT 9999 // NCD 19/10 Q1009=
METAR YSSY 010000Z 36017KT CAVOK 20/08 Q1009
FM0000 MOD TURB BLW 5000FT=


......................................................................................


Date: 01-Jun-2563

SAKO51 RJTD 010000
METAR RKJJ 010000Z 29005KT 9999 SCT015 BKN025 20/17 Q1012 RMK CIG025
SLP122 60000 8/500 9/700=
METAR RKPC 010000Z 03003KT 350V050 7000 SCT004 BKN020 OVC100 18/17
Q1012 NOSIG=
METAR RKPK 010000Z 30003KT 8000 NSC 23/16 Q1010=
METAR RKPS 010000Z 24004KT CAVOK 23/18 Q1011 RMK CIG200 SLP111=
METAR RKSI 010000Z 27008KT 9999 FEW012 19/13 Q1011 NOSIG=
METAR RKSM 010000Z 29004KT 9999 FEW025 21/14 A2985=
METAR RKSS 010000Z 27006KT 220V330 9999 FEW025 20/15 Q1010 NOSIG=
METAR RKTH 010000Z 27013KT 9999 FEW040 BKN200 24/16 Q1009 RMK CIG200
SLP090 8/508 9/204=
METAR RKTN 010000Z 31007KT 9999 SCT030 BKN200 23/16 Q1010=
METAR RKTU 010000Z 29009KT 9999 SCT025 20/15 Q1012=


......................................................................................


Date: 01-Jun-2563

SANG31 AMMC 010000
NIL


......................................................................................


Date: 01-Jun-2563

SATR31 UTAA 010000 RRA
METAR UTAM 010000Z 00000KT 6000 NSC 23/08 Q1007 R88/CLRD70 NOSIG=


......................................................................................


Date: 01-Jun-2563

SAMS38 WMKK 010000 RRA
METAR WBGS 010000Z VRB02KT 9999 -RA FEW007 SCT016 BKN150 26/25 Q1012=


......................................................................................


Date: 01-Jun-2563

SAMS38 WMKK 010000
METAR WBGB 010000Z VRB02KT 2000 TSRA FEW003 SCT014 FEW015CB OVC140
25/24 Q1013=
METAR WBGR 010000Z 06003KT 9999 -RA FEW004 SCT014 OVC140 25/25 Q1012=
METAR WBGS 010000Z NIL=
METAR WBKL 010000Z 27004KT 200V320 9999 TS FEW010 FEW016CB SCT040
BKN270 28/26 Q1011=
METAR WBKS 010000Z VRB03KT 9000 FEW016 28/25 Q1011=
METAR WBKW 010000Z VRB02KT 9999 FEW016CB 29/26 Q1011=
METAR WMKD 010000Z 00000KT 9999 FEW020 26/24 Q1011 NOSIG=
METAR COR WMKL 010000Z VRB02KT 9999 FEW022 26/25 Q1011=
METAR WMKM 010000Z 00000KT 9999 FEW017CB 27/24 Q1013=


......................................................................................


Date: 01-Jun-2563

SAPA31 KWBC 010000 RRB
METAR
AYPY 010000Z 14020KT 9999 HZ SCT015 SCT040 28/25 Q1013=


......................................................................................


Date: 01-Jun-2563

SACI51 RJTD 010000
METAR ZBAA 010000Z VRB01MPS CAVOK 19/11 Q1008 NOSIG=
METAR ZBTJ 010000Z 23003MPS 190V260 CAVOK 25/08 Q1009 NOSIG=
METAR ZBYN 010000Z VRB01MPS CAVOK 18/05 Q1012 NOSIG=
METAR ZGGG 010000Z VRB01MPS 7000 SCT033 28/25 Q1011 NOSIG=
METAR ZGKL 010000Z VRB01MPS 8000 -TSRA FEW010 SCT023 FEW033CB BKN040
22/22 Q1011 RESHRA BECMG FM0200 -SHRA=
METAR ZGNN 010000Z 08002MPS 040V110 CAVOK 28/25 Q1009 NOSIG=
METAR ZGOW 010000Z 34001MPS 3200 BR FEW004 BKN040 27/27 Q1012 NOSIG=
METAR ZGSZ 010000Z 17004MPS 9999 FEW020 SCT026 30/27 Q1011 NOSIG=
METAR ZLXY 010000Z VRB01MPS CAVOK 22/15 Q1011 NOSIG=
METAR ZPPP 010000Z 22004MPS CAVOK 18/14 Q1021 NOSIG=
METAR ZSAM 010000Z VRB01MPS 9999 BKN016 BKN040 28/26 Q1012 NOSIG=
METAR ZSHC 010000Z 08002MPS 8000 NSC 26/22 Q1011 NOSIG=
METAR ZSNJ 010000Z VRB01MPS 3500 BR NSC 25/22 Q1011 NOSIG=
METAR ZSQD 010000Z 19002MPS 150V240 CAVOK 23/15 Q1012 NOSIG=
METAR ZSSS 010000Z 16004MPS 7000 NSC 25/21 Q1012 NOSIG=
METAR ZWWW 010000Z 16003MPS 140V200 CAVOK 24/03 Q1014 NOSIG=
METAR ZYTL 010000Z VRB02MPS CAVOK 21/12 Q1010 BECMG TL0130 24005MPS=
METAR ZYTX 010000Z 30006MPS 260V340 CAVOK 18/10 Q1007 NOSIG=


......................................................................................


Date: 01-Jun-2563

SAPA31 KWBC 010000 RRC
METAR
PKWA 010020Z AUTO 09013KT 10SM SCT022 SCT055 SCT070 31/25 A2992
RMK AO2 T03120254=


......................................................................................


Date: 01-Jun-2563

SASB31 VCCC 010010
METAR VCBI 010010Z VRB03KT 9999 BKN018 26/26 Q1011 NOSIG=
METAR VRMM 010000Z 22007KT 9999 FEW018 28/25 Q1010 NOSIG=
METAR VCRI 010010Z 24004KT 9999 SCT018 26/26 Q1010 NOSIG=


......................................................................................


Date: 01-Jun-2563

SAAE31 VDPP 010030
METAR VDPP 010030Z 00000KT 9999 SCT015 SCT040 29/25 Q1010=


......................................................................................


Date: 01-Jun-2563

SPTH31 VTSB 010025
SPECI VTSB 010025Z 23003KT 0800 R22/P2000 FG VV002 25/25 Q1011=


......................................................................................


Date: 01-Jun-2563

SATH31 VTBU 010030
METAR VTBU 010030Z 28006KT 5000 TSRA FEW018CB SCT035 BKN100 28/25
Q1012 BECMG TL0055 8000 -RA=


......................................................................................


Date: 01-Jun-2563

SATH31 VTSM 010030
METAR VTSM 010030Z 00000KT 9999 FEW020 30/25 Q1012 NOSIG=


......................................................................................


Date: 01-Jun-2563

SATH31 VTBD 010030
METAR VTBD 010030Z 17005KT 140V210 9999 FEW020 SCT035 29/25 Q1012
NOSIG=


......................................................................................


Date: 01-Jun-2563

SATH31 VTBS 010030
METAR VTBS 010030Z 15004KT 9999 FEW020 SCT035 27/23 Q1011 NOSIG=


......................................................................................


Date: 01-Jun-2563

SATH31 VTCC 010030
METAR VTCC 010030Z VRB02KT 9999 FEW035 28/23 Q1012 NOSIG=


......................................................................................


Date: 01-Jun-2563

SATH31 VTSP 010030
METAR VTSP 010030Z 09003KT 060V120 9999 FEW020 28/26 Q1010 NOSIG=


......................................................................................


Date: 01-Jun-2563

SAPA31 KWBC 010000
METAR
AGGG NIL=
AGGH 010000Z 05006KT 9999 FEW019 FEW020CB 31/26 Q1013 RMK CB TO
NW=
ANAU NIL=
AYPY NIL=
PGNT NIL=
PGRO 312350Z 10014KT 7SM SCT015 29/23 A2994=
PGSN 312354Z AUTO 09015G19KT 10SM FEW023 SCT029 BKN035 31/23 A2997
RMK AO2 SLP167 T03110233 10322 20272 52004 TSNO=
PGUA 312356Z 12013KT 10SM SCT017 30/24 A2997 RMK AO2A SLP139
T02950239 10295 20263 51004 ?=
PGUM 312354Z 09012G20KT 10SM FEW022 30/23 A2996 RMK AO2 SLP137
T03000233 10300 20272 50002=
PGWT NIL=
PHJH NIL=
PHJR NIL=
PHMK 312354Z 03013G23KT 10SM SCT028 27/20 A3007 RMK AO2 SLP183
T02670200 10283 20250 56013=
PJON NIL=
PKMJ NIL=
PKWA 010000Z AUTO 09011KT 10SM BKN055 31/25 A2993 RMK AO2
T03110254=
PLCH 010000Z 12006KT 9999 FEW020 30/23 Q1010=
PMDY 312356Z AUTO 20006KT 9SM 27/23 A3009 RMK AO2 SLP188 T02720233
10278 20250 58010=
PTKK 312350Z VRB04KT 15SM FEW014CB SCT120 OVC280 28/27 A2988 RMK
SHRAE11 CB NE SLP122 60008 8/371 T02820273 10287 20265
50000=
PTKR NIL=
PTPN NIL=
PTRO 312350Z 07008G14KT 15SM SCT016 BKN120 BKN300 30/24 A2989=
PTSA NIL=
PTTP 312353Z 10004KT 15SM BKN018TCU OVC300 31/26 A2991 RMK TCU
ALQDS SLP127 60001 8/201 T03110258 10311 20256 58002=
PTYA 312352Z 10009KT 12SM FEW017 SCT300 31/26 A2990 RMK SLP127
8/101 T03060255 10306 20256 52007=
PWAK 312358Z AUTO 10007KT 9999 SCT019 M A3002 RMK AO2 SLPNO 58004
FZRANO ?=


......................................................................................


Date: 01-Jun-2563

SAPK31 OPKC 010029
METAR OPGD 010025Z NIL=
METAR OPIS 010025Z 23003KT 5000 -TSRA FEW030CB SCT040 BKN100 19/19
Q1010 TEMPO 09015G25KT 3000 TSRA=
METAR OPKC 010025Z 30012KT 6000 SCT020 29/25 Q1006 NOSIG=
METAR OPLA 010025Z 06006KT 4000 FU FEW100 23/19 Q1008 RMK QFE983 RMK
A29.77=
METAR OPNH 010025Z NIL=
METAR OPMT 010030Z 00000KT 5000 FU FEW100 26/19 Q1004 NOSIG=
METAR OPPS 010025Z NIL=
METAR OPRN 010025Z NIL=
METAR OPSK 010030Z 05010KT 4000 HZ SCT100 29/20 Q1000 NOSIG=
METAR OPST 010025Z NIL=


......................................................................................


Date: 01-Jun-2563

SATH31 VTSS 010030
METAR VTSS 010030Z 17003KT 090V260 2000 BR SCT004 24/24 Q1011 NOSIG=


......................................................................................


Date: 01-Jun-2563

SAAE31 VTBB 010000 CCA
METAR COR VTBU 010000Z 33003KT 280V020 9999 -TSRA FEW018CB
SC
T100
29/26 Q1012 TEMPO FM0010 TL0040 5000 TSRA=


......................................................................................


Date: 01-Jun-2563

SASR31 WSSS 010030
METAR WSSS 010030Z VRB01KT 8000 FEW016 FEW018TCU BKN300 29/25 Q1012
NOSIG=


......................................................................................


Date: 01-Jun-2563

SAHK31 VHHH 010030
METAR VHHH 010030Z 19008KT 9999 FEW012 SCT028 31/25 Q1011 NOSIG=


......................................................................................


Date: 01-Jun-2563

SAIR31 OIII 010030
METAR OIAW 010030Z NIL=
METAR OIFM 010030Z 27006KT CAVOK 17/M01 Q1018 A3008=
METAR OIII 010030Z 00000KT CAVOK 24/M00 Q1012 A2991=
METAR OIKB 010030Z NIL=
METAR OIKK 010030Z NIL=
METAR OIMM 010030Z NIL=
METAR OISS 010030Z NIL=
METAR OITT 010030Z 05006KT CAVOK 15/01 Q1017 A3003=
METAR OIZH 010030Z NIL=


......................................................................................


Date: 01-Jun-2563

SAIR32 OIII 010030
METAR OIAA 010030Z NIL=
METAR OIBK 010030Z 00000KT 0150 FG NSC 28/27 Q1002=
METAR OICC 010030Z NIL=
METAR OIGG 010030Z NIL=
METAR OIIE 010030Z NIL=
METAR OINZ 010030Z NIL=
METAR OITR 010030Z NIL=
METAR OIYY 010030Z NIL=


......................................................................................


Date: 01-Jun-2563

SAMS33 WMKK 010000 CCA
METAR COR WMKL 010000Z VRB02KT 9999 FEW022 26/25 Q1011=


......................................................................................


Date: 01-Jun-2563

SANP31 VNKT 010020 RRA
METAR VNKT 010020Z VRB02KT 6000 FEW010 SCT030 BKN100 19/18 Q1016
NOSIG=


......................................................................................


Date: 01-Jun-2563

SATH31 VTBU 010000 CCA
METAR COR VTBU 010000Z 33003KT 280V020 9999 -TSRA FEW018CB
SC
T100
29/26 Q1012 TEMPO FM0010 TL0040 5000 TSRA=


......................................................................................


Date: 01-Jun-2563

SATH40 VTBB 010000 CCA
METAR COR VTBU 010000Z 33003KT 280V020 9999 -TSRA FEW018CB
SC
T100
29/26 Q1012 TEMPO FM0010 TL0040 5000 TSRA=


......................................................................................


Date: 01-Jun-2563

SAAE31 VTBB 010030
METAR VTBD 010030Z 17005KT 140V210 9999 FEW020 SCT035 29/25 Q1012
NOSIG=
METAR VTBS 010030Z 15004KT 9999 FEW020 SCT035 27/23 Q1011 NOSIG=
METAR VTBU 010030Z 28006KT 5000 TSRA FEW018CB SCT035 BKN100 28/25
Q1012 BECMG TL0055 8000 -RA=
METAR VTCC 010030Z VRB02KT 9999 FEW035 28/23 Q1012 NOSIG=
METAR VTCT 010030Z NIL=
METAR VTSG 010030Z NIL=
METAR VTSP 010030Z 09003KT 060V120 9999 FEW020 28/26 Q1010 NOSIG=
METAR VTSS 010030Z 17003KT 090V260 2000 BR SCT004 24/24 Q1011 NOSIG=


......................................................................................


Date: 01-Jun-2563

SAAE32 VTBB 010030
METAR VDPP 010030Z 00000KT 9999 SCT015 SCT040 29/25 Q1010=
METAR VDSR 010030Z 05002KT 9000 SCT015 26/26 Q1010=
METAR VDSV 010030Z VRB01KT 9999 FEW015 28/25 Q1011=
METAR VLVT 010030Z 14004KT 5000 -DZ SCT010 BKN040 BKN083 24/24 Q1012
NOSIG=
METAR VYMD 010030Z 14005KT 7000 BKN020 BKN120 27/24 Q1010 NOSIG=
METAR VYYY 010030Z 00000KT 7000 SCT015 FEW020CB 26/25 Q1011=
METAR VYNT 010030Z NIL=


......................................................................................


Date: 01-Jun-2563

SAAE34 VTBB 010030
METAR VVCI 010030Z 17007KT 9999 FEW015 30/26 Q1007 NOSIG=
METAR VVCR 010030Z 33003KT 290V020 9999 FEW015 32/25 Q1012
NOSIG=
METAR VVCT 010030Z VRB01KT 9999 FEW015TCU 29/27 Q1011
NOSIG TCU/SE=
METAR VVNB 010030Z 08005KT 9000 FEW009 29/26 Q1007 NOSIG=
METAR VVPB 010030Z 20004KT 9999 SCT020 SCT080 27/25 Q1011 NOSIG=
METAR VVPQ 010030Z VRB02KT 9999 FEW017 30/26 Q1010 NOSIG=
METAR VVTS 010030Z 33001KT 7000 FEW017 BKN050 29/26 Q1011 NOSIG =
METAR VVDN 010030Z VRB02KT 9999 FEW017 31/25 Q1011 NOSIG=


......................................................................................


Date: 01-Jun-2563

SPTH31 VTSC 010033
SPECI VTSC 010033Z 21005KT 5000 FU FEW020 26/23 Q1011 BECMG TL0200
NSW =


......................................................................................


Date: 01-Jun-2563

SAIR31 OIII 010030 RRA
METAR OIMM 010030Z 00000KT CAVOK 18/02 Q1015 A2998=


......................................................................................


Date: 01-Jun-2563

SAMS31 WMKK 010030
METAR WBGG 010030Z VRB01KT 1500 BR SCT000 25/25 Q1012 NOSIG=
METAR WBKK 010030Z VRB03KT 9999 TS FEW014 FEW017CB 30/27 Q1011 NOSIG=
METAR WBSB 010030Z 20006KT 9999 FEW014 FEW015CB BKN140 27/24 Q1012 NOSIG=
METAR WMKK 010030Z VRB02KT 5000 BR FEW000 FEW017CB 27/25 Q1012 NOSIG=
METAR WMKP 010030Z 06005KT 020V080 8000 FEW020 28/25 Q1011 NOSIG=
METAR WSSL 010030Z NIL=
METAR WSSS 010030Z VRB01KT 8000 FEW016 FEW018TCU BKN300 29/25 Q1012 NOSIG=


......................................................................................


Date: 01-Jun-2563

SAHK31 VHHH 010030
METAR VHHH 010030Z 19008KT 9999 FEW012 SCT028 31/25 Q1011 NOSIG=
METAR RCTP 010030Z 23009KT 200V260 9999 FEW015 SCT025 31/26 Q1011
NOSIG RMK A2988=
METAR RCKH 010030Z 27003KT 210V300 9999 FEW012 SCT020 30/25 Q1013
NOSIG RMK A2992=
METAR RCSS 010030Z VRB02KT 9999 FEW015 33/27 Q1011 NOSIG RMK
A2987=
METAR RCMQ 010030Z 19012KT 9999 FEW008 SCT200 30/23 Q1012 NOSIG
RMK A2991=
METAR RCNN 010030Z 21003KT 9999 FEW014 SCT025 BKN100 30/25 Q1013
NOSIG RMK A2992=
METAR RCFN 010030Z VRB02KT 9999 FEW012 30/25 Q1013 NOSIG RMK
A2992=
METAR VMMC 010030Z 20012KT 9999 FEW018 30/28 Q1011 TEMPO 4500 SHRA
FEW010CB SCT020=


......................................................................................


Date: 01-Jun-2563

SAJP51 RJTD 010030
METAR RJAA 010030Z 13009KT 9999 FEW010 SCT020 BKN035 21/17 Q1014
NOSIG=
METAR RJBB 010030Z 31004KT 250V340 9999 FEW020 BKN/// 22/18 Q1011
NOSIG=
METAR RJCC 010030Z 17010KT CAVOK 21/09 Q1011=
METAR RJFF 010030Z 15010KT 9999 -SHRA FEW005 SCT030 BKN045 25/19
Q1009 BECMG FM0100 23004KT=
METAR RJGG 010030Z 32005KT 9999 BKN025 21/16 Q1012 NOSIG=
METAR RJTT 010030Z 04003KT 010V070 9999 VCSH FEW009 SCT015 BKN025
20/18 Q1013 BECMG 08005KT=
METAR ROAH 010030Z 28006KT 9999 SCT005 BKN009 BKN025 27/26 Q1012=


......................................................................................


Date: 01-Jun-2563

SAMS31 WMKK 010030
METAR WBGG 010030Z NIL=
METAR WBKK 010030Z NIL=
METAR WBSB 010030Z NIL=
METAR WMKK 010030Z NIL=
METAR WMKP 010030Z NIL=
METAR WSSL 010030Z NIL=
METAR WSSS 010030Z VRB01KT 8000 FEW016 FEW018TCU BKN300 29/25 Q1012
NOSIG=


......................................................................................


Date: 01-Jun-2563

SAMS38 WMKK 010000 CCA
METAR COR WMKL 010000Z VRB02KT 9999 FEW022 26/25 Q1011=


......................................................................................


Date: 01-Jun-2563

SAUZ31 UTTW 010030
METAR UTFN 010030Z 33008KT 9999 NSC 21/09 Q1009 R28/CLRD70 NOSIG=
METAR UTNN 010030Z 11004KT CAVOK 22/04 Q1008 R33/CLRD60 NOSIG=
METAR UTNU 010030Z 03002KT CAVOK 22/08 Q1008 R31/CLRD70 NOSIG=
METAR UTSA 010030Z NIL=
METAR UTSB 010030Z 29002KT CAVOK 21/08 Q1007 R01/CLRD70 NOSIG=
METAR UTSK 010030Z 09004KT 060V120 CAVOK 19/10 Q1008 R16/CLRD70=
METAR UTSS 010030Z 16014KT 9999 NSC 22/09 Q1010 R09/CLRD70 NOSIG=
METAR UTST 010030Z 02004KT CAVOK 20/11 Q1008 R88/CLRD70 NOSIG=
METAR UTFA 010030Z NIL=
METAR UTFF 010030Z NIL=
METAR UTTT 010030Z 06010KT CAVOK 23/09 Q1009 R08R/CLRD70 NOSIG=


......................................................................................


Date: 01-Jun-2563

SAPA31 KWBC 010000 RRD
METAR
PKWA 010040Z AUTO 09011KT 10SM SCT022 SCT070 31/25 A2991 RMK AO2
T03130254=


......................................................................................


Date: 01-Jun-2563

SATR31 UTAA 010100
METAR UTAA 010100Z NIL=
METAR UTAK 010100Z NIL=
METAR UTAM 010100Z NIL=
METAR UTAT 010100Z NIL=
METAR UTAV 010100Z NIL=


......................................................................................


Date: 01-Jun-2563

SAAE31 VDPP 010100
METAR VDPP 010100Z 00000KT 9999 SCT015 SCT040 30/25 Q1010=


......................................................................................


Date: 01-Jun-2563

SATH31 VTSG 010100
METAR VTSG 010100Z 02004KT 340V070 2500 BR BKN020 OVC100 25/25 Q1012
BECMG TL0200 5000 BR=


......................................................................................


Date: 01-Jun-2563

SATH31 VTPM 010100
METAR VTPM 010100Z 00000KT 9999 BKN030 27/22 Q1013 NOSIG=


......................................................................................


Date: 01-Jun-2563

SATH31 VTCP 010100
METAR VTCP 010100Z 22004KT 9999 FEW025 28/23 Q1011 NOSIG=


......................................................................................


Date: 01-Jun-2563

SATH31 VTPP 010100
METAR VTPP 010100Z 14005KT 100V180 CAVOK 29/26 Q1011 NOSIG=


......................................................................................


Date: 01-Jun-2563

SATH31 VTSF 010100
METAR VTSF 010100Z 30003KT 260V340 9999 FEW018 29/26 Q1011 NOSIG=


......................................................................................


Date: 01-Jun-2563

SATH31 VTUW 010100
METAR VTUW 010100Z 12007KT 9999 FEW010 BKN035 27/26 Q1012 NOSIG=


......................................................................................


Date: 01-Jun-2563

SATH31 VTCH 010100
METAR VTCH 010100Z VRB02KT 9999 FEW025 28/23 Q1012=


......................................................................................


Date: 01-Jun-2563

SATH31 VTCL 010100
METAR VTCL 010100Z VRB02KT CAVOK 31/23 Q1011 NOSIG=


......................................................................................


Date: 01-Jun-2563

SATH31 VTCN 010100
METAR VTCN 010100Z 02003KT 330V070 9999 FEW020 28/25 Q1011 NOSIG=


......................................................................................


Date: 01-Jun-2563

SATH31 VTPO 010100
METAR VTPO 010100Z VRB02KT CAVOK 27/24 Q1010 NOSIG=


......................................................................................


Date: 01-Jun-2563

SATH31 VTST 010100
METAR VTST 010100Z 00000KT 7000 FEW015 SCT025 25/25 Q1011 NOSIG=


......................................................................................


Date: 01-Jun-2563

SANP31 VNKT 010050 CCA
METAR VNKT 010050Z 00000KT 6000 -RA FEW010 SCT030 BKN100 19/17 Q1017
NOSIG=


......................................................................................


Date: 01-Jun-2563

SANP31 VNKT 010050 RRA
METAR VNKT 010050Z 00000KT 6000 FEW010 SCT030 BKN100 19/17 Q1017
NOSIG=


......................................................................................


Date: 01-Jun-2563

SATH31 VTPB 010100
METAR VTPB 010100Z VRB02KT 8000 FEW010 SCT025 26/26 Q1012 NOSIG=


......................................................................................


Date: 01-Jun-2563

SATH31 VTSE 010100
METAR VTSE 010100Z VRB03KT CAVOK 29/26 Q1011 NOSIG=


......................................................................................


Date: 01-Jun-2563

SATH31 VTUI 010100
METAR VTUI 010100Z VRB03KT 9999 FEW030 29/25 Q1012 NOSIG=


......................................................................................


Date: 01-Jun-2563

SAAH10 OAKB 010050
METAR OAKB 010050Z 34003KT CAVOK 16/M01 Q1018 RMK A3006 BLU BLU=


......................................................................................


Date: 01-Jun-2563

SAOM32 OOMS 010100
METAR OOMS 010050Z 24011KT CAVOK 37/22 Q1003 NOSIG=
METAR OOSA 010050Z 09009KT 8000 FEW012 OVC030 28/27 Q1006 NOSIG=
METAR OOSH 010100Z NIL=
METAR OODQ 010050Z AUTO 22012KT //// R22///// FEW023 28/27 Q1007
NOSIG=


......................................................................................


Date: 01-Jun-2563

SASD31 OEJD 010100
METAR OEDF 010100Z 31008KT CAVOK 29/09 Q1003 NOSIG=
METAR OEDR 010100Z 28008KT CAVOK 29/13 Q1002 NOSIG=
METAR OEJN 010100Z 33005KT CAVOK 26/17 Q1006 NOSIG=
METAR OEMA 010100Z 05003KT CAVOK 31/01 Q1010 NOSIG=
METAR OERK 010100Z NIL=
METAR OERY 010100Z NIL=
METAR OYAA 010100Z NIL=
METAR OYSN 010100Z NIL=


......................................................................................


Date: 01-Jun-2563

SATH31 VTBD 010100
METAR VTBD 010100Z 21004KT 170V240 9999 FEW020 SCT035 30/26 Q1012
NOSIG=


......................................................................................


Date: 01-Jun-2563

SATH31 VTBS 010100
METAR VTBS 010100Z 18004KT 9999 FEW020 SCT035 27/24 Q1011 NOSIG=


......................................................................................


Date: 01-Jun-2563

SATH31 VTCC 010100
METAR VTCC 010100Z 06003KT 020V120 9999 FEW035 28/23 Q1012 NOSIG=


......................................................................................


Date: 01-Jun-2563

SATH31 VTCT 010100
METAR VTCT 010100Z VRB02KT 9999 SCT030 26/24 Q1012 NOSIG=


......................................................................................


Date: 01-Jun-2563

SATH31 VTPH 010100
METAR VTPH 010100Z 00000KT 9999 FEW022 28/24 Q1011 NOSIG=


......................................................................................


Date: 01-Jun-2563

SATH31 VTPT 010100
METAR VTPT 010100Z /////KT 9999 FEW026 31/24 Q//// NOSIG=


......................................................................................


Date: 01-Jun-2563

SATH31 VTSB 010100
METAR VTSB 010100Z 26004KT 1500 BR VV002 25/25 Q1012=


......................................................................................


Date: 01-Jun-2563

SATH31 VTSC 010100
METAR VTSC 010100Z 21005KT 7000 FEW020 26/23 Q1011 NOSIG =


......................................................................................


Date: 01-Jun-2563

SATH31 VTSM 010100
METAR VTSM 010100Z VRB02KT 9999 FEW020 31/25 Q1012 NOSIG=


......................................................................................


Date: 01-Jun-2563

SATH31 VTSP 010100
METAR VTSP 010100Z 08005KT 040V110 9999 FEW020 28/26 Q1011 NOSIG=


......................................................................................


Date: 01-Jun-2563

SATH31 VTSR 010100
METAR VTSR 010100Z 00000KT CAVOK 27/27 Q1011 NOSIG=


......................................................................................


Date: 01-Jun-2563

SATH31 VTSS 010100
METAR VTSS 010100Z 23003KT 100V260 6000 FEW004 24/24 Q1011 NOSIG=


......................................................................................


Date: 01-Jun-2563

SATH31 VTUD 010100
METAR VTUD 010100Z VRB01KT 9999 -RA SCT030 25/24 Q1012 NOSIG=


......................................................................................


Date: 01-Jun-2563

SATH31 VTUK 010100
METAR VTUK 010100Z 20006KT 9999 FEW030 BKN100 28/24 Q1012 NOSIG=


......................................................................................


Date: 01-Jun-2563

SATH31 VTUO 010100
METAR VTUO 010100Z 21005KT 180V260 9000 NSC 29/24 Q1013 NOSIG=


......................................................................................


Date: 01-Jun-2563

SATH31 VTUV 010100
METAR VTUV 010100Z 23008KT 200V260 9999 FEW030 SCT070 29/25 Q1012
NOSIG=


......................................................................................


Date: 01-Jun-2563

SAUZ31 UTTW 010030 RRA
METAR UTSA 010030Z 10006KT 9999 NSC 20/06 Q1008 R07/CLRD70 NOSIG=


......................................................................................


Date: 01-Jun-2563

SATH31 VTUL 010100
METAR VTUL 010100Z VRB02KT 9999 SCT030 SCT080 25/24 Q1013 NOSIG=


......................................................................................


Date: 01-Jun-2563

SATH31 VTUU 010100
METAR VTUU 010100Z 19004KT 140V230 9999 SCT030 28/25 Q1013 NOSIG =


......................................................................................


Date: 01-Jun-2563

SATR31 UTAA 010100 RRA
METAR UTAK 010100Z 20006KT 9999 BKN014 17/15 Q1010 R16R/CLRD70
NOSIG=


......................................................................................


Date: 01-Jun-2563

SAIR31 OIII 010100
METAR OIAW 010100Z 32004KT CAVOK 31/00 Q1003=
METAR OIFM 010100Z 00000KT CAVOK 17/M00 Q1018 A3009=
METAR OIII 010100Z 05004KT CAVOK 24/M02 Q1012 A2991 NOSIG=
METAR OIKB 010100Z 00000KT 2000 BR FEW100 29/25 Q1002 A2961=
METAR OIKK 010100Z 14002KT CAVOK 16/M00 Q1019 A3009=
METAR OIMM 010100Z 00000KT CAVOK 17/03 Q1015 A2998=
METAR OISS 010100Z 00000KT 9999 FEW040 18/05 Q1016 A3002=
METAR OITT 010100Z 06006KT CAVOK 15/02 Q1017 A3003=
METAR OIZH 010100Z 00000KT CAVOK 16/M07 Q1015 A3000=


......................................................................................


Date: 01-Jun-2563

SAIR32 OIII 010100
METAR OIAA 010100Z 33008KT CAVOK 31/05 Q1004=
METAR OIBK 010100Z 00000KT 0200 FG NSC 28/27 Q1003=
METAR OICC 010100Z VRB02KT CAVOK 11/M07 Q1017 A3003=
METAR OIGG 010100Z NIL=
METAR OIIE 010100Z 29010KT CAVOK 21/06 Q1012=
METAR OINZ 010100Z NIL=
METAR OITR 010100Z 24004KT CAVOK 12/M00 Q1014=
METAR OIYY 010100Z 24006KT 9999 FEW045 30/03 Q1015=


......................................................................................


Date: 01-Jun-2563

SAIR34 OIII 010100
METAR OIAG 010100Z NIL=
METAR OIAM 010100Z 34006KT CAVOK 28/06 Q1002=
METAR OICI 010100Z 09004KT CAVOK 18/M02 Q1017 A3005=
METAR OIKQ 010100Z 00000KT 3000 BR NSC 27/23 Q1002=
METAR OINN 010100Z 00000KT 9999 FEW025 18/15 Q1012=
METAR OINR 010100Z 24004KT CAVOK 18/15 Q1011=
METAR OISL 010100Z 00000KT CAVOK 24/12 Q1008 NOSIG=
METAR OISY 010100Z 00000KT CAVOK 15/03 Q1022=
METAR OITZ 010100Z NIL=


......................................................................................


Date: 01-Jun-2563

SAIR35 OIII 010100
METAR OIAD 010100Z NIL=
METAR OIBJ 010100Z NIL=
METAR OIBS 010100Z NIL=
METAR OIHR 010100Z NIL=
METAR OIKM 010100Z NIL=
METAR OIKR 010100Z NIL=
METAR OING 010100Z 14004KT 9999 FEW100 16/15 Q1014=
METAR OIZB 010100Z NIL=
METAR OIZI 010100Z NIL=


......................................................................................


Date: 01-Jun-2563

SAIR36 OIII 010100
METAR OIBA 010100Z NIL=
METAR OIBV 010100Z NIL=
METAR OIFS 010100Z 04004KT CAVOK 08/01 Q1022=
METAR OIIP 010100Z NIL=
METAR OIMB 010100Z 10008KT CAVOK 17/M08 Q1017=
METAR OIMN 010100Z 08004KT 5000 BR FEW010 OVC090 17/14 Q1017=
METAR OIMS 010100Z NIL=
METAR OIMT 010100Z AUTO 09004KT //// // ////// 31/M00 Q1008=
METAR OIZJ 010100Z NIL=


......................................................................................


Date: 01-Jun-2563

SAIR37 OIII 010100
METAR OIBL 010100Z NIL=
METAR OIBQ 010100Z 00000KT CAVOK 28/25 Q1002=
METAR OIIK 010100Z 34002KT CAVOK 11/06 Q1014=
METAR OIMC 010100Z AUTO 29004KT //// // ////// 22/12 Q1009=
METAR OIMD 010100Z AUTO 12008KT //// // ////// 26/M05 Q1011=
METAR OIMQ 010100Z AUTO 08008KT //// // ////// 25/M04 Q1015=
METAR OINE 010100Z AUTO 07002KT //// // ////// 17/16 Q1013=
METAR OITK 010100Z NIL=
METAR OITM 010100Z NIL=


......................................................................................


Date: 01-Jun-2563

SAIR38 OIII 010100
METAR OIAH 010100Z 00000KT CAVOK 27/07 Q1009=
METAR OIBH 010100Z NIL=
METAR OICM 010100Z NIL=
METAR OIIS 010100Z NIL=
METAR OIMJ 010100Z NIL=
METAR OISF 010100Z 00000KT CAVOK 20/05 Q1011 A2987=
METAR OISR 010100Z NIL=
METAR OITP 010100Z 15006KT CAVOK 17/12 Q1011=
METAR OITU 010100Z NIL=


......................................................................................


Date: 01-Jun-2563

SATH31 VTUQ 010100
METAR VTUQ 010100Z 21007KT 170V260 CAVOK 28/24 Q1013 NOSIG=


......................................................................................


Date: 01-Jun-2563

SATH40 VTBB 010100
METAR VTBD 010100Z 21004KT 170V240 9999 FEW020 SCT035 30/26 Q1012
NOSIG=
METAR VTBS 010100Z 18004KT 9999 FEW020 SCT035 27/24 Q1011 NOSIG=
METAR VTBU 010100Z NIL=
METAR VTCC 010100Z 06003KT 020V120 9999 FEW035 28/23 Q1012 NOSIG=
METAR VTCT 010100Z VRB02KT 9999 SCT030 26/24 Q1012 NOSIG=
METAR VTSB 010100Z 26004KT 1500 BR VV002 25/25 Q1012=
METAR VTSG 010100Z 02004KT 340V070 2500 BR BKN020 OVC100 25/25 Q1012
BECMG TL0200 5000 BR=
METAR VTSP 010100Z 08005KT 040V110 9999 FEW020 28/26 Q1011 NOSIG=
METAR VTSS 010100Z 23003KT 100V260 6000 FEW004 24/24 Q1011 NOSIG=
METAR VTUD 010100Z VRB01KT 9999 -RA SCT030 25/24 Q1012 NOSIG=
METAR VTUU 010100Z 19004KT 140V230 9999 SCT030 28/25 Q1013 NOSIG =


......................................................................................


Date: 01-Jun-2563

SAAU32 AMMC 010100
METAR YAMB 010100Z 33008KT 9999 FEW018 BKN280 21/15 Q1017=
METAR YBCG 010100Z AUTO 32009KT 9999 // NCD 22/14 Q1016=
METAR YBHM 010100Z AUTO 15010KT 9999 // NCD 23/19 Q1018=
METAR YBMA 010100Z AUTO 18016KT 9999 // NCD 25/02 Q1020=
METAR YBRK 010100Z AUTO 06005KT 340V100 9999 // NCD 25/14 Q1018=
METAR YBRM 010100Z AUTO 12014KT 9999 // NCD 25/07 Q1019=
METAR YCIN 010100Z AUTO 13018KT 9999 // NCD 25/08 Q1018=
METAR YFRT 010100Z AUTO 22007KT 9999 // BKN028 15/11 Q1027=
METAR YMAV 010100Z AUTO 29023KT 9999 // BKN019 BKN053 OVC073 10/08 Q1004=
METAR YMHB 010100Z 33008KT 9999 FEW035 13/07 Q1002=
METAR YMLT 010100Z AUTO 34009KT 9999 // SCT008 SCT020 BKN028 11/09 Q1003=
METAR YPEA 010100Z AUTO 09007KT 9999 // OVC040 16/12 Q1028=
METAR YPGV 010100Z 14011KT 9999 FEW030 30/19 Q1016=
METAR YPKG 010100Z AUTO 10007KT 9999 // NCD 14/10 Q1029=
METAR YPPD 010100Z AUTO 12015KT 9999 // NCD 23/02 Q1022=
METAR YSCB 010100Z AUTO 32018KT 9999 // SCT036 SCT058 11/04 Q1007=
METAR YSDU 010100Z AUTO 30014KT 9999 // NCD 16/06 Q1012=
METAR YSNF 010100Z 25011KT 9999 SCT027 20/13 Q1019=
METAR YSRI 010100Z AUTO 01014KT 9999 // NCD 21/08 Q1008=
METAR YWLM 010100Z 03006KT CAVOK 20/12 Q1010=


......................................................................................


Date: 01-Jun-2563

SAAU65 AMMC 010100
METAR YLRE 010100Z AUTO 19011KT 9999 // NCD 24/08 Q1018=
METAR YMAV 010100Z AUTO 29023KT 9999 // BKN019 BKN053 OVC073 10/08 Q1004=
METAR YMAY 010100Z AUTO 36011KT 4800 // OVC013 OVC019 09/09 Q1007=
METAR YMDG 010100Z AUTO 32014KT 9999 // OVC085 16/07 Q1011=
METAR YMEK 010100Z AUTO 08011KT 9999 // NCD 14/06 Q1028=
METAR YMEN 010100Z AUTO 28015KT 9999 // BKN026 BKN032 OVC049 10/06 Q1005=
METAR YMER 010100Z AUTO 00000KT 9999 // NCD 16/09 Q1005=
METAR YMIA 010100Z AUTO 25014KT 9999 // SCT029 11/04 Q1016=
METAR YMML 010100Z 28016KT 9999 FEW022 SCT025 BKN058 10/05 Q1006=
METAR YMOR 010100Z AUTO 33014KT 9999 // OVC100 21/08 Q1015=


......................................................................................


Date: 01-Jun-2563

SAAU69 AMMC 010100
METAR YSTW 010100Z AUTO 36011KT 9999 // BKN071 OVC087 16/10 Q1014=
METAR YSWG 010100Z 33007KT 7000 -DZ SCT008 SCT045 BKN060 09/09 Q1009=
METAR YTEF 010100Z AUTO 13018KT 9999 // NCD 19/01 Q1024=
METAR YTNK 010100Z AUTO 12017KT 9999 // NCD 25/05 Q1021=
METAR YTRE 010100Z AUTO 03001KT 9999 // OVC120 17/13 Q1012=
METAR YWGT 010100Z AUTO 32012KT 6000 SHRA BKN013 OVC018 09/09 Q1007=
METAR YWHA 010100Z AUTO 22016KT 9999 // ////// 14/04 Q1021=
METAR YWLM 010100Z 03006KT CAVOK 20/12 Q1010=


......................................................................................


Date: 01-Jun-2563

SAHK31 VHHH 010100
METAR VHHH 010100Z 19009KT 9999 FEW012 31/26 Q1011 NOSIG=


......................................................................................


Date: 01-Jun-2563

SASR31 WSSS 010100
METAR WSSS 010100Z 21005KT 170V270 9000 VCSH FEW016 FEW018TCU BKN300
28/25 Q1012 NOSIG=


......................................................................................


Date: 01-Jun-2563

SATH31 VTBU 010100
METAR VTBU 010100Z 12003KT 8000 -RA FEW018CB SCT035 BKN100 27/26 Q1012 NOSIG=


......................................................................................


Date: 01-Jun-2563

SATH40 VTBB 010100 RRA
METAR VTBU 010100Z 12003KT 8000 -RA FEW018CB
SC
T035 BKN100
27/26 Q1012 NOSIG=


......................................................................................


Date: 01-Jun-2563

SAAE31 VTBB 010100
METAR VTBD 010100Z 21004KT 170V240 9999 FEW020 SCT035 30/26 Q1012
NOSIG=
METAR VTBS 010100Z 18004KT 9999 FEW020 SCT035 27/24 Q1011 NOSIG=
METAR VTBU 010100Z 12003KT 8000 -RA FEW018CB
SC
T035 BKN100
27/26 Q1012 NOSIG=
METAR VTCC 010100Z 06003KT 020V120 9999 FEW035 28/23 Q1012 NOSIG=
METAR VTCT 010100Z VRB02KT 9999 SCT030 26/24 Q1012 NOSIG=
METAR VTSG 010100Z 02004KT 340V070 2500 BR BKN020 OVC100 25/25 Q1012
BECMG TL0200 5000 BR=
METAR VTSP 010100Z 08005KT 040V110 9999 FEW020 28/26 Q1011 NOSIG=
METAR VTSS 010100Z 23003KT 100V260 6000 FEW004 24/24 Q1011 NOSIG=


......................................................................................


Date: 01-Jun-2563

SAAE32 VTBB 010100
METAR VDPP 010100Z 00000KT 9999 SCT015 SCT040 30/25 Q1010=
METAR VDSR 010100Z 07004KT 040V100 9000 SCT015 28/27 Q1010=
METAR VDSV 010100Z VRB01KT 9999 SCT015 30/25 Q1011=
METAR VLVT 010100Z 12002KT 7000 -DZ SCT013 BKN040 BKN083 24/24 Q1012
NOSIG=
METAR VYMD 010100Z NIL=
METAR VYYY 010100Z 00000KT 7000 FEW018 FEW020CB FEW110 27/26 Q1011=
METAR VYNT 010100Z NIL=


......................................................................................


Date: 01-Jun-2563

SAAE33 VTBB 010100
METAR VLLB 010100Z 00000KT 9999 SCT010 SCT060 BKN080 27/24 Q1011
NOSIG=
METAR VLLN 010100Z 09002KT 6000 SCT017 OVC100 24/23 Q1013 NOSIG=
METAR VLPS 010100Z 18002KT 9999 FEW020 BKN050 26/24 Q1013 NOSIG=
METAR VLSK 010100Z 20004KT 6000 FEW020 SCT100 29/25 Q1013 NOSIG=


......................................................................................


Date: 01-Jun-2563

SAAE34 VTBB 010100
METAR VVCI 010100Z 19007KT 150V220 9999 FEW015 31/26 Q1007 NOSIG=
METAR VVCR 010100Z 32003KT 270V030 9999 FEW015 33/25 Q1012
NOSIG=
METAR VVCT 010100Z VRB01KT 9999 FEW015TCU 30/26 Q1011
NOSIG TCU/SE=
METAR VVNB 010100Z 08005KT 040V110 8000 SCT011 30/26 Q1007 NOSIG=
METAR VVPB 010100Z 26002KT 9999 SCT020 SCT080 29/25 Q1011 NOSIG=
METAR VVPQ 010100Z VRB01KT 9999 FEW017 31/25 Q1010 NOSIG=
METAR VVTS 010100Z 01003KT 7000 FEW017 SCT050 29/26 Q1011 NOSIG =
METAR VVDN 010100Z VRB01KT 9999 FEW017 32/25 Q1011 NOSIG=


......................................................................................


Date: 01-Jun-2563

SAPK31 OPKC 010059
METAR OPGD 010055Z NIL=
METAR OPIS 010055Z 05006KT 5000 VCTS FEW030CB SCT040 BKN100 19/19
Q1010 TEMPO 09015G25KT 3000 TSRA=
METAR OPKC 010055Z 30007KT 6000 BKN020 29/25 Q1007 NOSIG=
METAR OPLA 010055Z 12008KT 4000 FU FEW100 23/20 Q1009 BECMG 3500 RMK
QFE983 RMK A29.79=
METAR OPNH 010100Z 18006KT 5000M HZ NSC 28/20 Q1003 NOSIG=
METAR OPMT 010100Z 18004KT 4000 FU SCT100 26/20 Q1005 NOSIG=
METAR OPPS 010055Z NIL=
METAR OPRN 010055Z NIL=
METAR OPSK 010100Z 05004KT 4000 HZ NSC 28/20 Q1001 NOSIG=
METAR OPST 010100Z 31015KT 3500 FU SCT040 BKN100 22/18 Q1010 TEMPO
31015G35KT 2000 -TSRA FEW030CB RH78=


......................................................................................


Date: 01-Jun-2563

SAAU32 AMMC 010100 CCA
SPECI YMAV 010103Z AUTO 29023G33KT 9999 // BKN019 BKN053 OVC073 10/08 Q1004=


......................................................................................


Date: 01-Jun-2563

SAAU32 AMMC 010100 CCB
METAR YSCB 010100Z AUTO 32018KT 9999 // SCT036 SCT058 11/04 Q1007
TEMPO 0100/0400 3000 SHRA BKN008=


......................................................................................


Date: 01-Jun-2563

SAAU60 AMMC 010100 CCA
METAR YBBN 010100Z 36006KT 9999 FEW022 BKN270 21/15 Q1017
NOSIG=


......................................................................................


Date: 01-Jun-2563

SAAU60 AMMC 010100
METAR YABA 010100Z AUTO 30008KT 9999 // SCT019 OVC025 14/12 Q1028=
METAR YAMB 010100Z 33008KT 9999 FEW018 BKN280 21/15 Q1017=
METAR YARG 010100Z AUTO /////KT 9999 // NCD 29/09 Q1019=
METAR YAYE 010100Z AUTO 13007KT 9999 // NCD 16/02 Q1026=
METAR YBAS 010100Z AUTO 14010KT 9999 // NCD 17/M01 Q1026=
METAR YBBN 010100Z 36006KT 9999 FEW022 BKN270 21/15 Q1017=
METAR YBCG 010100Z AUTO 32009KT 9999 // NCD 22/14 Q1016=
METAR YBCS 010100Z AUTO 17004KT 9999 // OVC045 26/20 Q1017
NOSIG=
METAR YBCV 010100Z AUTO 24008KT 9999 // NCD 19/03 Q1019=
METAR YBDV 010100Z AUTO 22014KT //// // ////// 20/02 Q1022=


......................................................................................


Date: 01-Jun-2563

SAAU65 AMMC 010100 CCA
SPECI YMAV 010103Z AUTO 29023G33KT 9999 // BKN019 BKN053 OVC073 10/08 Q1004=


......................................................................................


Date: 01-Jun-2563

SATR31 UTAA 010100
METAR UTAA 010100Z 00000KT 9999 NSC 22/14 Q1010 R88/CLRD70
NOSIG=
METAR UTAK 010100Z 20006KT 9999 BKN014 17/15 Q1010 R16R/CLRD70 NOSIG=
METAR UTAV 010100Z 15002KT CAVOK 20/07 Q1007 R31/CLRD70 NOSIG=
METAR UTAM 010100Z 00000KT CAVOK 23/09 Q1008 R88/CLRD70 NOSIG=
METAR UTAT 010100Z VRB02KT CAVOK 21/09 Q1008 NOSIG=


......................................................................................


Date: 01-Jun-2563

SAAU31 AMMC 010100
METAR YBAS 010100Z AUTO 14010KT 9999 // NCD 17/M01 Q1026=
METAR YBBN 010100Z 36006KT 9999 FEW022 BKN270 21/15 Q1017
NOSIG=
METAR YBCS 010100Z AUTO 17004KT 9999 // OVC045 26/20 Q1017
NOSIG=
METAR YBTL 010100Z 05008KT 9999 SCT025 25/19 Q1018
NOSIG=
METAR YMML 010100Z 28016KT 9999 FEW022 SCT025 BKN058 10/05 Q1006
FM0100 MOD TURB BLW 5000FT=
METAR YPAD 010100Z 23019KT 9999 SCT031 SCT058 13/05 Q1018
FM0300 22017KT 9999 NSW SCT035=
METAR YPCC 010100Z 13011KT 8000 -SHRA FEW015 SCT018 BKN033 25/23 Q1015=
METAR YPDN 010100Z 05007KT 9999 FEW035 30/21 Q1016=
METAR YPKU 010100Z AUTO 15011KT 9999 // NCD 30/02 Q1017=
METAR YPLM 010100Z AUTO 10007KT 9999 // SCT086 22/09 Q1021=
METAR YPPH 010100Z 00000KT 9999 BKN044 15/12 Q1028
NOSIG=
METAR YPTN 010100Z AUTO 10007KT 9999 // NCD 31/11 Q1017=
METAR YPXM 010100Z AUTO 10009KT 9999 // BKN009 BKN014 26/24 Q1015=
METAR YSSY 010100Z 36015KT CAVOK 22/08 Q1008
FM0100 MOD TURB BLW 5000FT=


......................................................................................


Date: 01-Jun-2563

SAAU65 AMMC 010100 CCB
METAR YMML 010100Z 28016KT 9999 FEW022 SCT025 BKN058 10/05 Q1006
FM0100 MOD TURB BLW 5000FT=


......................................................................................


Date: 01-Jun-2563

SAHK31 VHHH 010100
METAR VHHH 010100Z 19009KT 9999 FEW012 31/26 Q1011 NOSIG=
METAR RCTP 010100Z 24011KT 9999 FEW015 SCT025 31/27 Q1011 NOSIG
RMK A2987=
METAR RCKH 010100Z 25005KT 190V280 9999 FEW012 SCT020 31/25 Q1012
NOSIG RMK A2991=
METAR RCSS 010100Z VRB03KT 9999 FEW018 33/26 Q1011 NOSIG RMK
A2986=
METAR RCMQ 010100Z 21010KT 9999 FEW008 SCT200 30/23 Q1012 NOSIG
RMK A2991=
METAR RCNN 010100Z 19004KT 9999 FEW014 SCT025 BKN100 31/25 Q1012
NOSIG RMK A2991=
METAR RCFN 010100Z VRB02KT 9999 FEW012 SCT020 31/25 Q1012 NOSIG
RMK A2991=
METAR VMMC 010100Z 19012KT 9999 VCSH FEW015 SCT028 30/28 Q1011 NOSIG=
METAR RPLL 010100Z VRB03KT 9999 FEW025 SCT100 32/24 Q1013 NOSIG RMK
A2991=
METAR RPVM 010100Z 04007KT 010V070 9999 SCT020 31/24 Q1013 RMK A2991=
METAR RPMD 010100Z 05007KT 020V080 9999 SCT016 SCT290 29/26 Q1013 RMK
A2991=
METAR RPLB 010100Z 06008KT 030V090 9999 FEW020 SCT300 32/22 Q1013
NOSIG RMK A2991=
METAR RPLI 010100Z 32004KT 9999 FEW018 31/24 Q1012 NOSIG RMK A2988=
METAR RPMZ 010100Z VRB01KT 9999 FEW016CB FEW017 BKN090 28/26 Q1012
RMK A2988 CB NE, SE-SW W/ LTG NE=


......................................................................................


Date: 01-Jun-2563

SAJP31 RJTD 010100
METAR RJAA 010100Z 14008KT 110V180 9999 FEW010 SCT020 BKN030 21/18
Q1014 NOSIG=
METAR RJBB 010100Z 31004KT 300V360 9999 FEW020 BKN/// 22/17 Q1011
NOSIG=
METAR RJTT 010100Z 07003KT 6000 -RA BR FEW009 SCT013 BKN025 20/19
Q1013 NOSIG=
METAR RJOO 010100Z 05004KT 340V120 9999 FEW020 BKN/// 24/17 Q1010=
METAR ROAH 010100Z 33009KT 290V010 9999 FEW004 SCT009 27/26 Q1012=
METAR RJGG 010100Z 29005KT 9999 BKN025 22/16 Q1011 NOSIG=
METAR RJCH 010100Z 16006KT 9999 FEW010 SCT/// 18/11 Q1011=
METAR RJSS 010100Z 16011KT 9999 FEW020 BKN/// 21/14 Q1012=


......................................................................................


Date: 01-Jun-2563

SAJP32 RJTD 010100 RRA
METAR RJFO 010100Z 11007KT 9999 FEW004 SCT010 BKN015 20/18 Q1010=
METAR RJNT 010100Z VRB02KT 9999 FEW030 BKN080 24/16 Q1009=


......................................................................................


Date: 01-Jun-2563

SAJP32 RJTD 010100
METAR RJFF 010100Z 32012KT 4500 -SHRA BR FEW005 SCT009 BKN025 22/20
Q1010 TEMPO SHRA BR FEW005 SCT007 BKN009=
METAR RJCC 010100Z 17010KT 9999 FEW010 22/09 Q1010=
METAR RJFK 010100Z 14003KT 9999 BCFG FEW004 BKN015 BKN030 21/20
Q1012=
METAR RJSN 010100Z 17008KT 9999 -RA FEW030 SCT050 BKN070 23/14
Q1011=
METAR RJFT 010100Z VRB02KT 9999 SCT025 BKN035 25/20 Q1011=
METAR RJFU 010100Z 13006KT 9999 FEW015 BKN020 24/20 Q1010=
METAR RJNK 010100Z VRB02KT 9999 FEW030 BKN080 BKN150 22/17 Q1010=
METAR RJOA 010100Z 11004KT 060V190 9999 FEW010 SCT020 BKN/// 21/18
Q1011=
METAR RJOB 010100Z 12004KT 050V160 9999 FEW015 SCT040 BKN/// 21/17
Q1011=
METAR RJOT 010100Z 03005KT 340V090 9999 FEW015 BKN/// 22/18 Q1011=


......................................................................................


Date: 01-Jun-2563

SAJP35 RJTD 010100
METAR RJAA 010100Z 14008KT 110V180 9999 FEW010 SCT020 BKN030 21/18
Q1014 NOSIG=
METAR RJBB 010100Z 31004KT 300V360 9999 FEW020 BKN/// 22/17 Q1011
NOSIG=
METAR RJTT 010100Z 07003KT 6000 -RA BR FEW009 SCT013 BKN025 20/19
Q1013 NOSIG=
METAR RJOO 010100Z 05004KT 340V120 9999 FEW020 BKN/// 24/17 Q1010=
METAR RJGG 010100Z 29005KT 9999 BKN025 22/16 Q1011 NOSIG=
METAR RJSN 010100Z 17008KT 9999 -RA FEW030 SCT050 BKN070 23/14
Q1011=
METAR RJCH 010100Z 16006KT 9999 FEW010 SCT/// 18/11 Q1011=
METAR RJSA 010100Z 05005KT 010V080 9999 FEW050 BKN/// 22/09 Q1011=
METAR RJSF 010100Z 17009KT 9999 FEW015 BKN020 BKN025 19/19 Q1014=
METAR RJSI 010100Z 20007KT 150V240 9999 FEW015 SCT025 BKN/// 23/17
Q1012=


......................................................................................


Date: 01-Jun-2563

SAJP37 RJTD 010100 RRA
METAR RJFR 010100Z 08009KT 9999 FEW007 BKN050 BKN090 21/18 Q1010=


......................................................................................


Date: 01-Jun-2563

SAJP37 RJTD 010100
METAR RJAA 010100Z 14008KT 110V180 9999 FEW010 SCT020 BKN030 21/18
Q1014 NOSIG=
METAR RJBB 010100Z 31004KT 300V360 9999 FEW020 BKN/// 22/17 Q1011
NOSIG=
METAR RJTT 010100Z 07003KT 6000 -RA BR FEW009 SCT013 BKN025 20/19
Q1013 NOSIG=
METAR RJOO 010100Z 05004KT 340V120 9999 FEW020 BKN/// 24/17 Q1010=
METAR RJFF 010100Z 32012KT 4500 -SHRA BR FEW005 SCT009 BKN025 22/20
Q1010 TEMPO SHRA BR FEW005 SCT007 BKN009=
METAR RJGG 010100Z 29005KT 9999 BKN025 22/16 Q1011 NOSIG=
METAR RJFK 010100Z 14003KT 9999 BCFG FEW004 BKN015 BKN030 21/20
Q1012=
METAR RJFU 010100Z 13006KT 9999 FEW015 BKN020 24/20 Q1010=
METAR RJCH 010100Z 16006KT 9999 FEW010 SCT/// 18/11 Q1011=
METAR RJNS 010100Z 03004KT 330V080 5000 -SHRA BR FEW004 SCT025
BKN035 19/19 Q1012=


......................................................................................


Date: 01-Jun-2563

SAJP38 RJTD 010100 RRA
METAR RJCK 010100Z 16008KT 9999 PRFG FEW001 SCT003 BKN005 13/11
Q1012=
METAR RJCM 010100Z VRB02KT CAVOK 23/07 Q1010=
METAR RJCB 010100Z VRB05KT 9999 FEW060 24/06 Q1010=
METAR RJOC 010100Z 33004KT 9999 FEW025 SCT040 BKN070 24/18 Q1008=
METAR RJOH 010100Z 19007KT 160V220 9999 FEW040 SCT050 BKN090 26/17
Q1009=
METAR ROIG 010100Z 22009KT 9999 VCSH FEW012 SCT016 FEW021TCU 29/28
Q1011=
METAR RJFS 010100Z 22004KT 9999 -SHRA FEW005 SCT015 BKN025 23/20
Q1010=
METAR RJSI 010100Z 20007KT 150V240 9999 FEW015 SCT025 BKN/// 23/17
Q1012=


......................................................................................


Date: 01-Jun-2563

SAJP38 RJTD 010100
METAR RJNS 010100Z 03004KT 330V080 5000 -SHRA BR FEW004 SCT025
BKN035 19/19 Q1012=
METAR RJSA 010100Z 05005KT 010V080 9999 FEW050 BKN/// 22/09 Q1011=
METAR RJSF 010100Z 17009KT 9999 FEW015 BKN020 BKN025 19/19 Q1014=
METAR RJOM 010100Z 34003KT 9999 FEW020 BKN/// 22/19 Q1010=
METAR RJOK 010100Z 21005KT 9999 FEW015 SCT030 BKN/// 24/19 Q1011=
METAR RJFM 010100Z 03004KT 9999 FEW008 SCT012 BKN014 22/20 Q1011=
METAR RJEC 010100Z 01004KT 310V070 9999 FEW030 23/11 Q1011=
METAR RJFR 010100Z 08009KT 9999 FEW007 BKN050 BKN090 21/18 Q1010=
METAR RJSK 010100Z 12005KT 080V160 9999 FEW035 BKN/// 24/16 Q1011=
METAR RJAH 010100Z 19006KT 150V220 9999 FEW015 BKN025 BKN040 21/16
Q1014=


......................................................................................


Date: 01-Jun-2563

SAJP51 RJTD 010100 RRA
METAR RJFF 010100Z 32012KT 4500 -SHRA BR FEW005 SCT009 BKN025 22/20
Q1010 TEMPO SHRA BR FEW005 SCT007 BKN009=
METAR RJFG 010100Z 10003KT 050V150 9999 FEW003 SCT010 BKN/// 22/21
Q1012=
METAR RJFK 010100Z 14003KT 9999 BCFG FEW004 BKN015 BKN030 21/20
Q1012=
METAR RJFM 010100Z 03004KT 9999 FEW008 SCT012 BKN014 22/20 Q1011=
METAR RJFO 010100Z 11007KT 9999 FEW004 SCT010 BKN015 20/18 Q1010=
METAR RJFR 010100Z 08009KT 9999 FEW007 BKN050 BKN090 21/18 Q1010=
METAR RJFS 010100Z 22004KT 9999 -SHRA FEW005 SCT015 BKN025 23/20
Q1010=
METAR RJFT 010100Z VRB02KT 9999 SCT025 BKN035 25/20 Q1011=
METAR RJFU 010100Z 13006KT 9999 FEW015 BKN020 24/20 Q1010=
METAR RJGG 010100Z 29005KT 9999 BKN025 22/16 Q1011 NOSIG=
METAR RJKA 010100Z VRB02KT 9999 FEW010 BKN012 BKN060 25/24 Q1011=
METAR RJKI 010100Z AUTO 29005KT 9999 FEW009 BKN012 BKN015 26/24
Q1011=
METAR RJNK 010100Z VRB02KT 9999 FEW030 BKN080 BKN150 22/17 Q1010=
METAR RJNS 010100Z 03004KT 330V080 5000 -SHRA BR FEW004 SCT025
BKN035 19/19 Q1012=
METAR RJNT 010100Z VRB02KT 9999 FEW030 BKN080 24/16 Q1009=
METAR RJNW 010100Z 14005KT 070V200 9999 FEW040 BKN060 BKN070 20/15
Q1011=
METAR RJOA 010100Z 11004KT 060V190 9999 FEW010 SCT020 BKN/// 21/18
Q1011=
METAR RJOB 010100Z 12004KT 050V160 9999 FEW015 SCT040 BKN/// 21/17
Q1011=
METAR RJOC 010100Z 33004KT 9999 FEW025 SCT040 BKN070 24/18 Q1008=
METAR RJOH 010100Z 19007KT 160V220 9999 FEW040 SCT050 BKN090 26/17
Q1009=


......................................................................................


Date: 01-Jun-2563

SAJP51 RJTD 010100 RRB
METAR RJOK 010100Z 21005KT 9999 FEW015 SCT030 BKN/// 24/19 Q1011=
METAR RJOM 010100Z 34003KT 9999 FEW020 BKN/// 22/19 Q1010=
METAR RJOO 010100Z 05004KT 340V120 9999 FEW020 BKN/// 24/17 Q1010=
METAR RJOR 010100Z 17008KT 120V200 9999 FEW035 SCT060 BKN070 24/16
Q1009=
METAR RJOS 010100Z 12007KT 9999 FEW015 BKN070 22/17 Q1010=
METAR RJOT 010100Z 03005KT 340V090 9999 FEW015 BKN/// 22/18 Q1011=
METAR RJOW 010100Z 17004KT 140V200 9999 FEW025 SCT040 BKN050 24/18
Q1009=
METAR RJOY 010100Z 12005KT 080V180 9999 FEW025 BKN/// 25/17 Q1010=
METAR RJSA 010100Z 05005KT 010V080 9999 FEW050 BKN/// 22/09 Q1011=
METAR RJSC 010100Z VRB02KT 9999 FEW050 SCT150 BKN/// 24/15 Q1011=
METAR RJSD 010100Z AUTO 29004KT 220V340 9999 FEW045 BKN047 OVC050
20/16 Q1011=
METAR RJSF 010100Z 17009KT 9999 FEW015 BKN020 BKN025 19/19 Q1014=
METAR RJSI 010100Z 20007KT 150V240 9999 FEW015 SCT025 BKN/// 23/17
Q1012=
METAR RJSK 010100Z 12005KT 080V160 9999 FEW035 BKN/// 24/16 Q1011=
METAR RJSM 010100Z 09009KT 9999 FEW030 BKN250 22/14 Q1011=
METAR RJSN 010100Z 17008KT 9999 -RA FEW030 SCT050 BKN070 23/14
Q1011=
METAR RJSR 010100Z VRB02KT 9999 FEW040 BKN/// 23/13 Q1011=
METAR RJSS 010100Z 16011KT 9999 FEW020 BKN/// 21/14 Q1012=
METAR RJSY 010100Z 24006KT 9999 FEW040 SCT130 BKN140 23/14 Q1010=
METAR RJTF 010100Z 32003KT 280V350 3200 -RA BR FEW004 BKN008 BKN015
19/18 Q1014=


......................................................................................


Date: 01-Jun-2563

SAJP51 RJTD 010100 RRC
METAR RJTI 010100Z 12006KT 9999 VCSH FEW008 SCT015 BKN020 21/19
Q1013=
METAR RJTO 010100Z 07008KT 050V120 8000 -SHRA FEW001 SCT008 BKN015
20/20 Q1012=
METAR RJTT 010100Z 07003KT 6000 -RA BR FEW009 SCT013 BKN025 20/19
Q1013 NOSIG=
METAR ROAH 010100Z 33009KT 290V010 9999 FEW004 SCT009 27/26 Q1012=
METAR ROIG 010100Z 22009KT 9999 VCSH FEW012 SCT016 FEW021TCU 29/28
Q1011=
METAR ROMD 010100Z AUTO 21014KT 9999 FEW005 SCT007 28/25 Q1013=
METAR ROMY 010100Z 21013KT 9999 FEW007 SCT009 BKN/// 30/27 Q1012=
METAR RORK 010100Z AUTO 21011KT 9999 NCD 28/26 Q1013=
METAR RORS 010100Z 20007KT 170V230 9999 FEW009 BKN060 29/28 Q1012=
METAR RORY 010100Z AUTO 34007KT 9999 BKN013 26/24 Q1012=
METAR ROYN 010100Z AUTO 05007KT 9999 NCD 30/27 Q1011=


......................................................................................


Date: 01-Jun-2563

SAJP51 RJTD 010100
METAR RJAA 010100Z 14008KT 110V180 9999 FEW010 SCT020 BKN030 21/18
Q1014 NOSIG=
METAR RJAF 010100Z 15009KT 120V180 9999 FEW030 SCT050 BKN120 21/13
Q1013=
METAR RJAH 010100Z 19006KT 150V220 9999 FEW015 BKN025 BKN040 21/16
Q1014=
METAR RJBB 010100Z 31004KT 300V360 9999 FEW020 BKN/// 22/17 Q1011
NOSIG=
METAR RJBD 010100Z 25003KT 190V330 9999 FEW030 SCT050 BKN/// 23/18
Q1011=
METAR RJBE 010100Z 17004KT 9999 FEW025 BKN/// 23/17 Q1011=
METAR RJBT 010100Z 20008KT 9999 FEW030 SCT050 BKN070 23/18 Q1009=
METAR RJCB 010100Z VRB05KT 9999 FEW060 24/06 Q1010=
METAR RJCC 010100Z 17010KT 9999 FEW010 22/09 Q1010=
METAR RJCH 010100Z 16006KT 9999 FEW010 SCT/// 18/11 Q1011=
METAR RJCK 010100Z 16008KT 9999 PRFG FEW001 SCT003 BKN005 13/11
Q1012=
METAR RJCM 010100Z VRB02KT CAVOK 23/07 Q1010=
METAR RJCN 010100Z 23006KT 180V270 CAVOK 23/11 Q1011=
METAR RJCO 010100Z 12011KT 9999 FEW030 26/12 Q1010=
METAR RJCW 010100Z 20019KT 9999 FEW040 23/06 Q1008=
METAR RJDC 010100Z 09012KT 9999 FEW015 SCT025 BKN050 21/18 Q1010=
METAR RJDT 010100Z 26009KT 200V300 9999 FEW001 SCT015 BKN/// 21/19
Q1009=
METAR RJEB 010100Z 09009KT 9999 FEW050 20/09 Q1010=
METAR RJEC 010100Z 01004KT 310V070 9999 FEW030 23/11 Q1011=
METAR RJFE 010100Z 34006KT 7000 FEW003 SCT004 BKN005 22/21 Q1010=


......................................................................................


Date: 01-Jun-2563

SAMS31 WMKK 010100
METAR COR WBGG 010100Z VRB02KT 3000 BR SCT000 26/25 Q1012 NOSIG=
METAR WBKK 010100Z VRB03KT 9999 TS FEW014 FEW017CB 30/26 Q1012 NOSIG=
METAR WBSB 010100Z 24003KT 9999 TS FEW014 FEW015CB BKN140 27/24 Q1012 NOSIG=
METAR WMKK 010100Z VRB02KT 7000 FEW017CB 28/25 Q1013 NOSIG=
METAR WMKP 010100Z 05003KT 010V110 8000 FEW020 28/24 Q1011 NOSIG=
METAR WSSL 010100Z VRB02KT 9999 FEW015 FEW018TCU BKN300 29/24 Q1012=
METAR WSSS 010100Z 21005KT 170V270 9000 VCSH FEW016 FEW018TCU BKN300 28/25 Q1012 NOSIG=


......................................................................................


Date: 01-Jun-2563

SAOM32 OOMS 010100 RRA
METAR OOSH 010050Z AUTO 15005KT //// ////// 34/21 Q1002=


......................................................................................


Date: 01-Jun-2563

SAPA31 KWBC 010100
METAR
AGGG NIL=
AGGH 010100Z 020068KT 9999 FEW020 FEW020CB 31/24 Q1012 RMK CB TO
ENE/ NW=
AGGH 010100Z 020068KT 9999 FEW020 FEW020CB 31/24 Q1012 RMK CB TO
ENE, NW=
ANAU NIL=
AYPY NIL=
PGNT NIL=
PGRO 010050Z 09012KT 7SM SCT015 29/23 A2996=
PGSN 010054Z 09013KT 10SM FEW021 32/24 A2996 RMK AO2 SLP165
T03220239=
PGUA 010056Z 11012KT 10SM SCT017 30/24 A2996 RMK AO2A SLP136
T02970236 PWINO $=
PGUM 010054Z 09014KT 10SM SCT023 31/23 A2996 RMK AO2 SLP136
T03060233=
PGWT NIL=
PHJH NIL=
PHJR NIL=
PHMK 010054Z AUTO 04013G22KT 10SM SCT030 27/18 A3005 RMK AO2
SLP177 T02670183 TSNO=
PJON NIL=
PKMJ NIL=
PKMR 010051Z 11007KT 20SM SCT016 SCT300 31/26 A2988 RMK SLP119
T03070255=
PKWA 010100Z AUTO 09012KT 10SM SCT020 SCT070 31/26 A2991 RMK AO2
T03140255=
PLCH 010100Z 11008KT 9999 SCT020 30/23 Q1009=
PMDY 010056Z AUTO 19005KT 9SM 27/23 A3007 RMK AO2 SLP182 T02720233
$=
PTKK 010050Z VRB04KT 15SM FEW014 BKN280 30/28 A2986 RMK SLP113
T03030277=
PTKR NIL=
PTPN NIL=
PTRO 010050Z 09011G15KT 15SM BKN016 BKN120 BKN300 31/24 A2989=
PTSA NIL=
PTTP 010050Z 08005KT 12SM -SHRA BKN017TCU OVC120 27/25 A2991 RMK
SHRAB34 TCU ALQDS SLP127 T02720250=
PTYA 010053Z 11007KT 12SM FEW018 SCT300 30/25 A2990 RMK SLP127
T03030250=
PWAK 010058Z AUTO 07008KT 9999 SCT024 SCT300 BKN350 M A3001 RMK
AO2 SLPNO FZRANO $=


......................................................................................


Date: 01-Jun-2563

SAAU31 AMMC 010100 CCA
METAR YPDN 010100Z 05007KT 9999 FEW035 30/21 Q1016
NOSIG=


......................................................................................


Date: 01-Jun-2563

SAAU32 AMMC 010100 CCC
METAR YWLM 010100Z 03006KT CAVOK 20/12 Q1010
FM0100 MOD TURB BLW 5000FT=


......................................................................................


Date: 01-Jun-2563

SAAU69 AMMC 010100 CCA
METAR YWLM 010100Z 03006KT CAVOK 20/12 Q1010
FM0100 MOD TURB BLW 5000FT=


......................................................................................


Date: 01-Jun-2563

SAMS31 WMKK 010100
METAR WBGG 010100Z NIL=
METAR WBKK 010100Z NIL=
METAR WBSB 010100Z NIL=
METAR WMKK 010100Z NIL=
METAR WMKP 010100Z NIL=
METAR WSSL 010100Z VRB02KT 9999 FEW015 FEW018TCU BKN300 29/24 Q1012=
METAR WSSS 010100Z 21005KT 170V270 9000 VCSH FEW016 FEW018TCU BKN300
28/25 Q1012 NOSIG=


......................................................................................


Date: 01-Jun-2563

SAMS32 WMKK 010100
NIL


......................................................................................


Date: 01-Jun-2563

SAMS33 WMKK 010100
METAR WMAU 010100Z VRB03KT 7000 SCT025 27/25 Q1012=
METAR WMBA 010100Z VRB02KT 9000 FEW021 27/25 Q1012=
METAR WMKA 010100Z VRB02KT 9999 FEW020 26/25 Q1011=
METAR WMKB 010100Z 00000KT 8000 FEW020 27/25 Q1011 NOSIG=
METAR WMKC 010100Z 21005KT 150V270 9999 FEW018 27/23 Q1011=
METAR WMKD 010100Z VRB01KT 9999 FEW020 28/26 Q1012 NOSIG=
METAR WMKE 010100Z 31003KT 280V010 9000 FEW014 30/26 Q1011=
METAR WMKI 010100Z 05003KT 010V100 9999 FEW018 27/24 Q1012=
METAR WMKL 010100Z VRB01KT 9999 FEW022 27/26 Q1011=
METAR WMKM 010100Z VRB02KT 9999 FEW017CB 29/24 Q1013=
METAR WMKN 010100Z 20004KT 150V250 9999 FEW018 29/25 Q1011=


......................................................................................


Date: 01-Jun-2563

SAMS34 WMKK 010100
NIL


......................................................................................


Date: 01-Jun-2563

SASD20 OEJD 010100
METAR OEAB 010100Z 00000KT CAVOK 20/09 Q1023 NOSIG=
METAR OEAH 010100Z 00000KT CAVOK 29/04 Q1005 NOSIG=
METAR OEAO 010100Z NIL=
METAR OEAR 010100Z NIL=
METAR OEBA 010100Z 34009KT 9999 FEW030 25/04 Q1018 NOSIG=
METAR OEBH 010100Z 29004KT CAVOK 26/03 Q1014 NOSIG=
METAR OEDF 010100Z 31008KT CAVOK 29/09 Q1003 NOSIG=
METAR OEDM 010100Z NIL=
METAR OEDR 010100Z 28008KT CAVOK 29/13 Q1002 NOSIG=
METAR OEGN 010100Z 00000KT 9000 SCT030 30/25 Q1005 NOSIG=
METAR OEGS 010100Z 00000KT CAVOK 28/07 Q1008=
METAR OEGT 010100Z 28014KT CAVOK 19/05 Q1012 NOSIG=
METAR OEHL 010100Z 00000KT CAVOK 27/01 Q1012 NOSIG=
METAR OEJB 010100Z NIL=
METAR OEJN 010100Z 33005KT CAVOK 26/17 Q1006 NOSIG=
METAR OEKJ 010100Z 11004KT CAVOK 31/00 Q1011=
METAR OEKK 010100Z NIL=


......................................................................................


Date: 01-Jun-2563

SASD21 OEJD 010100
METAR OEKM 010100Z 00000KT CAVOK 21/12 Q1022 NOSIG=
METAR OEMA 010100Z 05003KT CAVOK 31/01 Q1010 NOSIG=
METAR OEMK 010100Z NIL=
METAR OENG 010100Z 00000KT CAVOK 25/07 Q1014 NOSIG=
METAR OEPA 010100Z 03006KT CAVOK 28/07 Q1007 NOSIG=
METAR OERF 010100Z 07010KT CAVOK 31/00 Q1008=
METAR OERK 010100Z 16002KT CAVOK 26/08 Q1010 NOSIG=
METAR OERR 010100Z 07006KT CAVOK 23/00 Q1009=
METAR OERY 010100Z NIL=
METAR OESH 010100Z 08008KT 4000 DU NSC 28/07 Q1010 NOSIG=
METAR OESK 010100Z 06005KT CAVOK 26/M01 Q1012=
METAR OETB 010100Z 30013KT CAVOK 23/04 Q1012 NOSIG=
METAR OETF 010100Z 25003KT CAVOK 25/01 Q1018 NOSIG=
METAR OETR 010100Z 02010KT CAVOK 20/08 Q1012=
METAR OEWD 010100Z 08007KT CAVOK 29/12 Q1008 NOSIG=
METAR OEWJ 010100Z 31007KT 9000 NSC 25/23 Q1007 NOSIG=
METAR OEYN 010100Z 27018KT CAVOK 24/20 Q1004 NOSIG=


......................................................................................


Date: 01-Jun-2563

SASD31 OEJD 010100 RRA
METAR OERK 010100Z 16002KT CAVOK 26/08 Q1010 NOSIG=


......................................................................................


Date: 01-Jun-2563

SPTH31 VTSB 010110
SPECI VTSB 010110Z VRB02KT 3000 BR VV002 25/25 Q1012=


......................................................................................


Date: 01-Jun-2563

SAMS33 WMKK 010100
NIL


......................................................................................


Date: 01-Jun-2563

SAMS34 WMKK 010100 RRA
METAR WBGS 010100Z VRB03KT 9999 RA FEW008 SCT016 BKN150 26/25 Q1013=


......................................................................................


Date: 01-Jun-2563

SAMS34 WMKK 010100 RRB
METAR WBKT 010100Z 10005KT 010V150 9999 FEW015 BKN280 31/24 Q1012=


......................................................................................


Date: 01-Jun-2563

SAMS38 WMKK 010100
METAR WBGB 010100Z 00000KT 2000 TSRA FEW003 SCT012 FEW015CB OVC140
25/25 Q1013=
METAR WBGR 010100Z 18005KT 8000 -RA SCT014 OVC140 25/25 Q1013=
METAR WBGS 010100Z NIL=
METAR WBKL 010100Z 24005KT 180V300 2000 +TSRA FEW010 FEW016CB SCT030
OVC260 26/26 Q1012=
METAR WBKS 010100Z VRB03KT 9999 FEW017 29/25 Q1012=
METAR WBKW 010100Z VRB02KT 9999 FEW016CB 30/26 Q1012=
METAR WMKD 010100Z VRB01KT 9999 FEW020 28/26 Q1012 NOSIG=
METAR WMKL 010100Z VRB01KT 9999 FEW022 27/26 Q1011=
METAR WMKM 010100Z VRB02KT 9999 FEW017CB 29/24 Q1013=


......................................................................................


Date: 01-Jun-2563

SAPA31 KWBC 010100 RRA
METAR
PGWT 010058Z 11012KT 7SM SCT015 32/24 A2995=


......................................................................................


Date: 01-Jun-2563

SAUZ31 UTTW 010100
METAR UTFN 010100Z 33006KT 9999 NSC 22/09 Q1010 R28/CLRD70 NOSIG=
METAR UTNN 010100Z 12002KT CAVOK 23/03 Q1008 R33/CLRD60 NOSIG=
METAR UTNU 010100Z 02002KT CAVOK 22/07 Q1008 R31/CLRD70 NOSIG=
METAR UTSA 010100Z 09010KT 9999 NSC 21/07 Q1008 R07/CLRD70 NOSIG=
METAR UTSB 010100Z 09006KT CAVOK 20/09 Q1007 R01/CLRD70 NOSIG=
METAR UTSK 010100Z 08004KT 040V120 CAVOK 20/09 Q1008 R16/CLRD70=
METAR COR UTSS 010100Z 15014KT 9999 NSC 22/09 Q1010 R09/CLRD70 NOSIG=
METAR UTST 010100Z 03006KT CAVOK 21/11 Q1008 R88/CLRD70 NOSIG=
METAR UTFA 010100Z NIL=
METAR UTFF 010100Z 16008KT 9999 NSC 23/05 Q1010 R99/CLRD70=
METAR UTTT 010100Z 06008KT CAVOK 24/09 Q1009 R08R/CLRD70 NOSIG=


......................................................................................


Date: 01-Jun-2563

SAAR20 OEJD 010100
METAR OBBI 010100Z 29011KT CAVOK 33/20 Q1002 NOSIG=
METAR OKBK 010100Z 01011KT CAVOK 33/05 Q1004 NOSIG=
METAR OMAA 010100Z 19006KT CAVOK 33/22 Q1003 NOSIG=
METAR OMAD 010100Z 16004KT 130V190 CAVOK 33/22 Q1004 NOSIG=
METAR OMAL 010100Z 16013KT 8000 NSC 33/19 Q1007 NOSIG=
METAR OMDB 010100Z 24003KT CAVOK 33/22 Q1003 NOSIG=
METAR OMFJ 010100Z 16002KT 7000 NSC 32/26 Q1003 RMK A2963=
METAR OMRK 010100Z 22004KT 8000 NSC 30/18 Q1003 A2964=
METAR OMSJ 010100Z 21003KT 170V240 CAVOK 33/21 Q1004 NOSIG=
METAR OOMS 010050Z 24011KT CAVOK 37/22 Q1003 NOSIG=
METAR OOSA 010050Z 09009KT 8000 FEW012 OVC030 28/27 Q1006 NOSIG=
METAR OOSH 010050Z AUTO 15005KT //// ////// 34/21 Q1002 RMK 0999=
METAR OODQ 010050Z AUTO 22012KT //// R22///// FEW023 28/27 Q1007
NOSIG RMK RH94? 0=
METAR OTBD 010100Z AUTO 26003KT 220V330 CAVOK 30/24 Q1003 NOSIG=
METAR OTBH 010100Z NIL=
METAR OTHH 010100Z AUTO VRB01KT CAVOK 29/22 Q1003 NOSIG=
METAR OYAA 010100Z NIL=
METAR OYSN 010100Z NIL=


......................................................................................


Date: 01-Jun-2563

SAAU32 AMMC 010100 CCD
METAR YAMB 010100Z 33008KT 9999 FEW018 BKN280 21/15 Q1017
NOSIG=


......................................................................................


Date: 01-Jun-2563

SAAU60 AMMC 010100 CCB
METAR YAMB 010100Z 33008KT 9999 FEW018 BKN280 21/15 Q1017
NOSIG=


......................................................................................


Date: 01-Jun-2563

SAAU61 AMMC 010100
METAR YBHI 010100Z AUTO 23024KT 9999 // SCT035 11/02 Q1018=
METAR YBHM 010100Z AUTO 15010KT 9999 // NCD 23/19 Q1018=
METAR YBLN 010100Z AUTO 25002KT //// // ////// 14/14 Q1028=
METAR YBMA 010100Z AUTO 18016KT 9999 // NCD 25/02 Q1020=
METAR YBMK 010100Z AUTO 11007KT 9999 // NCD 24/18 Q1018=
METAR YBNA 010100Z AUTO 36010KT 9999 // NCD 23/14 Q1015=
METAR YBOK 010100Z AUTO 31016KT 7000 // NCD 21/11 Q1017=
METAR YBPN 010100Z AUTO 08006KT 9999 // BKN026 BKN046 25/18 Q1018=
METAR YBRK 010100Z AUTO 06005KT 340V100 9999 // NCD 25/14 Q1018=
METAR YBRM 010100Z AUTO 12014KT 9999 // NCD 25/07 Q1019=


......................................................................................


Date: 01-Jun-2563

SAAU62 AMMC 010100
METAR YBTL 010100Z 05008KT 9999 SCT025 25/19 Q1018
NOSIG=
METAR YBUD 010104Z AUTO 09004KT 050V130 9999 // SCT014 22/17 Q1018=
METAR YBWP 010100Z AUTO 10010KT 9999 // NCD 29/19 Q1015=
METAR YBWX 010100Z AUTO 08023KT //// // ////// 23/13 Q1020=
METAR YCAS 010100Z AUTO 34012KT //// // ////// 23/14 Q1015=
METAR YCBA 010100Z AUTO 26014KT 3300 // BKN049 OVC058 14/04 Q1014=
METAR YCBB 010100Z AUTO 33010KT 9999 // SCT075 SCT099 16/07 Q1013=
METAR YCBP 010100Z AUTO 20013KT 9999 // BKN021 15/09 Q1024=
METAR YCCY 010100Z AUTO 19012KT 9999 // NCD 26/02 Q1019=


......................................................................................


Date: 01-Jun-2563

SAAU63 AMMC 010100
METAR YCDU 010100Z AUTO 22014KT 9999 // OVC049 15/09 Q1024=
METAR YCIN 010100Z AUTO 13018KT 9999 // NCD 25/08 Q1018=
METAR YCNM 010100Z AUTO 30016KT //// // ////// 20/05 Q1013=
METAR YCOM 010100Z AUTO 33019KT 9999 // ////// 09/02 Q1005=
METAR YDBY 010100Z AUTO 13016KT 9999 // NCD 26/10 Q1019=
METAR YEML 010100Z AUTO 34006KT 290V010 9999 // NCD 24/12 Q1018=
METAR YESP 010100Z AUTO 28006KT 2100 // OVC003 OVC008 14/14 Q1028=
METAR YFRT 010100Z AUTO 22007KT 9999 // BKN028 15/11 Q1027=
METAR YGEL 010100Z AUTO 06003KT 9999 // NCD 16/12 Q1028=


......................................................................................


Date: 01-Jun-2563

SAAU64 AMMC 010100
METAR YGFN 010100Z AUTO 01005KT 9999 // NCD 20/19 Q1015=
METAR YGLA 010100Z AUTO 03005KT 9999 // NCD 25/15 Q1018=
METAR YGTE 010100Z AUTO 12003KT 9999 // NCD 30/20 Q1016=
METAR YGTH 010100Z AUTO 26020KT 9999 // BKN028 BKN032 10/06 Q1011=
METAR YHID 010100Z AUTO 13014KT 9999 // NCD 29/24 Q1014=
METAR YHUG 010100Z AUTO 29007KT 9999 // NCD 26/09 Q1018=
METAR YKRY 010100Z AUTO 35008KT 9999 // SCT016 19/14 Q1018=
METAR YLEC 010100Z AUTO 21020KT 9999 // NCD 13/02 Q1021=
METAR YLIS 010100Z AUTO 35010KT 9999 // NCD 23/15 Q1015=


......................................................................................


Date: 01-Jun-2563

SAAU66 AMMC 010100
METAR YMTG 010100Z AUTO 24013KT 9999 // SCT040 SCT049 BKN059 09/05 Q1013=
METAR YNAR 010102Z AUTO 27015G25KT 8000 -SHRA SCT010 BKN014 OVC022 10/09
Q1010=
METAR YNBR 010100Z AUTO 35016KT 9999 // BKN110 20/07 Q1014=
METAR YNTN 010100Z AUTO 12004KT 020V160 9999 // NCD 28/13 Q1017=
METAR YNWN 010100Z AUTO 04004KT 9999 // NCD 15/01 Q1026=
METAR YOLD 010100Z AUTO 19015KT 9999 // SCT033 15/05 Q1022=
METAR YPAD 010100Z 23019KT 9999 SCT031 SCT058 13/05 Q1018
FM0300 22017KT 9999 NSW SCT035=
METAR YPBO 010100Z AUTO /////KT 9999 // NCD 18/01 Q1024=
METAR YPCC 010100Z 13011KT 8000 -SHRA FEW015 SCT018 BKN033 25/23 Q1015=


......................................................................................


Date: 01-Jun-2563

SAAU67 AMMC 010100
METAR YPDN 010100Z 05007KT 9999 FEW035 30/21 Q1016
NOSIG=
METAR YPEA 010100Z AUTO 09007KT 9999 // OVC040 16/12 Q1028=
METAR YPGV 010100Z 14011KT 9999 FEW030 30/19 Q1016=
METAR YPKG 010100Z AUTO 10007KT 9999 // NCD 14/10 Q1029=
METAR YPKU 010100Z AUTO 15011KT 9999 // NCD 30/02 Q1017=
METAR YPLM 010100Z AUTO 10007KT 9999 // SCT086 22/09 Q1021=
METAR YPPD 010100Z AUTO 12015KT 9999 // NCD 23/02 Q1022=
METAR YPPH 010100Z 00000KT 9999 BKN044 15/12 Q1028
NOSIG=
METAR YPTN 010100Z AUTO 10007KT 9999 // NCD 31/11 Q1017=


......................................................................................


Date: 01-Jun-2563

SAAU68 AMMC 010100
METAR YCFS 010100Z AUTO 36012KT 9999 // NCD 22/10 Q1014=
METAR YPWR 010100Z AUTO 21014KT 9999 // NCD 14/05 Q1023=
METAR YPXM 010100Z AUTO 10009KT 9999 // BKN009 BKN014 26/24 Q1015=
METAR YRMD 010100Z AUTO 23005KT 200V260 9999 // NCD 27/08 Q1018=
METAR YSCB 010100Z AUTO 32018KT 9999 // SCT036 SCT058 11/04 Q1007
TEMPO 0100/0400 3000 SHRA BKN008=
METAR YSDU 010100Z AUTO 30014KT 9999 // NCD 16/06 Q1012=
METAR YSNF 010100Z 25011KT 9999 SCT027 20/13 Q1019=
METAR YSNW 010100Z 33007KT CAVOK 20/06 Q1006
FM0100 MOD TURB BLW 5000FT=
METAR YSRI 010100Z AUTO 01014KT 9999 // NCD 21/08 Q1008=
METAR YSSY 010100Z 36015KT CAVOK 22/08 Q1008
FM0100 MOD TURB BLW 5000FT=


......................................................................................


Date: 01-Jun-2563

SAKO51 RJTD 010100
METAR RKJJ 010100Z 32006KT 9999 FEW020 BKN030 21/17 Q1011 RMK CIG030
SLP119 8/500 9/700=
METAR RKPC 010100Z 02003KT 330V050 8000 FEW007 BKN040 OVC120 20/17
Q1011 BECMG SCT030=
METAR RKPK 010100Z 32006KT 9000 NSC 24/16 Q1009=
METAR RKPS 010100Z 21005KT CAVOK 25/18 Q1010 RMK CIG200 SLP099=
METAR RKSI 010100Z 26008KT 220V300 CAVOK 20/14 Q1010 NOSIG=
METAR RKSM 010100Z 31006KT 9999 FEW030 22/13 A2983=
METAR RKSS 010100Z 28007KT 230V330 9999 FEW025 22/13 Q1010 NOSIG=
METAR RKTH 010100Z 27013KT 9999 FEW040 BKN200 25/16 Q1008 RMK CIG200
SLP081 8/508 9/203=
METAR RKTN 010100Z 30008KT 9999 SCT030 BKN200 25/15 Q1009=
METAR RKTU 010100Z 27010KT 9999 FEW025 22/14 Q1010=


......................................................................................


Date: 01-Jun-2563

SANG31 AMMC 010100
METAR AYMO NIL=
METAR AYPY 010100Z 16020KT 9999 HZ SCT015 SCT035 30/26 Q1013=


......................................................................................


Date: 01-Jun-2563

SAMS38 WMKK 010100 RRA
METAR WBGS 010100Z VRB03KT 9999 RA FEW008 SCT016 BKN150 26/25 Q1013=


......................................................................................


Date: 01-Jun-2563

SAPA31 KWBC 010100 RRB
METAR
AYPY 010100Z 16020KT 9999 HZ SCT015 SCT035 30/26 Q1013=


......................................................................................


Date: 01-Jun-2563

SANP31 VNKT 010120
METAR VNKT 010120Z 20004KT 6000 -RA FEW010 FEW025CB SCT030 BKN100
19/18 Q1017 NOSIG CB
TO SE S AND SW=


......................................................................................


Date: 01-Jun-2563

SACI51 RJTD 010100
METAR ZBAA 010100Z VRB01MPS CAVOK 22/11 Q1008 NOSIG=
METAR ZBTJ 010100Z 23003MPS 190V270 CAVOK 26/08 Q1008 NOSIG=
METAR ZBYN 010100Z VRB01MPS 9999 FEW040 20/07 Q1012 NOSIG=
METAR ZGGG 010100Z 08002MPS 020V110 8000 FEW010 BKN026 28/25 Q1011
NOSIG=
METAR ZGKL 010100Z 12002MPS 070V160 5000 -RA BR FEW004 SCT020 OVC033
23/22 Q1010 RETS NOSIG=
METAR ZGNN 010100Z 13002MPS 090V170 CAVOK 29/26 Q1009 NOSIG=
METAR ZGOW 010100Z VRB01MPS 6000 FEW004 BKN050 30/28 Q1012 NOSIG=
METAR ZGSZ 010100Z 16005MPS 9999 SCT020 BKN050 30/27 Q1011 NOSIG=
METAR ZLXY 010100Z VRB01MPS CAVOK 24/14 Q1011 NOSIG=
METAR ZPPP 010100Z 23004MPS CAVOK 20/13 Q1021 NOSIG=
METAR ZSAM 010100Z 21003MPS 190V260 9999 SCT016 BKN040 29/26 Q1012
NOSIG=
METAR ZSHC 010100Z VRB01MPS 8000 NSC 28/22 Q1011 NOSIG=
METAR ZSNJ 010100Z 15002MPS 4000 HZ NSC 27/21 Q1011 NOSIG=
METAR ZSQD 010100Z 19004MPS 160V220 CAVOK 26/11 Q1011 NOSIG=
METAR ZSSS 010100Z 17004MPS 7000 NSC 27/21 Q1011 NOSIG=
METAR ZWWW 010100Z VRB01MPS CAVOK 28/03 Q1014 NOSIG=
METAR ZYTL 010100Z 07002MPS 360V110 CAVOK 24/13 Q1009 NOSIG=
METAR ZYTX 010100Z 29005MPS 260V330 CAVOK 19/10 Q1007 NOSIG=


......................................................................................


Date: 01-Jun-2563

SASB31 VCCC 010110
METAR VCBI 010110Z 15004KT 9999 BKN018 26/26 Q1011 NOSIG=
METAR VRMM 010100Z 22006KT 9999 FEW018 28/24 Q1010 NOSIG=
METAR VCRI 010110Z NIL=


......................................................................................


Date: 01-Jun-2563

SAPA31 KWBC 010100 RRC
METAR
PKWA 010120Z AUTO 09012KT 10SM CLR 31/25 A2991 RMK AO2
T03140254=


......................................................................................


Date: 01-Jun-2563

SAAE31 VDPP 010130
METAR VDPP 010130Z 00000KT 9999 SCT015 32/24 Q1010=


......................................................................................


Date: 01-Jun-2563

SAPA31 KWBC 010100
METAR
AGGG NIL=
AGGH 010100Z 020068KT 9999 FEW020 FEW020CB 31/24 Q1012 RMK CB TO
ENE/ NW=
AGGH 010100Z 020068KT 9999 FEW020 FEW020CB 31/24 Q1012 RMK CB TO
ENE, NW=
ANAU NIL=
AYPY NIL=
PGNT NIL=
PGRO 010050Z 09012KT 7SM SCT015 29/23 A2996=
PGSN 010054Z 09013KT 10SM FEW021 32/24 A2996 RMK AO2 SLP165
T03220239=
PGUA 010056Z 11012KT 10SM SCT017 30/24 A2996 RMK AO2A SLP136
T02970236 PWINO ?=
PGUM 010054Z 09014KT 10SM SCT023 31/23 A2996 RMK AO2 SLP136
T03060233=
PGWT NIL=
PHJH NIL=
PHJR NIL=
PHMK 010054Z AUTO 04013G22KT 10SM SCT030 27/18 A3005 RMK AO2
SLP177 T02670183 TSNO=
PJON NIL=
PKMJ NIL=
PKMR 010051Z 11007KT 20SM SCT016 SCT300 31/26 A2988 RMK SLP119
T03070255=
PKWA 010100Z AUTO 09012KT 10SM SCT020 SCT070 31/26 A2991 RMK AO2
T03140255=
PLCH 010100Z 11008KT 9999 SCT020 30/23 Q1009=
PMDY 010056Z AUTO 19005KT 9SM 27/23 A3007 RMK AO2 SLP182 T02720233
?=
PTKK 010050Z VRB04KT 15SM FEW014 BKN280 30/28 A2986 RMK SLP113
T03030277=
PTKR NIL=
PTPN NIL=
PTRO 010050Z 09011G15KT 15SM BKN016 BKN120 BKN300 31/24 A2989=
PTSA NIL=
PTTP 010050Z 08005KT 12SM -SHRA BKN017TCU OVC120 27/25 A2991 RMK
SHRAB34 TCU ALQDS SLP127 T02720250=
PTYA 010053Z 11007KT 12SM FEW018 SCT300 30/25 A2990 RMK SLP127
T03030250=
PWAK 010058Z AUTO 07008KT 9999 SCT024 SCT300 BKN350 M A3001 RMK
AO2 SLPNO FZRANO ?=


......................................................................................


Date: 01-Jun-2563

SATH31 VTSM 010130
METAR VTSM 010130Z 32004KT 270V360 9999 FEW020 31/25 Q1012 NOSIG=


......................................................................................


Date: 01-Jun-2563

SATH31 VTSP 010130
METAR VTSP 010130Z 09004KT 050V110 9999 FEW020 29/26 Q1011 NOSIG=


......................................................................................


Date: 01-Jun-2563

SATH31 VTBD 010130
METAR VTBD 010130Z 22005KT 9999 FEW020 SCT040 30/25 Q1012 NOSIG=


......................................................................................


Date: 01-Jun-2563

SATH31 VTBS 010130
METAR VTBS 010130Z VRB02KT 9999 FEW020 SCT035 28/24 Q1012 NOSIG=


......................................................................................


Date: 01-Jun-2563

SATH31 VTCC 010130
METAR VTCC 010130Z VRB02KT 9999 FEW035 30/23 Q1012 NOSIG=


......................................................................................


Date: 01-Jun-2563

SATH31 VTSS 010130
METAR VTSS 010130Z VRB02KT 9999 FEW020 26/25 Q1011 NOSIG=


......................................................................................


Date: 01-Jun-2563

SATH31 VTBU 010130
METAR VTBU 010130Z 26004KT 8000 -RA FEW018CB SCT100 28/25 Q1012 NOSIG=


......................................................................................


Date: 01-Jun-2563

SPTH31 VTSB 010131
SPECI VTSB 010131Z VRB02KT 5000 BR BKN002 26/26 Q1012=


......................................................................................


Date: 01-Jun-2563

SAHK31 VHHH 010130
METAR VHHH 010130Z 19009KT 160V220 9999 FEW012 31/26 Q1011 NOSIG=


......................................................................................


Date: 01-Jun-2563

SAIR31 OIII 010130
METAR OIAW 010130Z NIL=
METAR OIFM 010130Z 34004KT CAVOK 16/M00 Q1019 A3009=
METAR OIII 010130Z 31004KT CAVOK 24/M03 Q1013 A2992=
METAR OIKB 010130Z NIL=
METAR OIKK 010130Z NIL=
METAR OIMM 010130Z NIL=
METAR OISS 010130Z NIL=
METAR OITT 010130Z 05006KT CAVOK 15/02 Q1017 A3003=
METAR OIZH 010130Z NIL=


......................................................................................


Date: 01-Jun-2563

SAIR32 OIII 010130
METAR OIAA 010130Z NIL=
METAR OIBK 010130Z 00000KT 0200 FG NSC 28/28 Q1003=
METAR OICC 010130Z NIL=
METAR OIGG 010130Z NIL=
METAR OIIE 010130Z NIL=
METAR OINZ 010130Z NIL=
METAR OITR 010130Z NIL=
METAR OIYY 010130Z 29006KT 9999 FEW045 30/02 Q1015=


......................................................................................


Date: 01-Jun-2563

SAPK31 OPKC 010129
METAR OPGD 010125Z NIL=
METAR OPIS 010125Z 09015KT 5000 VCTS FEW030CB SCT040 BKN100 19/19
Q1010 TEMPO 09015G25KT 3000 TSRA=
METAR OPKC 010125Z 29008KT 6000 BKN020 29/24 Q1007 NOSIG=
METAR OPLA 010125Z 12006KT 4000 FU FEW100 24/20 Q1009 RMK QFE984 RMK
A29.79=
METAR OPNH 010125Z NIL=
METAR OPMT 010125Z NIL=
METAR OPPS 010130Z 23006KT 7000 HZ FEW030TCU SCT035 BKN060 21/17
Q1009=
METAR OPRN 010125Z NIL=
METAR OPSK 010125Z NIL=
METAR OPST 010125Z NIL=


......................................................................................


Date: 01-Jun-2563

SASR31 WSSS 010130
METAR WSSS 010130Z 22004KT 180V270 9999 FEW018TCU BKN300 29/25 Q1013
NOSIG=


......................................................................................


Date: 01-Jun-2563

SAAE31 VTBB 010130
METAR VTBD 010130Z 22005KT 9999 FEW020 SCT040 30/25 Q1012 NOSIG=
METAR VTBS 010130Z VRB02KT 9999 FEW020 SCT035 28/24 Q1012 NOSIG=
METAR VTBU 010130Z 26004KT 8000 -RA FEW018CB SCT100 28/25 Q1012
NOSIG=
METAR VTCC 010130Z VRB02KT 9999 FEW035 30/23 Q1012 NOSIG=
METAR VTCT 010130Z NIL=
METAR VTSG 010130Z NIL=
METAR VTSP 010130Z 09004KT 050V110 9999 FEW020 29/26 Q1011 NOSIG=
METAR VTSS 010130Z VRB02KT 9999 FEW020 26/25 Q1011 NOSIG=


......................................................................................


Date: 01-Jun-2563

SAAE32 VTBB 010130
METAR VDPP 010130Z 00000KT 9999 SCT015 32/24 Q1010=
METAR VDSR 010130Z VRB04KT 9999 SCT015 29/27 Q1011=
METAR VDSV 010130Z 04003KT 9999 SCT015 30/26 Q1012=
METAR VLVT 010130Z 00000KT 7000 SCT013 BKN040 BKN083 24/24 Q1012
NOSIG=
METAR VYMD 010130Z 17005KT 7000 SCT020 FEW120 29/25 Q1010 NOSIG=
METAR VYYY 010130Z 22003KT 7000 FEW018 FEW020CB FEW110 27/26 Q1012=
METAR VYNT 010130Z NIL=


......................................................................................


Date: 01-Jun-2563

SAAE34 VTBB 010130
METAR VVCI 010130Z 21008KT 170V240 CAVOK 32/26 Q1008 NOSIG=
METAR VVCR 010130Z 07005KT 9999 FEW015 33/25 Q1012 NOSIG=
METAR VVCT 010130Z VRB02KT 9999 FEW015 FEW017TCU 31/26 Q1011
NOSIG TCU/SE=
METAR VVNB 010130Z 06005KT 030V090 9999 SCT013 30/26 Q1007 NOSIG=
METAR VVPB 010130Z 12003KT 9999 SCT020 SCT080 30/27 Q1011 NOSIG=
METAR VVPQ 010130Z VRB03KT 9999 FEW017 31/26 Q1011 NOSIG=
METAR VVTS 010130Z VRB02KT 8000 FEW017 SCT050 30/26 Q1011 NOSIG =
METAR VVDN 010130Z VRB02KT 9999 FEW017 34/24 Q1011 NOSIG=


......................................................................................


Date: 01-Jun-2563

SAHK31 VHHH 010130
METAR VHHH 010130Z 19009KT 160V220 9999 FEW012 31/26 Q1011 NOSIG=
METAR RCTP 010130Z 24013KT 9999 FEW015 SCT025 31/27 Q1011 NOSIG
RMK A2987=
METAR RCKH 010130Z 26004KT 230V310 9999 FEW012 SCT020 32/24 Q1012
NOSIG RMK A2990=
METAR RCSS 010130Z 25005KT 190V290 9999 FEW018 33/26 Q1011 NOSIG
RMK A2986=
METAR RCMQ 010130Z 20009KT 9999 FEW010 SCT200 31/23 Q1012 NOSIG
RMK A2991=
METAR RCNN 010130Z 18005KT 9999 FEW014 SCT200 31/25 Q1012 NOSIG
RMK A2990=
METAR RCFN 010130Z 12007KT 070V160 9999 FEW014 SCT020 31/26 Q1012
NOSIG RMK A2991=
METAR VMMC 010130Z 19011KT 9999 FEW015 SCT028 31/28 Q1011 NOSIG=


......................................................................................


Date: 01-Jun-2563

SAIR33 OIII 010100 RRA
METAR OICS 010100Z 00000KT CAVOK 08/M01 Q1018 A3006=


......................................................................................


Date: 01-Jun-2563

SAMS31 WMKK 010130
METAR WBGG 010130Z VRB01KT 9999 FEW002 FEW015CB 27/25 Q1013 NOSIG=
METAR WBKK 010130Z 22005KT 170V260 9999 TS FEW014 FEW017CB 31/27 Q1011 NOSIG=
METAR WBSB 010130Z 22004KT 9999 TS SCT015 FEW016CB BKN140 28/25 Q1012 NOSIG=
METAR WMKK 010130Z 30004KT 220V360 9999 FEW017CB 29/25 Q1013 NOSIG=
METAR WMKP 010130Z 04003KT 340V110 8000 FEW020 29/24 Q1011 NOSIG=
METAR WSSL 010130Z NIL=
METAR WSSS 010130Z 22004KT 180V270 9999 FEW018TCU BKN300 29/25 Q1013 NOSIG=


......................................................................................


Date: 01-Jun-2563

SAIR32 OIII 010100 RRA
METAR OINZ 010100Z 18004KT CAVOK 17/15 Q1013=


......................................................................................


Date: 01-Jun-2563

SAJP51 RJTD 010130
METAR RJAA 010130Z 15008KT 9999 FEW010 SCT015 BKN030 22/18 Q1013
NOSIG=
METAR RJBB 010130Z 31004KT 9999 FEW020 BKN/// 22/17 Q1010 NOSIG=
METAR RJCC 010130Z 17011KT 9999 FEW010 23/08 Q1010=
METAR RJFF 010130Z 33010KT 4000 -SHRA BR FEW005 BKN008 BKN025 21/19
Q1010 TEMPO SHRA BR=
METAR RJGG 010130Z 27007KT 9999 BKN025 22/16 Q1011 NOSIG=
METAR RJTT 010130Z VRB01KT 7000 -RA BR FEW009 SCT013 BKN020 20/18
Q1013 NOSIG=
METAR ROAH 010130Z 35011KT 9999 FEW008 SCT/// 27/25 Q1012=


......................................................................................


Date: 01-Jun-2563

SAMS31 WMKK 010130
METAR WBGG 010130Z NIL=
METAR WBKK 010130Z NIL=
METAR WBSB 010130Z NIL=
METAR WMKK 010130Z NIL=
METAR WMKP 010130Z NIL=
METAR WSSL 010130Z NIL=
METAR WSSS 010130Z 22004KT 180V270 9999 FEW018TCU BKN300 29/25 Q1013
NOSIG=


......................................................................................


Date: 01-Jun-2563

SAUZ31 UTTW 010130
METAR UTFN 010130Z 33008KT 9999 NSC 23/09 Q1010 R28/CLRD70 NOSIG=
METAR UTNN 010130Z 27004KT CAVOK 24/05 Q1009 R33/CLRD60 NOSIG=
METAR UTNU 010130Z 06004KT CAVOK 23/09 Q1008 R31/CLRD70 NOSIG=
METAR UTSA 010130Z 09010KT 9999 NSC 23/07 Q1008 R07/CLRD70 NOSIG=
METAR UTSB 010130Z VRB02KT CAVOK 22/08 Q1007 R01/CLRD70 NOSIG=
METAR UTSK 010130Z 06004KT 020V080 CAVOK 20/09 Q1008 R16/CLRD70=
METAR UTSS 010130Z 15012KT 9999 NSC 23/09 Q1010 R09/CLRD70 NOSIG=
METAR UTST 010130Z 06004KT CAVOK 22/12 Q1009 R88/CLRD70 NOSIG=
METAR UTFA 010130Z NIL=
METAR UTFF 010130Z NIL=
METAR UTTT 010130Z 06010KT CAVOK 25/10 Q1009 R08R/CLRD70 NOSIG=


......................................................................................


Date: 01-Jun-2563

SAAH10 OAKB 010150
METAR OAKB 010150Z VRB03KT CAVOK 19/M01 Q1018 RMK A3007 BLU BLU=


......................................................................................


Date: 01-Jun-2563

SAPA31 KWBC 010100 RRD
METAR
PKWA 010140Z AUTO 09012KT 10SM CLR 32/25 A2990 RMK AO2
T03150253=


......................................................................................


Date: 01-Jun-2563

SPTH31 VTSG 010146
SPECI VTSG 010146Z 05004KT 350V110 5000 BR SCT020 BKN100 27/27 Q1012
BECMG TL0230 8000=


......................................................................................


Date: 01-Jun-2563

SATR31 UTAA 010200
METAR UTAA 010200Z NIL=
METAR UTAK 010200Z NIL=
METAR UTAM 010200Z NIL=
METAR UTAT 010200Z NIL=
METAR UTAV 010200Z NIL=


......................................................................................


Date: 01-Jun-2563

SAIR33 OIII 010000 RRA
METAR OIBP 010000Z 00000KT 2000 BR NSC 27/27 Q1001 A2958=


......................................................................................


Date: 01-Jun-2563

SAIR33 OIII 010100 RRB
METAR OIBP 010100Z 00000KT 2000 BR NSC 26/25 Q1001 A2958=


......................................................................................


Date: 01-Jun-2563

SANP31 VNKT 010150
METAR VNKT 010150Z 21003KT 5000 RA FEW010 FEW025CB SCT030 BKN100
19/18 Q1018 NOSIG CB TO
SE S AND SW=


......................................................................................


Date: 01-Jun-2563

SAMS31 WMKK 010100 CCA
METAR COR WBKK 010100Z VRB03KT 9999 TS FEW014 FEW017CB 30/26 Q1012 NOSIG=


......................................................................................


Date: 01-Jun-2563

SAMS31 WMKK 010130 CCA
METAR COR WBKK 010130Z 22005KT 170V260 9999 TS FEW014 FEW017CB 31/27 Q1011 NOSIG=


......................................................................................


Date: 01-Jun-2563

SAMS32 WMKK 010100 CCA
METAR COR WBKK 010100Z VRB03KT 9999 TS FEW014 FEW017CB 30/26 Q1012 NOSIG=


......................................................................................


Date: 01-Jun-2563

SAAE31 VDPP 010200
METAR VDPP 010200Z VRB03KT 9999 SCT015 31/24 Q1011=


......................................................................................


Date: 01-Jun-2563

SATH31 VTST 010200
METAR VTST 010200Z 00000KT 9999 FEW025 28/25 Q1012 NOSIG=


......................................................................................


Date: 01-Jun-2563

SAIR32 OIII 010100 RRB
METAR OIGG 010100Z 10004KT CAVOK 16/15 Q1012=


......................................................................................


Date: 01-Jun-2563

SATH31 VTPB 010200
METAR VTPB 010200Z 05003KT 9000 FEW015 FEW100 28/25 Q1012 NOSIG=


......................................................................................


Date: 01-Jun-2563

SATH31 VTUW 010200
METAR VTUW 010200Z 12004KT 080V160 9999 SCT010 BKN035 28/26 Q1012
NOSIG=


......................................................................................


Date: 01-Jun-2563

SATH31 VTPB 010200 CCA
METAR COR VTPB 010200Z 05003KT 9000 FEW015 28/25 Q1012 NOSIG=


......................................................................................


Date: 01-Jun-2563

SATH31 VTCP 010200
METAR VTCP 010200Z 22003KT 130V290 9999 FEW020 30/24 Q1012 NOSIG=


......................................................................................


Date: 01-Jun-2563

SATH31 VTPO 010200
METAR VTPO 010200Z 19004KT CAVOK 29/24 Q1011 NOSIG=


......................................................................................


Date: 01-Jun-2563

SATH31 VTCH 010200
METAR VTCH 010200Z VRB02KT 9999 FEW025 30/23 Q1012=


......................................................................................


Date: 01-Jun-2563

SATH31 VTPM 010200
METAR VTPM 010200Z VRB01KT 9999 BKN030 28/22 Q1014 NOSIG=


......................................................................................


Date: 01-Jun-2563

SATH31 VTPP 010200
METAR VTPP 010200Z 18005KT 140V220 9999 FEW030 31/26 Q1012 NOSIG=


......................................................................................


Date: 01-Jun-2563

SATH31 VTSM 010200
METAR VTSM 010200Z 33005KT 290V360 9999 FEW020 32/25 Q1012 NOSIG=


......................................................................................


Date: 01-Jun-2563

SATH31 VTCL 010200
METAR VTCL 010200Z 22005KT 160V260 CAVOK 32/22 Q1012 NOSIG=


......................................................................................


Date: 01-Jun-2563

SATH31 VTSE 010200
METAR VTSE 010200Z VRB02KT CAVOK 32/26 Q1011 NOSIG=


......................................................................................


Date: 01-Jun-2563

SATH31 VTSG 010200
METAR VTSG 010200Z 06004KT 350V110 9000 FEW020 27/26 Q1012 NOSIG=


......................................................................................


Date: 01-Jun-2563

SATH31 VTUI 010200
METAR VTUI 010200Z 27005KT 220V340 9999 FEW030 BKN100 30/25 Q1012
NOSIG=


......................................................................................


Date: 01-Jun-2563

SAOM32 OOMS 010200
METAR OOMS 010150Z 24009KT CAVOK 37/22 Q1003 NOSIG=
METAR OOSA 010200Z NIL=
METAR OOSH 010200Z NIL=
METAR OODQ 010150Z AUTO 22011KT //// R22///// NCD 28/27 Q1007 NOSIG=


......................................................................................


Date: 01-Jun-2563

SASD31 OEJD 010200
METAR OEDF 010200Z 31008KT CAVOK 29/09 Q1003 NOSIG=
METAR OEDR 010200Z NIL=
METAR OEJN 010200Z 34004KT CAVOK 26/17 Q1006 NOSIG=
METAR OEMA 010200Z 00000KT CAVOK 30/00 Q1010 NOSIG=
METAR OERK 010200Z NIL=
METAR OERY 010200Z NIL=
METAR OYAA 010200Z NIL=
METAR OYSN 010200Z NIL=


......................................................................................


Date: 01-Jun-2563

SATH31 VTBD 010200
METAR VTBD 010200Z 17004KT 9999 SCT020 32/26 Q1012 NOSIG=


......................................................................................


Date: 01-Jun-2563

SATH31 VTBS 010200
METAR VTBS 010200Z VRB02KT 9999 FEW020 28/25 Q1012 NOSIG=


......................................................................................


Date: 01-Jun-2563

SATH31 VTBU 010200
METAR VTBU 010200Z VRB02KT 9000 -RA FEW018CB SCT100 29/25 Q1012 NOSIG=


......................................................................................


Date: 01-Jun-2563

SATH31 VTCC 010200
METAR VTCC 010200Z VRB02KT 9999 FEW035 31/22 Q1012 NOSIG=


......................................................................................


Date: 01-Jun-2563

SATH31 VTCT 010200
METAR VTCT 010200Z VRB02KT 9999 SCT030 27/24 Q1013 NOSIG=


......................................................................................


Date: 01-Jun-2563

SATH31 VTPH 010200
METAR VTPH 010200Z VRB01KT 9999 FEW032 31/24 Q1011 NOSIG=


......................................................................................


Date: 01-Jun-2563

SATH31 VTPT 010200
METAR VTPT 010200Z /////KT 9999 FEW026 33/23 Q//// NOSIG=


......................................................................................


Date: 01-Jun-2563

SATH31 VTSB 010200
METAR VTSB 010200Z 20003KT 150V250 9999 SCT004 27/26 Q1012=


......................................................................................


Date: 01-Jun-2563

SATH31 VTSP 010200
METAR VTSP 010200Z 08004KT 050V110 9999 FEW020 30/25 Q1011 NOSIG=


......................................................................................


Date: 01-Jun-2563

SATH31 VTSR 010200
METAR VTSR 010200Z 00000KT 9999 FEW030 31/26 Q1012 NOSIG=


......................................................................................


Date: 01-Jun-2563

SATH31 VTSS 010200
METAR VTSS 010200Z 22003KT 090V260 9999 FEW020 28/26 Q1012 NOSIG=


......................................................................................


Date: 01-Jun-2563

SATH31 VTUD 010200
METAR VTUD 010200Z 06003KT 030V100 9999 FEW020 SCT100 25/24 Q1013
NOSIG=


......................................................................................


Date: 01-Jun-2563

SATH31 VTUK 010200
METAR VTUK 010200Z 24006KT 190V270 9999 SCT030 BKN100 29/24 Q1013
NOSIG=


......................................................................................


Date: 01-Jun-2563

SATH31 VTUO 010200
METAR VTUO 010200Z 22007KT 190V340 9999 FEW030 31/24 Q1013 NOSIG=


......................................................................................


Date: 01-Jun-2563

SATH31 VTUV 010200
METAR VTUV 010200Z 24007KT 200V260 9999 FEW030 30/25 Q1012 NOSIG=


......................................................................................


Date: 01-Jun-2563

SATH31 VTBO 010200
METAR VTBO 010200Z 00000KT 9999 FEW020 BKN100 30/27 Q1012=


......................................................................................


Date: 01-Jun-2563

SATH31 VTCN 010200
METAR VTCN 010200Z VRB01KT 9999 FEW020 30/25 Q1012 NOSIG=


......................................................................................


Date: 01-Jun-2563

SATH31 VTUL 010200
METAR VTUL 010200Z VRB02KT 9999 SCT030 BKN080 27/25 Q1013 NOSIG=


......................................................................................


Date: 01-Jun-2563

SATH31 VTUU 010200
METAR VTUU 010200Z 21004KT 140V280 9999 FEW030 29/25 Q1013 NOSIG =


......................................................................................


Date: 01-Jun-2563

SATH31 VTSC 010200
METAR VTSC 010200Z 20007KT 9999 FEW020 29/24 Q1012 NOSIG =


......................................................................................


Date: 01-Jun-2563

SATH31 VTSF 010200
METAR VTSF 010200Z 00000KT 9999 FEW018 32/26 Q1012 NOSIG=


......................................................................................


Date: 01-Jun-2563

SAIR31 OIII 010200
METAR OIAW 010200Z 31002KT CAVOK 29/05 Q1003=
METAR OIFM 010200Z 32004KT CAVOK 15/M01 Q1019 A3010=
METAR OIII 010200Z 32004KT CAVOK 24/M05 Q1013 A2993 NOSIG=
METAR OIKB 010200Z 00000KT 1500 BR FEW100 29/26 Q1003 A2963=
METAR OIKK 010200Z 22004KT CAVOK 16/M00 Q1019 A3011=
METAR OIMM 010200Z 14004KT CAVOK 21/02 Q1015 A3000=
METAR OISS 010200Z NIL=
METAR OITT 010200Z 05004KT CAVOK 14/02 Q1017 A3005=
METAR OIZH 010200Z 00000KT CAVOK 18/M05 Q1016 A3002=


......................................................................................


Date: 01-Jun-2563

SAIR32 OIII 010200
METAR OIAA 010200Z 35008KT CAVOK 30/07 Q1004=
METAR OIBK 010200Z 00000KT 0600 FG NSC 28/28 Q1003=
METAR OICC 010200Z VRB02KT CAVOK 10/M05 Q1017 A3003=
METAR OIGG 010200Z 00000KT CAVOK 17/17 Q1013=
METAR OIIE 010200Z 28010KT CAVOK 20/01 Q1012=
METAR OINZ 010200Z 16004KT CAVOK 18/16 Q1013=
METAR OITR 010200Z 26004KT CAVOK 11/02 Q1015=
METAR OIYY 010200Z 28006KT 9999 FEW045 SCT100 28/02 Q1016=


......................................................................................


Date: 01-Jun-2563

SAIR33 OIII 010200
METAR OIBB 010200Z 13004KT CAVOK 28/22 Q1002 A2959=
METAR OIBP 010200Z 00000KT 2000 BR NSC 26/25 Q1002 A2959=
METAR OICK 010200Z NIL=
METAR OICS 010200Z 00000KT CAVOK 07/M01 Q1018 A3008=
METAR OIHH 010200Z NIL=
METAR OITL 010200Z NIL=
METAR OIZC 010200Z NIL=


......................................................................................


Date: 01-Jun-2563

SAIR34 OIII 010200
METAR OIAG 010200Z 34006KT CAVOK 30/M01 Q1002=
METAR OIAM 010200Z 34004KT 8000 SCT040 SCT100 27/06 Q1002=
METAR OICI 010200Z 12004KT CAVOK 19/M01 Q1017 A3005=
METAR OIKQ 010200Z 00000KT 3000 BR NSC 27/23 Q1003=
METAR OINN 010200Z 00000KT 9999 SCT025 17/16 Q1013=
METAR OINR 010200Z 22004KT CAVOK 18/14 Q1011=
METAR OISL 010200Z 00000KT CAVOK 23/12 Q1008 NOSIG=
METAR OISY 010200Z 00000KT CAVOK 14/04 Q1022=
METAR OITZ 010200Z NIL=


......................................................................................


Date: 01-Jun-2563

SAIR35 OIII 010200
METAR OIAD 010200Z NIL=
METAR OIBJ 010200Z NIL=
METAR OIBS 010200Z NIL=
METAR OIHR 010200Z NIL=
METAR OIKM 010200Z NIL=
METAR OIKR 010200Z NIL=
METAR OING 010200Z 14004KT CAVOK 17/16 Q1015=
METAR OIZB 010200Z 34019KT CAVOK 29/04 Q1006=
METAR OIZI 010200Z 01004KT 6000 NSC 28/11 Q1008=


......................................................................................


Date: 01-Jun-2563

SAIR36 OIII 010200
METAR OIBA 010200Z NIL=
METAR OIBV 010200Z 00000KT 0800 FG NSC 28/28 Q1002=
METAR OIFS 010200Z 29002KT CAVOK 09/02 Q1023=
METAR OIIP 010200Z 30012KT 5000 HZ NSC 14/10 Q1014 A2994=
METAR OIMB 010200Z 09006KT CAVOK 18/M08 Q1017=
METAR OIMN 010200Z 28006KT 5000 BR FEW009 SCT021 BKN080 18/14
Q1017=
METAR OIMS 010200Z NIL=
METAR OIMT 010200Z AUTO 12004KT //// // ////// 31/00 Q1008=
METAR OIZJ 010200Z 31006KT 5000 HZ NSC 30/24 Q1001=


......................................................................................


Date: 01-Jun-2563

SAIR37 OIII 010200
METAR OIBL 010200Z 00000KT 2000 BR NSC 27/27 Q1003=
METAR OIBQ 010200Z 32006KT CAVOK 29/24 Q1002=
METAR OIIK 010200Z 28002KT CAVOK 12/07 Q1014=
METAR OIMC 010200Z 26010KT CAVOK 24/14 Q1010=
METAR OIMD 010200Z 15008KT CAVOK 26/M04 Q1011=
METAR OIMQ 010200Z 06004KT CAVOK 25/M03 Q1015=
METAR OINE 010200Z 00000KT CAVOK 18/16 Q1013=
METAR OITK 010200Z NIL=
METAR OITM 010200Z 08010KT CAVOK 13/M02 Q1015=


......................................................................................


Date: 01-Jun-2563

SAIR38 OIII 010200
METAR OIAH 010200Z 00000KT CAVOK 27/09 Q1009=
METAR OIBH 010200Z NIL=
METAR OICM 010200Z NIL=
METAR OIIS 010200Z NIL=
METAR OIMJ 010200Z NIL=
METAR OISF 010200Z 00000KT CAVOK 22/05 Q1012 A2989=
METAR OISR 010200Z NIL=
METAR OITP 010200Z 15004KT CAVOK 16/12 Q1012=
METAR OITU 010200Z NIL=


......................................................................................


Date: 01-Jun-2563

SAPK31 OPKC 010159
METAR OPGD 010155Z NIL=
METAR OPIS 010155Z 05012KT 5000 VCTS FEW030CB SCT040 BKN100 20/20
Q1010 TEMPO 09015G25KT 3000 TSRA=
METAR OPKC 010155Z 28006KT 6000 BKN020 30/25 Q1007 NOSIG=
METAR OPLA 010155Z 09006KT 4000 FU SCT100 24/21 Q1010 NOSIG RMK
QFE984 RMK A29.82=
METAR OPNH 010200Z 00000KT 5000M HZ NSC 29/22 Q1004 NOSIG=
METAR OPMT 010200Z 00000KT 4000 FU FEW040 SCT100 27/21 Q1006 NOSIG=
METAR OPPS 010200Z 36010KT 7000 HZ SCT035 BKN090 23/18 Q1010=
METAR OPRN 010155Z NIL=
METAR OPSK 010200Z 13006KT 4000 HZ NSC 29/20 Q1003 NOSIG=
METAR OPST 010155Z NIL=


......................................................................................


Date: 01-Jun-2563

SATH31 VTUQ 010200
METAR VTUQ 010200Z 22007KT 170V270 CAVOK 30/25 Q1013 NOSIG=


......................................................................................


Date: 01-Jun-2563

SATH40 VTBB 010200
METAR VTBD 010200Z 17004KT 9999 SCT020 32/26 Q1012 NOSIG=
METAR VTBS 010200Z VRB02KT 9999 FEW020 28/25 Q1012 NOSIG=
METAR VTBU 010200Z VRB02KT 9000 -RA FEW018CB SCT100 29/25 Q1012
NOSIG=
METAR VTCC 010200Z VRB02KT 9999 FEW035 31/22 Q1012 NOSIG=
METAR VTCT 010200Z VRB02KT 9999 SCT030 27/24 Q1013 NOSIG=
METAR VTSB 010200Z 20003KT 150V250 9999 SCT004 27/26 Q1012=
METAR VTSG 010200Z 06004KT 350V110 9000 FEW020 27/26 Q1012 NOSIG=
METAR VTSP 010200Z 08004KT 050V110 9999 FEW020 30/25 Q1011 NOSIG=
METAR VTSS 010200Z 22003KT 090V260 9999 FEW020 28/26 Q1012 NOSIG=
METAR VTUD 010200Z 06003KT 030V100 9999 FEW020 SCT100 25/24 Q1013
NOSIG=
METAR VTUU 010200Z 21004KT 140V280 9999 FEW030 29/25 Q1013 NOSIG =


......................................................................................


Date: 01-Jun-2563

SAHK31 VHHH 010200
METAR VHHH 010200Z 20011KT 9999 FEW012 32/26 Q1011 NOSIG=


......................................................................................


Date: 01-Jun-2563

SASR31 WSSS 010200
METAR WSSS 010200Z 22005KT 180V270 9999 FEW018TCU SCT060 BKN300 29/24
Q1013 NOSIG=


......................................................................................


Date: 01-Jun-2563

SATR31 UTAA 010200 RRA
METAR UTAK 010200Z 19012KT 9999 SCT010 18/15 Q1011 R16R/CLRD70
TEMPO BKN003=
METAR UTAT 010200Z 27006KT CAVOK 24/09 Q1008 NOSIG=


......................................................................................


Date: 01-Jun-2563

SASD31 OEJD 010200 RRA
METAR OEDR 010200Z 29010KT CAVOK 29/13 Q1002 NOSIG=


......................................................................................


Date: 01-Jun-2563

SAAE31 VTBB 010200
METAR VTBD 010200Z 17004KT 9999 SCT020 32/26 Q1012 NOSIG=
METAR VTBS 010200Z VRB02KT 9999 FEW020 28/25 Q1012 NOSIG=
METAR VTBU 010200Z VRB02KT 9000 -RA FEW018CB SC
T100 29/25 Q1012
NOSIG=
METAR VTCC 010200Z VRB02KT 9999 FEW035 31/22 Q1012 NOSIG=
METAR VTCT 010200Z VRB02KT 9999 SCT030 27/24 Q1013 NOSIG=
METAR VTSG 010200Z 06004KT 350V110 9000 FEW020 27/26 Q1012 NOSIG=
METAR VTSP 010200Z 08004KT 050V110 9999 FEW020 30/25 Q1011 NOSIG=
METAR VTSS 010200Z 22003KT 090V260 9999 FEW020 28/26 Q1012 NOSIG=


......................................................................................


Date: 01-Jun-2563

SAAE32 VTBB 010200
METAR VDPP 010200Z VRB03KT 9999 SCT015 31/24 Q1011=
METAR VDSR 010200Z VRB03KT 9999 SCT015 SCT040 30/26 Q1011=
METAR VDSV 010200Z VRB03KT 9999 SCT015 31/26 Q1012=
METAR VLVT 010200Z 00000KT 7000 SCT040 BKN083 24/24 Q1012 NOSIG=
METAR VYMD 010200Z NIL=
METAR VYYY 010200Z 27003KT 7000 SCT018 FEW020CB FEW110 29/26 Q1012=
METAR VYNT 010200Z NIL=


......................................................................................


Date: 01-Jun-2563

SAAE33 VTBB 010200
METAR VLLB 010200Z NIL=
METAR VLLN 010200Z 14002KT 9000 SCT020 SCT100 26/23 Q1014 NOSIG=
METAR VLPS 010200Z 18006KT 9999 FEW020 FEW050 SCT100 27/24 Q1013
NOSIG=
METAR VLSK 010200Z 18004KT 7000 FEW020 SCT100 31/25 Q1013 NOSIG=


......................................................................................


Date: 01-Jun-2563

SAAE34 VTBB 010200
METAR VVCI 010200Z 17009KT CAVOK 32/26 Q1008 NOSIG=
METAR VVCR 010200Z 07005KT 9999 FEW015 33/25 Q1012 NOSIG=
METAR VVCT 010200Z VRB03KT 9999 FEW015 FEW017TCU 32/26 Q1011
NOSIG TCU/SE=
METAR VVNB 010200Z 10003KT 050V140 9999 FEW014 31/25 Q1008 NOSIG=
METAR VVPB 010200Z 11003KT 9999 FEW020 SCT080 31/26 Q1011 NOSIG=
METAR VVPQ 010200Z VRB03KT 9999 FEW017 31/26 Q1011 NOSIG=
METAR VVTS 010200Z VRB01KT 8000 SCT017 SCT050 31/26 Q1011 NOSIG =
METAR VVDN 010200Z 28002KT 9999 FEW017 34/24 Q1011 NOSIG=


......................................................................................


Date: 01-Jun-2563

SAAU69 AMMC 010200
METAR YSTW 010200Z AUTO 35016KT 9999 // BKN105 19/10 Q1013=
METAR YSWG 010200Z 33010KT 5000 -DZ SCT010 SCT013 BKN030 09/09 Q1008=
METAR YTEF 010200Z AUTO 13017KT 9999 // NCD 21/01 Q1024=
METAR YTNK 010200Z AUTO 11015KT 9999 // NCD 26/05 Q1021=
METAR YTRE 010200Z AUTO 06004KT 9999 // NCD 19/13 Q1010=
METAR YWGT 010200Z AUTO 28009KT 9999 -RA SCT014 BKN046 OVC054 09/08 Q1007=
METAR YWHA 010200Z AUTO 22015KT 9999 // ////// 15/04 Q1021=
METAR YWLM 010158Z AUTO 31015G25KT 9999 // SCT072 BKN085 23/09 Q1008=


......................................................................................


Date: 01-Jun-2563

SAJP51 RJTD 010200 RRA
METAR RJFF 010200Z 34004KT 300V100 8000 -SHRA FEW004 BKN008 BKN010
21/20 Q1010 TEMPO 4000 SHRA BR=
METAR RJFG 010200Z 12004KT 9999 FEW005 SCT020 BKN030 24/22 Q1012=
METAR RJFK 010200Z 09004KT 050V130 9999 FEW004 SCT009 BKN015 22/21
Q1011=
METAR RJFM 010200Z 07004KT 040V120 9999 FEW008 SCT013 BKN018 22/20
Q1011=
METAR RJFO 010200Z 12006KT 9999 FEW006 BKN015 BKN020 20/19 Q1010=
METAR RJFR 010200Z 07011KT 9999 -SHRA FEW007 BKN035 BKN090 21/19
Q1009=
METAR RJFS 010200Z 20003KT 130V270 9999 FEW005 SCT030 BKN045 24/20
Q1009=
METAR RJFT 010200Z 22005KT 9999 VCSH SCT025 BKN030 25/19 Q1010=
METAR RJFU 010200Z 13007KT 9999 FEW015 BKN020 24/21 Q1009=
METAR RJGG 010200Z 27005KT 9999 FEW025 BKN035 22/16 Q1011 BECMG
24005KT=
METAR RJKA 010200Z 13003KT 090V170 9999 FEW010 SCT012 BKN020 25/24
Q1011=
METAR RJKI 010200Z AUTO 29004KT 9999 SCT027 SCT034 BKN037 27/24
Q1011=
METAR RJNK 010200Z VRB04KT 9999 FEW030 SCT150 OVC230 26/16 Q1009=
METAR RJNS 010200Z 03006KT 340V080 9999 FEW004 SCT008 BKN020 20/20
Q1011=
METAR RJNT 010200Z 32005KT 280V360 9999 FEW030 SCT080 BKN140 26/17
Q1009=
METAR RJNW 010200Z 14004KT 090V190 CAVOK 21/15 Q1010=
METAR RJOA 010200Z VRB01KT 9999 -SHRA FEW010 BKN020 BKN/// 20/18
Q1011=
METAR RJOB 010200Z VRB01KT 9999 FEW015 SCT020 BKN040 22/17 Q1011=
METAR RJOC 010200Z 21010KT 9999 FEW025 SCT040 BKN070 26/19 Q1008=
METAR RJOH 010200Z 22005KT 9999 FEW040 BKN050 BKN100 26/17 Q1008=


......................................................................................


Date: 01-Jun-2563

SAJP51 RJTD 010200 RRB
METAR RJOK 010200Z 22008KT 9999 FEW020 SCT050 BKN/// 24/19 Q1011=
METAR RJOM 010200Z 30003KT 270V340 9999 FEW025 BKN060 BKN/// 22/18
Q1010=
METAR RJOO 010200Z 10004KT 040V190 9999 FEW025 SCT060 BKN/// 25/17
Q1010=
METAR RJOR 010200Z 17005KT 130V210 9999 FEW035 SCT060 BKN080 25/17
Q1009=
METAR RJOS 010200Z 10006KT 9999 FEW015 BKN070 BKN/// 22/17 Q1010=
METAR RJOT 010200Z 34004KT 230V040 9999 FEW015 SCT025 BKN/// 23/18
Q1011=
METAR RJOW 010200Z 19008KT 150V210 9999 FEW020 SCT030 BKN040 24/18
Q1009=
METAR RJOY 010200Z 27004KT 210V330 9999 FEW025 BKN/// 27/18 Q1010=
METAR RJSA 010200Z 05006KT 9999 FEW050 BKN/// 23/10 Q1010=
METAR RJSC 010200Z VRB02KT 9999 FEW040 SCT140 BKN/// 25/14 Q1011=
METAR RJSD 010200Z AUTO VRB02KT 9999 NSC 22/16 Q1010=
METAR RJSF 010200Z 18009KT 9999 -SHRA FEW015 BKN020 BKN025 19/19
Q1013=
METAR RJSI 010200Z 17011KT 9999 FEW020 SCT025 BKN/// 23/15 Q1012=
METAR RJSK 010200Z 11006KT 070V150 9999 FEW045 BKN/// 25/12 Q1010=
METAR RJSM 010200Z 11007KT 9999 FEW030 BKN250 22/14 Q1010=
METAR RJSN 010200Z 17008KT 9999 FEW030 SCT050 BKN070 24/12 Q1010=
METAR RJSR 010200Z VRB03KT 9999 FEW040 BKN/// 24/12 Q1010=
METAR RJSS 010200Z 16016KT 9999 FEW020 SCT100 BKN/// 21/14 Q1011=
METAR RJSY 010200Z 25009KT 9999 FEW040 SCT120 BKN130 22/16 Q1010=
METAR RJTF 010200Z VRB02KT 7000 -RA FEW006 SCT010 BKN012 19/18
Q1013=


......................................................................................


Date: 01-Jun-2563

SAJP51 RJTD 010200
METAR RJAA 010200Z 15010KT 9999 FEW010 BKN020 BKN030 22/18 Q1013
NOSIG=
METAR RJAF 010200Z 15009KT 120V180 9999 FEW030 SCT050 BKN120 22/14
Q1012=
METAR RJAH 010200Z 17007KT 140V220 9999 FEW015 BKN020 BKN040 22/16
Q1013=
METAR RJBB 010200Z 32005KT 9999 FEW020 OVC/// 23/17 Q1010 BECMG
34004KT=
METAR RJBD 010200Z 27005KT 220V320 9999 FEW030 BKN/// 23/17 Q1010=
METAR RJBE 010200Z 20004KT 9999 FEW020 BKN/// 22/18 Q1010=
METAR RJBT 010200Z 19009KT 160V230 9999 FEW030 SCT080 BKN/// 25/18
Q1009=
METAR RJCB 010200Z 16009KT 120V190 9999 FEW060 26/08 Q1010=
METAR RJCC 010200Z 18010KT 9999 FEW010 23/10 Q1010=
METAR RJCH 010200Z 17007KT 9999 FEW015 SCT080 16/13 Q1010=
METAR RJCK 010200Z 15011KT 9999 PRFG FEW001 BKN006 13/11 Q1011=
METAR RJCM 010200Z 35009KT CAVOK 24/04 Q1010=
METAR RJCN 010200Z 23007KT 140V310 9999 FEW035 SCT/// 24/12 Q1010=
METAR RJCO 010200Z 11012KT 9999 FEW030 27/10 Q1009=
METAR RJCW 010200Z 22019KT 9999 FEW025 23/07 Q1008=
METAR RJDC 010200Z 08013KT 9999 FEW010 SCT050 BKN090 21/18 Q1009=
METAR RJDT 010200Z VRB03KT 9999 FEW010 BKN/// 23/20 Q1009=
METAR RJEB 010200Z 09008KT 9999 FEW050 21/09 Q1010=
METAR RJEC 010200Z 02005KT 320V110 9999 FEW030 24/11 Q1010=
METAR RJFE 010200Z 01010KT 9999 FEW003 SCT005 BKN007 22/21 Q1010=


......................................................................................


Date: 01-Jun-2563

SAOM32 OOMS 010200 RRA
METAR OOSH 010150Z AUTO VRB03KT //// ////// 35/20 Q1002=


......................................................................................


Date: 01-Jun-2563

SATR31 UTAA 010200
METAR UTAA 010200Z VRB02KT 9999 NSC 24/15 Q1011 R88/CLRD70
NOSIG=
METAR UTAK 010200Z 19012KT 9999 SCT010 18/15 Q1011 R16R/CLRD70 TEMPO
BKN003=
METAR UTAV 010200Z 00000KT CAVOK 25/08 Q1008 R31/CLRD70 NOSIG=
METAR UTAM 010200Z 00000KT CAVOK 23/08 Q1008 R88/CLRD70 NOSIG=
METAR UTAT 010200Z 27006KT CAVOK 24/09 Q1008 NOSIG=


......................................................................................


Date: 01-Jun-2563

SAHK31 VHHH 010200
METAR VHHH 010200Z 20011KT 9999 FEW012 32/26 Q1011 NOSIG=
METAR RCTP 010200Z 24012KT 9999 FEW020 SCT080 32/27 Q1011 NOSIG
RMK A2987=
METAR RCKH 010200Z 25007KT 210V290 9999 FEW012 SCT020 32/24 Q1012
NOSIG RMK A2990=
METAR RCSS 010200Z 27007KT 200V360 9999 FEW020 SCT035 33/26 Q1011
NOSIG RMK A2986=
METAR RCMQ 010200Z 22009KT 9999 FEW016 SCT200 31/23 Q1012 NOSIG
RMK A2991=
METAR RCNN 010200Z 20004KT 9999 FEW014 SCT200 31/25 Q1012 NOSIG
RMK A2990=
METAR RCFN 010200Z 12006KT 070V170 9999 FEW014 31/26 Q1012 NOSIG
RMK A2990=
METAR VMMC 010200Z 19011KT 9999 FEW012 SCT028 31/28 Q1011 NOSIG=
METAR RPLL 010200Z 12007KT 080V190 9999 FEW025 SCT100 33/24 Q1012
NOSIG RMK A2988=
METAR RPVM 010200Z 03008KT 010V070 9999 FEW020TCU 32/24 Q1013 RMK
A2991 TCU SE=
METAR RPMD 010200Z 04004KT 320V080 9999 SCT016 SCT290 31/25 Q1012 RMK
A2988=
METAR RPLB 010200Z 07010KT 9999 FEW020 33/23 Q1013 NOSIG RMK A2991=
METAR RPLI 010200Z 27006KT 9999 FEW018 32/25 Q1012 NOSIG RMK A2988=
METAR RPMZ 010200Z VRB02KT 9000 -SHRA FEW016CB FEW017 BKN090 29/26
Q1012 RMK A2988 CB NW, W, S=


......................................................................................


Date: 01-Jun-2563

SAJP31 RJTD 010200
METAR RJAA 010200Z 15010KT 9999 FEW010 BKN020 BKN030 22/18 Q1013
NOSIG=
METAR RJBB 010200Z 32005KT 9999 FEW020 OVC/// 23/17 Q1010 BECMG
34004KT=
METAR RJTT 010200Z 34004KT 9999 -RA FEW010 SCT013 BKN030 20/19 Q1013
NOSIG=
METAR RJOO 010200Z 10004KT 040V190 9999 FEW025 SCT060 BKN/// 25/17
Q1010=
METAR ROAH 010200Z 36010KT 9999 FEW009 SCT/// 27/25 Q1012=
METAR RJGG 010200Z 27005KT 9999 FEW025 BKN035 22/16 Q1011 BECMG
24005KT=
METAR RJCH 010200Z 17007KT 9999 FEW015 SCT080 16/13 Q1010=
METAR RJSS 010200Z 16016KT 9999 FEW020 SCT100 BKN/// 21/14 Q1011=


......................................................................................


Date: 01-Jun-2563

SAJP32 RJTD 010200 RRA
METAR RJFO 010200Z 12006KT 9999 FEW006 BKN015 BKN020 20/19 Q1010=
METAR RJNT 010200Z 32005KT 280V360 9999 FEW030 SCT080 BKN140 26/17
Q1009=


......................................................................................


Date: 01-Jun-2563

SAJP32 RJTD 010200
METAR RJFF 010200Z 34004KT 300V100 8000 -SHRA FEW004 BKN008 BKN010
21/20 Q1010 TEMPO 4000 SHRA BR=
METAR RJCC 010200Z 18010KT 9999 FEW010 23/10 Q1010=
METAR RJFK 010200Z 09004KT 050V130 9999 FEW004 SCT009 BKN015 22/21
Q1011=
METAR RJSN 010200Z 17008KT 9999 FEW030 SCT050 BKN070 24/12 Q1010=
METAR RJFT 010200Z 22005KT 9999 VCSH SCT025 BKN030 25/19 Q1010=
METAR RJFU 010200Z 13007KT 9999 FEW015 BKN020 24/21 Q1009=
METAR RJNK 010200Z VRB04KT 9999 FEW030 SCT150 OVC230 26/16 Q1009=
METAR RJOA 010200Z VRB01KT 9999 -SHRA FEW010 BKN020 BKN/// 20/18
Q1011=
METAR RJOB 010200Z VRB01KT 9999 FEW015 SCT020 BKN040 22/17 Q1011=
METAR RJOT 010200Z 34004KT 230V040 9999 FEW015 SCT025 BKN/// 23/18
Q1011=


......................................................................................


Date: 01-Jun-2563

SAJP38 RJTD 010200 RRA
METAR RJCK 010200Z 15011KT 9999 PRFG FEW001 BKN006 13/11 Q1011=
METAR RJCM 010200Z 35009KT CAVOK 24/04 Q1010=
METAR RJCB 010200Z 16009KT 120V190 9999 FEW060 26/08 Q1010=
METAR RJOC 010200Z 21010KT 9999 FEW025 SCT040 BKN070 26/19 Q1008=
METAR RJOH 010200Z 22005KT 9999 FEW040 BKN050 BKN100 26/17 Q1008=
METAR ROIG 010200Z 21009KT 9999 -SHRA FEW011 BKN022 28/28 Q1011=
METAR RJFS 010200Z 20003KT 130V270 9999 FEW005 SCT030 BKN045 24/20
Q1009=
METAR RJSI 010200Z 17011KT 9999 FEW020 SCT025 BKN/// 23/15 Q1012=


......................................................................................


Date: 01-Jun-2563

SAJP38 RJTD 010200
METAR RJNS 010200Z 03006KT 340V080 9999 FEW004 SCT008 BKN020 20/20
Q1011=
METAR RJSA 010200Z 05006KT 9999 FEW050 BKN/// 23/10 Q1010=
METAR RJSF 010200Z 18009KT 9999 -SHRA FEW015 BKN020 BKN025 19/19
Q1013=
METAR RJOM 010200Z 30003KT 270V340 9999 FEW025 BKN060 BKN/// 22/18
Q1010=
METAR RJOK 010200Z 22008KT 9999 FEW020 SCT050 BKN/// 24/19 Q1011=
METAR RJFM 010200Z 07004KT 040V120 9999 FEW008 SCT013 BKN018 22/20
Q1011=
METAR RJEC 010200Z 02005KT 320V110 9999 FEW030 24/11 Q1010=
METAR RJFR 010200Z 07011KT 9999 -SHRA FEW007 BKN035 BKN090 21/19
Q1009=
METAR RJSK 010200Z 11006KT 070V150 9999 FEW045 BKN/// 25/12 Q1010=
METAR RJAH 010200Z 17007KT 140V220 9999 FEW015 BKN020 BKN040 22/16
Q1013=


......................................................................................


Date: 01-Jun-2563

SAJP51 RJTD 010200 RRC
METAR RJTI 010200Z VRB02KT 9999 -SHRA FEW008 SCT015 BKN025 21/19
Q1013=
METAR RJTO 010200Z 04009KT 9999 -SHRA FEW001 SCT008 BKN011 20/19
Q1012=
METAR RJTT 010200Z 34004KT 9999 -RA FEW010 SCT013 BKN030 20/19 Q1013
NOSIG=
METAR ROAH 010200Z 36010KT 9999 FEW009 SCT/// 27/25 Q1012=
METAR ROIG 010200Z 21009KT 9999 -SHRA FEW011 BKN022 28/28 Q1011=
METAR ROMD 010200Z AUTO 22015KT 9999 BKN007 BKN009 29/25 Q1013=
METAR ROMY 010200Z 21011KT 9999 SCT011 BKN050 30/27 Q1012=
METAR RORK 010200Z AUTO 22013KT 9999 NCD 29/25 Q1013=
METAR RORS 010200Z 20008KT 180V250 9999 FEW010 BKN060 29/28 Q1012=
METAR RORY 010200Z AUTO 35006KT 9999 OVC015 26/24 Q1012=
METAR ROYN 010200Z AUTO 05007KT 9999 SCT022 29/26 Q1011=


......................................................................................


Date: 01-Jun-2563

SAMS31 WMKK 010200
METAR WBGG 010200Z 14004KT 080V190 9999 FEW003 FEW015CB 28/25 Q1013 NOSIG=
METAR WBKK 010200Z 23006KT 190V290 9999 TS FEW014 FEW016CB 31/27 Q1012 NOSIG=
METAR WBSB 010200Z 24003KT 9999 TS SCT015 FEW016CB BKN140 28/25 Q1013 NOSIG=
METAR WMKK 010200Z NIL=
METAR WMKP 010200Z VRB03KT 8000 FEW020 30/25 Q1012 NOSIG=
METAR WSSL 010200Z 20009KT 160V230 9999 SCT017TCU FEW018CB BKN300 29/25 Q1013=
METAR WSSS 010200Z 22005KT 180V270 9999 FEW018TCU SCT060 BKN300 29/24 Q1013 NOSIG=


......................................................................................


Date: 01-Jun-2563

SAOM32 OOMS 010200 RRB
METAR OOSA 010150Z 10007KT 7000 SCT012 OVC025 28/26 Q1006 NOSIG=


......................................................................................


Date: 01-Jun-2563

SAPA31 KWBC 010200
METAR
AGGG NIL=
AGGH 010200Z 36008KT 9999 FEW020 FEW020CB 31/24 Q1011 RMK CB TO
ENE/NW=
AGGH 010200Z 36008KT 9999 FEW020 FEW020CB 31/24 Q1011 RMK CB TO
ENE,NW=
ANAU NIL=
AYPY NIL=
PGNT NIL=
PGRO 010150Z 10013KT 7SM SCT015 30/23 A2992=
PGSN 010154Z 09013G21KT 10SM FEW028 FEW038 SCT070 32/23 A2995 RMK
AO2 SLP161 T03220233=
PGUA 010156Z 12014KT 10SM FEW018 SCT023 30/24 A2995 RMK AO2A
SLP132 T02990238 PWINO $=
PGUM 010154Z 08014KT 10SM FEW024 31/24 A2995 RMK AO2 SLP132
T03110239=
PGWT 010157Z 11012KT 7SM SCT016 32/22 A2994=
PHJH NIL=
PHJR NIL=
PHMK 010154Z AUTO 05018G23KT 10SM CLR 27/18 A3004 RMK AO2 SLP172
T02670183 TSNO=
PJON NIL=
PKMJ NIL=
PKMR 010154Z 11007KT 15SM FEW014 SCT050 BKN300 29/25 A2985 RMK
SLP110 T02940253=
PKWA 010200Z AUTO 08010KT 10SM CLR 31/25 A2989 RMK AO2
T03140252=
PLCH 010200Z 13007KT 9999 SCT020 29/22 Q1009=
PMDY 010156Z AUTO 20007KT 8SM 28/23 A3006 RMK AO2 SLP178 T02780233
$=
PTKK 010153Z VRB06KT 15SM FEW014 SCT120 BKN280 29/27 A2984 RMK
SLP108 T02900266=
PTKR NIL=
PTPN NIL=
PTRO 010150Z 08007KT 15SM SCT016 BKN120 BKN300 31/24 A2989=
PTSA NIL=
PTTP 010151Z 11007KT 15SM BKN018TCU OVC300 28/25 A2989 RMK SHRAE20
TCU ALQDS SLP122 T02780248=
PTYA 010153Z VRB06KT 12SM FEW019 SCT300 31/25 A2989 RMK SLP122
T03110252=
PWAK 010158Z AUTO 05006KT 9999 FEW022 SCT260 SCT320 M A2999 RMK
AO2 SLPNO FZRANO $=


......................................................................................


Date: 01-Jun-2563

SAAU31 AMMC 010200
METAR YBAS 010200Z AUTO 13009KT 9999 // NCD 18/M01 Q1025=
METAR YBBN 010200Z 03009KT 9999 FEW025 BKN270 22/16 Q1016=
METAR YBCS 010200Z AUTO 12007KT 9999 // SCT026 SCT031 BKN037 27/20 Q1016
NOSIG=
METAR YBTL 010200Z 05009KT 9999 FEW028 26/20 Q1017=
METAR YMML 010200Z 28018KT 9999 -SHRA SCT022 BKN052 BKN100 10/05 Q1006=
METAR YPAD 010200Z 23018KT 9999 FEW027 SCT058 13/07 Q1019
NOSIG=
METAR YPCC 010200Z 12012KT 9999 VCSH FEW014 BKN030 25/24 Q1015=
METAR YPDN 010200Z 07005KT 040V130 9999 FEW038 31/20 Q1015
NOSIG=
METAR YPKU 010200Z AUTO 15012KT 9999 // NCD 31/02 Q1017=
METAR YPLM 010200Z AUTO 09007KT 9999 // SCT082 22/08 Q1021=
METAR YPPH 010200Z 07008KT 9999 BKN044 16/12 Q1028
NOSIG=
METAR YPTN 010200Z AUTO 09012KT 9999 // NCD 33/10 Q1016=
METAR YPXM 010200Z AUTO 08011KT 9999 -RA SCT011 BKN013 BKN018 25/24 Q1016=
METAR YSSY 010200Z 34018KT CAVOK 22/05 Q1006
FM0200 MOD TURB BLW 5000FT=


......................................................................................


Date: 01-Jun-2563

SAAU32 AMMC 010200
METAR YAMB 010200Z AUTO 32008KT 290V350 9999 // OVC080 23/15 Q1015=
METAR YBCG 010200Z AUTO 32013KT 9999 // NCD 23/13 Q1015=
METAR YBHM 010200Z AUTO 15009KT 9999 // NCD 23/20 Q1017=
METAR YBMA 010200Z AUTO 17016KT 9999 // NCD 26/01 Q1020=
METAR YBRK 010200Z AUTO 02007KT 9999 // NCD 26/13 Q1017=
METAR YBRM 010200Z AUTO 12015KT 9999 // NCD 26/07 Q1019=
METAR YCIN 010200Z AUTO 13014KT 9999 // NCD 27/08 Q1018=
METAR YFRT 010200Z AUTO 19008KT 9999 // BKN019 BKN025 16/11 Q1027=
METAR YMAV 010200Z AUTO 29023G33KT 9999 // BKN017 BKN024 11/08 Q1005=
METAR YMHB 010200Z 34006KT 9999 FEW035 SCT280 14/06 Q1002=
METAR YMLT 010200Z AUTO 36011KT 9999 // SCT012 BKN018 BKN025 13/09 Q1002=
METAR YPEA 010200Z AUTO 08008KT 9999 // OVC040 17/12 Q1028=
METAR YPGV 010200Z 14011KT CAVOK 30/18 Q1015=
METAR YPKG 010200Z AUTO 11006KT 9999 // NCD 15/10 Q1029=
METAR YPPD 010200Z AUTO 13015KT 9999 // NCD 24/02 Q1022=
METAR YSCB 010200Z AUTO 32020KT 9999 // BKN035 BKN041 OVC125 11/05 Q1007
TEMPO 0200/0400 3000 SHRA BKN008=
METAR YSDU 010200Z AUTO 29015KT 9999 // NCD 17/05 Q1011=
METAR YSNF 010200Z 26011KT 9999 SCT029 20/13 Q1019=
METAR YSRI 010200Z AUTO 36012KT 9999 // NCD 22/08 Q1006=
METAR YWLM 010200Z AUTO 31016KT 9999 // SCT072 BKN085 22/10 Q1008=


......................................................................................


Date: 01-Jun-2563

SAAU60 AMMC 010200 CCA
METAR YBBN 010200Z 03009KT 9999 FEW025 BKN270 22/16 Q1016
NOSIG=


......................................................................................


Date: 01-Jun-2563

SAAU60 AMMC 010200
METAR YABA 010200Z AUTO 33007KT 9999 // SCT021 16/13 Q1028=
METAR YAMB 010200Z AUTO 32008KT 290V350 9999 // OVC080 23/15 Q1015=
METAR YARG 010200Z AUTO /////KT 9999 // NCD 31/09 Q1019=
METAR YAYE 010200Z AUTO 14008KT 9999 // NCD 18/04 Q1026=
METAR YBAS 010200Z AUTO 13009KT 9999 // NCD 18/M01 Q1025=
METAR YBBN 010200Z 03009KT 9999 FEW025 BKN270 22/16 Q1016=
METAR YBCG 010200Z AUTO 32013KT 9999 // NCD 23/13 Q1015=
METAR YBCS 010200Z AUTO 12007KT 9999 // SCT026 SCT031 BKN037 27/20 Q1016
NOSIG=
METAR YBCV 010200Z AUTO 25008KT 9999 // NCD 20/03 Q1018=
METAR YBDV 010200Z AUTO 22015KT //// // ////// 21/02 Q1021=


......................................................................................


Date: 01-Jun-2563

SAAU65 AMMC 010200
METAR YLRE 010200Z AUTO 20012KT 9999 // NCD 25/04 Q1018=
METAR YMAV 010200Z AUTO 29023G33KT 9999 // BKN017 BKN024 11/08 Q1005=
METAR YMAY 010200Z AUTO 28012KT 9999 // SCT006 BKN012 BKN016 10/09 Q1007=
METAR YMDG 010200Z AUTO 32015KT 9999 // SCT047 SCT057 BKN083 17/06 Q1010=
METAR YMEK 010200Z AUTO 07010KT 9999 // NCD 16/06 Q1028=
METAR YMEN 010200Z AUTO 27016KT 9999 // BKN026 OVC052 10/07 Q1005=
METAR YMER 010200Z AUTO 00000KT 9999 // NCD 16/09 Q1004=
METAR YMIA 010200Z AUTO 25012KT 9999 // BKN039 OVC049 OVC076 12/03 Q1016=
METAR YMML 010200Z 28018KT 9999 -SHRA SCT022 BKN052 BKN100 10/05 Q1006=
METAR YMOR 010200Z AUTO 29014KT 9999 // BKN120 22/07 Q1014=


......................................................................................


Date: 01-Jun-2563

SAAU69 AMMC 010200 CCA
METAR YWLM 010200Z AUTO 31016KT 9999 // SCT072 BKN085 22/10 Q1008=


......................................................................................


Date: 01-Jun-2563

SAJP35 RJTD 010200
METAR RJAA 010200Z 15010KT 9999 FEW010 BKN020 BKN030 22/18 Q1013
NOSIG=
METAR RJBB 010200Z 32005KT 9999 FEW020 OVC/// 23/17 Q1010 BECMG
34004KT=
METAR RJTT 010200Z 34004KT 9999 -RA FEW010 SCT013 BKN030 20/19 Q1013
NOSIG=
METAR RJOO 010200Z 10004KT 040V190 9999 FEW025 SCT060 BKN/// 25/17
Q1010=
METAR RJGG 010200Z 27005KT 9999 FEW025 BKN035 22/16 Q1011 BECMG
24005KT=
METAR RJSN 010200Z 17008KT 9999 FEW030 SCT050 BKN070 24/12 Q1010=
METAR RJCH 010200Z 17007KT 9999 FEW015 SCT080 16/13 Q1010=
METAR RJSA 010200Z 05006KT 9999 FEW050 BKN/// 23/10 Q1010=
METAR RJSF 010200Z 18009KT 9999 -SHRA FEW015 BKN020 BKN025 19/19
Q1013=
METAR RJSI 010200Z 17011KT 9999 FEW020 SCT025 BKN/// 23/15 Q1012=


......................................................................................


Date: 01-Jun-2563

SAJP37 RJTD 010200 RRA
METAR RJFR 010200Z 07011KT 9999 -SHRA FEW007 BKN035 BKN090 21/19
Q1009=


......................................................................................


Date: 01-Jun-2563

SAJP37 RJTD 010200
METAR RJAA 010200Z 15010KT 9999 FEW010 BKN020 BKN030 22/18 Q1013
NOSIG=
METAR RJBB 010200Z 32005KT 9999 FEW020 OVC/// 23/17 Q1010 BECMG
34004KT=
METAR RJTT 010200Z 34004KT 9999 -RA FEW010 SCT013 BKN030 20/19 Q1013
NOSIG=
METAR RJOO 010200Z 10004KT 040V190 9999 FEW025 SCT060 BKN/// 25/17
Q1010=
METAR RJFF 010200Z 34004KT 300V100 8000 -SHRA FEW004 BKN008 BKN010
21/20 Q1010 TEMPO 4000 SHRA BR=
METAR RJGG 010200Z 27005KT 9999 FEW025 BKN035 22/16 Q1011 BECMG
24005KT=
METAR RJFK 010200Z 09004KT 050V130 9999 FEW004 SCT009 BKN015 22/21
Q1011=
METAR RJFU 010200Z 13007KT 9999 FEW015 BKN020 24/21 Q1009=
METAR RJCH 010200Z 17007KT 9999 FEW015 SCT080 16/13 Q1010=
METAR RJNS 010200Z 03006KT 340V080 9999 FEW004 SCT008 BKN020 20/20
Q1011=


......................................................................................


Date: 01-Jun-2563

SASD20 OEJD 010200
METAR OEAB 010200Z 00000KT CAVOK 19/08 Q1023 NOSIG=
METAR OEAH 010200Z 33003KT CAVOK 30/04 Q1005 NOSIG=
METAR OEAO 010200Z NIL=
METAR OEAR 010200Z NIL=
METAR OEBA 010200Z 33009KT 9999 FEW030 25/03 Q1019 NOSIG=
METAR OEBH 010200Z 29003KT CAVOK 26/03 Q1014 NOSIG=
METAR OEDF 010200Z 31008KT CAVOK 29/09 Q1003 NOSIG=
METAR OEDM 010200Z NIL=
METAR OEDR 010200Z 29010KT CAVOK 29/13 Q1002 NOSIG=
METAR OEGN 010200Z 00000KT 9000 SCT030 30/25 Q1006 NOSIG=
METAR OEGS 010200Z 27007KT CAVOK 26/08 Q1010=
METAR OEGT 010200Z 26012KT CAVOK 17/04 Q1012 NOSIG=
METAR OEHL 010200Z 00000KT CAVOK 26/00 Q1012 NOSIG=
METAR OEJB 010200Z NIL=
METAR OEJN 010200Z 34004KT CAVOK 26/17 Q1006 NOSIG=
METAR OEKJ 010200Z 29006KT CAVOK 29/01 Q1011=
METAR OEKK 010200Z NIL=


......................................................................................


Date: 01-Jun-2563

SASD21 OEJD 010200
METAR OEKM 010200Z 00000KT CAVOK 21/10 Q1022 NOSIG=
METAR OEMA 010200Z 00000KT CAVOK 30/00 Q1010 NOSIG=
METAR OEMK 010200Z NIL=
METAR OENG 010200Z 03004KT CAVOK 23/08 Q1015 NOSIG=
METAR OEPA 010200Z 02004KT CAVOK 28/07 Q1008 NOSIG=
METAR OERF 010200Z 08011KT CAVOK 30/00 Q1008=
METAR OERK 010200Z 16002KT CAVOK 26/08 Q1010 NOSIG=
METAR OERR 010200Z 07008KT CAVOK 23/M01 Q1009=
METAR OERY 010200Z NIL=
METAR OESH 010200Z 08008KT 4000 DU NSC 27/07 Q1010 NOSIG=
METAR OESK 010200Z 07006KT CAVOK 25/M01 Q1012=
METAR OETB 010200Z 13015KT CAVOK 22/04 Q1012 NOSIG=
METAR OETF 010200Z 25004KT CAVOK 24/01 Q1019 NOSIG=
METAR OETR 010200Z 04010KT CAVOK 19/08 Q1013=
METAR OEWD 010200Z 09009KT CAVOK 28/13 Q1009 NOSIG=
METAR OEWJ 010200Z 05004KT 8000 NSC 22/21 Q1007 NOSIG=
METAR OEYN 010200Z 28018KT CAVOK 24/20 Q1004 NOSIG=


......................................................................................


Date: 01-Jun-2563

SAAU31 AMMC 010200 CCA
METAR YMML 010200Z 28018KT 9999 -SHRA SCT022 BKN052 BKN100 10/05 Q1006
FM0200 MOD TURB BLW 5000FT=


......................................................................................


Date: 01-Jun-2563

SAAU65 AMMC 010200 CCA
METAR YMML 010200Z 28018KT 9999 -SHRA SCT022 BKN052 BKN100 10/05 Q1006
FM0200 MOD TURB BLW 5000FT=


......................................................................................


Date: 01-Jun-2563

SAMS31 WMKK 010200 RRA
METAR WMKK 010200Z 31004KT 240V010 9999 FEW017CB 29/25 Q1013 NOSIG=


......................................................................................


Date: 01-Jun-2563

SAMS32 WMKK 010200
NIL


......................................................................................


Date: 01-Jun-2563

SAMS34 WMKK 010200
NIL


......................................................................................


Date: 01-Jun-2563

SASD31 OEJD 010200 RRB
METAR OERK 010200Z 16002KT CAVOK 26/08 Q1010 NOSIG=


......................................................................................


Date: 01-Jun-2563

SAAE33 VTBB 010200 RRA
METAR VLLB 010200Z 27002KT 9999 SCT010 SCT060 BKN080 28/24 Q1012
NOSIG=


......................................................................................


Date: 01-Jun-2563

SAMS31 WMKK 010200
METAR WBGG 010200Z NIL=
METAR WBKK 010200Z NIL=
METAR WBSB 010200Z NIL=
METAR WMKK 010200Z NIL=
METAR WMKP 010200Z NIL=
METAR WSSL 010200Z 20009KT 160V230 9999 SCT017TCU FEW018CB BKN300
29/25 Q1013=
METAR WSSS 010200Z 22005KT 180V270 9999 FEW018TCU SCT060 BKN300 29/24
Q1013 NOSIG=


......................................................................................


Date: 01-Jun-2563

SAMS33 WMKK 010200
NIL


......................................................................................


Date: 01-Jun-2563

SAAU32 AMMC 010200 CCA
METAR YWLM 010200Z 31016KT CAVOK 22/10 Q1008=


......................................................................................


Date: 01-Jun-2563

SAAU69 AMMC 010200 CCB
METAR YWLM 010200Z 31016KT CAVOK 22/10 Q1008=


......................................................................................


Date: 01-Jun-2563

SAMS32 WMKK 010200 RRA
METAR WMKK 010200Z 31004KT 240V010 9999 FEW017CB 29/25 Q1013 NOSIG=


......................................................................................


Date: 01-Jun-2563

SAAU32 AMMC 010200 CCB
METAR YWLM 010200Z 31016KT CAVOK 22/10 Q1008
NOSIG=


......................................................................................


Date: 01-Jun-2563

SAAU69 AMMC 010200 CCC
METAR YWLM 010200Z 31016KT CAVOK 22/10 Q1008
NOSIG=


......................................................................................


Date: 01-Jun-2563

SAMS38 WMKK 010200
METAR WBGB 010200Z VRB02KT 5000 RA FEW003 SCT014 OVC140 25/24 Q1013
RETS=
METAR WBGR 010200Z 18006KT 6000 -RA SCT014 FEW015CB OVC140 25/25
Q1013=
METAR WBGS 010200Z VRB02KT 9999 SCT016 BKN150 26/25 Q1013 RERA=
METAR COR WBKL 010200Z 00000KT 9999 TS FEW010 FEW016CB SCT120 BKN260
26/26 Q1012 RETSRA=
METAR WBKS 010200Z VRB03KT 9999 SCT017 31/24 Q1011=
METAR WBKW 010200Z 20005KT 100V240 9999 FEW016CB 30/26 Q1012=
METAR WMKD 010200Z VRB02KT 9999 FEW020 30/26 Q1012 NOSIG=
METAR WMKL 010200Z VRB02KT 9999 FEW022 29/27 Q1012=
METAR WMKM 010200Z VRB03KT 9999 -RA FEW017CB 27/25 Q1014=


......................................................................................


Date: 01-Jun-2563

SAUZ31 UTTW 010200
METAR UTFN 010200Z 35004KT 9999 NSC 25/10 Q1010 R28/CLRD70 NOSIG=
METAR UTNN 010200Z VRB02KT CAVOK 26/07 Q1009 R33/CLRD60 NOSIG=
METAR UTNU 010200Z 05002KT CAVOK 25/10 Q1008 R31/CLRD70 NOSIG=
METAR UTSA 010200Z 09012KT 9999 NSC 25/07 Q1008 R07/CLRD70 NOSIG=
METAR UTSB 010200Z VRB02KT CAVOK 24/10 Q1007 R01/CLRD70 NOSIG=
METAR UTSK 010200Z 07004KT CAVOK 22/10 Q1009 R16/CLRD70=
METAR UTSS 010200Z 15012KT 9999 NSC 24/10 Q1010 R09/CLRD70 NOSIG=
METAR UTST 010200Z 05006KT CAVOK 24/11 Q1009 R88/CLRD70 NOSIG=
METAR UTFA 010200Z NIL=
METAR UTFF 010200Z 14004KT 9999 NSC 25/06 Q1010 R99/CLRD70=
METAR UTTT 010200Z 06010KT CAVOK 26/10 Q1009 R08R/CLRD70 NOSIG=


......................................................................................


Date: 01-Jun-2563

SAAR20 OEJD 010200
METAR OBBI 010200Z 29012KT CAVOK 32/21 Q1003 NOSIG=
METAR OKBK 010200Z 36011KT CAVOK 32/05 Q1004 NOSIG=
METAR OMAA 010200Z 19007KT 7000 NSC 34/20 Q1004 TEMPO 4000 DU=
METAR OMAD 010200Z 18008KT 150V220 8000 NSC 34/20 Q1004 TEMPO 4000
DU=
METAR OMAL 010200Z 17014KT 8000 NSC 32/20 Q1008 NOSIG=
METAR OMDB 010200Z 25004KT 220V280 CAVOK 34/21 Q1004 NOSIG=
METAR OMFJ 010200Z 20001KT 7000 NSC 33/26 Q1003 RMK A2964=
METAR OMRK 010200Z 17003KT 8000 NSC 31/18 Q1004 A2967=
METAR OMSJ 010200Z 23005KT CAVOK 33/20 Q1004 NOSIG=
METAR OOMS 010150Z 24009KT CAVOK 37/22 Q1003 NOSIG=
METAR OOSA 010150Z 10007KT 7000 SCT012 OVC025 28/26 Q1006 NOSIG=
METAR OOSH 010150Z AUTO VRB03KT //// ////// 35/20 Q1002=
METAR OODQ 010150Z AUTO 22011KT //// R22///// NCD 28/27 Q1007 NOSIG
RMK RH94? 0=
METAR OTBD 010200Z AUTO 22003KT 150V310 CAVOK 30/23 Q1003 NOSIG=
METAR OTBH 010200Z NIL=
METAR OTHH 010200Z AUTO 21002KT CAVOK 29/21 Q1003 NOSIG=
METAR OYAA 010200Z NIL=
METAR OYSN 010200Z NIL=


......................................................................................


Date: 01-Jun-2563

SAAU31 AMMC 010200 CCB
METAR YPTN 010200Z 09012KT CAVOK 33/10 Q1016
NOSIG=


......................................................................................


Date: 01-Jun-2563

SASD21 OEJD 010200 CCA
METAR OERK 010200Z 00000KT CAVOK 26/07 Q1011 NOSIG=


......................................................................................


Date: 01-Jun-2563

SASD31 OEJD 010200 CCA
METAR OERK 010200Z 00000KT CAVOK 26/07 Q1011 NOSIG=


......................................................................................


Date: 01-Jun-2563

SAAU31 AMMC 010200
METAR YBBN 010200Z 03009KT 9999 FEW025 BKN270 22/16 Q1016
NOSIG=


......................................................................................


Date: 01-Jun-2563

SAAU61 AMMC 010200
METAR YBHI 010200Z AUTO 23020KT 9999 // SCT039 13/01 Q1018=
METAR YBHM 010200Z AUTO 15009KT 9999 // NCD 23/20 Q1017=
METAR YBLN 010200Z AUTO 13003KT //// // ////// 16/15 Q1028=
METAR YBMA 010200Z AUTO 17016KT 9999 // NCD 26/01 Q1020=
METAR YBMK 010200Z AUTO 09007KT 9999 // NCD 24/18 Q1017=
METAR YBNA 010200Z AUTO 33011KT 9999 // NCD 24/15 Q1014=
METAR YBOK 010200Z AUTO 31016KT 9999 // SCT042 22/11 Q1016=
METAR YBPN 010200Z AUTO 10005KT 080V150 9999 // SCT042 SCT048 24/17 Q1017=
METAR YBRK 010200Z AUTO 02007KT 9999 // NCD 26/13 Q1017=
METAR YBRM 010200Z AUTO 12015KT 9999 // NCD 26/07 Q1019=


......................................................................................


Date: 01-Jun-2563

SAAU62 AMMC 010200
METAR YBTL 010200Z 05009KT 9999 FEW028 26/20 Q1017=
METAR YBUD 010200Z AUTO 04005KT 010V180 9999 // SCT024 22/16 Q1017=
METAR YBWP 010200Z AUTO 14009KT 9999 // NCD 30/19 Q1014=
METAR YBWX 010200Z AUTO 08022KT //// // ////// 23/14 Q1020=
METAR YCAS 010200Z AUTO 33012KT //// // ////// 25/13 Q1014=
METAR YCBA 010205Z AUTO 25015KT 9999 // BKN039 BKN068 14/05 Q1014=
METAR YCBB 010200Z AUTO 32014KT 9999 // SCT073 SCT093 17/04 Q1012=
METAR YCBP 010200Z AUTO 21013KT 9999 // BKN029 BKN034 16/09 Q1024=
METAR YCCY 010200Z AUTO 21012KT 9999 // NCD 28/01 Q1019=


......................................................................................


Date: 01-Jun-2563

SAAU63 AMMC 010200
METAR YCDU 010200Z AUTO 19008KT 9999 // BKN048 15/10 Q1024=
METAR YCIN 010200Z AUTO 13014KT 9999 // NCD 27/08 Q1018=
METAR YCNM 010200Z AUTO 30016KT //// // ////// 19/04 Q1013=
METAR YCOM 010200Z AUTO 33016KT 9999 // ////// 10/02 Q1005=
METAR YDBY 010200Z AUTO 13016KT 9999 // NCD 27/09 Q1018=
METAR YEML 010200Z AUTO 31006KT 280V350 9999 // NCD 27/12 Q1017=
METAR YESP 010200Z AUTO 27006KT 9999 // OVC005 14/14 Q1028=
METAR YFRT 010200Z AUTO 19008KT 9999 // BKN019 BKN025 16/11 Q1027=
METAR YGEL 010200Z AUTO 09008KT 9999 // NCD 18/13 Q1027=


......................................................................................


Date: 01-Jun-2563

SAAU64 AMMC 010200
METAR YGFN 010200Z AUTO 35007KT 9999 // NCD 22/14 Q1013=
METAR YGLA 010200Z AUTO 02005KT 9999 // NCD 25/14 Q1017=
METAR YGTE 010200Z AUTO 11007KT 070V160 9999 // NCD 32/17 Q1015=
METAR YGTH 010200Z AUTO 27021G31KT 9999 // BKN029 OVC033 12/06 Q1011=
METAR YHID 010200Z AUTO 12012KT 9999 // SCT022 29/23 Q1014=
METAR YHUG 010200Z AUTO 25011KT 9999 // NCD 28/08 Q1017=
METAR YKRY 010200Z AUTO 34009KT 9999 // SCT026 21/13 Q1017=
METAR YLEC 010200Z AUTO 19017KT 9999 // NCD 14/02 Q1022=
METAR YLIS 010200Z AUTO 33014KT 9999 // NCD 24/13 Q1014=


......................................................................................


Date: 01-Jun-2563

SAAU66 AMMC 010200
METAR YMTG 010200Z AUTO 24017KT 9999 -SHRA SCT038 BKN050 OVC069 09/04 Q1013=
METAR YNAR 010200Z AUTO 28017KT 9999 // SCT020 SCT027 OVC034 11/06 Q1010=
METAR YNBR 010200Z AUTO 34013KT 9999 // SCT110 22/06 Q1013=
METAR YNTN 010200Z AUTO 16007KT 130V190 9999 // NCD 31/10 Q1016=
METAR YNWN 010200Z AUTO 09010KT 9999 // NCD 18/01 Q1026=
METAR YOLD 010200Z AUTO 20017KT 9999 // SCT042 15/03 Q1023=
METAR YPAD 010200Z 23018KT 9999 FEW027 SCT058 13/07 Q1019
NOSIG=
METAR YPBO 010200Z AUTO /////KT 9999 // NCD 19/02 Q1024=
METAR YPCC 010200Z 12012KT 9999 VCSH FEW014 BKN030 25/24 Q1015=


......................................................................................


Date: 01-Jun-2563

SAAU67 AMMC 010200
METAR YPDN 010200Z 07005KT 040V130 9999 FEW038 31/20 Q1015
NOSIG=
METAR YPEA 010200Z AUTO 08008KT 9999 // OVC040 17/12 Q1028=
METAR YPGV 010200Z 14011KT CAVOK 30/18 Q1015=
METAR YPKG 010200Z AUTO 11006KT 9999 // NCD 15/10 Q1029=
METAR YPKU 010200Z AUTO 15012KT 9999 // NCD 31/02 Q1017=
METAR YPLM 010200Z AUTO 09007KT 9999 // SCT082 22/08 Q1021=
METAR YPPD 010200Z AUTO 13015KT 9999 // NCD 24/02 Q1022=
METAR YPPH 010200Z 07008KT 9999 BKN044 16/12 Q1028
NOSIG=
METAR YPTN 010200Z 09012KT CAVOK 33/10 Q1016
NOSIG=


......................................................................................


Date: 01-Jun-2563

SAAU68 AMMC 010200
METAR YCFS 010200Z AUTO 01012KT 9999 // NCD 22/11 Q1012=
METAR YPWR 010200Z AUTO 21017KT 9999 // SCT041 14/04 Q1023=
METAR YPXM 010200Z AUTO 08011KT 9999 -RA SCT011 BKN013 BKN018 25/24 Q1016=
METAR YRMD 010200Z AUTO 18010KT 160V230 9999 // NCD 28/08 Q1017=
METAR YSCB 010200Z AUTO 32020KT 9999 // BKN035 BKN041 OVC125 11/05 Q1007
TEMPO 0200/0400 3000 SHRA BKN008=
METAR YSDU 010200Z AUTO 29015KT 9999 // NCD 17/05 Q1011=
METAR YSNF 010200Z 26011KT 9999 SCT029 20/13 Q1019=
METAR YSNW 010200Z 31014KT CAVOK 20/05 Q1005
FM0200 MOD TURB BLW 5000FT
TL0400
FM0400 SEV TURB BLW 5000FT=
METAR YSRI 010200Z AUTO 36012KT 9999 // NCD 22/08 Q1006=
METAR YSSY 010200Z 34018KT CAVOK 22/05 Q1006
FM0200 MOD TURB BLW 5000FT=


......................................................................................


Date: 01-Jun-2563

SAKO51 RJTD 010200
METAR RKJJ 010200Z 30005KT 9999 SCT030 23/17 Q1011 RMK SLP116 8/500
9/300=
METAR RKPC 010200Z 32008KT 290V350 3200 BR BKN002 BKN020 OVC120
18/16 Q1013 NOSIG=
METAR RKPK 010200Z 31003KT 9999 FEW030 BKN200 26/16 Q1008=
METAR RKPS 010200Z 22007KT 9999 FEW040 BKN200 26/17 Q1010 RMK CIG200
SLP099 8/508 9/204=
METAR RKSI 010200Z 28013KT CAVOK 20/13 Q1010 NOSIG=
METAR RKSM 010200Z 30007KT 9999 FEW030 24/10 A2982=
METAR RKSS 010200Z 27008G19KT 200V310 9999 FEW025 23/14 Q1010 NOSIG=
METAR RKTH 010200Z 27015KT 9999 SCT040 SCT200 27/15 Q1007 RMK SLP077
8/508 9/301=
METAR RKTN 010200Z 31014KT 9999 SCT040 BKN200 28/13 Q1008=
METAR RKTU 010200Z 29008KT 9999 FEW040 23/12 Q1010=


......................................................................................


Date: 01-Jun-2563

SANG31 AMMC 010200
NIL


......................................................................................


Date: 01-Jun-2563

SANP31 VNKT 010220
METAR VNKT 010220Z VRB02KT 5000 -RA FEW010 FEW025CB SCT030 BKN100
19/18 Q1018 NOSIG CB
TO E SE AND S=


......................................................................................


Date: 01-Jun-2563

SACI51 RJTD 010200
METAR ZBAA 010200Z VRB01MPS CAVOK 24/10 Q1007 BECMG TL0340 19005MPS=
METAR ZBTJ 010200Z 20004MPS 160V260 CAVOK 27/07 Q1008 NOSIG=
METAR ZBYN 010200Z 20002MPS 130V250 CAVOK 21/07 Q1011 NOSIG=
METAR ZGGG 010200Z 16003MPS 100V210 8000 -TSRA FEW010 FEW033CB
SCT033 29/25 Q1010 RESHRA BECMG AT0230 -SHRA=
METAR ZGKL 010200Z VRB01MPS 9999 -RA SCT006 SCT020 OVC033 23/22
Q1010 NOSIG=
METAR ZGNN 010200Z 10002MPS 080V140 9999 SCT020 31/26 Q1009 NOSIG=
METAR ZGOW 010200Z 22003MPS 180V280 9999 SCT015 BKN050 30/27 Q1012
NOSIG=
METAR ZGSZ 010200Z 17006MPS 9999 FEW020TCU FEW020 31/28 Q1011 NOSIG=
METAR ZLXY 010200Z 24002MPS 210V300 CAVOK 25/15 Q1011 NOSIG=
METAR ZPPP 010200Z 22006MPS 9999 FEW026 21/14 Q1021 NOSIG=
METAR ZSAM 010200Z 24002MPS 180V290 9999 FEW033 30/26 Q1012 NOSIG=
METAR ZSHC 010200Z 16002MPS 120V190 CAVOK 29/21 Q1011 NOSIG=
METAR ZSNJ 010200Z 10002MPS 060V160 5000 HZ NSC 28/20 Q1011 NOSIG=
METAR ZSQD 010200Z 23005MPS 190V260 CAVOK 26/15 Q1011 NOSIG=
METAR ZSSS 010200Z 15004MPS 110V190 7000 NSC 29/20 Q1012 NOSIG=
METAR ZWWW 010200Z 34002MPS 250V060 CAVOK 28/02 Q1014 NOSIG=
METAR ZYTL 010200Z 34005MPS CAVOK 23/15 Q1009 NOSIG=
METAR ZYTX 010200Z 28005G10MPS CAVOK 20/10 Q1007 NOSIG=


......................................................................................


Date: 01-Jun-2563

SAPA31 KWBC 010200
METAR
AGGG NIL=
AGGH 010200Z 36008KT 9999 FEW020 FEW020CB 31/24 Q1011 RMK CB TO
ENE/NW=
AGGH 010200Z 36008KT 9999 FEW020 FEW020CB 31/24 Q1011 RMK CB TO
ENE,NW=
ANAU NIL=
AYPY NIL=
PGNT NIL=
PGRO 010150Z 10013KT 7SM SCT015 30/23 A2992=
PGSN 010154Z 09013G21KT 10SM FEW028 FEW038 SCT070 32/23 A2995 RMK
AO2 SLP161 T03220233=
PGUA 010156Z 12014KT 10SM FEW018 SCT023 30/24 A2995 RMK AO2A
SLP132 T02990238 PWINO ?=
PGUM 010154Z 08014KT 10SM FEW024 31/24 A2995 RMK AO2 SLP132
T03110239=
PGWT 010157Z 11012KT 7SM SCT016 32/22 A2994=
PHJH NIL=
PHJR NIL=
PHMK 010154Z AUTO 05018G23KT 10SM CLR 27/18 A3004 RMK AO2 SLP172
T02670183 TSNO=
PJON NIL=
PKMJ NIL=
PKMR 010154Z 11007KT 15SM FEW014 SCT050 BKN300 29/25 A2985 RMK
SLP110 T02940253=
PKWA 010200Z AUTO 08010KT 10SM CLR 31/25 A2989 RMK AO2
T03140252=
PLCH 010200Z 13007KT 9999 SCT020 29/22 Q1009=
PMDY 010156Z AUTO 20007KT 8SM 28/23 A3006 RMK AO2 SLP178 T02780233
?=
PTKK 010153Z VRB06KT 15SM FEW014 SCT120 BKN280 29/27 A2984 RMK
SLP108 T02900266=
PTKR NIL=
PTPN NIL=
PTRO 010150Z 08007KT 15SM SCT016 BKN120 BKN300 31/24 A2989=
PTSA NIL=
PTTP 010151Z 11007KT 15SM BKN018TCU OVC300 28/25 A2989 RMK SHRAE20
TCU ALQDS SLP122 T02780248=
PTYA 010153Z VRB06KT 12SM FEW019 SCT300 31/25 A2989 RMK SLP122
T03110252=
PWAK 010158Z AUTO 05006KT 9999 FEW022 SCT260 SCT320 M A2999 RMK
AO2 SLPNO FZRANO ?=


......................................................................................


Date: 01-Jun-2563

SASB31 VCCC 010210
METAR VCBI 010210Z 17005KT 9999 BKN018 28/27 Q1012 NOSIG=
METAR VRMM 010200Z 21009KT 9999 FEW018TCU 29/26 Q1011 NOSIG=
METAR VCRI 010210Z NIL=


......................................................................................


Date: 01-Jun-2563

SASD31 OEJD 010200 CCA
METAR COR OERK 010200Z 00000KT CAVOK 26/07 Q1011 NOSIG=


......................................................................................


Date: 01-Jun-2563

SAPA31 KWBC 010200 RRA
METAR
PKWA 010220Z AUTO 08008KT 10SM CLR 31/25 A2988 RMK AO2
T03140251=


......................................................................................


Date: 01-Jun-2563

SAAE31 VDPP 010230
METAR VDPP 010230Z VRB03KT 9999 SCT015 32/24 Q1011=


......................................................................................


Date: 01-Jun-2563

SAPA31 KWBC 010200 RRB
METAR
AYPY 010200Z 15015G25KT 9999 FEW015 SCT040 SCT050 28/25 Q1012 RMK/
-SHRA IN AREA=


......................................................................................


Date: 01-Jun-2563

SATH31 VTBU 010230
METAR VTBU 010230Z 20003KT 9000 -RA FEW020 SCT100 30/25 Q1012 NOSIG=


......................................................................................


Date: 01-Jun-2563

SATH31 VTSM 010230
METAR VTSM 010230Z 27007KT 220V330 9999 FEW020 32/25 Q1012 NOSIG=


......................................................................................


Date: 01-Jun-2563

SATH31 VTBD 010230
METAR VTBD 010230Z 14003KT 9999 SCT020 31/26 Q1012 NOSIG=


......................................................................................


Date: 01-Jun-2563

SATH31 VTBS 010230
METAR VTBS 010230Z 15003KT 100V210 9999 FEW020 29/25 Q1012 NOSIG=


......................................................................................


Date: 01-Jun-2563

SATH31 VTCC 010230
METAR VTCC 010230Z VRB03KT 9999 FEW035 31/22 Q1012 NOSIG=


......................................................................................


Date: 01-Jun-2563

SATH31 VTSP 010230
METAR VTSP 010230Z VRB02KT 9999 FEW020 31/25 Q1011 NOSIG=


......................................................................................


Date: 01-Jun-2563

SATH31 VTSS 010230
METAR VTSS 010230Z VRB03KT 9999 FEW020 29/27 Q1012 NOSIG=


......................................................................................


Date: 01-Jun-2563

SASR31 WSSS 010230
METAR WSSS 010230Z 22006KT 170V270 9999 FEW015 FEW018TCU BKN300 29/24
Q1013 NOSIG=


......................................................................................


Date: 01-Jun-2563

SAIR31 OIII 010230
METAR OIAW 010230Z NIL=
METAR OIFM 010230Z NIL=
METAR OIII 010230Z 30006KT CAVOK 25/M00 Q1014 A2994=
METAR OIKB 010230Z 00000KT 1500 BR FEW100 30/26 Q1003 A2964=
METAR OIKK 010230Z NIL=
METAR OIMM 010230Z NIL=
METAR OISS 010230Z NIL=
METAR OITT 010230Z 03004KT CAVOK 15/03 Q1018 A3006=
METAR OIZH 010230Z NIL=


......................................................................................


Date: 01-Jun-2563

SAIR32 OIII 010230
METAR OIAA 010230Z NIL=
METAR OIBK 010230Z 00000KT 0800 FG SCT025 28/28 Q1004=
METAR OICC 010230Z 11004KT CAVOK 11/M04 Q1017 A3003=
METAR OIGG 010230Z 00000KT CAVOK 18/17 Q1013=
METAR OIIE 010230Z NIL=
METAR OINZ 010230Z NIL=
METAR OITR 010230Z NIL=
METAR OIYY 010230Z 27004KT 9999 FEW100 28/03 Q1016=


......................................................................................


Date: 01-Jun-2563

SAPK31 OPKC 010230
METAR OPGD 010225Z NIL=
METAR OPIS 010225Z NIL=
METAR OPKC 010225Z 28004KT 6000 BKN020 30/24 Q1007 NOSIG=
METAR OPLA 010225Z 03010KT 4000 FU SCT100 25/21 Q1011 RMK QFE985 RMK
A29.82=
METAR OPNH 010225Z NIL=
METAR OPMT 010225Z NIL=
METAR OPPS 010230Z 36010KT 7000 HZ SCT035 BKN090 23/18 Q1010=
METAR OPRN 010225Z NIL=
METAR OPSK 010225Z NIL=
METAR OPST 010225Z NIL=


......................................................................................


Date: 01-Jun-2563

SAHK31 VHHH 010230
METAR VHHH 010230Z 19011KT 9999 FEW012 SCT028 32/26 Q1011 NOSIG=


......................................................................................


Date: 01-Jun-2563

SAIR33 OIII 010230
METAR OIBB 010230Z NIL=
METAR OIBP 010230Z NIL=
METAR OICK 010230Z NIL=
METAR OICS 010230Z NIL=
METAR OIHH 010230Z NIL=
METAR OITL 010230Z 00000KT 0800 FG OVC002 06/06 Q1017=
METAR OIZC 010230Z NIL=


......................................................................................


Date: 01-Jun-2563

SAJP38 RJTD 010200 RRB
METAR COR RJOH 010200Z 22005KT 9999 FEW040 BKN050 BKN100 26/17
Q1008=


......................................................................................


Date: 01-Jun-2563

SAAE31 VTBB 010230
METAR VTBD 010230Z 14003KT 9999 SCT020 31/26 Q1012 NOSIG=
METAR VTBS 010230Z 15003KT 100V210 9999 FEW020 29/25 Q1012 NOSIG=
METAR VTBU 010230Z 20003KT 9000 -RA FEW020 SCT100 30/25 Q1012 NOSIG=
METAR VTCC 010230Z VRB03KT 9999 FEW035 31/22 Q1012 NOSIG=
METAR VTCT 010230Z NIL=
METAR VTSG 010230Z NIL=
METAR VTSP 010230Z VRB02KT 9999 FEW020 31/25 Q1011 NOSIG=
METAR VTSS 010230Z VRB03KT 9999 FEW020 29/27 Q1012 NOSIG=


......................................................................................


Date: 01-Jun-2563

SAAE32 VTBB 010230
METAR VDPP 010230Z VRB03KT 9999 SCT015 32/24 Q1011=
METAR VDSR 010230Z 22005KT 180V250 9999 SCT015 SCT040 30/26 Q1011=
METAR VDSV 010230Z 08001KT 9999 SCT015 31/25 Q1012=
METAR VLVT 010230Z 06002KT 8000 SCT040 BKN083 25/25 Q1012 NOSIG=
METAR VYMD 010230Z 18007KT 7000 BKN020 FEW120 31/24 Q1010 NOSIG=
METAR VYYY 010230Z NIL=
METAR VYNT 010230Z NIL=


......................................................................................


Date: 01-Jun-2563

SAAE34 VTBB 010230
METAR VVCI 010230Z 19009KT 160V220 CAVOK 33/25 Q1007 NOSIG=
METAR VVCR 010230Z 08006KT 9999 FEW015 34/25 Q1012 NOSIG=
METAR VVCT 010230Z VRB02KT 9999 FEW015 FEW017TCU 33/26 Q1011
NOSIG TCU/SE=
METAR VVNB 010230Z 09004KT 040V200 CAVOK 32/25 Q1008 NOSIG=
METAR VVPB 010230Z 21004KT 9999 FEW020 SCT080 32/26 Q1011 NOSIG=
METAR VVPQ 010230Z 28004KT 9999 FEW017 32/26 Q1011 NOSIG=
METAR VVTS 010230Z VRB01KT 8000 SCT017 SCT050 33/26 Q1011 NOSIG =
METAR VVDN 010230Z NIL=


......................................................................................


Date: 01-Jun-2563

SAIR31 OIII 010230 RRA
METAR OIMM 010230Z 00000KT CAVOK 25/02 Q1015 A3000=


......................................................................................


Date: 01-Jun-2563

SAMS31 WMKK 010230
METAR WBGG 010230Z 15004KT 100V200 9999 FEW003 FEW015CB 29/25 Q1012 NOSIG=
METAR WBKK 010230Z 23007KT 190V260 9999 TS FEW014 FEW016CB 31/27 Q1011 NOSIG=
METAR WBSB 010230Z 22004KT 9999 TS SCT015 FEW016CB SCT140 BKN270 28/25 Q1013 NOSIG=
METAR WMKK 010230Z 23009KT 150V290 8000 VCSH FEW017CB SCT030 27/24 Q1013 TEMPO 5000 SHRA=
METAR WMKP 010230Z VRB02KT 8000 FEW017CB 31/25 Q1012 NOSIG=
METAR WSSL 010230Z NIL=
METAR WSSS 010230Z 22006KT 170V270 9999 FEW015 FEW018TCU BKN300 29/24 Q1013 NOSIG=


......................................................................................


Date: 01-Jun-2563

SAHK31 VHHH 010230
METAR VHHH 010230Z 19011KT 9999 FEW012 SCT028 32/26 Q1011 NOSIG=
METAR RCTP 010230Z 27012KT 9999 FEW020 SCT100 32/27 Q1011 NOSIG
RMK A2987=
METAR RCKH 010230Z 24006KT 200V290 9999 FEW012 SCT020 32/24 Q1012
NOSIG RMK A2989=
METAR RCSS 010230Z 31007KT 270V350 9999 FEW020 SCT035 33/26 Q1011
NOSIG RMK A2986=
METAR RCMQ 010230Z 23009KT 9999 FEW016 SCT200 32/23 Q1012 NOSIG
RMK A2991=
METAR RCNN 010230Z 24005KT 9999 FEW014 SCT200 31/25 Q1012 NOSIG
RMK A2990=
METAR RCFN 010230Z 13007KT 090V170 9999 FEW016 31/26 Q1012 NOSIG
RMK A2989=
METAR VMMC 010230Z 19013KT 9999 VCSH FEW015 SCT025 31/28 Q1011 NOSIG=


......................................................................................


Date: 01-Jun-2563

SAJP51 RJTD 010230
METAR RJAA 010230Z 15012KT 9999 FEW010 BKN020 BKN030 22/18 Q1012
NOSIG=
METAR RJBB 010230Z 31003KT 9999 FEW020 OVC/// 23/17 Q1010 NOSIG=
METAR RJCC 010230Z 18012KT 9999 FEW010 24/10 Q1009=
METAR RJFF 010230Z 34006KT 300V360 8000 VCSH FEW005 SCT008 BKN010
22/19 Q1010 NOSIG=
METAR RJGG 010230Z 27007KT 9999 FEW025 BKN035 23/16 Q1011 BECMG
24005KT=
METAR RJTT 010230Z 35004KT 9999 VCSH FEW010 BKN027 BKN040 20/18
Q1012 NOSIG=
METAR ROAH 010230Z 36009KT 9999 FEW010 SCT/// 28/25 Q1012=


......................................................................................


Date: 01-Jun-2563

SAMS31 WMKK 010230
METAR WBGG 010230Z NIL=
METAR WBKK 010230Z NIL=
METAR WBSB 010230Z NIL=
METAR WMKK 010230Z NIL=
METAR WMKP 010230Z NIL=
METAR WSSL 010230Z NIL=
METAR WSSS 010230Z 22006KT 170V270 9999 FEW015 FEW018TCU BKN300 29/24
Q1013 NOSIG=


......................................................................................


Date: 01-Jun-2563

SAUZ31 UTTW 010230
METAR UTFN 010230Z 36004KT 9999 NSC 27/10 Q1010 R28/CLRD70 NOSIG=
METAR UTNN 010230Z 01002KT CAVOK 28/05 Q1009 R33/CLRD60 NOSIG=
METAR UTNU 010230Z VRB02KT CAVOK 27/09 Q1008 R31/CLRD70 NOSIG=
METAR UTSA 010230Z 09012KT 9999 NSC 27/08 Q1008 R07/CLRD70 NOSIG=
METAR UTSB 010230Z 16006KT CAVOK 25/10 Q1007 R01/CLRD70 NOSIG=
METAR UTSK 010230Z 06004KT CAVOK 22/10 Q1009 R16/CLRD70=
METAR UTSS 010230Z 15012KT 9999 NSC 25/10 Q1010 R09/CLRD70 NOSIG=
METAR UTST 010230Z VRB02KT CAVOK 22/10 Q1009 R88/CLRD70 NOSIG=
METAR UTFA 010230Z NIL=
METAR UTFF 010230Z VRB02KT 9999 NSC 27/04 Q1010 R99/CLRD70=
METAR UTTT 010230Z 07010KT CAVOK 27/10 Q1009 R08R/CLRD70 NOSIG=


......................................................................................


Date: 01-Jun-2563

SAPA31 KWBC 010200 RRC
METAR
PKWA 010240Z AUTO 09009KT 10SM CLR 31/25 A2988 RMK AO2
T03140250=


......................................................................................


Date: 01-Jun-2563

SAAH10 OAKB 010250
METAR OAKB 010250Z VRB05KT CAVOK 22/M03 Q1018 RMK A3008 BLU BLU=


......................................................................................


Date: 01-Jun-2563

SATR31 UTAA 010300
METAR UTAA 010300Z NIL=
METAR UTAK 010300Z NIL=
METAR UTAM 010300Z NIL=
METAR UTAT 010300Z NIL=
METAR UTAV 010300Z NIL=


......................................................................................


Date: 01-Jun-2563

SANP31 VNKT 010250
METAR VNKT 010250Z 00000KT 5000 DZ FEW010 FEW025CB SCT030 BKN100
19/18 Q1018 NOSIG CB TO
NW=


......................................................................................


Date: 01-Jun-2563

SAAE32 VTBB 010230 RRA
METAR VYYY 010230Z 27005KT 7000 SCT018 FEW020CB 29/26 Q1012=


......................................................................................


Date: 01-Jun-2563

SAAE31 VDPP 010300
METAR VDPP 010300Z VRB02KT 9999 SCT015 32/25 Q1010=


......................................................................................


Date: 01-Jun-2563

SATH31 VTBU 010300
METAR VTBU 010300Z 20005KT 9999 FEW020 SCT100 30/25 Q1012 NOSIG=


......................................................................................


Date: 01-Jun-2563

SATH31 VTSG 010300
METAR VTSG 010300Z 04003KT 320V130 9999 FEW020 31/28 Q1012 NOSIG=


......................................................................................


Date: 01-Jun-2563

SATH31 VTST 010300
METAR VTST 010300Z 00000KT 9999 FEW025 30/25 Q1012 NOSIG=


......................................................................................


Date: 01-Jun-2563

SATH31 VTCL 010300
METAR VTCL 010300Z 25004KT 150V330 9999 FEW025 33/22 Q1012 NOSIG=


......................................................................................


Date: 01-Jun-2563

SATH31 VTCN 010300
METAR VTCN 010300Z 15004KT 100V250 9999 SCT025 31/24 Q1012 NOSIG=


......................................................................................


Date: 01-Jun-2563

SATH31 VTPB 010300
METAR VTPB 010300Z 18003KT 9999 FEW020 SCT025 30/25 Q1012 NOSIG=


......................................................................................


Date: 01-Jun-2563

SATH31 VTCP 010300
METAR VTCP 010300Z 22006KT 190V260 9999 SCT020 33/22 Q1012 NOSIG=


......................................................................................


Date: 01-Jun-2563

SATH31 VTSF 010300
METAR VTSF 010300Z VRB03KT 9999 FEW018 33/27 Q1012 NOSIG=


......................................................................................


Date: 01-Jun-2563

SATH31 VTPM 010300
METAR VTPM 010300Z VRB01KT 9999 BKN030 29/23 Q1014 NOSIG=


......................................................................................


Date: 01-Jun-2563

SATH31 VTPO 010300
METAR VTPO 010300Z 19004KT 9999 FEW025 31/24 Q1011 NOSIG=


......................................................................................


Date: 01-Jun-2563

SATH31 VTPP 010300
METAR VTPP 010300Z 18004KT 130V240 9999 SCT025 32/26 Q1012 NOSIG=


......................................................................................


Date: 01-Jun-2563

SATH31 VTUW 010300
METAR VTUW 010300Z VRB02KT 9999 SCT010 BKN025 29/25 Q1013 NOSIG=


......................................................................................


Date: 01-Jun-2563

SATH31 VTSE 010300
METAR VTSE 010300Z VRB02KT 9999 FEW020 34/26 Q1011 NOSIG=


......................................................................................


Date: 01-Jun-2563

SATH31 VTUI 010300
METAR VTUI 010300Z 33005KT 280V030 9999 FEW030 BKN100 30/25 Q1013
NOSIG=


......................................................................................


Date: 01-Jun-2563

SAOM32 OOMS 010300
METAR OOMS 010250Z 23011KT CAVOK 37/22 Q1004 NOSIG=
METAR OOSA 010250Z 09007KT 8000 FEW012 OVC030 28/27 Q1007 NOSIG=
METAR OOSH 010300Z NIL=
METAR OODQ 010250Z AUTO 22011KT //// R22///// BKN009 BKN021 29/27
Q1008 NOSIG=


......................................................................................


Date: 01-Jun-2563

SASD31 OEJD 010300
METAR OEDF 010300Z NIL=
METAR OEDR 010300Z 27005KT CAVOK 31/14 Q1002 NOSIG=
METAR OEJN 010300Z 32006KT CAVOK 25/18 Q1007 NOSIG=
METAR OEMA 010300Z 00000KT CAVOK 29/00 Q1011 NOSIG=
METAR OERK 010300Z 00000KT CAVOK 26/08 Q1011 NOSIG=
METAR OERY 010300Z NIL=
METAR OYAA 010300Z NIL=
METAR OYSN 010300Z NIL=


......................................................................................


Date: 01-Jun-2563

SATH31 VTBD 010300
METAR VTBD 010300Z 19003KT 140V260 9999 BKN020 32/26 Q1012 NOSIG=


......................................................................................


Date: 01-Jun-2563

SATH31 VTBS 010300
METAR VTBS 010300Z 18004KT 130V220 9999 FEW020 30/26 Q1012 NOSIG=


......................................................................................


Date: 01-Jun-2563

SATH31 VTCC 010300
METAR VTCC 010300Z VRB05KT 9999 FEW035 32/22 Q1012 NOSIG=


......................................................................................


Date: 01-Jun-2563

SATH31 VTCT 010300
METAR VTCT 010300Z VRB03KT 9999 SCT025 29/24 Q1013 NOSIG=


......................................................................................


Date: 01-Jun-2563

SATH31 VTPH 010300
METAR VTPH 010300Z 35005KT 280V020 9999 FEW022 33/22 Q1011 NOSIG=


......................................................................................


Date: 01-Jun-2563

SATH31 VTPN 010300
METAR VTPN 010300Z 26002KT 9999 SCT025 32/24 Q1011=


......................................................................................


Date: 01-Jun-2563

SATH31 VTPT 010300
METAR VTPT 010300Z /////KT 9999 FEW026 34/23 Q//// NOSIG=


......................................................................................


Date: 01-Jun-2563

SATH31 VTSC 010300
METAR VTSC 010300Z 18007KT 140V220 7000 FEW020 31/23 Q1012 NOSIG =


......................................................................................


Date: 01-Jun-2563

SATH31 VTSM 010300
METAR VTSM 010300Z 32006KT 270V020 9999 FEW020 33/26 Q1012 NOSIG=


......................................................................................


Date: 01-Jun-2563

SATH31 VTSP 010300
METAR VTSP 010300Z VRB01KT 9999 FEW020 31/24 Q1011 NOSIG=


......................................................................................


Date: 01-Jun-2563

SATH31 VTSR 010300
METAR VTSR 010300Z VRB02KT 9999 FEW030 33/26 Q1012 NOSIG=


......................................................................................


Date: 01-Jun-2563

SATH31 VTSS 010300
METAR VTSS 010300Z VRB02KT 9999 FEW020 31/26 Q1012 NOSIG=


......................................................................................


Date: 01-Jun-2563

SATH31 VTUD 010300
METAR VTUD 010300Z 10003KT 050V140 9999 FEW020 SCT100 27/24 Q1013
NOSIG=


......................................................................................


Date: 01-Jun-2563

SATH31 VTUK 010300
METAR VTUK 010300Z 23004KT 200V270 9999 SCT030 BKN100 30/24 Q1013
NOSIG=


......................................................................................


Date: 01-Jun-2563

SATH31 VTUO 010300
METAR VTUO 010300Z VRB03KT 9999 FEW030 32/23 Q1012 NOSIG=


......................................................................................


Date: 01-Jun-2563

SATH31 VTUL 010300
METAR VTUL 010300Z VRB02KT 9999 SCT030 BKN080 29/24 Q1013 NOSIG=


......................................................................................


Date: 01-Jun-2563

SATH31 VTUU 010300
METAR VTUU 010300Z 21004KT 9999 FEW030 31/24 Q1012 NOSIG =


......................................................................................


Date: 01-Jun-2563

SATR31 UTAA 010300 RRA
METAR UTAM 010300Z 00000KT CAVOK 26/08 Q1008 R88/CLRD70 NOSIG=
METAR UTAT 010300Z 26008KT 230V290 CAVOK 28/11 Q1009 NOSIG=


......................................................................................


Date: 01-Jun-2563

SATH31 VTBO 010300
METAR VTBO 010300Z 00000KT 8000 SHRA FEW016CB SCT020 BKN100 30/27 Q1012=


......................................................................................


Date: 01-Jun-2563

SAAU32 AMMC 010300
METAR YAMB 010300Z 33008KT 9999 FEW036 SCT072 BKN280 24/14 Q1014=
METAR YBCG 010300Z AUTO 32006KT 9999 // BKN036 BKN043 24/14 Q1014=
METAR YBHM 010300Z AUTO 15009KT 9999 // NCD 23/19 Q1017=
METAR YBMA 010300Z AUTO 18014KT 9999 // NCD 27/01 Q1019=
METAR YBRK 010300Z AUTO 01006KT 350V050 9999 // NCD 26/13 Q1016=
METAR YBRM 010300Z AUTO 12015KT 9999 // NCD 28/06 Q1018=
METAR YCIN 010300Z AUTO 13014KT 9999 // NCD 28/08 Q1017=
METAR YFRT 010300Z AUTO 18009KT 9999 // BKN028 OVC033 16/10 Q1027=
METAR YMAV 010300Z AUTO 28020KT 9999 // BKN016 OVC034 12/10 Q1005=
METAR YMHB 010300Z 33007KT 9999 FEW035 SCT250 16/05 Q1002=
METAR YMLT 010300Z AUTO 33012KT 9999 // SCT012 SCT020 SCT028 12/09 Q1003=
METAR YPEA 010300Z AUTO 09010KT 9999 // OVC042 18/10 Q1028=
METAR YPGV 010300Z 11010KT 9999 FEW030 30/17 Q1014=
METAR YPKG 010300Z AUTO 09005KT 040V120 9999 // SCT029 17/09 Q1028=
METAR YPPD 010300Z AUTO 11016KT 9999 // NCD 25/01 Q1021=
METAR YSCB 010300Z AUTO 32019KT 9999 // BKN025 BKN052 OVC063 10/05 Q1007
FM0330 35012KT 9999 -SHRA SCT020 SCT040
TEMPO 0300/0600 3000 SHRA BKN008=
METAR YSDU 010300Z AUTO 29018KT 9999 // OVC056 16/05 Q1011=
METAR YSNF 010300Z 25010KT 9999 BKN028 20/13 Q1019=
METAR YSRI 010300Z AUTO 34013KT 9999 // NCD 22/07 Q1005=
METAR YWLM 010300Z 33011KT CAVOK 23/10 Q1007=


......................................................................................


Date: 01-Jun-2563

SAAU60 AMMC 010300
METAR YABA 010300Z AUTO 32007KT 9999 // SCT013 BKN022 OVC026 16/13 Q1028=
METAR YAMB 010300Z 33008KT 9999 FEW036 SCT072 BKN280 24/14 Q1014=
METAR YARG 010300Z AUTO /////KT 9999 // NCD 31/08 Q1018=
METAR YAYE 010300Z AUTO 14011KT 9999 // NCD 19/04 Q1025=
METAR YBAS 010300Z AUTO 15008KT 110V180 9999 // NCD 19/M00 Q1024=
METAR YBBN 010300Z 03009KT 9999 FEW024 BKN270 22/17 Q1015=
METAR YBCG 010300Z AUTO 32006KT 9999 // BKN036 BKN043 24/14 Q1014=
METAR YBCS 010300Z AUTO 10005KT 070V130 9999 // SCT029 SCT036 SCT041 26/20
Q1015=
METAR YBCV 010300Z AUTO 24008KT 9999 // NCD 21/02 Q1017=
METAR YBDV 010300Z AUTO 23015KT //// // ////// 22/04 Q1021=


......................................................................................


Date: 01-Jun-2563

SAAU69 AMMC 010300 CCA
SPECI YSWG 010302Z AUTO 28018KT 9999 // SCT009 SCT012 BKN017 10/08 Q1008=


......................................................................................


Date: 01-Jun-2563

SAAU69 AMMC 010300
METAR YSTW 010300Z AUTO 35018KT 9999 // SCT047 SCT051 SCT115 19/10 Q1012=
METAR YSWG 010300Z AUTO 27017KT 9999 // SCT009 SCT012 BKN017 10/09 Q1008=
METAR YTEF 010300Z AUTO 11016KT 9999 // NCD 22/01 Q1022=
METAR YTNK 010300Z AUTO 11014KT 9999 // NCD 27/05 Q1020=
METAR YTRE 010300Z AUTO 06005KT 9999 // SCT090 21/13 Q1009=
METAR YWGT 010300Z AUTO 27011KT 9999 -SHRA SCT018 BKN024 OVC032 09/07 Q1007=
METAR YWHA 010300Z AUTO 23013KT 9999 // ////// 16/04 Q1021=
METAR YWLM 010300Z 33011KT CAVOK 23/10 Q1007=


......................................................................................


Date: 01-Jun-2563

SAHK31 VHHH 010300
METAR VHHH 010300Z 21010KT 9999 FEW012 SCT028 32/26 Q1011 NOSIG=


......................................................................................


Date: 01-Jun-2563

SAIR31 OIII 010300
METAR OIAW 010300Z 16002KT CAVOK 27/10 Q1003=
METAR OIFM 010300Z 33004KT CAVOK 18/M00 Q1019 A3011=
METAR OIII 010300Z 28004KT CAVOK 25/01 Q1014 A2994 NOSIG=
METAR OIKB 010300Z 00000KT 1500 HZ NSC 31/26 Q1004 A2965 NOSIG=
METAR OIKK 010300Z 34004KT CAVOK 20/01 Q1020 A3012=
METAR OIMM 010300Z 00000KT CAVOK 24/01 Q1015 A3000=
METAR OISS 010300Z NIL=
METAR OITT 010300Z 04006KT CAVOK 17/03 Q1018 A3007 NOSIG=
METAR OIZH 010300Z 23006KT CAVOK 24/M07 Q1017 A3004 NOSIG=


......................................................................................


Date: 01-Jun-2563

SAIR32 OIII 010300
METAR OIAA 010300Z 35008KT CAVOK 30/08 Q1004=
METAR OIBK 010300Z 00000KT 1400 BR BKN020 28/28 Q1004 NOSIG=
METAR OICC 010300Z 00000KT CAVOK 14/M04 Q1017 A3005=
METAR OIGG 010300Z 00000KT CAVOK 20/16 Q1013=
METAR OIIE 010300Z 31008KT CAVOK 20/05 Q1013=
METAR OINZ 010300Z 22004KT CAVOK 20/17 Q1013=
METAR OITR 010300Z 27004KT CAVOK 12/02 Q1015=
METAR OIYY 010300Z 26002KT 9999 FEW100 29/03 Q1016=


......................................................................................


Date: 01-Jun-2563

SAIR33 OIII 010300
METAR OIBB 010300Z 14004KT CAVOK 30/24 Q1002 A2961=
METAR OIBP 010300Z 14004KT 2000 BR NSC 27/25 Q1003 A2962=
METAR OICK 010300Z 12004KT CAVOK 16/04 Q1015=
METAR OICS 010300Z 00000KT CAVOK 09/M02 Q1018 A3009=
METAR OIHH 010300Z NIL=
METAR OITL 010300Z 19006KT 2000 PRFG BR SCT005 07/07 Q1017=
METAR OIZC 010300Z NIL=


......................................................................................


Date: 01-Jun-2563

SAIR34 OIII 010300
METAR OIAG 010300Z NIL=
METAR OIAM 010300Z 33004KT 8000 FEW035CB SCT040 29/04 Q1003=
METAR OICI 010300Z 11004KT CAVOK 21/M01 Q1018 A3006=
METAR OIKQ 010300Z 32004KT 3000 HZ NSC 29/24 Q1003 NOSIG=
METAR OINN 010300Z 00000KT 9999 FEW023 19/16 Q1013=
METAR OINR 010300Z 23002KT CAVOK 19/15 Q1012=
METAR OISL 010300Z 00000KT 8000 NSC 26/13 Q1009 NOSIG=
METAR OISY 010300Z 00000KT CAVOK 17/04 Q1022=
METAR OITZ 010300Z 12004KT CAVOK 15/02 Q1017=


......................................................................................


Date: 01-Jun-2563

SAIR35 OIII 010300
METAR OIAD 010300Z NIL=
METAR OIBJ 010300Z 00000KT CAVOK 29/12 Q1009=
METAR OIBS 010300Z 20006KT 1500 BR NSC 30/28 Q1004=
METAR OIHR 010300Z 00000KT 8000 NSC 12/05 Q1019=
METAR OIKM 010300Z NIL=
METAR OIKR 010300Z NIL=
METAR OING 010300Z 00000KT CAVOK 21/19 Q1015=
METAR OIZB 010300Z 34021KT CAVOK 30/04 Q1007=
METAR OIZI 010300Z 00000KT 6000 NSC 32/15 Q1009=


......................................................................................


Date: 01-Jun-2563

SAIR36 OIII 010300
METAR OIBA 010300Z 22008KT 3000 BR NSC 31/28 Q1003=
METAR OIBV 010300Z 00000KT 0800 FG SCT015 29/28 Q1003=
METAR OIFS 010300Z 07002KT CAVOK 12/03 Q1023=
METAR OIIP 010300Z 30016KT 5000 HZ NSC 16/11 Q1014 A2995=
METAR OIMB 010300Z 13004KT CAVOK 22/M06 Q1018=
METAR OIMN 010300Z 34006KT 5000 HZ FEW009 BKN025 BKN080 18/14
Q1017=
METAR OIMS 010300Z NIL=
METAR OIMT 010300Z NIL=
METAR OIZJ 010300Z 30006KT 5000 HZ NSC 31/24 Q1002=


......................................................................................


Date: 01-Jun-2563

SAIR37 OIII 010300
METAR OIBL 010300Z 33004KT 2500 BR NSC 28/28 Q1004=
METAR OIBQ 010300Z 34004KT CAVOK 30/24 Q1003=
METAR OIIK 010300Z 18002KT CAVOK 15/07 Q1015=
METAR OIMC 010300Z AUTO 29008KT //// // ////// 27/15 Q1010=
METAR OIMD 010300Z AUTO 13006KT //// // ////// 28/M02 Q1011=
METAR OIMQ 010300Z AUTO 07008KT //// // ////// 28/M03 Q1016=
METAR OINE 010300Z 08004KT CAVOK 21/16 Q1013=
METAR OITK 010300Z NIL=
METAR OITM 010300Z 08010KT CAVOK 15/M02 Q1016=


......................................................................................


Date: 01-Jun-2563

SAIR38 OIII 010300
METAR OIAH 010300Z 00000KT CAVOK 29/11 Q1010=
METAR OIBH 010300Z 31004KT 6000 NSC 28/16 Q1002=
METAR OICM 010300Z NIL=
METAR OIIS 010300Z NIL=
METAR OIMJ 010300Z NIL=
METAR OISF 010300Z 00000KT CAVOK 23/07 Q1013 A2992=
METAR OISR 010300Z 00000KT 5000 HZ NSC 26/13 Q1006 A2973 NOSIG=
METAR OITP 010300Z 19004KT CAVOK 18/13 Q1012=
METAR OITU 010300Z NIL=


......................................................................................


Date: 01-Jun-2563

SAPK31 OPKC 010259
METAR OPGD 010255Z NIL=
METAR OPIS 010255Z 13003KT 6000 SCT040 BKN100 21/20 Q1011 TEMPO
09015G25KT 3000 TSRA=
METAR OPKC 010255Z 29006KT 6000 BKN020 30/24 Q1007 NOSIG=
METAR OPLA 010255Z 36014KT 4000 FU SCT100 26/20 Q1011 TEMPO
34020G40KT 1500 TSRA FEW030CB RMK QFE985 RMK A29.85=
METAR OPNH 010300Z 04508KT 5000M HZ NSC 30/22 Q1005 NOSIG=
METAR OPMT 010300Z 00000KT 4000 FU NSC 29/22 Q1007 NOSIG=
METAR OPPS 010300Z 36008KT 7000 HZ SCT040 SCT100 24/19 Q1011=
METAR OPRN 010255Z NIL=
METAR OPSK 010300Z 13010KT 4000 HZ NSC 31/21 Q1004 NOSIG=
METAR OPST 010300Z 09010KT 4000 TSRA FEW030CB SCT040 BKN100 20/18
Q1010 TEMPO 05010G25KT 3000 RH91=


......................................................................................


Date: 01-Jun-2563

SASR31 WSSS 010300
METAR WSSS 010300Z 21005KT 180V270 9999 FEW016 FEW018TCU SCT260 29/24
Q1013 NOSIG=


......................................................................................


Date: 01-Jun-2563

SATH31 VTCH 010300
METAR VTCH 010300Z 18003KT 9999 FEW025 31/23 Q1012=


......................................................................................


Date: 01-Jun-2563

SATH31 VTUQ 010300
METAR VTUQ 010300Z 23007KT 190V280 9999 FEW030 30/24 Q1013 NOSIG=


......................................................................................


Date: 01-Jun-2563

SATH31 VTUV 010300
METAR VTUV 010300Z 27007KT 240V300 9999 SCT030 32/25 Q1012 NOSIG=


......................................................................................


Date: 01-Jun-2563

SATH40 VTBB 010300
METAR VTBD 010300Z 19003KT 140V260 9999 BKN020 32/26 Q1012 NOSIG=
METAR VTBS 010300Z 18004KT 130V220 9999 FEW020 30/26 Q1012 NOSIG=
METAR VTBU 010300Z 20005KT 9999 FEW020 SCT100 30/25 Q1012 NOSIG=
METAR VTCC 010300Z VRB05KT 9999 FEW035 32/22 Q1012 NOSIG=
METAR VTCT 010300Z VRB03KT 9999 SCT025 29/24 Q1013 NOSIG=
METAR VTSB 010300Z NIL=
METAR VTSG 010300Z 04003KT 320V130 9999 FEW020 31/28 Q1012 NOSIG=
METAR VTSP 010300Z VRB01KT 9999 FEW020 31/24 Q1011 NOSIG=
METAR VTSS 010300Z VRB02KT 9999 FEW020 31/26 Q1012 NOSIG=
METAR VTUD 010300Z 10003KT 050V140 9999 FEW020 SCT100 27/24 Q1013
NOSIG=
METAR VTUU 010300Z 21004KT 9999 FEW030 31/24 Q1012 NOSIG =


......................................................................................


Date: 01-Jun-2563

SAUZ31 UTTW 010200 CCA
METAR UTSA 010300Z 09010KT 9999 NSC 28/08 Q1008 R07/CLRD70 NOSIG=


......................................................................................


Date: 01-Jun-2563

SAAU60 AMMC 010300 CCA
METAR YBBN 010300Z 03009KT 9999 FEW024 BKN270 22/17 Q1015
NOSIG=


......................................................................................


Date: 01-Jun-2563

SAAU65 AMMC 010300
METAR YLRE 010300Z AUTO 20015KT 9999 // NCD 27/04 Q1017=
METAR YMAV 010300Z AUTO 28020KT 9999 // BKN016 OVC034 12/10 Q1005=
METAR YMAY 010300Z AUTO 27013KT 9999 // SCT014 SCT022 BKN029 10/09 Q1007=
METAR YMDG 010300Z AUTO 29017KT 9999 // SCT049 SCT059 OVC105 16/06 Q1010=
METAR YMEK 010300Z AUTO 08011KT 9999 // NCD 19/06 Q1027=
METAR YMEN 010302Z AUTO 27020G30KT 9999 // OVC024 10/07 Q1006=
METAR YMER 010300Z AUTO 00000KT 9999 // NCD 17/10 Q1003=
METAR YMIA 010300Z AUTO 23013G24KT 9999 // SCT041 BKN053 OVC064 12/02 Q1016=
METAR YMML 010300Z 27021KT 9999 -SHRA FEW022 BKN052 BKN100 10/05 Q1006=
METAR YMOR 010300Z AUTO 29013KT 9999 // SCT110 23/05 Q1013=


......................................................................................


Date: 01-Jun-2563

SAAE33 VTBB 010300
METAR VLLB 010300Z 27004KT 9999 SCT010 SCT060 BKN080 31/24 Q1012
NOSIG=
METAR VLLN 010300Z 32002KT 9999 SCT020 FEW100 28/24 Q1014 NOSIG=
METAR VLPS 010300Z 18002KT 9999 FEW020 SCT100 30/24 Q1013 NOSIG=
METAR VLSK 010300Z 22006KT 8000 SCT020 SCT100 31/24 Q1013 NOSIG=


......................................................................................


Date: 01-Jun-2563

SATH31 VTSB 010300
METAR VTSB 010300Z 26003KT 200V340 9999 FEW020 30/27 Q1012=


......................................................................................


Date: 01-Jun-2563

SATH40 VTBB 010300 RRA
METAR VTSB 010300Z 26003KT 200V340 9999 FEW020 30/27 Q1012=


......................................................................................


Date: 01-Jun-2563

SAAE31 VTBB 010300
METAR VTBD 010300Z 19003KT 140V260 9999 BKN020 32/26 Q1012 NOSIG=
METAR VTBS 010300Z 18004KT 130V220 9999 FEW020 30/26 Q1012 NOSIG=
METAR VTBU 010300Z 20005KT 9999 FEW020 SCT100 30/25 Q1012 NOSIG=
METAR VTCC 010300Z VRB05KT 9999 FEW035 32/22 Q1012 NOSIG=
METAR VTCT 010300Z VRB03KT 9999 SCT025 29/24 Q1013 NOSIG=
METAR VTSG 010300Z 04003KT 320V130 9999 FEW020 31/28 Q1012 NOSIG=
METAR VTSP 010300Z VRB01KT 9999 FEW020 31/24 Q1011 NOSIG=
METAR VTSS 010300Z VRB02KT 9999 FEW020 31/26 Q1012 NOSIG=


......................................................................................


Date: 01-Jun-2563

SAAE32 VTBB 010300
METAR VDPP 010300Z VRB02KT 9999 SCT015 32/25 Q1010=
METAR VDSR 010300Z VRB02KT 9999 SCT015 SCT040 31/26 Q1011=
METAR VDSV 010300Z VRB01KT 9999 SCT015 34/26 Q1012=
METAR VLVT 010300Z 06004KT 8000 SCT016 BKN040 BKN083 25/25 Q1013
NOSIG=
METAR VYMD 010300Z NIL=
METAR VYYY 010300Z 27005KT 7000 SCT018 FEW020CB 30/25 Q1012=
METAR VYNT 010300Z NIL=


......................................................................................


Date: 01-Jun-2563

SAAE34 VTBB 010300
METAR VVCI 010300Z 18009KT 140V210 9999 FEW023 32/26 Q1007 NOSIG=
METAR VVCR 010300Z 11008KT 9999 FEW015 33/26 Q1012 NOSIG=
METAR VVCT 010300Z 25002KT 9999 FEW015 34/25 Q1011
NOSIG=
METAR VVNB 010300Z VRB03KT 9999 FEW026 33/25 Q1007 NOSIG=
METAR VVPB 010300Z 21005KT 9999 FEW020 SCT080 33/27 Q1011 NOSIG=
METAR VVPQ 010300Z 28006KT 230V310 9999 FEW017 32/26 Q1011 NOSIG=
METAR VVTS 010300Z VRB02KT 8000 SCT017 SCT050 32/26 Q1011 NOSIG =
METAR VVDN 010300Z NIL=


......................................................................................


Date: 01-Jun-2563

SASD31 OEJD 010300 RRA
METAR OEDF 010300Z 30007KT CAVOK 29/07 Q1004 NOSIG=


......................................................................................


Date: 01-Jun-2563

SAAU32 AMMC 010300 CCA
METAR YAMB 010300Z 33008KT 9999 FEW036 SCT072 BKN280 24/14 Q1014
NOSIG=


......................................................................................


Date: 01-Jun-2563

SAAU60 AMMC 010300 CCB
METAR YAMB 010300Z 33008KT 9999 FEW036 SCT072 BKN280 24/14 Q1014
NOSIG=


......................................................................................


Date: 01-Jun-2563

SAAU60 AMMC 010300 CCC
METAR YBCS 010300Z AUTO 10005KT 070V130 9999 // SCT029 SCT036 SCT041 26/20
Q1015
NOSIG=


......................................................................................


Date: 01-Jun-2563

SAAU65 AMMC 010300 CCA
SPECI YMML 010301Z 27021G31KT 9999 -SHRA FEW022 BKN052 BKN100 10/04 Q1006=


......................................................................................


Date: 01-Jun-2563

SAJP51 RJTD 010300 RRA
METAR RJFF 010300Z 34003KT 240V050 9999 FEW005 SCT008 BKN012 22/19
Q1010 NOSIG=
METAR RJFG 010300Z 10006KT 060V130 9999 FEW005 SCT015 BKN/// 24/21
Q1011=
METAR RJFK 010300Z 18003KT 130V210 9999 VCSH FEW009 BKN013 BKN025
23/21 Q1011=
METAR RJFM 010300Z 07004KT 9999 FEW010 SCT013 BKN017 23/21 Q1010=
METAR RJFO 010300Z 12008KT 9999 FEW009 SCT020 BKN130 21/19 Q1010=
METAR RJFR 010300Z 07012KT 9999 -SHRA FEW005 BKN030 BKN090 20/19
Q1010=
METAR RJFS 010300Z 19004KT 140V240 9999 FEW005 SCT020 BKN030 23/20
Q1009=
METAR RJFT 010300Z 21005KT 170V240 9999 BKN025 24/21 Q1010=
METAR RJFU 010300Z VRB02KT 9999 FEW010 SCT015 BKN020 24/21 Q1009=
METAR RJGG 010300Z 26007KT 9999 FEW025 BKN035 23/16 Q1010 BECMG
24005KT=
METAR RJKA 010300Z 11004KT 060V150 9999 FEW012 SCT015 BKN020 26/24
Q1011=
METAR RJKI 010300Z AUTO 30004KT 260V350 9999 SCT042 27/24 Q1011=
METAR RJNK 010300Z 33009KT 9999 FEW030 SCT050 OVC230 24/16 Q1008=
METAR RJNS 010300Z 06005KT 010V100 9999 VCSH FEW004 BKN012 BKN020
21/21 Q1011=
METAR RJNT 010300Z 31007KT 9999 FEW030 BKN/// 26/17 Q1008=
METAR RJNW 010300Z VRB04KT 9999 FEW040 BKN100 BKN/// 23/15 Q1009=
METAR RJOA 010300Z 13003KT 080V170 9999 FEW010 BKN020 BKN/// 20/18
Q1011=
METAR RJOB 010300Z 17004KT 140V200 9999 FEW015 SCT020 BKN040 22/18
Q1011=
METAR RJOC 010300Z 22010KT 9999 FEW025 SCT035 BKN050 26/18 Q1008=
METAR RJOH 010300Z 25010KT 9999 FEW040 BKN045 BKN100 26/18 Q1008=


......................................................................................


Date: 01-Jun-2563

SAJP51 RJTD 010300 RRB
METAR RJOK 010300Z 19007KT 170V230 9999 FEW020 SCT050 BKN/// 23/19
Q1011=
METAR RJOM 010300Z 01010KT 9999 FEW015 BKN035 BKN060 22/18 Q1010=
METAR RJOO 010300Z VRB02KT 9999 FEW030 SCT040 BKN/// 26/17 Q1009=
METAR RJOR 010300Z 15008KT 120V180 9999 FEW040 SCT120 BKN/// 28/18
Q1008=
METAR RJOS 010300Z 08006KT 050V110 9999 FEW015 BKN/// 22/16 Q1010=
METAR RJOT 010300Z VRB01KT 9999 FEW015 SCT025 BKN060 23/18 Q1011=
METAR RJOW 010300Z 21008KT 9999 -SHRA FEW015 SCT025 BKN035 25/19
Q1009=
METAR RJOY 010300Z VRB03KT 9999 FEW030 BKN/// 27/17 Q1009=
METAR RJSA 010300Z 04006KT 010V070 9999 FEW045 BKN/// 23/08 Q1009=
METAR RJSC 010300Z 14004KT 060V180 9999 FEW050 SCT100 BKN/// 26/16
Q1010=
METAR RJSD 010300Z AUTO VRB02KT 9999 FEW046 SCT049 OVC050 23/15
Q1009=
METAR RJSF 010300Z 18009KT 9999 FEW010 BKN012 BKN015 18/18 Q1013=
METAR RJSI 010300Z 18012KT 140V220 9999 FEW020 SCT025 BKN/// 25/14
Q1011=
METAR RJSK 010300Z 16006KT 110V210 9999 FEW045 BKN140 BKN/// 26/12
Q1009=
METAR RJSM 010300Z 09010KT 9999 FEW030 BKN250 22/14 Q1009=
METAR RJSN 010300Z 13007KT 9999 FEW030 SCT050 BKN070 24/13 Q1009=
METAR RJSR 010300Z 33006KT 280V020 9999 FEW040 BKN/// 25/14 Q1009=
METAR RJSS 010300Z 16018KT 9999 FEW020 BKN120 BKN150 20/14 Q1011=
METAR RJSY 010300Z 27009KT 9999 FEW040 SCT090 BKN110 22/16 Q1009=
METAR RJTF 010300Z 34003KT 290V020 7000 FEW006 SCT012 BKN020 20/19
Q1012=


......................................................................................


Date: 01-Jun-2563

SAJP51 RJTD 010300 RRC
METAR RJTI 010300Z VRB01KT 9999 VCSH FEW010 SCT020 BKN030 22/19
Q1012=
METAR RJTO 010300Z 06007KT 360V100 9999 -SHRA FEW001 BKN010 BKN030
21/20 Q1011=
METAR RJTT 010300Z 35004KT 9999 -RA FEW015 SCT025 BKN040 21/18 Q1012
NOSIG=
METAR ROAH 010300Z 35008KT 9999 SCT010 BKN/// 27/25 Q1012=
METAR ROIG 010300Z 20015KT 9999 FEW009 BKN017 30/28 Q1011=
METAR ROMD 010300Z AUTO 22016KT 9999 BKN007 BKN009 29/25 Q1013=
METAR ROMY 010300Z 22013KT 9999 SCT011 SCT017 30/26 Q1011=
METAR RORK 010300Z AUTO 23014KT 9999 NSC 29/25 Q1012=
METAR RORS 010300Z 19009KT 170V230 9999 FEW011 BKN050 30/28 Q1011=
METAR RORY 010300Z AUTO 33006KT 9999 SCT017 BKN021 BKN025 26/24
Q1011=
METAR ROYN 010300Z AUTO 11007KT 080V170 9999 FEW021 30/25 Q1010=


......................................................................................


Date: 01-Jun-2563

SAJP51 RJTD 010300
METAR RJAA 010300Z 14011KT 9999 FEW010 BKN020 BKN030 22/18 Q1012
NOSIG=
METAR RJAF 010300Z 15010KT 9999 FEW050 SCT060 BKN/// 22/14 Q1011=
METAR RJAH 010300Z 17007KT 9999 FEW015 BKN020 BKN040 21/16 Q1012=
METAR RJBB 010300Z 27005KT 9999 FEW025 OVC/// 22/19 Q1010 NOSIG=
METAR RJBD 010300Z 23004KT 140V290 9999 FEW030 BKN/// 23/17 Q1010=
METAR RJBE 010300Z 23006KT 9999 FEW025 BKN/// 22/18 Q1010=
METAR RJBT 010300Z 20007KT 9999 FEW030 SCT070 BKN/// 25/18 Q1009=
METAR RJCB 010300Z 12011KT 9999 FEW060 26/08 Q1009=
METAR RJCC 010300Z 17013KT 9999 FEW040 23/09 Q1009=
METAR RJCH 010300Z 16008KT 9999 FEW025 SCT/// 20/10 Q1009=
METAR RJCK 010300Z 17011KT 140V200 9999 PRFG FEW001 13/10 Q1011=
METAR RJCM 010300Z 35009KT CAVOK 25/04 Q1009=
METAR RJCN 010300Z 17007KT 120V220 9999 FEW035 24/13 Q1009=
METAR RJCO 010300Z 13014KT 9999 FEW030 27/10 Q1008=
METAR RJCW 010300Z 20018KT 9999 FEW020 24/08 Q1008=
METAR RJDC 010300Z 07011KT 5000 -SHRA BR FEW015 BKN030 BKN040 20/19
Q1010=
METAR RJDT 010300Z VRB05KT 9999 FEW015 BKN/// 22/19 Q1009=
METAR RJEB 010300Z 11011KT 9999 FEW050 22/07 Q1009=
METAR RJEC 010300Z VRB04KT 9999 FEW040 25/09 Q1009=
METAR RJFE 010300Z 36008KT 310V060 9999 FEW010 SCT015 BKN/// 24/21
Q1010=


......................................................................................


Date: 01-Jun-2563

SATR31 UTAA 010300
METAR UTAA 010300Z 36004KT 320V020 9999 SCT099 25/14 Q1011
R88/CLRD70 NOSIG=
METAR UTAK 010300Z 18016KT 9999 SCT006 18/15 Q1011 R16R/CLRD70 TEMPO
BKN003=
METAR UTAV 010300Z VRB02KT CAVOK 29/07 Q1008 R31/CLRD70 NOSIG=
METAR UTAM 010300Z 00000KT CAVOK 26/08 Q1008 R88/CLRD70 NOSIG=
METAR UTAT 010300Z 26008KT 230V290 CAVOK 28/11 Q1009 NOSIG=


......................................................................................


Date: 01-Jun-2563

SAHK31 VHHH 010300
METAR VHHH 010300Z 21010KT 9999 FEW012 SCT028 32/26 Q1011 NOSIG=
METAR RCTP 010300Z 25015KT 9999 FEW020 SCT100 32/26 Q1011 NOSIG
RMK A2988=
METAR RCKH 010300Z 26008KT 220V280 9999 FEW012 SCT020 32/24 Q1012
NOSIG RMK A2989=
METAR RCSS 010300Z 31006KT 280V040 9999 FEW020 SCT035 33/27 Q1011
NOSIG RMK A2986=
METAR RCMQ 010300Z 25009KT 9999 FEW016 SCT200 32/23 Q1013 NOSIG
RMK A2992=
METAR RCNN 010300Z 23006KT 9999 FEW014 SCT200 32/25 Q1012 NOSIG
RMK A2989=
METAR RCFN 010300Z 14007KT 090V190 9999 FEW014 32/27 Q1012 NOSIG
RMK A2990=
METAR VMMC 010300Z 20013KT 9999 FEW018 31/27 Q1011 NOSIG=
METAR RPLL 010300Z VRB09KT 9999 FEW025 SCT300 33/25 Q1012 NOSIG RMK
A2988=
METAR RPVM 010300Z 04007KT VCSH 360V090 9999 FEW018CB 32/24 Q1012
RMK
A2988 CB/VCSH S=
METAR RPMD 010300Z VRB03KT 9999 SCT016 SCT090 32/25 Q1011 RMK A2985=
METAR RPLB 010300Z 07009KT 9999 FEW020 33/22 Q1013 NOSIG RMK A2991=
METAR RPLI 010300Z 27008KT 9999 FEW018 32/26 Q1012 NOSIG RMK A2988=
METAR RPMZ 010300Z VRB02KT 9999 FEW016CB FEW017 BKN090 29/25 Q1012
RESHRA RMK A2988 CB NE-E,S=


......................................................................................


Date: 01-Jun-2563

SAJP31 RJTD 010300
METAR RJAA 010300Z 14011KT 9999 FEW010 BKN020 BKN030 22/18 Q1012
NOSIG=
METAR RJBB 010300Z 27005KT 9999 FEW025 OVC/// 22/19 Q1010 NOSIG=
METAR RJTT 010300Z 35004KT 9999 -RA FEW015 SCT025 BKN040 21/18 Q1012
NOSIG=
METAR RJOO 010300Z VRB02KT 9999 FEW030 SCT040 BKN/// 26/17 Q1009=
METAR ROAH 010300Z 35008KT 9999 SCT010 BKN/// 27/25 Q1012=
METAR RJGG 010300Z 26007KT 9999 FEW025 BKN035 23/16 Q1010 BECMG
24005KT=
METAR RJCH 010300Z 16008KT 9999 FEW025 SCT/// 20/10 Q1009=
METAR RJSS 010300Z 16018KT 9999 FEW020 BKN120 BKN150 20/14 Q1011=


......................................................................................


Date: 01-Jun-2563

SAJP32 RJTD 010300 RRA
METAR RJFO 010300Z 12008KT 9999 FEW009 SCT020 BKN130 21/19 Q1010=
METAR RJNT 010300Z 31007KT 9999 FEW030 BKN/// 26/17 Q1008=


......................................................................................


Date: 01-Jun-2563

SAJP32 RJTD 010300
METAR RJFF 010300Z 34003KT 240V050 9999 FEW005 SCT008 BKN012 22/19
Q1010 NOSIG=
METAR RJCC 010300Z 17013KT 9999 FEW040 23/09 Q1009=
METAR RJFK 010300Z 18003KT 130V210 9999 VCSH FEW009 BKN013 BKN025
23/21 Q1011=
METAR RJSN 010300Z 13007KT 9999 FEW030 SCT050 BKN070 24/13 Q1009=
METAR RJFT 010300Z 21005KT 170V240 9999 BKN025 24/21 Q1010=
METAR RJFU 010300Z VRB02KT 9999 FEW010 SCT015 BKN020 24/21 Q1009=
METAR RJNK 010300Z 33009KT 9999 FEW030 SCT050 OVC230 24/16 Q1008=
METAR RJOA 010300Z 13003KT 080V170 9999 FEW010 BKN020 BKN/// 20/18
Q1011=
METAR RJOB 010300Z 17004KT 140V200 9999 FEW015 SCT020 BKN040 22/18
Q1011=
METAR RJOT 010300Z VRB01KT 9999 FEW015 SCT025 BKN060 23/18 Q1011=


......................................................................................


Date: 01-Jun-2563

SAJP38 RJTD 010300 RRA
METAR RJCK 010300Z 17011KT 140V200 9999 PRFG FEW001 13/10 Q1011=
METAR RJCM 010300Z 35009KT CAVOK 25/04 Q1009=
METAR RJCB 010300Z 12011KT 9999 FEW060 26/08 Q1009=
METAR RJOC 010300Z 22010KT 9999 FEW025 SCT035 BKN050 26/18 Q1008=
METAR RJOH 010300Z 25010KT 9999 FEW040 BKN045 BKN100 26/18 Q1008=
METAR ROIG 010300Z 20015KT 9999 FEW009 BKN017 30/28 Q1011=
METAR RJFS 010300Z 19004KT 140V240 9999 FEW005 SCT020 BKN030 23/20
Q1009=
METAR RJSI 010300Z 18012KT 140V220 9999 FEW020 SCT025 BKN/// 25/14
Q1011=


......................................................................................


Date: 01-Jun-2563

SAJP38 RJTD 010300
METAR RJNS 010300Z 06005KT 010V100 9999 VCSH FEW004 BKN012 BKN020
21/21 Q1011=
METAR RJSA 010300Z 04006KT 010V070 9999 FEW045 BKN/// 23/08 Q1009=
METAR RJSF 010300Z 18009KT 9999 FEW010 BKN012 BKN015 18/18 Q1013=
METAR RJOM 010300Z 01010KT 9999 FEW015 BKN035 BKN060 22/18 Q1010=
METAR RJOK 010300Z 19007KT 170V230 9999 FEW020 SCT050 BKN/// 23/19
Q1011=
METAR RJFM 010300Z 07004KT 9999 FEW010 SCT013 BKN017 23/21 Q1010=
METAR RJEC 010300Z VRB04KT 9999 FEW040 25/09 Q1009=
METAR RJFR 010300Z 07012KT 9999 -SHRA FEW005 BKN030 BKN090 20/19
Q1010=
METAR RJSK 010300Z 16006KT 110V210 9999 FEW045 BKN140 BKN/// 26/12
Q1009=
METAR RJAH 010300Z 17007KT 9999 FEW015 BKN020 BKN040 21/16 Q1012=


......................................................................................


Date: 01-Jun-2563

SAMS31 WMKK 010300
METAR WBGG 010300Z 07003KT 010V120 9999 FEW005 FEW015CB 29/26 Q1012 NOSIG=
METAR WBKK 010300Z 24005KT 170V300 9999 TS FEW014 FEW016CB 31/27 Q1011 NOSIG=
METAR WBSB 010300Z 23004KT 9999 -TSRA SCT015 FEW016CB SCT140 BKN270 28/25 Q1013 NOSIG=
METAR WMKK 010300Z 21005KT 150V300 8000 VCSH FEW017CB SCT030 27/25 Q1013 NOSIG=
METAR COR WMKP 010300Z 12006KT 070V170 8000 FEW020 31/25 Q1012 NOSIG=
METAR WSSL 010300Z 20011KT 9999 VCSH FEW015 SCT017TCU FEW018CB 29/23 Q1013=
METAR WSSS 010300Z 21005KT 180V270 9999 FEW016 FEW018TCU SCT260 29/24 Q1013 NOSIG=


......................................................................................


Date: 01-Jun-2563

SAOM32 OOMS 010300 RRA
METAR OOSH 010250Z AUTO 23011KT //// ////// 38/17 Q1003=


......................................................................................


Date: 01-Jun-2563

SAPA31 KWBC 010300
METAR
AGGG NIL=
AGGH 010300Z 36008KT 9999 SCT020 FEW021CB 32/24 Q1010 RMK CB ASSW
SH TO S/SW/CB TO ENE=
AGGH 010300Z 36008KT 9999 SCT020 FEW021CB 32/24 Q1010 RMK CB ASSW
SH TO S,SW,CB TO ENE=
ANAU NIL=
AYPY NIL=
PGNT NIL=
PGRO 010250Z 10011KT 7SM SCT015 30/23 A2990=
PGSN 010254Z 10013G19KT 10SM FEW024 32/24 A2993 RMK AO2 SLP154
T03220239 58013=
PGUA 010256Z 11014KT 10SM SCT017 BKN023 30/24 A2994 RMK AO2A CIG
017V025 CIG 017 RWY24L SLP129 T02960235 57010 PWINO $=
PGUM 010254Z COR 11013G25KT 10SM BKN026 31/23 A2993 RMK AO2 SLP126
T03110228 58010=
PGUM 010254Z 11013KT 10SM FEW026 31/23 A2993 RMK AO2 SLP126
T03110228 58010=
PGWT NIL=
PHJH NIL=
PHJR 010253Z 06007KT 360V090 10SM SCT043 29/18 A3003 RMK AO2
SLP174 T02890183 56008=
PHMK 010254Z COR 03011G21KT 10SM FEW030 26/18 A3004 RMK AO2 PK WND
05026/0229 SLP172 T02610183 56010 TSNO=
PHMK 010254Z AUTO 03011G21KT 10SM CLR 26/18 A3004 RMK AO2 PK WND
05026/0229 SLP172 T02610183 56010 TSNO=
PJON NIL=
PKMJ 010255Z 09010KT 156SM FEW015 SCT050 BKN300 31/25 A2986=
PKMR 010251Z 12008KT 15SM FEW015 SCT050 BKN300 30/26 A2984 RMK
SLP108 8/801 T02990256 57015=
PKWA 010300Z AUTO 08010KT 10SM CLR 31/25 A2988 RMK AO2
T03130251=
PLCH 010300Z 11007KT 9999 SCT020 30/22 Q1009=
PMDY 010256Z AUTO 22008KT 7SM 27/24 A3005 RMK AO2 SLP174 T02720239
56014 $=
PTKK 010251Z VRB05KT 15SM FEW014 BKN120 OVC280 31/28 A2982 RMK
SLP100 8/171 T03130276 57022=
PTKR NIL=
PTPN NIL=
PTRO 010250Z 12009KT 15SM SCT016 BKN120 BKN300 31/24 A2987=
PTSA NIL=
PTTP 010252Z 10007KT 13SM -SHRA BKN018TCU OVC300 28/25 A2987 RMK
SHRAB50 TCU ALQDS SLP113 60000 8/201 T02780248 57014=
PTYA 010251Z 10008KT 12SM FEW020 SCT300 31/25 A2988 RMK SLP120
8/101 T03110245 58007=
PWAK 010258Z AUTO 09007KT 9999 FEW023 M A2997 RMK AO2 SLPNO 57016
FZRANO $=


......................................................................................


Date: 01-Jun-2563

SAAU31 AMMC 010300 CCA
METAR YBTL 010300Z 05010KT 9999 FEW030 26/19 Q1016
NOSIG=


......................................................................................


Date: 01-Jun-2563

SAAU31 AMMC 010300 CCB
METAR YPAD 010300Z 23019KT 9999 FEW032 SCT062 14/07 Q1019
NOSIG=


......................................................................................


Date: 01-Jun-2563

SAAU31 AMMC 010300
METAR YBAS 010300Z AUTO 15008KT 110V180 9999 // NCD 19/M00 Q1024=
METAR YBBN 010300Z 03009KT 9999 FEW024 BKN270 22/17 Q1015
NOSIG=
METAR YBCS 010300Z AUTO 10005KT 070V130 9999 // SCT029 SCT036 SCT041 26/20
Q1015
NOSIG=
METAR YBTL 010300Z 05010KT 9999 FEW030 26/19 Q1016=
METAR YMML 010301Z 27021G31KT 9999 -SHRA FEW022 BKN052 BKN100 10/04 Q1006=
METAR YPAD 010300Z 23019KT 9999 FEW032 SCT062 14/07 Q1019=
METAR YPCC 010300Z 14013KT 9999 FEW018 BKN035 27/24 Q1015=
METAR YPDN 010300Z 03003KT CAVOK 31/17 Q1014
NOSIG=
METAR YPKU 010300Z AUTO 15010KT 9999 // NCD 32/M18 Q1016=
METAR YPLM 010300Z AUTO 11004KT 9999 // BKN087 22/07 Q1021=
METAR YPPH 010300Z 09010KT 9999 BKN044 18/12 Q1028
NOSIG=
METAR YPTN 010300Z AUTO 12014KT 9999 // NCD 34/08 Q1015=
METAR YPXM 010300Z AUTO 11008KT 9999 -SHRA OVC011 26/24 Q1015=
METAR YSSY 010300Z 33018KT CAVOK 23/05 Q1005
FM0300 MOD TURB BLW 5000FT=


......................................................................................


Date: 01-Jun-2563

SAJP35 RJTD 010300
METAR RJAA 010300Z 14011KT 9999 FEW010 BKN020 BKN030 22/18 Q1012
NOSIG=
METAR RJBB 010300Z 27005KT 9999 FEW025 OVC/// 22/19 Q1010 NOSIG=
METAR RJTT 010300Z 35004KT 9999 -RA FEW015 SCT025 BKN040 21/18 Q1012
NOSIG=
METAR RJOO 010300Z VRB02KT 9999 FEW030 SCT040 BKN/// 26/17 Q1009=
METAR RJGG 010300Z 26007KT 9999 FEW025 BKN035 23/16 Q1010 BECMG
24005KT=
METAR RJSN 010300Z 13007KT 9999 FEW030 SCT050 BKN070 24/13 Q1009=
METAR RJCH 010300Z 16008KT 9999 FEW025 SCT/// 20/10 Q1009=
METAR RJSA 010300Z 04006KT 010V070 9999 FEW045 BKN/// 23/08 Q1009=
METAR RJSF 010300Z 18009KT 9999 FEW010 BKN012 BKN015 18/18 Q1013=
METAR RJSI 010300Z 18012KT 140V220 9999 FEW020 SCT025 BKN/// 25/14
Q1011=


......................................................................................


Date: 01-Jun-2563

SAJP37 RJTD 010300 RRA
METAR RJFR 010300Z 07012KT 9999 -SHRA FEW005 BKN030 BKN090 20/19
Q1010=


......................................................................................


Date: 01-Jun-2563

SAJP37 RJTD 010300
METAR RJAA 010300Z 14011KT 9999 FEW010 BKN020 BKN030 22/18 Q1012
NOSIG=
METAR RJBB 010300Z 27005KT 9999 FEW025 OVC/// 22/19 Q1010 NOSIG=
METAR RJTT 010300Z 35004KT 9999 -RA FEW015 SCT025 BKN040 21/18 Q1012
NOSIG=
METAR RJOO 010300Z VRB02KT 9999 FEW030 SCT040 BKN/// 26/17 Q1009=
METAR RJFF 010300Z 34003KT 240V050 9999 FEW005 SCT008 BKN012 22/19
Q1010 NOSIG=
METAR RJGG 010300Z 26007KT 9999 FEW025 BKN035 23/16 Q1010 BECMG
24005KT=
METAR RJFK 010300Z 18003KT 130V210 9999 VCSH FEW009 BKN013 BKN025
23/21 Q1011=
METAR RJFU 010300Z VRB02KT 9999 FEW010 SCT015 BKN020 24/21 Q1009=
METAR RJCH 010300Z 16008KT 9999 FEW025 SCT/// 20/10 Q1009=
METAR RJNS 010300Z 06005KT 010V100 9999 VCSH FEW004 BKN012 BKN020
21/21 Q1011=


......................................................................................


Date: 01-Jun-2563

SAMS31 WMKK 010300
METAR WBGG 010300Z NIL=
METAR WBKK 010300Z NIL=
METAR WBSB 010300Z NIL=
METAR WMKK 010300Z NIL=
METAR WMKP 010300Z NIL=
METAR WSSL 010300Z 20011KT 9999 VCSH FEW015 SCT017TCU FEW018CB 29/23
Q1013=
METAR WSSS 010300Z 21005KT 180V270 9999 FEW016 FEW018TCU SCT260 29/24
Q1013 NOSIG=


......................................................................................


Date: 01-Jun-2563

SAMS32 WMKK 010300
NIL


......................................................................................


Date: 01-Jun-2563

SAMS33 WMKK 010300
METAR WMAU 010300Z VRB04KT 9000 SCT020 32/27 Q1013=
METAR WMBA 010300Z VRB03KT 9999 FEW017CB 31/27 Q1012=
METAR WMKA 010300Z 19003KT 140V310 9999 FEW020 30/27 Q1011=
METAR WMKB 010300Z 09003KT 020V150 9999 FEW020 30/25 Q1011 NOSIG=
METAR WMKC 010300Z VRB05KT 9999 FEW018 31/24 Q1012=
METAR WMKD 010300Z VRB03KT 9999 FEW020 31/26 Q1012 NOSIG=
METAR WMKE 010300Z VRB03KT 9999 SCT014 33/27 Q1011=
METAR WMKI 010300Z VRB03KT 9999 FEW017CB 30/25 Q1012=
METAR WMKL 010300Z VRB01KT 9999 FEW022 30/27 Q1012=
METAR WMKM 010300Z VRB05G18KT 9999 FEW017CB 28/25 Q1014=
METAR WMKN 010300Z 18004KT 110V260 9999 FEW018 32/25 Q1011=


......................................................................................


Date: 01-Jun-2563

SAMS34 WMKK 010300
NIL


......................................................................................


Date: 01-Jun-2563

SASD20 OEJD 010300
METAR OEAB 010300Z 00000KT CAVOK 18/06 Q1024 NOSIG=
METAR OEAH 010300Z 31005KT CAVOK 31/04 Q1005 NOSIG=
METAR OEAO 010300Z NIL=
METAR OEAR 010300Z NIL=
METAR OEBA 010300Z 33011KT CAVOK 25/02 Q1019 NOSIG=
METAR OEBH 010300Z 19003KT CAVOK 23/01 Q1015 NOSIG=
METAR OEDF 010300Z 30007KT CAVOK 29/07 Q1004 NOSIG=
METAR OEDM 010300Z NIL=
METAR OEDR 010300Z 27005KT CAVOK 31/14 Q1002 NOSIG=
METAR OEGN 010300Z 00000KT 9000 FEW030 30/25 Q1006 NOSIG=
METAR OEGS 010300Z 27003KT CAVOK 26/07 Q1010=
METAR OEGT 010300Z 26012KT CAVOK 17/05 Q1012 NOSIG=
METAR OEHL 010300Z 00000KT CAVOK 25/00 Q1012 NOSIG=
METAR OEJB 010300Z NIL=
METAR OEJN 010300Z 32006KT CAVOK 25/18 Q1007 NOSIG=
METAR OEKJ 010300Z 28006KT CAVOK 29/01 Q1012=
METAR OEKK 010300Z NIL=


......................................................................................


Date: 01-Jun-2563

SASD21 OEJD 010300
METAR OEKM 010300Z 23004KT CAVOK 20/08 Q1023 NOSIG=
METAR OEMA 010300Z 00000KT CAVOK 29/00 Q1011 NOSIG=
METAR OEMK 010300Z NIL=
METAR OENG 010300Z 00000KT CAVOK 23/09 Q1015 NOSIG=
METAR OEPA 010300Z 02006KT CAVOK 27/07 Q1008 NOSIG=
METAR OERF 010300Z 10006KT CAVOK 29/00 Q1009=
METAR OERK 010300Z 00000KT CAVOK 26/08 Q1011 NOSIG=
METAR OERR 010300Z 06007KT CAVOK 22/M01 Q1009=
METAR OERY 010300Z NIL=
METAR OESH 010300Z 09008KT 4000 DU NSC 27/07 Q1011 NOSIG=
METAR OESK 010300Z 08007KT CAVOK 25/00 Q1012=
METAR OETB 010300Z 31012KT CAVOK 21/05 Q1013 NOSIG=
METAR OETF 010300Z 23004KT CAVOK 23/02 Q1019 NOSIG=
METAR OETR 010300Z 03008KT CAVOK 19/08 Q1013=
METAR OEWD 010300Z 08008KT CAVOK 27/12 Q1009 NOSIG=
METAR OEWJ 010300Z 07004KT 8000 NSC 22/21 Q1007 NOSIG=
METAR OEYN 010300Z 27012KT CAVOK 23/20 Q1004 NOSIG=


......................................................................................


Date: 01-Jun-2563

SAIR36 OIII 010300 RRA
METAR OIMT 010300Z AUTO 21004KT //// // ////// 33/01 Q1008=


......................................................................................


Date: 01-Jun-2563

SAMS33 WMKK 010300
NIL


......................................................................................


Date: 01-Jun-2563

SAAE34 VTBB 010300 RRA
METAR VVDN 010300Z VRB01KT 9999 FEW015 36/24 Q1011 NOSIG=


......................................................................................


Date: 01-Jun-2563

SAAU32 AMMC 010300 CCB
METAR YWLM 010300Z 33011KT CAVOK 23/10 Q1007
NOSIG=


......................................................................................


Date: 01-Jun-2563

SAAU69 AMMC 010300 CCB
METAR YWLM 010300Z 33011KT CAVOK 23/10 Q1007
NOSIG=


......................................................................................


Date: 01-Jun-2563

SAMS34 WMKK 010300 RRA
METAR WBKT 010300Z 08004KT 330V120 9999 FEW015 BKN290 32/24 Q1011=


......................................................................................


Date: 01-Jun-2563

SAMS38 WMKK 010300
METAR WBGB 010300Z VRB01KT 8000 RA FEW003 SCT014 OVC140 25/25 Q1013=
METAR WBGR 010300Z 20006KT 9999 -RA SCT014 BKN150 26/25 Q1012=
METAR WBGS 010300Z 00000KT 9999 RA FEW009 SCT016 BKN150 26/25 Q1013=
METAR WBKL 010300Z 00000KT 9999 TS FEW010 FEW017CB BKN260 27/27
Q1012=
METAR WBKS 010300Z VRB04KT 9999 SCT016 32/25 Q1011=
METAR WBKW 010300Z 19009KT 120V280 9999 VCSH FEW016CB 31/26 Q1011=
METAR WMKD 010300Z VRB03KT 9999 FEW020 31/26 Q1012 NOSIG=
METAR WMKL 010300Z VRB01KT 9999 FEW022 30/27 Q1012=
METAR WMKM 010300Z VRB05G18KT 9999 FEW017CB 28/25 Q1014=


......................................................................................


Date: 01-Jun-2563

SAUZ31 UTTW 010300
METAR UTFN 010300Z 08006KT 050V110 9999 NSC 29/06 Q1010 R28/CLRD70
NOSIG=
METAR UTNN 010300Z VRB02KT CAVOK 29/04 Q1009 R33/CLRD60 NOSIG=
METAR UTNU 010300Z VRB02KT CAVOK 29/12 Q1008 R31/CLRD70 NOSIG=
METAR UTSA 010300Z 09010KT 9999 NSC 28/08 Q1008 R07/CLRD70 NOSIG=
METAR UTSB 010300Z 06006KT 030V100 CAVOK 27/10 Q1008 R01/CLRD70
NOSIG=
METAR UTSK 010300Z 12004KT 090V150 CAVOK 25/10 Q1009 R16/CLRD70=
METAR UTSS 010300Z 16012KT 9999 NSC 26/10 Q1010 R09/CLRD70 NOSIG=
METAR UTST 010300Z 00000KT CAVOK 28/10 Q1009 R88/CLRD70 NOSIG=
METAR UTFA 010300Z NIL=
METAR UTFF 010300Z VRB02KT 9999 NSC 28/05 Q1011 R99/CLRD70=
METAR UTTT 010300Z 07008KT CAVOK 28/10 Q1009 R08R/CLRD70 NOSIG=


......................................................................................


Date: 01-Jun-2563

SAAR20 OEJD 010300
METAR OBBI 010300Z 29011KT CAVOK 32/22 Q1003 NOSIG=
METAR OKBK 010300Z 36010KT CAVOK 33/06 Q1005 NOSIG=
METAR OMAA 010300Z 21008KT 6000 NSC 34/20 Q1005 TEMPO 4000 DU=
METAR OMAD 010300Z 20005KT 140V240 7000 NSC 33/21 Q1005 TEMPO 4000
DU=
METAR OMAL 010300Z 17013KT 8000 NSC 32/21 Q1009 NOSIG=
METAR OMDB 010300Z 22006KT CAVOK 34/21 Q1005 NOSIG=
METAR OMFJ 010300Z 10002KT 7000 NSC 35/26 Q1004 RMK A2965=
METAR OMRK 010300Z 23002KT 8000 NSC 33/20 Q1005 A2969=
METAR OMSJ 010300Z 19005KT CAVOK 34/20 Q1005 NOSIG=
METAR OOMS 010250Z 23011KT CAVOK 37/22 Q1004 NOSIG=
METAR OOSA 010250Z 09007KT 8000 FEW012 OVC030 28/27 Q1007 NOSIG=
METAR OOSH 010250Z AUTO 23011KT //// ////// 38/17 Q1003 RMK 0999=
METAR OODQ 010250Z AUTO 22011KT //// R22///// BKN009 BKN021 29/27
Q1008 NOSIG RMK RH90? 0=
METAR OTBD 010300Z AUTO 18006KT 140V220 CAVOK 30/23 Q1005 NOSIG=
METAR OTBH 010300Z NIL=
METAR OTHH 010300Z NIL=
METAR OYAA 010300Z NIL=
METAR OYSN 010300Z NIL=


......................................................................................


Date: 01-Jun-2563

SAAU61 AMMC 010300
METAR YBHI 010300Z AUTO 24020KT 9999 // BKN045 BKN052 13/01 Q1018=
METAR YBHM 010300Z AUTO 15009KT 9999 // NCD 23/19 Q1017=
METAR YBLN 010300Z AUTO 29002KT //// // ////// 18/12 Q1028=
METAR YBMA 010300Z AUTO 18014KT 9999 // NCD 27/01 Q1019=
METAR YBMK 010300Z AUTO 08007KT 9999 // NCD 24/17 Q1016=
METAR YBNA 010300Z AUTO 36011KT 9999 // NCD 24/14 Q1013=
METAR YBOK 010300Z 30016KT 9999 FEW048 BKN300 23/09 Q1015
NOSIG=
METAR YBPN 010300Z AUTO 11007KT 9999 // BKN034 BKN052 26/18 Q1016=
METAR YBRK 010300Z AUTO 01006KT 350V050 9999 // NCD 26/13 Q1016=
METAR YBRM 010300Z AUTO 12015KT 9999 // NCD 28/06 Q1018=


......................................................................................


Date: 01-Jun-2563

SAAU62 AMMC 010300
METAR YBTL 010300Z 05010KT 9999 FEW030 26/19 Q1016
NOSIG=
METAR YBUD 010300Z AUTO 08008KT 040V100 9999 // SCT025 BKN031 BKN036 23/16
Q1016=
METAR YBWP 010300Z AUTO 13008KT 9999 // NCD 31/19 Q1013=
METAR YBWX 010300Z AUTO 08021KT //// // ////// 23/14 Q1019=
METAR YCAS 010300Z AUTO 35013KT //// // ////// 24/13 Q1013=
METAR YCBA 010300Z AUTO 25015KT 6000 // BKN045 BKN054 15/03 Q1014=
METAR YCBB 010300Z AUTO 31019KT 9999 // NCD 17/04 Q1011=
METAR YCBP 010300Z AUTO 20015KT 9999 // BKN035 17/08 Q1023=
METAR YCCY 010300Z AUTO 18014KT 9999 // NCD 29/M00 Q1018=


......................................................................................


Date: 01-Jun-2563

SAAU63 AMMC 010300
METAR YCDU 010300Z AUTO 20010KT 9999 // BKN032 BKN043 BKN050 15/09 Q1024=
METAR YCIN 010300Z AUTO 13014KT 9999 // NCD 28/08 Q1017=
METAR YCNM 010300Z AUTO 28018KT //// // ////// 19/05 Q1012=
METAR YCOM 010300Z AUTO 31014KT 9999 // ////// 10/01 Q1005=
METAR YDBY 010300Z AUTO 13014KT 9999 // NCD 29/09 Q1017=
METAR YEML 010300Z AUTO 36004KT 9999 // NCD 27/11 Q1016=
METAR YESP 010300Z AUTO 27007KT 5000 // BKN006 BKN010 OVC018 14/14 Q1028=
METAR YFRT 010300Z AUTO 18009KT 9999 // BKN028 OVC033 16/10 Q1027=
METAR YGEL 010300Z AUTO 07009KT 9999 // NCD 19/12 Q1027=


......................................................................................


Date: 01-Jun-2563

SAAU64 AMMC 010300
METAR YGFN 010300Z AUTO 34008KT 9999 // NCD 24/11 Q1012=
METAR YGLA 010300Z AUTO 04009KT 7000 // NCD 25/16 Q1016=
METAR YGTE 010300Z AUTO 23003KT 9999 // NCD 30/22 Q1015=
METAR YGTH 010300Z AUTO 25021KT 9999 // SCT029 BKN038 OVC044 11/05 Q1011=
METAR YHID 010300Z AUTO 11014KT 9999 // NCD 30/23 Q1013=
METAR YHUG 010300Z AUTO 23011KT 9999 // NCD 29/06 Q1017=
METAR YKRY 010300Z AUTO 33012KT 9999 // SCT034 22/12 Q1016=
METAR YLEC 010300Z AUTO 19016KT 9999 // NCD 15/02 Q1021=
METAR YLIS 010300Z AUTO 33015KT 9999 // NCD 24/13 Q1013=


......................................................................................


Date: 01-Jun-2563

SAAU66 AMMC 010300
METAR YMTG 010300Z AUTO 23020KT 9999 // SCT037 SCT059 11/05 Q1014=
METAR YNAR 010300Z AUTO 27014KT 9999 // OVC025 OVC035 10/05 Q1010=
METAR YNBR 010300Z AUTO 31012KT 9999 // SCT096 SCT110 22/04 Q1012=
METAR YNTN 010300Z AUTO 16006KT 070V200 9999 // NCD 31/09 Q1015=
METAR YNWN 010300Z AUTO 08011KT 9999 // NCD 20/02 Q1025=
METAR YOLD 010300Z AUTO 19014KT 9999 // BKN046 16/03 Q1022=
METAR YPAD 010300Z 23019KT 9999 FEW032 SCT062 14/07 Q1019
NOSIG=
METAR YPBO 010300Z AUTO /////KT 9999 // NCD 21/01 Q1024=
METAR YPCC 010300Z 14013KT 9999 FEW018 BKN035 27/24 Q1015=


......................................................................................


Date: 01-Jun-2563

SAAU67 AMMC 010300
METAR YPDN 010300Z 03003KT CAVOK 31/17 Q1014
NOSIG=
METAR YPEA 010300Z AUTO 09010KT 9999 // OVC042 18/10 Q1028=
METAR YPGV 010300Z 11010KT 9999 FEW030 30/17 Q1014=
METAR YPKG 010300Z AUTO 09005KT 040V120 9999 // SCT029 17/09 Q1028=
METAR YPKU 010300Z AUTO 15010KT 9999 // NCD 32/M18 Q1016=
METAR YPLM 010300Z AUTO 11004KT 9999 // BKN087 22/07 Q1021=
METAR YPPD 010300Z AUTO 11016KT 9999 // NCD 25/01 Q1021=
METAR YPPH 010300Z 09010KT 9999 BKN044 18/12 Q1028
NOSIG=
METAR YPTN 010300Z AUTO 12014KT 9999 // NCD 34/08 Q1015=


......................................................................................


Date: 01-Jun-2563

SAAU68 AMMC 010300
METAR YCFS 010300Z AUTO 36010KT 9999 // NCD 23/12 Q1011=
METAR YPWR 010300Z AUTO 19015KT 9999 // OVC041 15/04 Q1023=
METAR YPXM 010300Z AUTO 11008KT 9999 -SHRA OVC011 26/24 Q1015=
METAR YRMD 010300Z AUTO 21011KT 9999 // NCD 30/06 Q1016=
METAR YSCB 010300Z AUTO 32019KT 9999 // BKN025 BKN052 OVC063 10/05 Q1007
FM0330 35012KT 9999 -SHRA SCT020 SCT040
TEMPO 0300/0600 3000 SHRA BKN008=
METAR YSDU 010300Z AUTO 29018KT 9999 // OVC056 16/05 Q1011=
METAR YSNF 010300Z 25010KT 9999 BKN028 20/13 Q1019=
METAR YSNW 010300Z 29016KT CAVOK 19/04 Q1005
FM0300 MOD TURB BLW 5000FT
TL0400
FM0400 SEV TURB BLW 5000FT=
METAR YSRI 010300Z AUTO 34013KT 9999 // NCD 22/07 Q1005=
METAR YSSY 010300Z 33018KT CAVOK 23/05 Q1005
FM0300 MOD TURB BLW 5000FT=


......................................................................................


Date: 01-Jun-2563

SAKO51 RJTD 010300
METAR RKJJ 010300Z 33006KT 9999 SCT030 24/15 Q1012 RMK SLP120 8/500
9/300=
METAR RKPC 010300Z 27006KT 3500 BR BKN004 BKN020 OVC120 18/16 Q1013
NOSIG=
METAR RKPK 010300Z 26005KT 9999 FEW040 BKN200 27/15 Q1008=
METAR RKPS 010300Z 22005KT 9999 SCT040 SCT200 27/19 Q1009 RMK
SLP098=
METAR RKSI 010300Z 26013KT CAVOK 21/11 Q1010 NOSIG=
METAR RKSM 010300Z 30010KT 9999 FEW030 25/09 A2983=
METAR RKSS 010300Z 27010KT 220V330 9999 FEW025 23/12 Q1010 NOSIG=
METAR RKTN 010300Z 30014KT 9999 FEW050 SCT200 28/12 Q1008 RMK SLP084
8/505 9/201=
METAR RKTU 010300Z 32010KT 9999 FEW040 24/10 Q1010 RMK SLP102 8/500
9/100=


......................................................................................


Date: 01-Jun-2563

SANG31 AMMC 010300
METAR AYMO NIL=
METAR AYPY 010300Z 15015G25KT 9999 SCT025 SCT040 30/25 Q1011
RMK: CB TO N=


......................................................................................


Date: 01-Jun-2563

SAPA31 KWBC 010300 RRA
METAR
AYPY 010300Z 15015G25KT 9999 SCT025 SCT040 30/25 Q1011 RMK: CB TO
N=


......................................................................................


Date: 01-Jun-2563

SACI51 RJTD 010300
METAR ZBAA 010300Z VRB01MPS CAVOK 26/11 Q1006 BECMG TL0440 19005MPS=
METAR ZBTJ 010300Z 23004MPS 180V280 CAVOK 29/06 Q1007 NOSIG=
METAR ZBYN 010300Z VRB02MPS 7000 -TSRA SCT040CB 17/13 Q1011 RESHRA
BECMG TL0430 21005MPS NSW=
METAR ZGGG 010300Z 04003MPS 340V110 8000 -SHRA FEW016 FEW040CB
BKN040 29/26 Q1009 BECMG AT0340 TSRA=
METAR ZGKL 010300Z 04003MPS 360V080 9999 FEW006 25/24 Q1010 NOSIG=
METAR ZGNN 010300Z 12003MPS 090V160 9999 SCT016 31/26 Q1009 NOSIG=
METAR ZGOW 010300Z 24003MPS 210V280 9999 FEW015 FEW021TCU BKN026
30/28 Q1011 BECMG AT0325 VRB09G15MPS 2100 TSRA=
METAR ZGSZ 010300Z 18007MPS 9999 TS FEW020CB SCT020 30/27 Q1011
BECMG AT0350 NSW FEW020 SCT040=
METAR ZLXY 010300Z 23003MPS 160V280 CAVOK 26/15 Q1012 NOSIG=
METAR ZPPP 010300Z 23006MPS 9999 FEW026TCU SCT026 22/13 Q1021 NOSIG=
METAR ZSAM 010300Z 24003MPS 170V300 9999 SCT020 SCT033 FEW033CB
31/26 Q1011 NOSIG=
METAR ZSHC 010300Z 21002MPS 160V260 9999 FEW033 30/20 Q1011 NOSIG=
METAR ZSNJ 010300Z 12003MPS 080V180 9000 NSC 31/20 Q1011 NOSIG=
METAR ZSQD 010300Z 18006MPS CAVOK 27/12 Q1012 NOSIG=
METAR ZSSS 010300Z 16004MPS 130V190 CAVOK 29/20 Q1012 NOSIG=
METAR ZWWW 010300Z VRB01MPS CAVOK 29/03 Q1014 NOSIG=
METAR ZYTL 010300Z 29005MPS CAVOK 25/12 Q1009 NOSIG=
METAR ZYTX 010300Z 29005MPS 250V310 CAVOK 22/11 Q1007 NOSIG=


......................................................................................


Date: 01-Jun-2563

SANP31 VNKT 010320
METAR VNKT 010320Z VRB02KT 6000 FEW010 SCT030 BKN100 20/20 Q1018
NOSIG=


......................................................................................


Date: 01-Jun-2563

SAPA31 KWBC 010300
METAR
AGGG NIL=
AGGH 010300Z 36008KT 9999 SCT020 FEW021CB 32/24 Q1010 RMK CB ASSW
SH TO S/SW/CB TO ENE=
AGGH 010300Z 36008KT 9999 SCT020 FEW021CB 32/24 Q1010 RMK CB ASSW
SH TO S,SW,CB TO ENE=
ANAU NIL=
AYPY NIL=
PGNT NIL=
PGRO 010250Z 10011KT 7SM SCT015 30/23 A2990=
PGSN 010254Z 10013G19KT 10SM FEW024 32/24 A2993 RMK AO2 SLP154
T03220239 58013=
PGUA 010256Z 11014KT 10SM SCT017 BKN023 30/24 A2994 RMK AO2A CIG
017V025 CIG 017 RWY24L SLP129 T02960235 57010 PWINO ?=
PGUM 010254Z COR 11013G25KT 10SM BKN026 31/23 A2993 RMK AO2 SLP126
T03110228 58010=
PGUM 010254Z 11013KT 10SM FEW026 31/23 A2993 RMK AO2 SLP126
T03110228 58010=
PGWT NIL=
PHJH NIL=
PHJR 010253Z 06007KT 360V090 10SM SCT043 29/18 A3003 RMK AO2
SLP174 T02890183 56008=
PHMK 010254Z COR 03011G21KT 10SM FEW030 26/18 A3004 RMK AO2 PK WND
05026/0229 SLP172 T02610183 56010 TSNO=
PHMK 010254Z AUTO 03011G21KT 10SM CLR 26/18 A3004 RMK AO2 PK WND
05026/0229 SLP172 T02610183 56010 TSNO=
PJON NIL=
PKMJ 010255Z 09010KT 156SM FEW015 SCT050 BKN300 31/25 A2986=
PKMR 010251Z 12008KT 15SM FEW015 SCT050 BKN300 30/26 A2984 RMK
SLP108 8/801 T02990256 57015=
PKWA 010300Z AUTO 08010KT 10SM CLR 31/25 A2988 RMK AO2
T03130251=
PLCH 010300Z 11007KT 9999 SCT020 30/22 Q1009=
PMDY 010256Z AUTO 22008KT 7SM 27/24 A3005 RMK AO2 SLP174 T02720239
56014 ?=
PTKK 010251Z VRB05KT 15SM FEW014 BKN120 OVC280 31/28 A2982 RMK
SLP100 8/171 T03130276 57022=
PTKR NIL=
PTPN NIL=
PTRO 010250Z 12009KT 15SM SCT016 BKN120 BKN300 31/24 A2987=
PTSA NIL=
// END PART 01 //


......................................................................................


Date: 01-Jun-2563

SAPA31 KWBC 010300 RRB
METAR
AYPY 010300Z 15015G25KT 9999 SCT025 SCT040 30/25 Q1011 RMK/ CB TO
N=
PKWA 010320Z AUTO 08009KT 10SM CLR 31/25 A2987 RMK AO2
T03130251=


......................................................................................


Date: 01-Jun-2563

SATH31 VTBU 010330
METAR VTBU 010330Z 23004KT 9999 FEW020 30/26 Q1012 NOSIG=


......................................................................................


Date: 01-Jun-2563

SAAE31 VDPP 010330
METAR VDPP 010330Z VRB03KT 9999 SCT015 33/23 Q1009=


......................................................................................


Date: 01-Jun-2563

SATH31 VTSM 010330
METAR VTSM 010330Z 33008KT 280V360 9999 FEW020 33/26 Q1012 NOSIG=


......................................................................................


Date: 01-Jun-2563

SASB31 VCCC 010310
METAR VCBI 010310Z 20006KT 160V230 9999 SCT018 30/27 Q1012 NOSIG=
METAR VRMM 010300Z 22008KT 9999 FEW018 FEW019CB 30/26 Q1012
CB S NOSIG=
METAR VCRI 010310Z NIL=


......................................................................................


Date: 01-Jun-2563

SATH31 VTBD 010330
METAR VTBD 010330Z 22003KT 9999 BKN020 32/26 Q1011 NOSIG=


......................................................................................


Date: 01-Jun-2563

SATH31 VTBS 010330
METAR VTBS 010330Z 15003KT 090V220 9999 SCT018 31/26 Q1011 NOSIG=


......................................................................................


Date: 01-Jun-2563

SATH31 VTCC 010330
METAR VTCC 010330Z 16004KT 070V210 9999 FEW035 32/22 Q1012 NOSIG=


......................................................................................


Date: 01-Jun-2563

SATH31 VTSS 010330
METAR VTSS 010330Z 12004KT 090V260 9999 FEW020 31/24 Q1011 NOSIG=


......................................................................................


Date: 01-Jun-2563

SATH31 VTSP 010330
METAR VTSP 010330Z VRB02KT 9999 FEW020 32/24 Q1011 NOSIG=


......................................................................................


Date: 01-Jun-2563

SAPK31 OPKC 010329
METAR OPGD 010325Z NIL=
METAR OPIS 010325Z 23005KT 6000 SCT040 BKN100 22/20 Q1011 TEMPO
09015G25KT 3000 TSRA=
METAR OPKC 010330Z 24004KT 6000 BKN020 31/23 Q1008 NOSIG=
METAR OPLA 010325Z 03014KT 4000 FU SCT040 SCT100 26/20 Q1011 RMK
QFE986 RMK A29.86=
METAR OPNH 010325Z NIL=
METAR OPMT 010330Z 00000KT 4000 FU NSC 29/22 Q1007 NOSIG=
METAR OPPS 010325Z NIL=
METAR OPRN 010325Z NIL=
METAR OPSK 010325Z NIL=
METAR OPST 010325Z NIL=


......................................................................................


Date: 01-Jun-2563

SAIR31 OIII 010330
METAR OIAW 010330Z 26002KT CAVOK 31/10 Q1004=
METAR OIFM 010330Z 31004KT 6000 NSC 22/00 Q1019 A3012=
METAR OIII 010330Z 23004KT CAVOK 27/00 Q1014 A2995=
METAR OIKB 010330Z 19004KT 1500 HZ NSC 33/26 Q1004 A2966=
METAR OIKK 010330Z NIL=
METAR OIMM 010330Z 00000KT CAVOK 27/M00 Q1015 A3000=
METAR OISS 010330Z NIL=
METAR OITT 010330Z 06006KT CAVOK 18/03 Q1018 A3007=
METAR OIZH 010330Z 21004KT CAVOK 26/M06 Q1017 A3004=


......................................................................................


Date: 01-Jun-2563

SAAE31 VTBB 010330
METAR VTBD 010330Z 22003KT 9999 BKN020 32/26 Q1011 NOSIG=
METAR VTBS 010330Z 15003KT 090V220 9999 SCT018 31/26 Q1011 NOSIG=
METAR VTBU 010330Z 23004KT 9999 FEW020 30/26 Q1012 NOSIG=
METAR VTCC 010330Z 16004KT 070V210 9999 FEW035 32/22 Q1012 NOSIG=
METAR VTCT 010330Z NIL=
METAR VTSG 010330Z NIL=
METAR VTSP 010330Z VRB02KT 9999 FEW020 32/24 Q1011 NOSIG=
METAR VTSS 010330Z 12004KT 090V260 9999 FEW020 31/24 Q1011 NOSIG=


......................................................................................


Date: 01-Jun-2563

SAAE32 VTBB 010330
METAR VDPP 010330Z VRB03KT 9999 SCT015 33/23 Q1009=
METAR VDSR 010330Z VRB01KT 9999 SCT015 SCT040 31/26 Q1011=
METAR VDSV 010330Z VRB02KT 9999 SCT015 31/26 Q1012=
METAR VLVT 010330Z 02002KT 8000 SCT016 SCT040 BKN083 26/25 Q1013
NOSIG=
METAR VYMD 010330Z 17007KT 7000 BKN020 SCT120 32/25 Q1010 NOSIG=
METAR VYYY 010330Z 26010KT 7000 SCT018 FEW020CB 30/25 Q1012=
METAR VYNT 010330Z NIL=


......................................................................................


Date: 01-Jun-2563

SAAE34 VTBB 010330
METAR VVCI 010330Z 17009KT 140V210 9999 FEW024 33/27 Q1007 NOSIG=
METAR VVCR 010330Z 12008KT 9999 FEW015 33/25 Q1012 NOSIG=
METAR VVCT 010330Z VRB02KT 9999 FEW015 34/24 Q1011
NOSIG=
METAR VVNB 010330Z VRB03KT 9999 FEW034 33/24 Q1007 NOSIG=
METAR VVPB 010330Z 06004KT 9999 FEW020 SCT080 33/26 Q1011 NOSIG=
METAR VVPQ 010330Z 28005KT 240V340 9999 FEW017 31/26 Q1011 NOSIG=
METAR VVTS 010330Z 35004KT 320V050 8000 BKN017 33/25 Q1010 NOSIG =
METAR VVDN 010330Z 24003KT 190V310 9999 FEW015 37/25 Q1011 NOSIG=


......................................................................................


Date: 01-Jun-2563

SAHK31 VHHH 010330
METAR VHHH 010330Z 19012KT 140V240 9999 FEW012 SCT028 32/25
Q1011 NOSIG=


......................................................................................


Date: 01-Jun-2563

SAIR32 OIII 010330
METAR OIAA 010330Z NIL=
METAR OIBK 010330Z 00000KT 2000 BR BKN020 29/29 Q1005=
METAR OICC 010330Z 00000KT CAVOK 16/M06 Q1018 A3006=
METAR OIGG 010330Z 00000KT CAVOK 21/17 Q1013=
METAR OIIE 010330Z NIL=
METAR OINZ 010330Z NIL=
METAR OITR 010330Z NIL=
METAR OIYY 010330Z 30002KT 9999 FEW035 30/03 Q1016=


......................................................................................


Date: 01-Jun-2563

SAIR33 OIII 010330
METAR OIBB 010330Z NIL=
METAR OIBP 010330Z 14004KT 2000 BR NSC 28/27 Q1003 A2964=
METAR OICK 010330Z NIL=
METAR OICS 010330Z NIL=
METAR OIHH 010330Z NIL=
METAR OITL 010330Z 18006KT 7000 VCFG FEW007 09/09 Q1017=
METAR OIZC 010330Z NIL=


......................................................................................


Date: 01-Jun-2563

SAIR34 OIII 010330
METAR OIAG 010330Z NIL=
METAR OIAM 010330Z NIL=
METAR OICI 010330Z 11004KT CAVOK 22/M00 Q1018 A3006=
METAR OIKQ 010330Z NIL=
METAR OINN 010330Z NIL=
METAR OINR 010330Z NIL=
METAR OISL 010330Z NIL=
METAR OISY 010330Z NIL=
METAR OITZ 010330Z NIL=


......................................................................................


Date: 01-Jun-2563

SASR31 WSSS 010330
METAR WSSS 010330Z 22004KT 180V280 9999 FEW018TCU FEW020CB SCT060
29/24 Q1013 NOSIG=


......................................................................................


Date: 01-Jun-2563

SAUZ31 UTTW 010230 CCA
METAR UTNU 010330Z 20006KT CAVOK 31/08 Q1009 R31/CLRD70 NOSIG=


......................................................................................


Date: 01-Jun-2563

SAHK31 VHHH 010330
METAR VHHH 010330Z 19012KT 140V240 9999 FEW012 SCT028 32/25
Q1011 NOSIG=
METAR RCTP 010330Z 26017KT 9999 FEW020 SCT100 33/26 Q1011 NOSIG
RMK A2988=
METAR RCKH 010330Z 25007KT 210V300 9999 FEW012 SCT020 32/24 Q1011
NOSIG RMK A2988=
METAR RCSS 010330Z 32007KT 270V010 9999 -SHRA FEW018 BKN030 31/26
Q1011 NOSIG RMK A2986=
METAR RCMQ 010330Z 24008KT 9999 FEW012 SCT020 32/24 Q1013 NOSIG
RMK A2992=
METAR RCNN 010330Z 23006KT 9999 FEW014 SCT200 32/25 Q1012 NOSIG
RMK A2990=
METAR RCFN 010330Z 15007KT 070V210 9999 FEW010 SCT018 32/26 Q1012
NOSIG RMK A2990=
METAR VMMC 010330Z 20013KT 9999 FEW018 SCT028 31/27 Q1010 NOSIG=


......................................................................................


Date: 01-Jun-2563

SAJP51 RJTD 010330
METAR RJAA 010330Z 14012KT 9999 FEW010 BKN020 BKN030 22/18 Q1012
NOSIG=
METAR RJBB 010330Z 27005KT 9999 FEW025 OVC/// 24/17 Q1010 NOSIG=
METAR RJCC 010330Z 17011KT 9999 FEW050 24/10 Q1009=
METAR RJFF 010330Z VRB02KT 9999 FEW008 SCT012 BKN025 22/19 Q1009
BECMG 30008KT=
METAR RJGG 010330Z 24006KT 9999 FEW025 SCT035 BKN/// 22/16 Q1010
NOSIG=
METAR RJTT 010330Z VRB02KT 8000 -RA FEW010 SCT015 BKN025 21/18 Q1012
BECMG 08005KT=
METAR ROAH 010330Z 34008KT 9999 FEW008 SCT015 BKN070 28/25 Q1011=


......................................................................................


Date: 01-Jun-2563

SAMS31 WMKK 010330
METAR WBGG 010330Z VRB01KT 9999 FEW014 29/25 Q1012 NOSIG=
METAR WBKK 010330Z 22007KT 200V270 9999 TS FEW014 FEW016CB SCT040 31/26 Q1011 TEMPO 8000 -TSRA=
METAR COR WBSB 010330Z 23004KT 9999 -TSRA SCT015 FEW016CB SCT140 BKN270 28/25 Q1012
TEMPO 7000 -TSRA=
METAR WMKK 010330Z VRB05KT 8000 VCSH FEW017CB SCT018 29/24 Q1013 NOSIG=
METAR WMKP 010330Z VRB03KT 9000 FEW020 31/26 Q1012 NOSIG=
METAR WSSL 010330Z NIL=
METAR WSSS 010330Z 22004KT 180V280 9999 FEW018TCU FEW020CB SCT060
29/24 Q1013 NOSIG=


......................................................................................


Date: 01-Jun-2563

SAMS31 WMKK 010330
METAR WBGG 010330Z NIL=
METAR WBKK 010330Z NIL=
METAR WBSB 010330Z NIL=
METAR WMKK 010330Z NIL=
METAR WMKP 010330Z NIL=
METAR WSSL 010330Z NIL=
METAR WSSS 010330Z 22004KT 180V280 9999 FEW018TCU FEW020CB SCT060
29/24 Q1013 NOSIG=


......................................................................................


Date: 01-Jun-2563

SPTH31 VTUW 010344
SPECI VTUW 010344Z 34015KT 9999 TS VCSH FEW010 FEW018CB BKN020 26/24
Q1013 TEMPO FM0400 TL0430 2500 +TSRA=


......................................................................................


Date: 01-Jun-2563

SAUZ31 UTTW 010330
METAR UTFN 010330Z 08006KT 040V110 9999 NSC 29/06 Q1010 R28/CLRD70
NOSIG=
METAR UTNN 010330Z 03002KT CAVOK 31/02 Q1009 R33/CLRD60 NOSIG=
METAR UTNU 010330Z NIL=
METAR UTSA 010330Z 09010KT 9999 NSC 30/08 Q1009 R07/CLRD70 NOSIG=
METAR UTSB 010330Z 06006KT CAVOK 28/11 Q1008 R01/CLRD70 NOSIG=
METAR UTSK 010330Z 16004KT 100V210 CAVOK 26/10 Q1009 R16/CLRD70=
METAR UTSS 010330Z 15012KT 9999 NSC 27/10 Q1011 R09/CLRD70 NOSIG=
METAR UTST 010330Z VRB02KT CAVOK 29/09 Q1010 R88/CLRD70 NOSIG=
METAR UTFA 010330Z NIL=
METAR UTFF 010330Z VRB02KT 9999 NSC 29/04 Q1010 R99/CLRD70=
METAR UTTT 010330Z 06006KT 030V090 CAVOK 30/10 Q1009 R08R/CLRD70
NOSIG=


......................................................................................


Date: 01-Jun-2563

SAPA31 KWBC 010300 RRC
METAR
PKWA 010340Z AUTO 07010KT 10SM CLR 31/25 A2986 RMK AO2
T03120252=


......................................................................................


Date: 01-Jun-2563

SANP31 VNKT 010350
METAR VNKT 010350Z 20003KT 130V280 6000 FEW010 SCT030 BKN100 22/19
Q1018 NOSIG=


......................................................................................


Date: 01-Jun-2563

SATR31 UTAA 010400
METAR UTAA 010400Z NIL=
METAR UTAK 010400Z NIL=
METAR UTAM 010400Z NIL=
METAR UTAT 010400Z NIL=
METAR UTAV 010400Z NIL=


......................................................................................


Date: 01-Jun-2563

SATH31 VTBU 010400
METAR VTBU 010400Z 24004KT 9999 FEW020 30/25 Q1012 NOSIG=


......................................................................................


Date: 01-Jun-2563

SATH31 VTSG 010400
METAR VTSG 010400Z 06003KT 350V120 9999 FEW020 32/28 Q1012 NOSIG=


......................................................................................


Date: 01-Jun-2563

SAIR31 OIII 010230 RRB
METAR OISS 010230Z 00000KT CAVOK 22/06 Q1017 A3005=


......................................................................................


Date: 01-Jun-2563

SATH31 VTPB 010400
METAR VTPB 010400Z 00000KT 9999 SCT025 31/26 Q1012 NOSIG=


......................................................................................


Date: 01-Jun-2563

SATH31 VTPM 010400
METAR VTPM 010400Z 27006KT 9999 BKN030 31/22 Q1013 NOSIG=


......................................................................................


Date: 01-Jun-2563

SAAE31 VDPP 010400
METAR VDPP 010400Z VRB03KT 9999 SCT015 33/23 Q1010=


......................................................................................


Date: 01-Jun-2563

SATH31 VTCH 010400
METAR VTCH 010400Z 13006KT 9999 FEW025 33/22 Q1012=


......................................................................................


Date: 01-Jun-2563

SATH31 VTCN 010400
METAR VTCN 010400Z 32004KT 260V040 9999 SCT025 32/24 Q1011 NOSIG=


......................................................................................


Date: 01-Jun-2563

SATH31 VTCP 010400
METAR VTCP 010400Z 22005KT 150V300 9999 BKN025 34/23 Q1011 NOSIG=


......................................................................................


Date: 01-Jun-2563

SATH31 VTSF 010400
METAR VTSF 010400Z VRB03KT 9999 FEW018 34/26 Q1011 NOSIG=


......................................................................................


Date: 01-Jun-2563

SATH31 VTST 010400
METAR VTST 010400Z VRB02KT 9999 FEW025 31/26 Q1011 NOSIG=


......................................................................................


Date: 01-Jun-2563

SATH31 VTCL 010400
METAR VTCL 010400Z 18005KT 110V260 9999 FEW025 34/22 Q1012 NOSIG=


......................................................................................


Date: 01-Jun-2563

SATH31 VTPO 010400
METAR VTPO 010400Z 22003KT 9999 FEW025 32/24 Q1010 NOSIG=


......................................................................................


Date: 01-Jun-2563

SATH31 VTPP 010400
METAR VTPP 010400Z VRB04KT 9999 SCT025 32/25 Q1011 NOSIG=


......................................................................................


Date: 01-Jun-2563

SAIR31 OIII 010300 RRA
METAR OISS 010300Z 00000KT CAVOK 22/07 Q1017 A3006=


......................................................................................


Date: 01-Jun-2563

SAIR31 OIII 010330 RRA
METAR OISS 010330Z 00000KT CAVOK 26/06 Q1018 A3007=


......................................................................................


Date: 01-Jun-2563

SATH31 VTSE 010400
METAR VTSE 010400Z 13006KT 100V170 9999 SCT020 32/27 Q1011 NOSIG=


......................................................................................


Date: 01-Jun-2563

SATH31 VTSM 010400
METAR VTSM 010400Z 31007KT 260V350 9999 FEW020 33/26 Q1012 NOSIG=


......................................................................................


Date: 01-Jun-2563

SATH31 VTUI 010400
METAR VTUI 010400Z 01007KT 330V060 9999 FEW015TCU SCT030 BKN100 29/26
Q1012 NOSIG=


......................................................................................


Date: 01-Jun-2563

SATH31 VTUW 010400
METAR VTUW 010400Z 32014G29KT 260V350 7000 -TSRA FEW010 FEW018CB
BKN020 25/23 Q1013 NOSIG=


......................................................................................


Date: 01-Jun-2563

SAOM32 OOMS 010400
METAR OOMS 010350Z 21016KT CAVOK 38/22 Q1004 NOSIG=
METAR OOSA 010350Z 11007KT 4000 HZ FEW014 BKN025 OVC100 29/27 Q1008
NOSIG=
METAR OOSH 010400Z NIL=
METAR OODQ 010350Z AUTO 22016KT //// R22///// SCT014 30/26 Q1009
NOSIG=


......................................................................................


Date: 01-Jun-2563

SASD31 OEJD 010400
METAR OEDF 010400Z 30009KT CAVOK 32/06 Q1004 NOSIG=
METAR OEDR 010400Z 30012KT CAVOK 32/11 Q1003 NOSIG=
METAR OEJN 010400Z 34006KT CAVOK 27/18 Q1007 NOSIG=
METAR OEMA 010400Z 09003KT CAVOK 31/00 Q1012 NOSIG=
METAR OERK 010400Z 00000KT CAVOK 31/10 Q1012 NOSIG=
METAR OERY 010400Z NIL=
METAR OYAA 010400Z NIL=
METAR OYSN 010400Z NIL=


......................................................................................


Date: 01-Jun-2563

SATH31 VTBD 010400
METAR VTBD 010400Z 13003KT 060V200 9999 BKN020 32/25 Q1011 NOSIG=


......................................................................................


Date: 01-Jun-2563

SATH31 VTBO 010400
METAR VTBO 010400Z 00000KT 9999 FEW020 BKN100 31/27 Q1011=


......................................................................................


Date: 01-Jun-2563

SATH31 VTBS 010400
METAR VTBS 010400Z 16005KT 120V200 9999 SCT020 31/26 Q1011 NOSIG=


......................................................................................


Date: 01-Jun-2563

SATH31 VTCC 010400
METAR VTCC 010400Z 19005KT 120V250 9999 FEW035 33/22 Q1012 NOSIG=


......................................................................................


Date: 01-Jun-2563

SATH31 VTCT 010400
METAR VTCT 010400Z 17005KT 9999 SCT025 30/25 Q1012 NOSIG=


......................................................................................


Date: 01-Jun-2563

SATH31 VTPH 010400
METAR VTPH 010400Z 05008KT 020V080 9999 FEW020 33/24 Q1011 NOSIG=


......................................................................................


Date: 01-Jun-2563

SATH31 VTPT 010400
METAR VTPT 010400Z /////KT 9999 SCT026 35/24 Q//// NOSIG=


......................................................................................


Date: 01-Jun-2563

SATH31 VTSB 010400
METAR VTSB 010400Z VRB02KT 9999 FEW020 33/26 Q1011=


......................................................................................


Date: 01-Jun-2563

SATH31 VTSC 010400
METAR VTSC 010400Z VRB05KT 9999 FEW020 33/24 Q1011 NOSIG =


......................................................................................


Date: 01-Jun-2563

SATH31 VTSP 010400
METAR VTSP 010400Z 28005KT 260V320 9999 FEW029 31/23 Q1011 NOSIG=


......................................................................................


Date: 01-Jun-2563

SATH31 VTSR 010400
METAR VTSR 010400Z 32006KT 280V360 9999 SCT025 33/26 Q1011 NOSIG=


......................................................................................


Date: 01-Jun-2563

SATH31 VTSS 010400
METAR VTSS 010400Z 14006KT 090V260 9999 FEW020 32/24 Q1011 NOSIG=


......................................................................................


Date: 01-Jun-2563

SATH31 VTUD 010400
METAR VTUD 010400Z VRB02KT 9999 FEW020 SCT100 28/23 Q1013 NOSIG=


......................................................................................


Date: 01-Jun-2563

SATH31 VTUK 010400
METAR VTUK 010400Z 30003KT 250V040 9999 FEW030 SCT100 31/25 Q1012
NOSIG=


......................................................................................


Date: 01-Jun-2563

SATH31 VTUO 010400
METAR VTUO 010400Z 28004KT 190V360 9999 FEW030 34/22 Q1012 NOSIG=


......................................................................................


Date: 01-Jun-2563

SATH31 VTUV 010400
METAR VTUV 010400Z 28004KT 210V340 9999 BKN030 33/26 Q1011 NOSIG=


......................................................................................


Date: 01-Jun-2563

SAPK31 OPKC 010359
METAR OPGD 010355Z NIL=
METAR OPIS 010355Z 23006KT 6000 SCT040 BKN100 23/20 Q1012 NOSIG=
METAR OPKC 010355Z 21006KT 6000 BKN020 31/23 Q1008 NOSIG=
METAR OPLA 010355Z 09010KT 5000 FU SCT100 27/19 Q1011 BECMG 7000 RMK
QFE986 RMK A29.85=
METAR OPNH 010400Z 04508KT 5000M HZ NSC 33/22 Q1006 NOSIG=
METAR OPMT 010400Z 00000KT 5000 FU NSC 30/22 Q1007 NOSIG=
METAR OPPS 010400Z 05008KT 7000 HZ FEW040 FEW100 25/19 Q1011=
METAR OPRN 010355Z NIL=
METAR OPSK 010355Z NIL=
METAR OPST 010400Z 31012KT 4000 -TSRA FEW030CB SCT040 BKN100 21/18
Q1011 TEMPO 31015G35KT 3000 RH86=


......................................................................................


Date: 01-Jun-2563

SATH31 VTUL 010400
METAR VTUL 010400Z VRB03KT 9999 SCT030 SCT080 32/24 Q1012 NOSIG=


......................................................................................


Date: 01-Jun-2563

SATH31 VTUU 010400
METAR VTUU 010400Z 24006KT 190V290 9999 SCT030 32/25 Q1012 NOSIG =


......................................................................................


Date: 01-Jun-2563

SATR31 UTAA 010400 RRA
METAR UTAK 010400Z 17016KT 9999 SCT006 18/14 Q1011 R16R/CLRD70
NOSIG=
METAR UTAM 010400Z 31006KT CAVOK 27/06 Q1009 R88/CLRD70 NOSIG=


......................................................................................


Date: 01-Jun-2563

SATH31 VTUQ 010400
METAR VTUQ 010400Z VRB06KT 9999 SCT025 SCT090 32/25 Q1013 NOSIG=


......................................................................................


Date: 01-Jun-2563

SATH40 VTBB 010400
METAR VTBD 010400Z 13003KT 060V200 9999 BKN020 32/25 Q1011 NOSIG=
METAR VTBS 010400Z 16005KT 120V200 9999 SCT020 31/26 Q1011 NOSIG=
METAR VTBU 010400Z 24004KT 9999 FEW020 30/25 Q1012 NOSIG=
METAR VTCC 010400Z 19005KT 120V250 9999 FEW035 33/22 Q1012 NOSIG=
METAR VTCT 010400Z 17005KT 9999 SCT025 30/25 Q1012 NOSIG=
METAR VTSB 010400Z VRB02KT 9999 FEW020 33/26 Q1011=
METAR VTSG 010400Z 06003KT 350V120 9999 FEW020 32/28 Q1012 NOSIG=
METAR VTSP 010400Z 28005KT 260V320 9999 FEW029 31/23 Q1011 NOSIG=
METAR VTSS 010400Z 14006KT 090V260 9999 FEW020 32/24 Q1011 NOSIG=
METAR VTUD 010400Z VRB02KT 9999 FEW020 SCT100 28/23 Q1013 NOSIG=
METAR VTUU 010400Z 24006KT 190V290 9999 SCT030 32/25 Q1012 NOSIG =


......................................................................................


Date: 01-Jun-2563

SAAU65 AMMC 010400
METAR YLRE 010400Z AUTO 22014KT 9999 // NCD 27/04 Q1017=
METAR YMAV 010400Z AUTO 26020KT 8000 // SCT016 BKN021 BKN026 11/10 Q1006=
METAR YMAY 010400Z AUTO 25009KT 9999 // SCT014 SCT032 SCT038 10/07 Q1008=
METAR YMDG 010400Z AUTO 30019KT 9999 // SCT115 16/04 Q1010=
METAR YMEK 010400Z AUTO 06012KT 9999 // NCD 19/05 Q1026=
METAR YMEN 010400Z AUTO 27015KT 9999 -SHRA OVC018 09/08 Q1006=
METAR YMER 010400Z AUTO 11003KT 9999 // SCT091 18/09 Q1003=
METAR YMIA 010400Z AUTO 21010KT 9999 // SCT040 BKN048 OVC055 11/06 Q1016=
METAR YMML 010400Z 27018KT 9999 -SHRA FEW017 BKN018 BKN100 09/07 Q1006=
METAR YMOR 010400Z AUTO 28013KT 9999 // SCT090 BKN110 23/04 Q1013=


......................................................................................


Date: 01-Jun-2563

SAHK31 VHHH 010400
METAR VHHH 010400Z 20012KT 9999 FEW012 SCT028 32/25 Q1010 NOSIG=


......................................................................................


Date: 01-Jun-2563

SAIR31 OIII 010400
METAR OIAW 010400Z 30002KT CAVOK 33/06 Q1004=
METAR OIFM 010400Z 33004KT 5000 HZ NSC 23/01 Q1019 A3012=
METAR OIII 010400Z 00000KT CAVOK 29/M03 Q1014 A2995 NOSIG=
METAR OIKB 010400Z 25004KT 1500 DU NSC 33/26 Q1004 A2967 TEMPO 2000=
METAR OIKK 010400Z 05004KT CAVOK 26/02 Q1020 A3013=
METAR OIMM 010400Z 00000KT CAVOK 28/00 Q1015 A3000=
METAR OISS 010400Z 00000KT CAVOK 28/05 Q1018 A3007=
METAR OITT 010400Z 05004KT CAVOK 19/03 Q1018 A3007=
METAR OIZH 010400Z 00000KT CAVOK 29/M06 Q1017 A3004 NOSIG=


......................................................................................


Date: 01-Jun-2563

SAIR32 OIII 010400
METAR OIAA 010400Z 35008KT CAVOK 31/10 Q1005=
METAR OIBK 010400Z 00000KT 2000 BR BKN030 30/29 Q1005 NOSIG=
METAR OICC 010400Z 00000KT CAVOK 19/M06 Q1018 A3006=
METAR OIGG 010400Z 00000KT CAVOK 22/16 Q1013=
METAR OIIE 010400Z 31014KT CAVOK 24/06 Q1013=
METAR OINZ 010400Z 22004KT CAVOK 22/18 Q1013=
METAR OITR 010400Z 00000KT CAVOK 19/05 Q1015=
METAR OIYY 010400Z 30004KT CAVOK 32/03 Q1016=


......................................................................................


Date: 01-Jun-2563

SAIR33 OIII 010400
METAR OIBB 010400Z 15004KT CAVOK 32/23 Q1003 A2962=
METAR OIBP 010400Z 13006KT 2000 BR NSC 29/28 Q1003 A2965=
METAR OICK 010400Z 00000KT CAVOK 23/04 Q1016=
METAR OICS 010400Z 00000KT CAVOK 15/M03 Q1018 A3009=
METAR OIHH 010400Z NIL=
METAR OITL 010400Z 18006KT 9000 FEW007 12/10 Q1017=
METAR OIZC 010400Z NIL=


......................................................................................


Date: 01-Jun-2563

SAIR34 OIII 010400
METAR OIAG 010400Z 35006KT CAVOK 34/01 Q1003=
METAR OIAM 010400Z 33006KT 8000 FEW035CB BKN040 33/08 Q1003=
METAR OICI 010400Z 13002KT CAVOK 24/02 Q1018 A3006=
METAR OIKQ 010400Z 32006KT 3000 BR NSC 32/28 Q1004 NOSIG=
METAR OINN 010400Z 00000KT 9999 FEW022TCU 22/18 Q1013=
METAR OINR 010400Z 06002KT CAVOK 23/17 Q1012=
METAR OISL 010400Z 00000KT 7000 NSC 32/15 Q1009 NOSIG=
METAR OISY 010400Z 00000KT CAVOK 20/06 Q1022=
METAR OITZ 010400Z 12004KT CAVOK 19/M02 Q1017=


......................................................................................


Date: 01-Jun-2563

SAIR35 OIII 010400
METAR OIAD 010400Z NIL=
METAR OIBJ 010400Z 00000KT CAVOK 34/14 Q1009=
METAR OIBS 010400Z 21008KT 3000 BR NSC 31/28 Q1005=
METAR OIHR 010400Z 00000KT 8000 NSC 15/05 Q1019=
METAR OIKM 010400Z NIL=
METAR OIKR 010400Z NIL=
METAR OING 010400Z 21004KT CAVOK 23/17 Q1015 NOSIG=
METAR OIZB 010400Z 34027KT CAVOK 31/04 Q1007=
METAR OIZI 010400Z 00000KT 6000 NSC 34/16 Q1009=


......................................................................................


Date: 01-Jun-2563

SAIR36 OIII 010400
METAR OIBA 010400Z 21010KT 3500 BR NSC 31/28 Q1004=
METAR OIBV 010400Z 12004KT 2200 BR SCT020 30/28 Q1004=
METAR OIFS 010400Z 17004KT CAVOK 18/03 Q1023=
METAR OIIP 010400Z 31016KT 6000 NSC 20/08 Q1014 A2996=
METAR OIMB 010400Z 10004KT CAVOK 26/M08 Q1018=
METAR OIMN 010400Z 33004KT 6000 HZ FEW009 SCT030 BKN080 20/14
Q1017=
METAR OIMS 010400Z NIL=
METAR OIMT 010400Z NIL=
METAR OIZJ 010400Z 28006KT 5000 HZ NSC 32/25 Q1003=


......................................................................................


Date: 01-Jun-2563

SAIR37 OIII 010400
METAR OIBL 010400Z 00000KT 2500 BR NSC 30/28 Q1005=
METAR OIBQ 010400Z 00000KT 8000 NSC 31/25 Q1003=
METAR OIIK 010400Z 24002KT CAVOK 21/06 Q1015=
METAR OIMC 010400Z 33024KT CAVOK 29/14 Q1011=
METAR OIMD 010400Z 18014KT CAVOK 30/M03 Q1012=
METAR OIMQ 010400Z 10010KT CAVOK 30/M04 Q1016=
METAR OINE 010400Z 00000KT CAVOK 24/16 Q1013=
METAR OITK 010400Z NIL=
METAR OITM 010400Z 08008KT CAVOK 19/M01 Q1016=


......................................................................................


Date: 01-Jun-2563

SAIR38 OIII 010400
METAR OIAH 010400Z 00000KT CAVOK 34/13 Q1010=
METAR OIBH 010400Z 10004KT 7000 NSC 33/17 Q1003=
METAR OICM 010400Z 22002KT CAVOK 30/M00 Q1006=
METAR OIIS 010400Z NIL=
METAR OIMJ 010400Z NIL=
METAR OISF 010400Z NIL=
METAR OISR 010400Z 00000KT 5000 HZ NSC 32/14 Q1007 A2975 NOSIG=
METAR OITP 010400Z 20006KT CAVOK 21/14 Q1013=
METAR OITU 010400Z NIL=


......................................................................................


Date: 01-Jun-2563

SAAE31 VTBB 010400
METAR VTBD 010400Z 13003KT 060V200 9999 BKN020 32/25 Q1011 NOSIG=
METAR VTBS 010400Z 16005KT 120V200 9999 SCT020 31/26 Q1011 NOSIG=
METAR VTBU 010400Z 24004KT 9999 FEW020 30/25 Q1012 NOSIG=
METAR VTCC 010400Z 19005KT 120V250 9999 FEW035 33/22 Q1012 NOSIG=
METAR VTCT 010400Z 17005KT 9999 SCT025 30/25 Q1012 NOSIG=
METAR VTSG 010400Z 06003KT 350V120 9999 FEW020 32/28 Q1012 NOSIG=
METAR VTSP 010400Z 28005KT 260V320 9999 FEW029 31/23 Q1011 NOSIG=
METAR VTSS 010400Z 14006KT 090V260 9999 FEW020 32/24 Q1011 NOSIG=


......................................................................................


Date: 01-Jun-2563

SAAE32 VTBB 010400
METAR VDPP 010400Z VRB03KT 9999 SCT015 33/23 Q1010=
METAR VDSR 010400Z 23004KT 160V280 9999 SCT015 SCT040 32/25 Q1010=
METAR VDSV 010400Z 23004KT 190V320 9999 SCT015 32/25 Q1011=
METAR VLVT 010400Z 04004KT 8000 SCT016 BKN040 SCT083 27/26 Q1012
NOSIG=
METAR VYMD 010400Z NIL=
METAR VYYY 010400Z 14005KT 6000 -RA SCT018 FEW020CB 31/27 Q1011=
METAR VYNT 010400Z NIL=


......................................................................................


Date: 01-Jun-2563

SAAE33 VTBB 010400
METAR VLLB 010400Z 27006KT 9999 SCT010 SCT060 OVC080 32/24 Q1011
NOSIG=
METAR VLLN 010400Z 27004KT 3000 RA BKN010 OVC090 26/24 Q1013 NOSIG=
METAR VLPS 010400Z 18006KT 9999 FEW020 SCT100 31/24 Q1011 NOSIG=
METAR VLSK 010400Z 22006KT 8000 SCT020 SCT100 32/24 Q1012 NOSIG=


......................................................................................


Date: 01-Jun-2563

SAAE34 VTBB 010400
METAR VVCI 010400Z 18012KT 9999 FEW024 SCT030 34/26 Q1007 NOSIG=
METAR VVCR 010400Z 12008KT 9999 FEW015 34/25 Q1011 NOSIG=
METAR VVCT 010400Z NIL=
METAR VVNB 010400Z VRB02KT 9999 FEW035 33/24 Q1007 NOSIG=
METAR VVPB 010400Z 04006KT 9999 FEW020 SCT080 34/26 Q1011 NOSIG=
METAR VVPQ 010400Z 29005KT 250V320 9999 FEW017 32/25 Q1011 NOSIG=
METAR VVTS 010400Z VRB02KT 8000 BKN017 33/25 Q1010 NOSIG =
METAR VVDN 010400Z 05005KT 020V090 9999 FEW015 36/26 Q1011
NOSIG=


......................................................................................


Date: 01-Jun-2563

SAAU32 AMMC 010400 CCA
METAR YAMB 010400Z 35007KT 9999 FEW036 SCT043 BKN280 24/14 Q1013
NOSIG=


......................................................................................


Date: 01-Jun-2563

SAAU32 AMMC 010400
METAR YAMB 010400Z 35007KT 9999 FEW036 SCT043 BKN280 24/14 Q1013=
METAR YBCG 010400Z AUTO 36012KT 9999 // SCT042 23/15 Q1014=
METAR YBHM 010400Z AUTO 14008KT 9999 // NCD 23/19 Q1016=
METAR YBMA 010400Z AUTO 18016KT 9999 // NCD 27/03 Q1019=
METAR YBRK 010400Z AUTO 33003KT 9999 // NCD 28/13 Q1015=
METAR YBRM 010400Z AUTO 12015KT 9999 // NCD 28/08 Q1017=
METAR YCIN 010400Z AUTO 13013KT 9999 // NCD 29/09 Q1016=
METAR YFRT 010400Z AUTO 21009KT 9999 // BKN034 17/09 Q1026=
METAR YMAV 010400Z AUTO 26020KT 8000 // SCT016 BKN021 BKN026 11/10 Q1006=
METAR YMHB 010400Z 34006KT 9999 FEW035 SCT050 16/05 Q1002=
METAR YMLT 010400Z AUTO 33010KT 9999 -SHRA SCT016 SCT027 BKN038 11/10 Q1003=
METAR YPEA 010400Z AUTO 07009KT 9999 // BKN042 19/10 Q1027=
METAR YPGV 010400Z 11011KT 090V150 9999 FEW030 30/19 Q1014=
METAR YPKG 010400Z AUTO 14004KT 9999 // BKN031 17/08 Q1027=
METAR YPPD 010400Z AUTO 12015KT 9999 // NCD 26/01 Q1019=
METAR YSCB 010400Z AUTO 31015KT 9999 -SHRA SCT028 BKN038 OVC047 09/06 Q1007
TEMPO 0400/0600 3000 SHRA BKN008=
METAR YSDU 010400Z AUTO 28015KT 9999 // OVC056 15/06 Q1011=
METAR YSNF 010400Z 23009KT 9999 SCT030 19/13 Q1019=
METAR YSRI 010400Z AUTO 33013KT 9999 // SCT082 22/06 Q1005=
METAR YWLM 010400Z 33016KT 9999 SCT042 23/09 Q1006
NOSIG=


......................................................................................


Date: 01-Jun-2563

SAAU60 AMMC 010400 CCA
METAR YAMB 010400Z 35007KT 9999 FEW036 SCT043 BKN280 24/14 Q1013
NOSIG=


......................................................................................


Date: 01-Jun-2563

SAAU60 AMMC 010400
METAR YABA 010400Z AUTO 32007KT 9999 // OVC020 OVC024 16/13 Q1027=
METAR YAMB 010400Z 35007KT 9999 FEW036 SCT043 BKN280 24/14 Q1013=
METAR YARG 010400Z AUTO /////KT 9999 // NCD 32/08 Q1017=
METAR YAYE 010400Z AUTO 16006KT 120V230 9999 // NCD 20/04 Q1024=
METAR YBAS 010400Z AUTO 13007KT 9999 // NCD 20/00 Q1023=
METAR YBBN 010400Z 04010KT 9999 FEW020 BKN270 BKN300 22/17 Q1014
NOSIG=
METAR YBCG 010400Z AUTO 36012KT 9999 // SCT042 23/15 Q1014=
METAR YBCS 010400Z AUTO 12004KT 090V170 9999 // SCT030 SCT042 27/19 Q1015
NOSIG=
METAR YBCV 010400Z AUTO 28007KT 9999 // NCD 22/02 Q1016=
METAR YBDV 010400Z AUTO 23017KT //// // ////// 22/06 Q1020=


......................................................................................


Date: 01-Jun-2563

SAAU69 AMMC 010400
METAR YSTW 010400Z AUTO 30015KT 9999 // SCT058 BKN096 BKN115 19/08 Q1011=
METAR YSWG 010400Z 28020KT 9999 VCSH FEW009 BKN025 10/07 Q1008=
METAR YTEF 010400Z AUTO 10017KT 9999 // NCD 23/00 Q1022=
METAR YTNK 010400Z AUTO 10014KT 9999 // NCD 28/06 Q1018=
METAR YTRE 010400Z AUTO 03009KT 9999 // SCT083 23/12 Q1008=
METAR YWGT 010400Z AUTO 26017KT 9999 -SHRA SCT027 BKN039 OVC050 10/06 Q1008=
METAR YWHA 010400Z AUTO 21015KT 9999 // ////// 17/03 Q1020=
METAR YWLM 010400Z 33016KT 9999 SCT042 23/09 Q1006
NOSIG=


......................................................................................


Date: 01-Jun-2563

SASR31 WSSS 010400
METAR WSSS 010400Z 22005KT 180V270 9999 VCSH FEW018TCU FEW020CB
SCT150 BKN260 29/24 Q1013 NOSIG=


......................................................................................


Date: 01-Jun-2563

SAAU32 AMMC 010400 CCB
SPECI YMAV 010405Z AUTO 26020KT 9999 // SCT014 SCT019 BKN022 11/10 Q1006=


......................................................................................


Date: 01-Jun-2563

SAAU32 AMMC 010400 CCC
SPECI YMLT 010405Z AUTO 34011KT 9999 // SCT025 SCT035 OVC050 12/10 Q1003=


......................................................................................


Date: 01-Jun-2563

SAAU65 AMMC 010400 CCA
METAR YMML 010400Z 27018KT 9999 -SHRA FEW017 BKN018 BKN100 09/07 Q1006
FM0500 24018G30KT 9999 -SHRA SCT010 BKN018
FM0400 MOD TURB BLW 5000FT
FM0500 SEV TURB BLW 5000FT
INTER 0400/0700 24020G26KT 4000 SHRA BKN014=


......................................................................................


Date: 01-Jun-2563

SAAU65 AMMC 010400 CCB
SPECI YMAV 010405Z AUTO 26020KT 9999 // SCT014 SCT019 BKN022 11/10 Q1006=


......................................................................................


Date: 01-Jun-2563

SAAU65 AMMC 010400 CCC
SPECI YMEN 010405Z AUTO 27016KT 6000 -SHRA OVC018 10/08 Q1006=


......................................................................................


Date: 01-Jun-2563

SATR31 UTAA 010400
METAR UTAA 010400Z 02004KT 330V070 9999 SCT099 25/15 Q1011
R88/CLRD70 NOSIG=
METAR UTAK 010400Z 17016KT 9999 SCT006 18/14 Q1011 R16R/CLRD70 NOSIG=
METAR UTAV 010400Z 00000KT 9000 NSC 33/03 Q1008 R31/CLRD70 NOSIG=
METAR UTAM 010400Z 31006KT CAVOK 27/06 Q1009 R88/CLRD70 NOSIG=
METAR UTAT 010400Z VRB02KT CAVOK 32/10 Q1009 NOSIG=


......................................................................................


Date: 01-Jun-2563

SAMS31 WMKK 010400
METAR WBGG 010400Z VRB02KT 9999 FEW014 29/26 Q1012 NOSIG=
METAR WBKK 010400Z VRB07KT 9999 -TSRA FEW014 FEW016CB SCT040 31/28 Q1010 TEMPO 8000 -TSRA=
METAR WBSB 010400Z 22006KT 9999 -SHRA SCT015 FEW016CB BKN140 29/25 Q1011 RETS
TEMPO 7000 -TSRA=
METAR WMKK 010400Z 21005KT 110V270 9000 FEW017CB 29/24 Q1012 NOSIG=
METAR WMKP 010400Z 23008KT 200V260 9000 FEW020 31/25 Q1012 NOSIG=
METAR WSSL 010400Z 22008KT 180V270 9999 VCTS FEW015 FEW017TCU
FEW018CB SCT160 28/24 Q1013=
METAR WSSS 010400Z 22005KT 180V270 9999 VCSH FEW018TCU FEW020CB
SCT150 BKN260 29/24 Q1013 NOSIG=


......................................................................................


Date: 01-Jun-2563

SAAU31 AMMC 010400
METAR YBAS 010400Z AUTO 13007KT 9999 // NCD 20/00 Q1023=
METAR YBBN 010400Z 04010KT 9999 FEW020 BKN270 BKN300 22/17 Q1014
NOSIG=
METAR YBCS 010400Z AUTO 12004KT 090V170 9999 // SCT030 SCT042 27/19 Q1015
NOSIG=
METAR YBTL 010400Z AUTO 05011KT 9999 // NCD 26/21 Q1015=
METAR YMML 010400Z 27018KT 9999 -SHRA FEW017 BKN018 BKN100 09/07 Q1006
FM0500 24018G30KT 9999 -SHRA SCT010 BKN018
FM0400 MOD TURB BLW 5000FT
FM0500 SEV TURB BLW 5000FT
INTER 0400/0700 24020G26KT 4000 SHRA BKN014=
METAR YPAD 010400Z 23018KT CAVOK 14/06 Q1019
NOSIG=
METAR YPCC 010400Z 13018KT 5000 -RA FEW011 BKN027 25/23 Q1015=
METAR YPDN 010400Z 31009KT 9999 FEW033 31/22 Q1013=
METAR YPKU 010400Z AUTO 13013KT 9999 // NCD 34/M02 Q1015=
METAR YPLM 010400Z AUTO 07003KT 9999 // SCT083 22/07 Q1020=
METAR YPPH 010400Z 10013KT 9999 FEW030 BKN044 19/11 Q1027=
METAR YPTN 010400Z AUTO 11011KT 9999 // NCD 34/08 Q1014=
METAR YPXM 010400Z AUTO 10009KT 9999 // OVC009 26/24 Q1014=
METAR YSSY 010400Z 33018KT CAVOK 23/04 Q1005
FM0630 28018G28KT CAVOK
FM0400 MOD TURB BLW 5000FT=


......................................................................................


Date: 01-Jun-2563

SAHK31 VHHH 010400
METAR VHHH 010400Z 20012KT 9999 FEW012 SCT028 32/25 Q1010 NOSIG=
METAR RCTP 010400Z 24019KT 9999 FEW020 SCT090 33/25 Q1011 NOSIG
RMK A2986=
METAR RCKH 010400Z 25009KT 210V300 9999 FEW012 SCT150 32/24 Q1011
NOSIG RMK A2988=
METAR RCSS 010400Z 31009KT 280V360 9999 VCSH FEW015 FEW020TCU
SCT030 BKN120 32/26 Q1010 NOSIG RMK TCU SE-S A2985=
METAR RCMQ 010400Z 27010KT 9999 FEW012 SCT020 31/24 Q1013 NOSIG
RMK A2992=
METAR RCNN 010400Z 25007KT 9999 FEW014 SCT200 32/24 Q1012 NOSIG
RMK A2990=
METAR RCFN 010400Z 13007KT 070V170 9999 FEW010 SCT016 31/26 Q1012
NOSIG RMK A2989=
METAR VMMC 010400Z 19013KT 9999 FEW018 SCT028 31/27 Q1010 NOSIG=
METAR RPLL 010400Z VRB10KT 9999 FEW025 SCT300 34/24 Q1011 NOSIG RMK
A2985=
METAR RPVM 010400Z VRB06KT 9999 VCSH FEW018CB 33/24 Q1012 RMK A2988
CB/VCSH S=
METAR RPMD 010400Z VRB03KT 9999 SCT016 SCT290 32/24 Q1011 RMK A2985=
METAR RPLB 010400Z 21010KT 160V270 9999 FEW020 33/24 Q1012 NOSIG RMK
A2988=
METAR RPLI 010400Z 27008KT 9999 FEW018TCU 33/26 Q1011 NOSIG RMK A2985
TCU NE-SE=
METAR RPMZ 010400Z VRB02KT 8000 -TSRA SCT016CB FEW017 OVC090 28/26
Q1012 RMK A2988 CB NE-E,SE-SW=


......................................................................................


Date: 01-Jun-2563

SAJP31 RJTD 010400
METAR RJAA 010400Z 13011KT 9999 VCSH FEW010 SCT020 BKN030 22/18
Q1012 NOSIG=
METAR RJBB 010400Z 26004KT 9999 FEW025 BKN/// 24/17 Q1010 NOSIG=
METAR RJTT 010400Z 06004KT 3500 R34L/P2000N R22/P2000N R34R/P2000N
R05/P2000N -RA BR FEW006 SCT015 BKN020 20/19 Q1011 BECMG
08005KT 8000 -RA=
METAR RJOO 010400Z 24004KT 190V310 9999 FEW030 BKN/// 27/16 Q1009=
METAR ROAH 010400Z 35008KT 320V020 9999 FEW008 SCT010 27/25 Q1011=
METAR RJGG 010400Z 24006KT 9999 FEW025 BKN/// 22/16 Q1010 NOSIG=
METAR RJCH 010400Z 15007KT 9999 FEW030 SCT/// 20/10 Q1009=
METAR RJSS 010400Z 16017KT 9999 -SHRA FEW020 SCT040 BKN120 20/14
Q1010=


......................................................................................


Date: 01-Jun-2563

SAJP32 RJTD 010400 RRA
METAR RJFO 010400Z 13010KT 9999 FEW010 SCT020 BKN120 22/19 Q1009=
METAR RJNT 010400Z 36011KT 9999 FEW030 BKN/// 26/17 Q1007=


......................................................................................


Date: 01-Jun-2563

SAJP32 RJTD 010400
METAR RJFF 010400Z VRB04KT 9999 FEW008 SCT012 BKN060 24/20 Q1009
BECMG 31007KT=
METAR RJCC 010400Z 16014KT 9999 FEW050 23/11 Q1008=
METAR RJFK 010400Z 19008KT 150V230 9999 VCSH FEW010 BKN015 BKN025
24/22 Q1011=
METAR RJSN 010400Z 12005KT 080V160 9999 FEW030 SCT070 BKN100 25/14
Q1008=
METAR RJFT 010400Z 23005KT 180V260 9999 BKN020 BKN150 26/21 Q1010=
METAR RJFU 010400Z 29006KT 9999 FEW010 BKN015 BKN020 25/21 Q1009=
METAR RJNK 010400Z 31005KT 270V360 9999 FEW030 SCT090 BKN230 23/17
Q1008=
METAR RJOA 010400Z VRB03KT 9999 FEW010 BKN020 BKN/// 21/18 Q1010=
METAR RJOB 010400Z 19004KT 140V230 9999 FEW020 SCT040 BKN110 24/18
Q1010=
METAR RJOT 010400Z 27004KT 230V310 9999 VCSH FEW015 SCT025 BKN060
23/18 Q1010=


......................................................................................


Date: 01-Jun-2563

SAJP35 RJTD 010400
METAR RJAA 010400Z 13011KT 9999 VCSH FEW010 SCT020 BKN030 22/18
Q1012 NOSIG=
METAR RJBB 010400Z 26004KT 9999 FEW025 BKN/// 24/17 Q1010 NOSIG=
METAR RJTT 010400Z 06004KT 3500 R34L/P2000N R22/P2000N R34R/P2000N
R05/P2000N -RA BR FEW006 SCT015 BKN020 20/19 Q1011 BECMG
08005KT 8000 -RA=
METAR RJOO 010400Z 24004KT 190V310 9999 FEW030 BKN/// 27/16 Q1009=
METAR RJGG 010400Z 24006KT 9999 FEW025 BKN/// 22/16 Q1010 NOSIG=
METAR RJSN 010400Z 12005KT 080V160 9999 FEW030 SCT070 BKN100 25/14
Q1008=
METAR RJCH 010400Z 15007KT 9999 FEW030 SCT/// 20/10 Q1009=
METAR RJSA 010400Z 05008KT 9999 FEW045 SCT050 BKN/// 23/09 Q1008=
METAR RJSF 010400Z 19009KT 9999 FEW010 BKN012 BKN015 19/19 Q1012=
METAR RJSI 010400Z 19015KT 9999 FEW025 SCT140 BKN/// 25/14 Q1010=


......................................................................................


Date: 01-Jun-2563

SAJP37 RJTD 010400 RRA
METAR RJFR 010400Z 06008KT 9999 -SHRA FEW005 SCT010 BKN020 20/19
Q1009=


......................................................................................


Date: 01-Jun-2563

SAJP37 RJTD 010400
METAR RJAA 010400Z 13011KT 9999 VCSH FEW010 SCT020 BKN030 22/18
Q1012 NOSIG=
METAR RJBB 010400Z 26004KT 9999 FEW025 BKN/// 24/17 Q1010 NOSIG=
METAR RJTT 010400Z 06004KT 3500 R34L/P2000N R22/P2000N R34R/P2000N
R05/P2000N -RA BR FEW006 SCT015 BKN020 20/19 Q1011 BECMG
08005KT 8000 -RA=
METAR RJOO 010400Z 24004KT 190V310 9999 FEW030 BKN/// 27/16 Q1009=
METAR RJFF 010400Z VRB04KT 9999 FEW008 SCT012 BKN060 24/20 Q1009
BECMG 31007KT=
METAR RJGG 010400Z 24006KT 9999 FEW025 BKN/// 22/16 Q1010 NOSIG=
METAR RJFK 010400Z 19008KT 150V230 9999 VCSH FEW010 BKN015 BKN025
24/22 Q1011=
METAR RJFU 010400Z 29006KT 9999 FEW010 BKN015 BKN020 25/21 Q1009=
METAR RJCH 010400Z 15007KT 9999 FEW030 SCT/// 20/10 Q1009=
METAR RJNS 010400Z VRB03KT 9999 -SHRA FEW005 SCT013 BKN020 20/20
Q1010=


......................................................................................


Date: 01-Jun-2563

SAJP38 RJTD 010400 RRA
METAR RJCK 010400Z 19011KT 9999 R17/P2000N PRFG FEW001 SCT005 13/10
Q1010=
METAR RJCM 010400Z 07011KT 040V100 CAVOK 23/04 Q1008=
METAR RJCB 010400Z 14012KT 9999 FEW060 27/09 Q1008=
METAR RJOC 010400Z 25012KT 9999 FEW025 SCT030 BKN035 24/18 Q1008=
METAR RJOH 010400Z 25010KT 9999 FEW030 BKN040 BKN100 26/18 Q1008=
METAR ROIG 010400Z 21015KT 9999 FEW010 BKN015 30/28 Q1011=
METAR RJFS 010400Z VRB02KT 9999 FEW005 BKN020 BKN030 24/21 Q1009=
METAR RJSI 010400Z 19015KT 9999 FEW025 SCT140 BKN/// 25/14 Q1010=


......................................................................................


Date: 01-Jun-2563

SAJP38 RJTD 010400
METAR RJNS 010400Z VRB03KT 9999 -SHRA FEW005 SCT013 BKN020 20/20
Q1010=
METAR RJSA 010400Z 05008KT 9999 FEW045 SCT050 BKN/// 23/09 Q1008=
METAR RJSF 010400Z 19009KT 9999 FEW010 BKN012 BKN015 19/19 Q1012=
METAR RJOM 010400Z 32004KT 9999 FEW025 SCT100 BKN/// 22/18 Q1009=
METAR RJOK 010400Z 19010KT 9999 FEW020 BKN060 23/19 Q1010=
METAR RJFM 010400Z 06003KT 030V090 9999 FEW010 BKN019 BKN/// 24/21
Q1010=
METAR RJEC 010400Z 04007KT 330V090 9999 FEW040 26/11 Q1008=
METAR RJFR 010400Z 06008KT 9999 -SHRA FEW005 SCT010 BKN020 20/19
Q1009=
METAR RJSK 010400Z 25012KT 9999 FEW045 BKN120 BKN/// 24/13 Q1008=
METAR RJAH 010400Z 10006KT 9999 FEW015 BKN020 BKN035 21/16 Q1012=


......................................................................................


Date: 01-Jun-2563

SAJP51 RJTD 010400 RRA
METAR RJFF 010400Z VRB04KT 9999 FEW008 SCT012 BKN060 24/20 Q1009
BECMG 31007KT=
METAR RJFG 010400Z 11004KT 070V150 9999 FEW007 SCT010 BKN/// 24/21
Q1011=
METAR RJFK 010400Z 19008KT 150V230 9999 VCSH FEW010 BKN015 BKN025
24/22 Q1011=
METAR RJFM 010400Z 06003KT 030V090 9999 FEW010 BKN019 BKN/// 24/21
Q1010=
METAR RJFO 010400Z 13010KT 9999 FEW010 SCT020 BKN120 22/19 Q1009=
METAR RJFR 010400Z 06008KT 9999 -SHRA FEW005 SCT010 BKN020 20/19
Q1009=
METAR RJFS 010400Z VRB02KT 9999 FEW005 BKN020 BKN030 24/21 Q1009=
METAR RJFT 010400Z 23005KT 180V260 9999 BKN020 BKN150 26/21 Q1010=
METAR RJFU 010400Z 29006KT 9999 FEW010 BKN015 BKN020 25/21 Q1009=
METAR RJGG 010400Z 24006KT 9999 FEW025 BKN/// 22/16 Q1010 NOSIG=
METAR RJKA 010400Z VRB05KT 9999 FEW012 SCT015 BKN025 27/23 Q1010=
METAR RJKI 010400Z AUTO 34004KT 280V030 9999 FEW016 BKN019 27/24
Q1010=
METAR RJNK 010400Z 31005KT 270V360 9999 FEW030 SCT090 BKN230 23/17
Q1008=
METAR RJNS 010400Z VRB03KT 9999 -SHRA FEW005 SCT013 BKN020 20/20
Q1010=
METAR RJNT 010400Z 36011KT 9999 FEW030 BKN/// 26/17 Q1007=
METAR RJNW 010400Z 23006KT 180V260 9999 FEW040 SCT090 BKN/// 23/15
Q1008=
METAR RJOA 010400Z VRB03KT 9999 FEW010 BKN020 BKN/// 21/18 Q1010=
METAR RJOB 010400Z 19004KT 140V230 9999 FEW020 SCT040 BKN110 24/18
Q1010=
METAR RJOC 010400Z 25012KT 9999 FEW025 SCT030 BKN035 24/18 Q1008=
METAR RJOH 010400Z 25010KT 9999 FEW030 BKN040 BKN100 26/18 Q1008=


......................................................................................


Date: 01-Jun-2563

SAJP51 RJTD 010400 RRB
METAR RJOK 010400Z 19010KT 9999 FEW020 BKN060 23/19 Q1010=
METAR RJOM 010400Z 32004KT 9999 FEW025 SCT100 BKN/// 22/18 Q1009=
METAR RJOO 010400Z 24004KT 190V310 9999 FEW030 BKN/// 27/16 Q1009=
METAR RJOR 010400Z 31012KT 9999 FEW040 SCT050 BKN060 26/18 Q1008=
METAR RJOS 010400Z 05005KT 9999 FEW015 BKN070 BKN/// 23/17 Q1010=
METAR RJOT 010400Z 27004KT 230V310 9999 VCSH FEW015 SCT025 BKN060
23/18 Q1010=
METAR RJOW 010400Z 22006KT 180V260 7000 -SHRA FEW010 SCT020 BKN035
23/20 Q1009=
METAR RJOY 010400Z 28009KT 9999 FEW030 OVC/// 27/17 Q1009=
METAR RJSA 010400Z 05008KT 9999 FEW045 SCT050 BKN/// 23/09 Q1008=
METAR RJSC 010400Z VRB05KT 9999 FEW040 SCT080 BKN/// 25/14 Q1009=
METAR RJSD 010400Z AUTO 06006KT 9999 BKN049 24/16 Q1008=
METAR RJSF 010400Z 19009KT 9999 FEW010 BKN012 BKN015 19/19 Q1012=
METAR RJSI 010400Z 19015KT 9999 FEW025 SCT140 BKN/// 25/14 Q1010=
METAR RJSK 010400Z 25012KT 9999 FEW045 BKN120 BKN/// 24/13 Q1008=
METAR COR RJSM 010400Z 11010KT 9999 FEW035 BKN250 22/12 Q1009=
METAR RJSN 010400Z 12005KT 080V160 9999 FEW030 SCT070 BKN100 25/14
Q1008=
METAR RJSR 010400Z 33004KT 250V050 9999 FEW040 BKN/// 26/14 Q1008=
METAR RJSS 010400Z 16017KT 9999 -SHRA FEW020 SCT040 BKN120 20/14
Q1010=
METAR RJSY 010400Z 28005KT 210V320 9999 FEW040 SCT070 BKN090 22/16
Q1009=
METAR RJTF 010400Z 34003KT 310V020 2500 -RA BR FEW004 BKN006 BKN008
19/19 Q1011=


......................................................................................


Date: 01-Jun-2563

SAJP51 RJTD 010400 RRC
METAR RJTI 010400Z 11010KT 2000 -SHRA BR FEW005 SCT010 BKN015 20/19
Q1011=
METAR RJTO 010400Z 08005KT 010V150 6000 -SHRA FEW001 SCT007 BKN030
21/20 Q1010=
METAR RJTT 010400Z 06004KT 3500 R34L/P2000N R22/P2000N R34R/P2000N
R05/P2000N -RA BR FEW006 SCT015 BKN020 20/19 Q1011 BECMG
08005KT 8000 -RA=
METAR ROAH 010400Z 35008KT 320V020 9999 FEW008 SCT010 27/25 Q1011=
METAR ROIG 010400Z 21015KT 9999 FEW010 BKN015 30/28 Q1011=
METAR ROMD 010400Z AUTO 22015KT 9999 BKN007 29/26 Q1012=
METAR ROMY 010400Z 20014KT 9999 SCT011 31/27 Q1011=
METAR RORK 010400Z AUTO 23015KT 9999 FEW014 30/25 Q1012=
METAR RORS 010400Z 19009KT 160V220 9999 FEW012 FEW020CB SCT/// 30/27
Q1010=
METAR RORY 010400Z AUTO 31005KT 270V350 9999 FEW021 27/24 Q1011=
METAR ROYN 010400Z AUTO 05008KT 9999 FEW021 BKN024 BKN130 30/26
Q1011=


......................................................................................


Date: 01-Jun-2563

SAJP51 RJTD 010400
METAR RJAA 010400Z 13011KT 9999 VCSH FEW010 SCT020 BKN030 22/18
Q1012 NOSIG=
METAR RJAF 010400Z 16013KT 9999 FEW050 SCT120 BKN/// 24/14 Q1010=
METAR RJAH 010400Z 10006KT 9999 FEW015 BKN020 BKN035 21/16 Q1012=
METAR RJBB 010400Z 26004KT 9999 FEW025 BKN/// 24/17 Q1010 NOSIG=
METAR RJBD 010400Z VRB04KT 9999 FEW030 BKN/// 23/18 Q1010=
METAR RJBE 010400Z 25007KT 9999 FEW025 SCT140 BKN/// 22/18 Q1009=
METAR RJBT 010400Z 20009KT 170V230 9999 FEW030 SCT060 BKN/// 27/19
Q1008=
METAR RJCB 010400Z 14012KT 9999 FEW060 27/09 Q1008=
METAR RJCC 010400Z 16014KT 9999 FEW050 23/11 Q1008=
METAR RJCH 010400Z 15007KT 9999 FEW030 SCT/// 20/10 Q1009=
METAR RJCK 010400Z 19011KT 9999 R17/P2000N PRFG FEW001 SCT005 13/10
Q1010=
METAR RJCM 010400Z 07011KT 040V100 CAVOK 23/04 Q1008=
METAR RJCN 010400Z 20010KT 9999 FEW035 24/14 Q1009=
METAR RJCO 010400Z 12016KT 9999 FEW030 28/09 Q1007=
METAR RJCW 010400Z 22017KT 9999 FEW020 24/09 Q1007=
METAR RJDC 010400Z 07011KT 4500 -SHRA BR FEW010 SCT020 BKN025 20/20
Q1009=
METAR RJDT 010400Z VRB04KT 9999 FEW010 OVC/// 23/19 Q1009=
METAR RJEB 010400Z 11014KT 9999 FEW050 21/06 Q1008=
METAR RJEC 010400Z 04007KT 330V090 9999 FEW040 26/11 Q1008=
METAR RJFE 010400Z 34010KT 9999 FEW010 SCT015 BKN/// 23/20 Q1010=


......................................................................................


Date: 01-Jun-2563

SAPA31 KWBC 010400
METAR
AGGG NIL=
AGGH 010400Z 36006KT 9999 FEW020 FEW021CB 31/25 Q1009 RMK CB ASSW
SH TO SE/ENE=
AGGH 010400Z 36006KT 9999 FEW020 FEW021CB 31/25 Q1009 RMK CB ASSW
SH TO SE,ENE=
ANAU NIL=
AYPY NIL=
PGNT NIL=
PGRO 010350Z 09010KT 7SM SCT015 29/24 A2988=
PGSN 010354Z 09014KT 10SM SCT024 32/24 A2991 RMK AO2 SLP148
T03220239=
PGUA 010356Z 11013KT 10SM BKN020 30/24 A2991 RMK AO2A CIG 020V036
BKN V SCT CIG 017 RWY24L SLP119 T02970236 PWINO $=
PGUM 010354Z 10013KT 10SM SCT023 BKN065 31/24 A2991 RMK AO2
RAB01E15 SLP118 P0000 T03060239=
PGWT 010358Z 11012KT 7SM SCT016 SCT080 32/23 A2992=
PGWT 010358Z COR 11012KT 7SM SCT016 SCT080 32/23 A2990=
PHJH NIL=
PHJR NIL=
PHMK 010403Z 03011G19KT 3SM -RA SCT019 BKN028 23/20 A3006 RMK AO2
P0000 T02330200=
PHMK 010354Z 03011G18KT 5SM -RA FEW021 BKN030 24/20 A3005 RMK AO2
PK WND 04027/0304 RAB52 SLP179 P0000 T02390200=
PJON NIL=
PKMJ 010359Z 08010KT 156SM FEW015 SCT050 BKN300 31/25 A2985=
PKMR 010352Z 11011KT 15SM FEW015 SCT050 BKN300 30/25 A2984 RMK
SLP107 T03030253=
PKWA 010400Z AUTO 07008KT 10SM SCT022 31/25 A2986 RMK AO2
T03110253=
PLCH 010400Z 12004KT 9999 SCT020 30/22 1010=
PMDY NIL=
PTKK 010350Z 05008G18KT 15SM FEW014CB BKN120 BKN280 31/27 A2981
RMK CB SE-S MOV SW SLP096 T03110270=
PTKR NIL=
PTPN NIL=
PTRO 010350Z 08009KT 15SM SCT016 BKN120 BKN300 31/25 A2986=
PTSA NIL=
PTTP 010353Z 10006KT 15SM SCT018TCU OVC300 30/25 A2985 RMK SHRAE01
TCU ALQDS SLP107 T03000247=
PTYA 010352Z 09008KT 12SM FEW020 FEW300 31/24 A2987 RMK SLP117
T03110240=
PWAK 010358Z AUTO 10005KT 9999 FEW021 M A2996 RMK AO2 SLPNO FZRANO
$=


......................................................................................


Date: 01-Jun-2563

SPTH31 VTUW 010411
SPECI VTUW 010411Z 01010KT 2000 +TSRA FEW010 FEW018CB BKN020 24/24
Q1013 BECMG TL0430 7000 -TSRA=


......................................................................................


Date: 01-Jun-2563

SAIR33 OIII 010400 RRA
METAR OIHH 010400Z 15002KT CAVOK 20/M04 Q1019=


......................................................................................


Date: 01-Jun-2563

SAMS31 WMKK 010400
METAR WBGG 010400Z NIL=
METAR WBKK 010400Z NIL=
METAR WBSB 010400Z NIL=
METAR WMKK 010400Z NIL=
METAR WMKP 010400Z NIL=
METAR WSSL 010400Z 22008KT 180V270 9999 VCTS FEW015 FEW017TCU
FEW018CB SCT160 28/24 Q1013=
METAR WSSS 010400Z 22005KT 180V270 9999 VCSH FEW018TCU FEW020CB
SCT150 BKN260 29/24 Q1013 NOSIG=


......................................................................................


Date: 01-Jun-2563

SAMS32 WMKK 010400
NIL


......................................................................................


Date: 01-Jun-2563

SAMS34 WMKK 010400
NIL


......................................................................................


Date: 01-Jun-2563

SAPA31 KWBC 010400 RRA
METAR
PGUM 010405Z 09012G19KT 10SM BKN023 BKN065 31/23 A2990 RMK AO2
T03060233=


......................................................................................


Date: 01-Jun-2563

SASD20 OEJD 010400
METAR OEAB 010400Z 00000KT CAVOK 22/04 Q1024 NOSIG=
METAR OEAH 010400Z 30006KT CAVOK 34/03 Q1006 NOSIG=
METAR OEAO 010400Z 22002KT CAVOK 27/05 Q1011=
METAR OEAR 010400Z 00000KT CAVOK 29/13 Q1008=
METAR OEBA 010400Z 33010KT CAVOK 26/02 Q1020 NOSIG=
METAR OEBH 010400Z 19003KT CAVOK 25/02 Q1016 NOSIG=
METAR OEDF 010400Z 30009KT CAVOK 32/06 Q1004 NOSIG=
METAR OEDM 010400Z NIL=
METAR OEDR 010400Z 30012KT CAVOK 32/11 Q1003 NOSIG=
METAR OEGN 010400Z 00000KT 8000 NSC 31/26 Q1007 NOSIG=
METAR OEGS 010400Z 12003KT CAVOK 29/10 Q1010=
METAR OEGT 010400Z 27014KT CAVOK 17/08 Q1013 NOSIG=
METAR OEHL 010400Z 00000KT CAVOK 29/02 Q1013 NOSIG=
METAR OEJB 010400Z NIL=
METAR OEJN 010400Z 34006KT CAVOK 27/18 Q1007 NOSIG=
METAR OEKJ 010400Z 28006KT CAVOK 31/01 Q1013=
METAR OEKK 010400Z NIL=


......................................................................................


Date: 01-Jun-2563

SASD21 OEJD 010400
METAR OEKM 010400Z 22004KT CAVOK 23/09 Q1024 NOSIG=
METAR OEMA 010400Z 09003KT CAVOK 31/00 Q1012 NOSIG=
METAR OEMK 010400Z NIL=
METAR OENG 010400Z 31003KT CAVOK 26/09 Q1016 NOSIG=
METAR OEPA 010400Z 02008KT CAVOK 30/06 Q1009 NOSIG=
METAR OERF 010400Z 09009KT CAVOK 31/M01 Q1009=
METAR OERK 010400Z 00000KT CAVOK 31/10 Q1012 NOSIG=
METAR OERR 010400Z 03006KT CAVOK 24/M01 Q1010=
METAR OERY 010400Z NIL=
METAR OESH 010400Z 09006KT 6000 NSC 29/07 Q1011 NOSIG=
METAR OESK 010400Z 08008KT CAVOK 26/00 Q1012=
METAR OETB 010400Z 29006KT CAVOK 22/05 Q1013 NOSIG=
METAR OETF 010400Z 22006KT CAVOK 25/03 Q1020 NOSIG=
METAR OETR 010400Z 02010KT CAVOK 22/06 Q1013=
METAR OEWD 010400Z 09006KT CAVOK 31/13 Q1010 NOSIG=
METAR OEWJ 010400Z 11004KT 8000 NSC 23/22 Q1008 NOSIG=
METAR OEYN 010400Z 27010KT CAVOK 24/20 Q1005 NOSIG=


......................................................................................


Date: 01-Jun-2563

SAAU31 AMMC 010400 CCA
METAR YPTN 010400Z 11011KT CAVOK 34/08 Q1014
NOSIG=


......................................................................................


Date: 01-Jun-2563

SAAU31 AMMC 010400 CCB
METAR YPDN 010400Z 31009KT 9999 FEW033 31/22 Q1013
NOSIG=


......................................................................................


Date: 01-Jun-2563

SAIR36 OIII 010400 RRA
METAR OIMT 010400Z AUTO 15004KT //// // ////// 35/00 Q1009=


......................................................................................


Date: 01-Jun-2563

SAMS33 WMKK 010400
NIL


......................................................................................


Date: 01-Jun-2563

SAPA31 KWBC 010400 RRB
METAR
PMDY 010408Z AUTO 19005KT 9SM 26/24 A3004 RMK AO2 RAE00 P0000
$=


......................................................................................


Date: 01-Jun-2563

SAUZ31 UTTW 010400
METAR UTFN 010400Z 11006KT 070V140 9999 NSC 29/08 Q1010 R28/CLRD70
NOSIG=
METAR UTNN 010400Z VRB02KT CAVOK 33/02 Q1009 R33/CLRD60 NOSIG=
METAR UTNU 010400Z 29004KT 6000 NSC 31/09 Q1009 R31/CLRD70 NOSIG=
METAR UTSA 010400Z 07010KT 9000 NSC 31/08 Q1009 R07/CLRD70 NOSIG=
METAR UTSB 010400Z 12004KT 080V160 CAVOK 29/09 Q1008 R01/CLRD70
NOSIG=
METAR UTSK 010400Z 22006KT CAVOK 29/10 Q1009 R16/CLRD70=
METAR UTSS 010400Z 15012KT 9999 NSC 28/10 Q1011 R09/CLRD70 NOSIG=
METAR UTST 010400Z VRB02KT CAVOK 30/09 Q1010 R88/CLRD70 NOSIG=
METAR UTFA 010400Z NIL=
METAR UTFF 010400Z 34004KT 9999 NSC 29/06 Q1010 R99/CLRD70=
METAR UTTT 010400Z 13002KT CAVOK 31/10 Q1009 R08R/CLRD70 NOSIG=


......................................................................................


Date: 01-Jun-2563

SAAR20 OEJD 010400
METAR OBBI 010400Z 30011KT CAVOK 33/22 Q1004 NOSIG=
METAR OKBK 010400Z 01011KT CAVOK 33/06 Q1006 NOSIG=
METAR OMAA 010400Z 21011KT 180V250 6000 NSC 35/20 Q1006 TEMPO 4000
DU=
METAR OMAD 010400Z 20005KT 140V310 7000 NSC 34/21 Q1006 TEMPO 4000
DU=
METAR OMAL 010400Z 17013KT 8000 NSC 34/22 Q1009 NOSIG=
METAR OMDB 010400Z 22010KT 6000 NSC 35/22 Q1005 NOSIG=
METAR OMFJ 010400Z 13005KT 7000 NSC 36/27 Q1004 A2966=
METAR OMRK 010400Z 20012KT 8000 NSC 37/19 Q1006 A2971=
METAR OMSJ 010400Z 19017KT 7000 NSC 36/20 Q1006 TEMPO 4000 DU=
METAR OOMS 010350Z 21016KT CAVOK 38/22 Q1004 NOSIG=
METAR OOSA 010350Z 11007KT 4000 HZ FEW014 BKN025 OVC100 29/27 Q1008
NOSIG=
METAR OOSH 010400Z NIL=
METAR OODQ 010350Z AUTO 22016KT //// R22///// SCT014 30/26 Q1009
NOSIG RMK RH81? 0=
METAR OTBD 010400Z AUTO 22007KT 190V280 CAVOK 31/23 Q1005 NOSIG=
METAR OTBH 010400Z NIL=
METAR OTHH 010400Z AUTO 22007KT CAVOK 30/22 Q1005 NOSIG=
METAR OYAA 010400Z NIL=
METAR OYSN 010400Z NIL=


......................................................................................


Date: 01-Jun-2563

SAOM32 OOMS 010400 RRA
METAR OOSH 010350Z AUTO 23017KT //// ////// 39/17 Q1003=


......................................................................................


Date: 01-Jun-2563

SAPA31 KWBC 010400
METAR
AGGG NIL=
AGGH 010400Z 36006KT 9999 FEW020 FEW021CB 31/25 Q1009 RMK CB ASSW
SH TO SE/ENE=
AGGH 010400Z 36006KT 9999 FEW020 FEW021CB 31/25 Q1009 RMK CB ASSW
SH TO SE,ENE=
ANAU NIL=
AYPY NIL=
PGNT NIL=
PGRO 010350Z 09010KT 7SM SCT015 29/24 A2988=
PGSN 010354Z 09014KT 10SM SCT024 32/24 A2991 RMK AO2 SLP148
T03220239=
PGUA 010356Z 11013KT 10SM BKN020 30/24 A2991 RMK AO2A CIG 020V036
BKN V SCT CIG 017 RWY24L SLP119 T02970236 PWINO ?=
PGUM 010354Z 10013KT 10SM SCT023 BKN065 31/24 A2991 RMK AO2
RAB01E15 SLP118 P0000 T03060239=
PGWT 010358Z 11012KT 7SM SCT016 SCT080 32/23 A2992=
PGWT 010358Z COR 11012KT 7SM SCT016 SCT080 32/23 A2990=
PHJH NIL=
PHJR NIL=
PHMK 010403Z 03011G19KT 3SM -RA SCT019 BKN028 23/20 A3006 RMK AO2
P0000 T02330200=
PHMK 010354Z 03011G18KT 5SM -RA FEW021 BKN030 24/20 A3005 RMK AO2
PK WND 04027/0304 RAB52 SLP179 P0000 T02390200=
PJON NIL=
PKMJ 010359Z 08010KT 156SM FEW015 SCT050 BKN300 31/25 A2985=
PKMR 010352Z 11011KT 15SM FEW015 SCT050 BKN300 30/25 A2984 RMK
SLP107 T03030253=
PKWA 010400Z AUTO 07008KT 10SM SCT022 31/25 A2986 RMK AO2
T03110253=
PLCH 010400Z 12004KT 9999 SCT020 30/22 1010=
PMDY NIL=
PTKK 010350Z 05008G18KT 15SM FEW014CB BKN120 BKN280 31/27 A2981
RMK CB SE-S MOV SW SLP096 T03110270=
PTKR NIL=
PTPN NIL=
PTRO 010350Z 08009KT 15SM SCT016 BKN120 BKN300 31/25 A2986=
PTSA NIL=
PTTP 010353Z 10006KT 15SM SCT018TCU OVC300 30/25 A2985 RMK SHRAE01
TCU ALQDS SLP107 T03000247=
PTYA 010352Z 09008KT 12SM FEW020 FEW300 31/24 A2987 RMK SLP117
T03110240=
// END PART 01 //


......................................................................................


Date: 01-Jun-2563

SAAU61 AMMC 010400
METAR YBHI 010400Z AUTO 24018KT 9999 // BKN047 BKN053 14/01 Q1018=
METAR YBHM 010400Z AUTO 14008KT 9999 // NCD 23/19 Q1016=
METAR YBLN 010400Z AUTO 17003KT //// // ////// 17/11 Q1027=
METAR YBMA 010400Z AUTO 18016KT 9999 // NCD 27/03 Q1019=
METAR YBMK 010400Z AUTO 08010KT 9999 // NCD 25/18 Q1016=
METAR YBNA 010400Z AUTO 34009KT 9999 // NCD 24/13 Q1012=
METAR YBOK 010400Z 30014KT CAVOK 24/09 Q1014
NOSIG=
METAR YBPN 010400Z AUTO 08006KT 9999 // BKN037 BKN050 26/17 Q1015=
METAR YBRK 010400Z AUTO 33003KT 9999 // NCD 28/13 Q1015=
METAR YBRM 010400Z AUTO 12015KT 9999 // NCD 28/08 Q1017=


......................................................................................


Date: 01-Jun-2563

SAAU62 AMMC 010400
METAR YBTL 010400Z AUTO 05011KT 9999 // NCD 26/21 Q1015=
METAR YBUD 010400Z AUTO 05011KT 9999 // SCT020 22/16 Q1015=
METAR YBWP 010400Z AUTO 11007KT 070V150 9999 // BKN045 32/19 Q1012=
METAR YBWX 010400Z AUTO 07021KT //// // ////// 23/12 Q1019=
METAR YCAS 010400Z AUTO 35012KT //// // ////// 25/13 Q1012=
METAR YCBA 010400Z AUTO 25015KT 8000 // SCT062 14/01 Q1014=
METAR YCBB 010400Z AUTO 31019KT 9999 // NCD 16/M01 Q1011=
METAR YCBP 010400Z AUTO 20014KT 9999 // OVC039 17/07 Q1023=
METAR YCCY 010400Z AUTO 21014KT 9999 // NCD 28/M01 Q1017=


......................................................................................


Date: 01-Jun-2563

SAAU63 AMMC 010400
METAR YCDU 010400Z AUTO 22007KT 9999 // SCT048 15/10 Q1024=
METAR YCIN 010400Z AUTO 13013KT 9999 // NCD 29/09 Q1016=
METAR YCNM 010400Z AUTO 29019KT //// // ////// 19/05 Q1012=
METAR YCOM 010400Z AUTO 28013KT 9999 // ////// 09/M02 Q1005=
METAR YDBY 010400Z AUTO 14015KT 9999 // NCD 29/10 Q1016=
METAR YEML 010400Z AUTO 28004KT 9999 // NCD 27/12 Q1015=
METAR YESP 010400Z AUTO 28006KT 9999 // BKN010 BKN014 OVC025 15/15 Q1027=
METAR YFRT 010400Z AUTO 21009KT 9999 // BKN034 17/09 Q1026=
METAR YGEL 010400Z AUTO 08009KT 9999 // NCD 21/11 Q1026=


......................................................................................


Date: 01-Jun-2563

SAAU64 AMMC 010400
METAR YGFN 010400Z AUTO 34008KT 9999 // NCD 25/12 Q1011=
METAR YGLA 010400Z AUTO 04010KT 9999 // SCT075 SCT090 24/16 Q1015=
METAR YGTE 010400Z AUTO 24007KT 180V300 9999 // NCD 30/22 Q1014=
METAR YGTH 010400Z AUTO 25019KT 9999 // SCT036 OVC043 11/04 Q1011=
METAR YHID 010400Z AUTO 11014KT 9999 // NCD 29/23 Q1013=
METAR YHUG 010400Z AUTO 24011KT 9999 // NCD 29/06 Q1016=
METAR YKRY 010400Z AUTO 33010KT 9999 // SCT039 21/11 Q1016=
METAR YLEC 010400Z AUTO 19015KT 9999 // NCD 15/01 Q1021=
METAR YLIS 010400Z AUTO 33013KT 9999 // NCD 24/13 Q1012=


......................................................................................


Date: 01-Jun-2563

SAAU66 AMMC 010400
METAR YMTG 010400Z AUTO 23015KT 9999 DZ SCT034 BKN038 BKN055 10/06 Q1014=
METAR YNAR 010400Z AUTO 27016KT 9999 // SCT023 BKN033 OVC039 11/06 Q1011=
METAR YNBR 010400Z AUTO 31018KT 9999 // SCT097 22/03 Q1012=
METAR YNTN 010400Z AUTO 17011KT 140V200 9999 // NCD 32/08 Q1014=
METAR YNWN 010400Z AUTO 10010KT 9999 // NCD 20/01 Q1024=
METAR YOLD 010400Z AUTO 21013KT 9999 // NCD 16/03 Q1022=
METAR YPAD 010400Z 23018KT CAVOK 14/06 Q1019
NOSIG=
METAR YPBO 010400Z AUTO /////KT 9999 // NCD 24/M01 Q1023=
METAR YPCC 010400Z 13018KT 5000 -RA FEW011 BKN027 25/23 Q1015=


......................................................................................


Date: 01-Jun-2563

SAAU67 AMMC 010400
METAR YPDN 010400Z 31009KT 9999 FEW033 31/22 Q1013
NOSIG=
METAR YPEA 010400Z AUTO 07009KT 9999 // BKN042 19/10 Q1027=
METAR YPGV 010400Z 11011KT 090V150 9999 FEW030 30/19 Q1014=
METAR YPKG 010400Z AUTO 14004KT 9999 // BKN031 17/08 Q1027=
METAR YPKU 010400Z AUTO 13013KT 9999 // NCD 34/M02 Q1015=
METAR YPLM 010400Z AUTO 07003KT 9999 // SCT083 22/07 Q1020=
METAR YPPD 010400Z AUTO 12015KT 9999 // NCD 26/01 Q1019=
METAR YPPH 010400Z 10013KT 9999 FEW030 BKN044 19/11 Q1027=
METAR YPTN 010400Z 11011KT CAVOK 34/08 Q1014
NOSIG=


......................................................................................


Date: 01-Jun-2563

SAAU68 AMMC 010400
METAR YCFS 010400Z AUTO 36010KT 9999 // NCD 24/12 Q1011=
METAR YPWR 010400Z AUTO 23015KT 9999 // NCD 15/03 Q1022=
METAR YPXM 010400Z AUTO 10009KT 9999 // OVC009 26/24 Q1014=
METAR YRMD 010400Z AUTO 23011KT 9999 // NCD 30/05 Q1016=
METAR YSCB 010400Z AUTO 31015KT 9999 -SHRA SCT028 BKN038 OVC047 09/06 Q1007
TEMPO 0400/0600 3000 SHRA BKN008=
METAR YSDU 010400Z AUTO 28015KT 9999 // OVC056 15/06 Q1011=
METAR YSNF 010400Z 23009KT 9999 SCT030 19/13 Q1019=
METAR YSRI 010400Z AUTO 33013KT 9999 // SCT082 22/06 Q1005=
METAR YSSY 010400Z 33018KT CAVOK 23/04 Q1005
FM0630 28018G28KT CAVOK
FM0400 MOD TURB BLW 5000FT=


......................................................................................


Date: 01-Jun-2563

SAKO51 RJTD 010400
METAR RKJJ 010400Z 31009KT 9999 SCT040 25/14 Q1011 RMK SLP117 8/500
9/300=
METAR RKPC 010400Z 29006KT 260V320 3500 BR BKN002 BKN020 OVC120
18/16 Q1013 NOSIG=
METAR RKPK 010400Z 18012KT 9999 FEW040 BKN200 26/18 Q1008=
METAR RKPS 010400Z 22010KT 9999 FEW040 SCT200 28/17 Q1009 RMK SLP096
8/508 9/202=
METAR RKSI 010400Z 26016KT CAVOK 22/09 Q1010 NOSIG=
METAR RKSM 010400Z 29010KT 9999 FEW030 25/10 A2981=
METAR RKSS 010400Z 27015KT 240V300 9999 FEW025 SCT200 23/10 Q1009
NOSIG=
METAR RKTH 010400Z 27017KT 9999 SCT030 SCT200 28/12 Q1007 RMK SLP075
8/508 9/301=
METAR RKTN 010400Z 32012KT 9999 FEW050 FEW200 28/10 Q1008=
METAR RKTU 010400Z 31014KT 9999 FEW040 25/07 Q1010=


......................................................................................


Date: 01-Jun-2563

SAMS38 WMKK 010400
METAR WBGB 010400Z 29003KT 240V330 9999 -RA FEW003 SCT014 OVC140
26/25 Q1012 RERA=
METAR WBGR 010400Z 24007KT 230V300 9999 SCT014 BKN150 27/25 Q1011=
METAR WBGS 010400Z VRB01KT 9999 RA FEW008 SCT015 BKN150 25/24 Q1013=
METAR WBKL 010400Z 23004KT 170V320 9999 FEW015 SCT120 BKN270 28/26
Q1011 RETS=
METAR WBKS 010400Z VRB02KT 9999 SCT017 32/24 Q1010=
METAR WBKW 010400Z 21008KT 170V260 9999 FEW016CB 31/25 Q1010=
METAR WMKD 010400Z VRB03KT 9999 FEW020 33/27 Q1011 NOSIG=
METAR WMKL 010400Z VRB03KT 9999 FEW022 31/28 Q1011=
METAR WMKM 010400Z VRB03KT 7000 -RA FEW010 FEW017CB SCT025 26/24
Q1014=


......................................................................................


Date: 01-Jun-2563

SANG31 AMMC 010400
METAR AYMO NIL=
METAR AYPY 010400Z 16020KT 9999 SCT025 SCT040CB 30/25 Q1010=


......................................................................................


Date: 01-Jun-2563

SANP31 VNKT 010420
METAR VNKT 010420Z VRB02KT 8000 FEW015 SCT030 23/19 Q1017 NOSIG=


......................................................................................


Date: 01-Jun-2563

SAPA31 KWBC 010400 RRC
METAR
AYPY 010400Z 16020KT 9999 SCT025 SCT040CB 30/25 Q1010=
PGUM 010405Z 09012G19KT 10SM BKN023 BKN065 31/23 A2990=


......................................................................................


Date: 01-Jun-2563

SAAR20 OEJD 010400 RRA
METAR OOSH 010350Z AUTO 23017KT //// ////// 39/17 Q1003 RMK 1000=


......................................................................................


Date: 01-Jun-2563

SAPA31 KWBC 010400 RRD
METAR
PGUM 010417Z 08013G23KT 10SM SCT023 31/23 A2990 RMK AO2
T03060233=


......................................................................................


Date: 01-Jun-2563

SACI51 RJTD 010400
METAR ZBAA 010400Z VRB02MPS CAVOK 29/11 Q1004 BECMG TL0440 19005MPS=
METAR ZBTJ 010400Z 22004MPS 180V250 CAVOK 30/04 Q1006 NOSIG=
METAR ZBYN 010400Z 14003MPS 120V190 CAVOK 21/11 Q1010 NOSIG=
METAR ZGGG 010400Z 08003MPS 040V110 7000 -TSRA SCT010 FEW033CB
BKN033 27/24 Q1009 RESHRA BECMG AT0415 3500 TSRA SCT011
SCT026CB BKN030=
METAR ZGKL 010400Z 18003MPS 110V230 9999 FEW013 28/24 Q1010 NOSIG=
METAR ZGNN 010400Z 17002MPS 110V230 9999 SCT023 SCT033 32/26 Q1008
NOSIG=
METAR ZGOW 010400Z 21003MPS 190V260 9999 FEW021TCU SCT026 28/27
Q1011 RESHRA NOSIG=
METAR ZGSZ 010400Z 18007MPS 9999 FEW020 31/27 Q1010 NOSIG=
METAR ZLXY 010400Z 27004MPS 240V330 CAVOK 28/15 Q1012 NOSIG=
METAR ZPPP 010400Z 24006MPS 9999 FEW026TCU SCT026 25/13 Q1021 NOSIG=
METAR ZSAM 010400Z 18004MPS 9999 TS BKN020 SCT033 FEW033CB 30/26
Q1011 BECMG TL0420 TSRA=
METAR ZSHC 010400Z 20003MPS 150V240 9999 FEW033 31/22 Q1011 NOSIG=
METAR ZSNJ 010400Z 13004MPS 090V190 9999 SCT030 32/19 Q1010 NOSIG=
METAR ZSQD 010400Z 19005MPS CAVOK 25/12 Q1011 NOSIG=
METAR ZSSS 010400Z 16004MPS 120V210 CAVOK 30/19 Q1012 NOSIG=
METAR ZWWW 010400Z 30002MPS 240V360 CAVOK 30/03 Q1014 NOSIG=
METAR ZYTL 010400Z 27006MPS CAVOK 26/09 Q1009 NOSIG=
METAR ZYTX 010400Z 28006MPS 240V310 CAVOK 22/09 Q1007 NOSIG=


......................................................................................


Date: 01-Jun-2563

SAPA31 KWBC 010400 RRB
METAR
PMDY 010408Z AUTO 19005KT 9SM 26/24 A3004 RMK AO2 RAE00 P0000
?=


......................................................................................


Date: 01-Jun-2563

SASB31 VCCC 010410
METAR VCBI 010410Z 23010KT 190V250 9999 BKN016 30/28 Q1012 NOSIG=
METAR VRMM 010400Z 21008KT 9999 FEW018TCU 32/27 Q1012 NOSIG=
METAR VCRI 010410Z 24011KT 9999 SCT018 31/26 Q1012 NOSIG=


......................................................................................


Date: 01-Jun-2563

SAPA31 KWBC 010400 RRE
METAR
PKWA 010420Z AUTO 08009KT 10SM SCT022 31/25 A2986 RMK AO2
T03090254=


......................................................................................


Date: 01-Jun-2563

SATH31 VTBU 010430
METAR VTBU 010430Z 23004KT 9999 FEW020 31/25 Q1011 NOSIG=


......................................................................................


Date: 01-Jun-2563

SAAE31 VDPP 010430
METAR VDPP 010430Z 18004KT 090V230 9999 SCT015 34/22 Q1010=


......................................................................................


Date: 01-Jun-2563

SAAU31 AMMC 010400 CCC
METAR YBTL 010400Z 05011KT 9999 FEW028 26/21 Q1015=


......................................................................................


Date: 01-Jun-2563

SAAU31 AMMC 010400 CCD
METAR YBTL 010400Z 05011KT 9999 FEW028 26/21 Q1015
NOSIG=


......................................................................................


Date: 01-Jun-2563

SAAU62 AMMC 010400 CCA
METAR YBTL 010400Z 05011KT 9999 FEW028 26/21 Q1015=


......................................................................................


Date: 01-Jun-2563

SAAU62 AMMC 010400 CCB
METAR YBTL 010400Z 05011KT 9999 FEW028 26/21 Q1015
NOSIG=


......................................................................................


Date: 01-Jun-2563

SATH31 VTSM 010430
METAR VTSM 010430Z 32006KT 270V010 9999 FEW020 34/25 Q1011 NOSIG=


......................................................................................


Date: 01-Jun-2563

SATH31 VTBD 010430
METAR VTBD 010430Z 29002KT 9999 BKN020 34/27 Q1011 NOSIG=


......................................................................................


Date: 01-Jun-2563

SATH31 VTBS 010430
METAR VTBS 010430Z 16005KT 110V200 9999 FEW020 32/26 Q1011 NOSIG=


......................................................................................


Date: 01-Jun-2563

SATH31 VTCC 010430
METAR VTCC 010430Z 13009KT 100V160 9999 FEW035 34/22 Q1011 NOSIG=


......................................................................................


Date: 01-Jun-2563

SATH31 VTSS 010430
METAR VTSS 010430Z 15004KT 090V260 9999 FEW020 32/24 Q1011 NOSIG=


......................................................................................


Date: 01-Jun-2563

SAPK31 OPKC 010429
METAR OPGD 010425Z NIL=
METAR OPIS 010425Z 23004KT 6000 SCT040 BKN100 24/19 Q1012 NOSIG=
METAR OPKC 010425Z 24012KT 6000 BKN020 32/23 Q1008 NOSIG=
METAR OPLA 010425Z 11010KT 6000 SCT100 27/19 Q1011 RMK QFE986 RMK
A29.85=
METAR OPNH 010425Z NIL=
METAR OPMT 010430Z 00000KT 8000 SCT040 SCT100 30/22 Q1007 NOSIG=
METAR OPPS 010425Z NIL=
METAR OPRN 010425Z NIL=
METAR OPSK 010425Z NIL=
METAR OPST 010425Z NIL=


......................................................................................


Date: 01-Jun-2563

SAPA31 KWBC 010400 RRF
METAR
PHMK 010426Z 03010KT 10SM FEW014 FEW020 BKN031 24/19 A3006 RMK AO2
RAE11 P0000 T02390194=


......................................................................................


Date: 01-Jun-2563

SATH31 VTCC 010430 CCA
METAR COR VTCC 010430Z 13009KT 100V160 9999 FEW025TCU SCT035 34/22
Q1011 NOSIG=


......................................................................................


Date: 01-Jun-2563

SATH31 VTSP 010430
METAR VTSP 010430Z 27006KT 250V310 9999 FEW020 32/24 Q1011 NOSIG=


......................................................................................


Date: 01-Jun-2563

SAHK31 VHHH 010430
METAR VHHH 010430Z 20012KT 170V240 9999 FEW012 SCT028 32/25
Q1010 NOSIG=


......................................................................................


Date: 01-Jun-2563

SAIR31 OIII 010430
METAR OIAW 010430Z 30004KT CAVOK 34/02 Q1004=
METAR OIFM 010430Z 32004KT 6000 NSC 25/02 Q1020 A3012=
METAR OIII 010430Z 11004KT CAVOK 30/M03 Q1014 A2995=
METAR OIKB 010430Z 15004KT 1500 DU NSC 35/26 Q1004 A2967=
METAR OIKK 010430Z 07004KT CAVOK 27/01 Q1020 A3014=
METAR OIMM 010430Z NIL=
METAR OISS 010430Z 00000KT CAVOK 29/05 Q1018 A3007=
METAR OITT 010430Z 12004KT CAVOK 21/04 Q1018 A3007=
METAR OIZH 010430Z 34006KT CAVOK 30/M05 Q1017 A3004=


......................................................................................


Date: 01-Jun-2563

SAIR32 OIII 010430
METAR OIAA 010430Z NIL=
METAR OIBK 010430Z 00000KT 3000 BR NSC 31/28 Q1005=
METAR OICC 010430Z NIL=
METAR OIGG 010430Z 14004KT CAVOK 23/15 Q1014=
METAR OIIE 010430Z NIL=
METAR OINZ 010430Z NIL=
METAR OITR 010430Z NIL=
METAR OIYY 010430Z 32006KT CAVOK 33/02 Q1017=


......................................................................................


Date: 01-Jun-2563

SAIR33 OIII 010430
METAR OIBB 010430Z NIL=
METAR OIBP 010430Z 15004KT 3000 BR NSC 31/28 Q1004 A2965=
METAR OICK 010430Z NIL=
METAR OICS 010430Z NIL=
METAR OIHH 010430Z NIL=
METAR OITL 010430Z NIL=
METAR OIZC 010430Z NIL=


......................................................................................


Date: 01-Jun-2563

SASR31 WSSS 010430
METAR WSSS 010430Z VRB05KT 9999 -RA FEW018TCU FEW020CB SCT160 28/24
Q1013 NOSIG=


......................................................................................


Date: 01-Jun-2563

SAAE31 VTBB 010430
METAR VTBD 010430Z 29002KT 9999 BKN020 34/27 Q1011 NOSIG=
METAR VTBS 010430Z 16005KT 110V200 9999 FEW020 32/26 Q1011 NOSIG=
METAR VTBU 010430Z 23004KT 9999 FEW020 31/25 Q1011 NOSIG=
METAR VTCC 010430Z 13009KT 100V160 9999 FEW025TCU SCT035 34/22
Q1011 NOSIG=
METAR VTCC 010430Z 13009KT 100V160 9999 FEW035 34/22 Q1011 NOSIG=
METAR VTCT 010430Z NIL=
METAR VTSG 010430Z NIL=
METAR VTSP 010430Z 27006KT 250V310 9999 FEW020 32/24 Q1011 NOSIG=
METAR VTSS 010430Z 15004KT 090V260 9999 FEW020 32/24 Q1011 NOSIG=


......................................................................................


Date: 01-Jun-2563

SAAE32 VTBB 010430
METAR VDPP 010430Z 18004KT 090V230 9999 SCT015 34/22 Q1010=
METAR VDSR 010430Z 19004KT 120V240 9999 SCT015 SCT040 32/24 Q1010=
METAR VDSV 010430Z VRB03KT 9999 TS SCT015 FEW017CB 30/25 Q1011
CB:NE=
METAR VLVT 010430Z 04004KT 8000 SCT016 BKN040 SCT083 27/26 Q1012
NOSIG=
METAR VYMD 010430Z 16007G17KT 7000 BKN020 FEW100 33/24 Q1010 NOSIG=
METAR VYYY 010430Z 04005KT 7000 SCT018 FEW025CB 30/26 Q1011=
METAR VYNT 010430Z NIL=


......................................................................................


Date: 01-Jun-2563

SAAE34 VTBB 010430
METAR VVCI 010430Z 20009KT 9999 FEW020 SCT032 34/26 Q1007 NOSIG=
METAR VVCR 010430Z 12008KT 9999 FEW015 35/25 Q1011 NOSIG=
METAR VVCT 010430Z 26004KT 9999 SCT015 36/23 Q1011
NOSIG=
METAR VVNB 010430Z VRB04KT 9999 FEW038 34/24 Q1007 NOSIG=
METAR VVPB 010430Z NIL=
METAR VVPQ 010430Z 30004KT 240V340 9999 FEW017 SCT040 32/25 Q1011
NOSIG=
METAR VVTS 010430Z VRB02KT 9999 BKN017 34/25 Q1010 NOSIG =
METAR VVDN 010430Z 07006KT 9999 FEW015 35/25 Q1010 NOSIG=


......................................................................................


Date: 01-Jun-2563

SAHK31 VHHH 010430
METAR VHHH 010430Z 20012KT 170V240 9999 FEW012 SCT028 32/25
Q1010 NOSIG=
METAR RCTP 010430Z 25020KT 9999 FEW020 BKN060 32/25 Q1011 NOSIG
RMK A2986=
METAR RCKH 010430Z 26010KT 220V290 9999 FEW012 SCT150 32/25 Q1011
NOSIG RMK 25011KT/R09 A2988=
METAR RCSS 010430Z 33007KT 290V010 9999 VCTS FEW015 FEW020CB
SCT040 BKN120 33/26 Q1010 NOSIG RMK TS SE MOV NE A2984=
METAR RCMQ 010430Z 26009KT 9999 FEW012 SCT020 31/24 Q1012 NOSIG
RMK A2991=
METAR RCNN 010430Z 25007KT 9999 FEW014 SCT200 32/23 Q1012 NOSIG
RMK A2989=
METAR RCFN 010430Z 16006KT 100V210 9999 FEW010 SCT018 31/25 Q1011
NOSIG RMK A2987=
METAR VMMC 010430Z 19013KT 9999 FEW012 SCT028 31/27 Q1010 NOSIG=


......................................................................................


Date: 01-Jun-2563

SAMS31 WMKK 010430
METAR WBGG 010430Z 00000KT 9999 SCT016 30/26 Q1012 NOSIG=
METAR WBKK 010430Z 26010KT 160V310 9999 -TSRA FEW014 FEW016CB SCT035 30/27 Q1010 TEMPO 8000 -TSRA=
METAR WBSB 010430Z 23006KT 9999 -SHRA SCT015 FEW016CB BKN140 28/25 Q1011 RETS
TEMPO 7000 -TSRA=
METAR WMKK 010430Z 15006KT 040V210 9999 FEW017CB 30/25 Q1012 NOSIG=
METAR WMKP 010430Z 22005KT 170V260 9000 FEW020 31/25 Q1011 NOSIG=
METAR WSSL 010430Z NIL=
METAR WSSS 010430Z VRB05KT 9999 -RA FEW018TCU FEW020CB SCT160 28/24 Q1013 NOSIG=


......................................................................................


Date: 01-Jun-2563

SAJP51 RJTD 010430
METAR RJAA 010430Z 14012KT 9999 FEW010 BKN020 BKN030 22/18 Q1011
NOSIG=
METAR RJBB 010430Z 26004KT 9999 FEW025 BKN/// 22/18 Q1009 NOSIG=
METAR RJCC 010430Z 17014KT 9999 FEW050 SCT/// 22/09 Q1008=
METAR RJFF 010430Z 13005KT 080V180 9999 FEW010 SCT030 BKN060 24/21
Q1009 BECMG 31007KT=
METAR RJGG 010430Z 26007KT 9999 FEW025 BKN/// 22/16 Q1010 BECMG
25005KT=
METAR RJTT 010430Z 05003KT 3200 R34L/2000N R22/P2000N R34R/P2000N
R05/P2000N -RA BR FEW006 SCT015 BKN020 20/19 Q1011 BECMG
08005KT TEMPO FEW006 BKN012=
METAR ROAH 010430Z 36010KT 9999 FEW008 FEW025CB SCT/// 28/25 Q1011=


......................................................................................


Date: 01-Jun-2563

SAMS31 WMKK 010430
METAR WBGG 010430Z NIL=
METAR WBKK 010430Z NIL=
METAR WBSB 010430Z NIL=
METAR WMKK 010430Z NIL=
METAR WMKP 010430Z NIL=
METAR WSSL 010430Z NIL=
METAR WSSS 010430Z VRB05KT 9999 -RA FEW018TCU FEW020CB SCT160 28/24
Q1013 NOSIG=


......................................................................................


Date: 01-Jun-2563

SAUZ31 UTTW 010430
METAR UTFN 010430Z 10006KT 360V130 9999 NSC 30/06 Q1010 R28/CLRD70
NOSIG=
METAR UTNN 010430Z VRB02KT CAVOK 35/02 Q1009 R33/CLRD60 NOSIG=
METAR UTNU 010430Z 02008KT 6000 NSC 32/10 Q1009 R31/CLRD70 NOSIG=
METAR UTSA 010430Z 07008KT 7000 NSC 32/08 Q1009 R07/CLRD70 NOSIG=
METAR UTSB 010430Z 15002KT CAVOK 31/08 Q1008 R01/CLRD70 NOSIG=
METAR UTSK 010430Z 21008KT CAVOK 30/10 Q1009 R16/CLRD70=
METAR UTSS 010430Z 16008KT 130V190 9999 NSC 29/10 Q1011 R09/CLRD70
NOSIG=
METAR UTST 010430Z 21004KT 180V260 CAVOK 31/09 Q1010 R88/CLRD70
NOSIG=
METAR UTFA 010430Z NIL=
METAR UTFF 010430Z 35004KT 300V360 9999 NSC 29/08 Q1010 R99/CLRD70=
METAR UTTT 010430Z 21006KT 170V280 CAVOK 31/09 Q1009 R08R/CLRD70
NOSIG=


......................................................................................


Date: 01-Jun-2563

SAPA31 KWBC 010400 RRG
METAR
PKWA 010440Z AUTO 07011KT 10SM SCT022 SCT026 31/25 A2986 RMK AO2
T03070254=


......................................................................................


Date: 01-Jun-2563

SAAE34 VTBB 010430 RRA
METAR VVPB 010430Z 35004KT 9999 FEW020 SCT080 34/26 Q1011 NOSIG=


......................................................................................


Date: 01-Jun-2563

SATR31 UTAA 010500
METAR UTAA 010500Z NIL=
METAR UTAK 010500Z NIL=
METAR UTAM 010500Z NIL=
METAR UTAT 010500Z NIL=
METAR UTAV 010500Z NIL=


......................................................................................


Date: 01-Jun-2563

SANP31 VNKT 010450
METAR VNKT 010450Z 21003KT 8000 FEW015 SCT030 24/19 Q1017 NOSIG=


......................................................................................


Date: 01-Jun-2563

SAPA31 KWBC 010400 RRH
METAR
PHMK 010447Z AUTO VRB06KT 10SM SCT021 BKN028 24/19 A3007 RMK AO2
RAE11 P0000 T02440194 TSNO=


......................................................................................


Date: 01-Jun-2563

SATH31 VTSG 010500
METAR VTSG 010500Z VRB03KT 9999 SCT020 34/28 Q1011 NOSIG=


......................................................................................


Date: 01-Jun-2563

SAAE31 VDPP 010500
METAR VDPP 010500Z 17004KT 120V230 9999 SCT015 35/23 Q1009=


......................................................................................


Date: 01-Jun-2563

SATH31 VTBU 010500
METAR VTBU 010500Z 24004KT 9999 FEW020 31/25 Q1011 NOSIG=


......................................................................................


Date: 01-Jun-2563

SATH31 VTPP 010500
METAR VTPP 010500Z 25006KT 200V340 9999 SCT035 34/25 Q1010 NOSIG=


......................................................................................


Date: 01-Jun-2563

SATH31 VTUW 010500
METAR VTUW 010500Z 01007KT 9999 -TSRA FEW010 FEW018CB BKN030 24/24
Q1012 RERA NOSIG=


......................................................................................


Date: 01-Jun-2563

SATH31 VTCN 010500
METAR VTCN 010500Z VRB04KT 9999 SCT030 32/24 Q1011 NOSIG=


......................................................................................


Date: 01-Jun-2563

SATH31 VTPB 010500
METAR VTPB 010500Z 00000KT 9999 BKN025 32/25 Q1011 NOSIG=


......................................................................................


Date: 01-Jun-2563

SATH31 VTCL 010500
METAR VTCL 010500Z 27005KT 160V340 9999 SCT025 35/22 Q1011 NOSIG=


......................................................................................


Date: 01-Jun-2563

SATH31 VTCP 010500
METAR VTCP 010500Z VRB03KT 9999 BKN020 35/24 Q1010 NOSIG=


......................................................................................


Date: 01-Jun-2563

SATH31 VTSF 010500
METAR VTSF 010500Z 11005KT 050V160 9999 FEW018 34/27 Q1010 NOSIG=


......................................................................................


Date: 01-Jun-2563

SATH31 VTBO 010500
METAR VTBO 010500Z 24002KT 9999 FEW020 BKN100 31/27 Q1011=


......................................................................................


Date: 01-Jun-2563

SATH31 VTPM 010500
METAR VTPM 010500Z 29008KT 9999 BKN030 32/23 Q1012 NOSIG=


......................................................................................


Date: 01-Jun-2563

SATH31 VTPO 010500
METAR VTPO 010500Z 20004KT 9999 FEW025 33/24 Q1010 NOSIG=


......................................................................................


Date: 01-Jun-2563

SATH31 VTSE 010500
METAR VTSE 010500Z 12007KT 090V180 9999 FEW020 33/26 Q1010 NOSIG=


......................................................................................


Date: 01-Jun-2563

SATH31 VTSM 010500
METAR VTSM 010500Z 33006KT 280V360 9999 FEW020 33/25 Q1011 NOSIG=


......................................................................................


Date: 01-Jun-2563

SATH31 VTSP 010500
METAR VTSP 010500Z 27007KT 240V310 9999 FEW020 32/23 Q1011 NOSIG=


......................................................................................


Date: 01-Jun-2563

SATH31 VTUI 010500
METAR VTUI 010500Z VRB06KT 9999 TS VCSH FEW015CB SCT030 BKN080 27/25
Q1011 NOSIG=


......................................................................................


Date: 01-Jun-2563

SATH31 VTUL 010500
METAR VTUL 010500Z VRB05KT 9999 SCT030 33/25 Q1011 NOSIG=


......................................................................................


Date: 01-Jun-2563

SAOM32 OOMS 010500
METAR OOMS 010450Z 21014KT CAVOK 40/22 Q1005 NOSIG=
METAR OOSA 010450Z 12009KT 6000 FEW014 BKN025 BKN100 30/27 Q1008
NOSIG=
METAR OOSH 010500Z NIL=
METAR OODQ 010450Z AUTO 22017KT //// R22///// NCD 32/26 Q1009 NOSIG=


......................................................................................


Date: 01-Jun-2563

SASD31 OEJD 010500
METAR OEDF 010500Z 32012KT CAVOK 35/09 Q1004 NOSIG=
METAR OEDR 010500Z 29013KT CAVOK 36/11 Q1003 NOSIG=
METAR OEJN 010500Z 02010KT CAVOK 28/21 Q1008 NOSIG=
METAR OEMA 010500Z 00000KT CAVOK 33/00 Q1012 NOSIG=
METAR OERK 010500Z 15004KT CAVOK 35/09 Q1012 NOSIG=
METAR OERY 010500Z NIL=
METAR OYAA 010500Z NIL=
METAR OYSN 010500Z NIL=


......................................................................................


Date: 01-Jun-2563

SATH31 VTBD 010500
METAR VTBD 010500Z 27009KT 9999 SCT020 34/24 Q1011 NOSIG=


......................................................................................


Date: 01-Jun-2563

SATH31 VTBS 010500
METAR VTBS 010500Z 22005KT 110V280 9999 FEW020 33/24 Q1010 NOSIG=


......................................................................................


Date: 01-Jun-2563

SATH31 VTCC 010500
METAR VTCC 010500Z 13005KT 080V200 9999 FEW025CB BKN035 34/22 Q1011
NOSIG=


......................................................................................


Date: 01-Jun-2563

SATH31 VTCH 010500
METAR VTCH 010500Z 16007KT 9999 VCSH FEW020CB SCT025 34/21 Q1011=


......................................................................................


Date: 01-Jun-2563

SATH31 VTCT 010500
METAR VTCT 010500Z 15005KT 080V240 9999 BKN030 32/24 Q1011 NOSIG=


......................................................................................


Date: 01-Jun-2563

SATH31 VTPH 010500
METAR VTPH 010500Z 05009KT 9999 FEW020 33/24 Q1010 NOSIG=


......................................................................................


Date: 01-Jun-2563

SATH31 VTPT 010500
METAR VTPT 010500Z /////KT 9999 SCT026 36/23 Q//// NOSIG=


......................................................................................


Date: 01-Jun-2563

SATH31 VTSC 010500
METAR VTSC 010500Z 08007KT 040V100 9999 FEW020 32/25 Q1010 NOSIG =


......................................................................................


Date: 01-Jun-2563

SATH31 VTSR 010500
METAR VTSR 010500Z 31008KT 270V340 9999 SCT025 33/26 Q1011 NOSIG=


......................................................................................


Date: 01-Jun-2563

SATH31 VTSS 010500
METAR VTSS 010500Z 12005KT 090V260 9999 FEW020 33/24 Q1010 NOSIG=


......................................................................................


Date: 01-Jun-2563

SATH31 VTST 010500
METAR VTST 010500Z VRB03KT 9999 FEW025 32/25 Q1011 NOSIG=


......................................................................................


Date: 01-Jun-2563

SATH31 VTUD 010500
METAR VTUD 010500Z VRB04KT 9999 FEW030 30/24 Q1012 NOSIG=


......................................................................................


Date: 01-Jun-2563

SATH31 VTUK 010500
METAR VTUK 010500Z VRB02KT 9999 SCT030 33/25 Q1012 NOSIG=


......................................................................................


Date: 01-Jun-2563

SATH31 VTUV 010500
METAR VTUV 010500Z 30006KT 250V350 9999 BKN030 33/25 Q1011 NOSIG=


......................................................................................


Date: 01-Jun-2563

SAAH10 OAKB 010450
METAR OAKB 010450Z 02009KT CAVOK 24/M05 Q1018 RMK A3008 BLU BLU=


......................................................................................


Date: 01-Jun-2563

SAPK31 OPKC 010459
METAR OPGD 010455Z NIL=
METAR OPIS 010455Z 00000KT 6000 SCT040 BKN100 26/19 Q1012 NOSIG=
METAR OPKC 010455Z 28010KT 6000 BKN020 32/23 Q1008 NOSIG=
METAR OPLA 010455Z 09008KT 7000 SCT100 28/19 Q1011 BECMG 8000 RMK
QFE985 RMK A29.85=
METAR OPNH 010455Z NIL=
METAR OPMT 010500Z 00000KT 9999 SCT040 SCT100 31/22 Q1007 NOSIG=
METAR OPPS 010500Z 05008KT 7000 HZ FEW040 FEW100 27/19 Q1011=
METAR OPRN 010455Z NIL=
METAR OPSK 010500Z 13010KT 4000 HZ NSC 35/20 Q1004 NOSIG=
METAR OPST 010500Z 31004KT 4000 TSRA FEW030CB SCT040 SCT100 22/19
Q1012 TEMPO 31015G25KT 3000 RH86=


......................................................................................


Date: 01-Jun-2563

SATH31 VTUU 010500
METAR VTUU 010500Z 28005KT 200V350 9999 SCT030 32/25 Q1011 NOSIG =


......................................................................................


Date: 01-Jun-2563

SASR31 WSSS 010500
METAR WSSS 010500Z 25003KT 180V340 9999 -RA FEW015 FEW018TCU BKN160
28/25 Q1012 NOSIG=


......................................................................................


Date: 01-Jun-2563

SATH31 VTUQ 010500
METAR VTUQ 010500Z VRB04KT 9999 SCT025 32/25 Q1012 NOSIG=


......................................................................................


Date: 01-Jun-2563

SATR31 UTAA 010500 RRA
METAR UTAA 010500Z VRB02KT 9999 SCT099 27/15 Q1011 R88/CLRD70
NOSIG=
METAR UTAK 010500Z 18014KT 9999 SCT008 19/15 Q1011 R16R/CLRD70
NOSIG=


......................................................................................


Date: 01-Jun-2563

SAIR31 OIII 010500
METAR OIAW 010500Z 31004KT CAVOK 35/05 Q1004=
METAR OIFM 010500Z 31004KT 4000 HZ NSC 27/03 Q1020 A3012=
METAR OIII 010500Z 19004KT CAVOK 30/M05 Q1014 A2995 NOSIG=
METAR OIKB 010500Z 22004KT 1500 DU NSC 36/23 Q1005 A2968 TEMPO 2000=
METAR OIKK 010500Z 05004KT CAVOK 30/01 Q1020 A3014=
METAR OIMM 010500Z 00000KT CAVOK 31/M01 Q1015 A2999=
METAR OISS 010500Z 00000KT CAVOK 31/03 Q1018 A3007=
METAR OITT 010500Z 15004KT CAVOK 22/05 Q1018 A3007=
METAR OIZH 010500Z 02008KT CAVOK 31/M05 Q1017 A3004 NOSIG=


......................................................................................


Date: 01-Jun-2563

SATH31 VTUO 010500
METAR VTUO 010500Z VRB03KT 9999 SCT030 35/20 Q1011 NOSIG=


......................................................................................


Date: 01-Jun-2563

SATH40 VTBB 010500
METAR VTBD 010500Z 27009KT 9999 SCT020 34/24 Q1011 NOSIG=
METAR VTBS 010500Z 22005KT 110V280 9999 FEW020 33/24 Q1010 NOSIG=
METAR VTBU 010500Z 24004KT 9999 FEW020 31/25 Q1011 NOSIG=
METAR VTCC 010500Z 13005KT 080V200 9999 FEW025CB BKN035 34/22 Q1011
NOSIG=
METAR VTCT 010500Z 15005KT 080V240 9999 BKN030 32/24 Q1011 NOSIG=
METAR VTSB 010500Z NIL=
METAR VTSG 010500Z VRB03KT 9999 SCT020 34/28 Q1011 NOSIG=
METAR VTSP 010500Z 27007KT 240V310 9999 FEW020 32/23 Q1011 NOSIG=
METAR VTSS 010500Z 12005KT 090V260 9999 FEW020 33/24 Q1010 NOSIG=
METAR VTUD 010500Z VRB04KT 9999 FEW030 30/24 Q1012 NOSIG=
METAR VTUU 010500Z 28005KT 200V350 9999 SCT030 32/25 Q1011 NOSIG =


......................................................................................


Date: 01-Jun-2563

SAAU69 AMMC 010500
METAR YSTW 010500Z AUTO 31017G27KT 9999 // SCT084 BKN105 20/07 Q1011=
METAR YSWG 010500Z 28017KT 9999 VCSH SCT020 10/07 Q1009=
METAR YTEF 010500Z AUTO 09016KT 9999 // NCD 24/M01 Q1020=
METAR YTNK 010500Z AUTO 13010KT 100V160 9999 // NCD 29/06 Q1018=
METAR YTRE 010500Z AUTO 04008KT 9999 // BKN090 22/12 Q1007=
METAR YWGT 010500Z AUTO 28014KT 9999 // SCT024 SCT029 BKN037 10/06 Q1009=
METAR YWHA 010500Z AUTO 23012KT 9999 // ////// 17/05 Q1020=
METAR YWLM 010500Z 30015KT 9999 FEW047 SCT075 23/08 Q1006=


......................................................................................


Date: 01-Jun-2563

SAHK31 VHHH 010500
METAR VHHH 010500Z 20011KT 9999 FEW012 SCT028 31/25 Q1010 NOSIG=


......................................................................................


Date: 01-Jun-2563

SAIR32 OIII 010500
METAR OIAA 010500Z 33008KT CAVOK 34/09 Q1005=
METAR OIBK 010500Z 00000KT 3000 HZ NSC 33/28 Q1005 NOSIG=
METAR OICC 010500Z NIL=
METAR OIGG 010500Z 12004KT CAVOK 23/14 Q1013=
METAR OIIE 010500Z 31014KT CAVOK 27/03 Q1013=
METAR OINZ 010500Z 24004KT CAVOK 24/17 Q1013=
METAR OITR 010500Z VRB02KT CAVOK 22/03 Q1016=
METAR OIYY 010500Z 34006KT CAVOK 34/02 Q1016=


......................................................................................


Date: 01-Jun-2563

SAIR33 OIII 010500
METAR OIBB 010500Z 15004KT CAVOK 34/23 Q1003 A2962=
METAR OIBP 010500Z 14008KT 3000 DU NSC 32/27 Q1004 A2966=
METAR OICK 010500Z 07002KT CAVOK 27/02 Q1016=
METAR OICS 010500Z 00000KT CAVOK 19/M05 Q1018 A3009=
METAR OIHH 010500Z 35002KT CAVOK 22/01 Q1019=
METAR OITL 010500Z 00000KT CAVOK 17/10 Q1017=
METAR OIZC 010500Z NIL=


......................................................................................


Date: 01-Jun-2563

SAIR34 OIII 010500
METAR OIAG 010500Z 01004KT CAVOK 40/02 Q1003=
METAR OIAM 010500Z 33010KT CAVOK 36/09 Q1003=
METAR OICI 010500Z 13002KT CAVOK 27/01 Q1018 A3006=
METAR OIKQ 010500Z 26008KT 3500 HZ NSC 34/29 Q1005 NOSIG=
METAR OINN 010500Z 36004KT 9999 FEW022 22/18 Q1013=
METAR OINR 010500Z 05002KT CAVOK 23/16 Q1012=
METAR OISL 010500Z 00000KT 7000 NSC 35/15 Q1009=
METAR OISY 010500Z 00000KT CAVOK 23/05 Q1022=
METAR OITZ 010500Z 15002KT CAVOK 22/02 Q1018=


......................................................................................


Date: 01-Jun-2563

SAIR35 OIII 010500
METAR OIAD 010500Z NIL=
METAR OIBJ 010500Z 01004KT 7000 NSC 36/15 Q1010=
METAR OIBS 010500Z 22008KT 3000 HZ NSC 32/27 Q1005=
METAR OIHR 010500Z 00000KT 8000 NSC 20/03 Q1020=
METAR OIKM 010500Z NIL=
METAR OIKR 010500Z NIL=
METAR OING 010500Z 00000KT 9999 FEW025 25/16 Q1014 NOSIG=
METAR OIZB 010500Z 34029KT CAVOK 33/03 Q1006=
METAR OIZI 010500Z 19004KT 5000 HZ NSC 35/16 Q1009=


......................................................................................


Date: 01-Jun-2563

SAIR36 OIII 010500
METAR OIBA 010500Z 22006KT 3500 HZ NSC 32/28 Q1004=
METAR OIBV 010500Z 13006KT 2200 BR FEW020 31/27 Q1004=
METAR OIFS 010500Z 15004KT CAVOK 22/04 Q1023=
METAR OIIP 010500Z 28006KT 8000 NSC 24/05 Q1014 A2997=
METAR OIMB 010500Z 15004KT CAVOK 29/M08 Q1018=
METAR OIMN 010500Z NIL=
METAR OIMS 010500Z NIL=
METAR OIMT 010500Z AUTO 20004KT //// // ////// 37/01 Q1009=
METAR OIZJ 010500Z 28006KT 5000 HZ NSC 33/25 Q1003=


......................................................................................


Date: 01-Jun-2563

SAIR37 OIII 010500
METAR OIBL 010500Z 36006KT 3000 HZ NSC 33/24 Q1005=
METAR OIBQ 010500Z 00000KT 7000 NSC 31/26 Q1003=
METAR OIIK 010500Z 27002KT CAVOK 25/07 Q1015=
METAR OIMC 010500Z 27014KT CAVOK 31/14 Q1011=
METAR OIMD 010500Z 12010KT CAVOK 32/M03 Q1012=
METAR OIMQ 010500Z 11010KT CAVOK 31/M04 Q1016=
METAR OINE 010500Z 33004KT CAVOK 25/17 Q1012=
METAR OITK 010500Z NIL=
METAR OITM 010500Z 08002KT CAVOK 24/M03 Q1016=


......................................................................................


Date: 01-Jun-2563

SAIR38 OIII 010500
METAR OIAH 010500Z 00000KT CAVOK 36/12 Q1010=
METAR OIBH 010500Z 20008KT 7000 NSC 35/20 Q1003=
METAR OICM 010500Z 08002KT CAVOK 35/M01 Q1007=
METAR OIIS 010500Z NIL=
METAR OIMJ 010500Z 06008KT CAVOK 28/03 Q1016=
METAR OISF 010500Z 00000KT CAVOK 30/08 Q1014 A2995=
METAR OISR 010500Z 00000KT 4000 HZ NSC 35/14 Q1007 A2976=
METAR OITP 010500Z 20006KT CAVOK 23/14 Q1012=
METAR OITU 010500Z NIL=


......................................................................................


Date: 01-Jun-2563

SATH31 VTSB 010500
METAR VTSB 010500Z 29004KT 250V350 9999 FEW020 34/24 Q1011=


......................................................................................


Date: 01-Jun-2563

SATH40 VTBB 010500 RRA
METAR VTSB 010500Z 29004KT 250V350 9999 FEW020 34/24 Q1011=


......................................................................................


Date: 01-Jun-2563

SAAE31 VTBB 010500
METAR VTBD 010500Z 27009KT 9999 SCT020 34/24 Q1011 NOSIG=
METAR VTBS 010500Z 22005KT 110V280 9999 FEW020 33/24 Q1010 NOSIG=
METAR VTBU 010500Z 24004KT 9999 FEW020 31/25 Q1011 NOSIG=
METAR VTCC 010500Z 13005KT 080V200 9999 FEW025CB BKN035 34/22 Q1011
NOSIG=
METAR VTCT 010500Z 15005KT 080V240 9999 BKN030 32/24 Q1011 NOSIG=
METAR VTSG 010500Z VRB03KT 9999 SCT020 34/28 Q1011 NOSIG=
METAR VTSP 010500Z 27007KT 240V310 9999 FEW020 32/23 Q1011 NOSIG=
METAR VTSS 010500Z 12005KT 090V260 9999 FEW020 33/24 Q1010 NOSIG=


......................................................................................


Date: 01-Jun-2563

SAAE32 VTBB 010500
METAR VDPP 010500Z 17004KT 120V230 9999 SCT015 35/23 Q1009=
METAR VDSR 010500Z VRB03KT 9999 SCT015 SCT040 33/24 Q1009=
METAR VDSV 010500Z 36005KT 9999 TS SCT015 FEW017CB 30/26 Q1011
CB:NE=
METAR VLVT 010500Z 09004KT 8000 SCT016 BKN040 29/26 Q1011 NOSIG=
METAR VYMD 010500Z NIL=
METAR VYYY 010500Z 04005KT 7000 BKN018 FEW025CB BKN110 30/26 Q1011=
METAR VYNT 010500Z NIL=


......................................................................................


Date: 01-Jun-2563

SAAE33 VTBB 010500
METAR VLLB 010500Z 34006KT 9999 SCT010 SCT060 BKN080 33/24 Q1010
NOSIG=
METAR VLLN 010500Z 14002KT 9000 SCT020 BKN100 26/24 Q1012 NOSIG=
METAR VLPS 010500Z 18004KT 9999 SCT020 SCT100 31/24 Q1011 NOSIG=
METAR VLSK 010500Z 16004KT 8000 SCT020 SCT100 33/24 Q1011 NOSIG=


......................................................................................


Date: 01-Jun-2563

SAAE34 VTBB 010500
METAR VVCI 010500Z 20009KT 9999 FEW020 SCT032 33/27 Q1007 NOSIG=
METAR VVCR 010500Z 11007KT 9999 FEW015 35/24 Q1011 NOSIG=
METAR VVCT 010500Z VRB03KT 9999 SCT015 35/24 Q1010
NOSIG=
METAR VVNB 010500Z VRB03KT CAVOK 35/24 Q1006 NOSIG=
METAR VVPB 010500Z 02006KT 9999 FEW020 SCT080 34/26 Q1010 NOSIG=
METAR VVPQ 010500Z 26005KT 240V330 9999 FEW017 SCT040 31/25 Q1010
NOSIG=
METAR VVTS 010500Z VRB03KT 9999 BKN017 35/25 Q1010 NOSIG =
METAR VVDN 010500Z 08005KT 040V120 9999 FEW015 35/26 Q1010
NOSIG=


......................................................................................


Date: 01-Jun-2563

SAAU32 AMMC 010500 CCA
METAR YAMB 010500Z 36008KT 9999 FEW038 SCT050 BKN280 25/13 Q1013
NOSIG=


......................................................................................


Date: 01-Jun-2563

SAAU32 AMMC 010500 CCB
METAR YWLM 010500Z 30015KT 9999 FEW047 SCT075 23/08 Q1006
NOSIG=


......................................................................................


Date: 01-Jun-2563

SAAU32 AMMC 010500
METAR YAMB 010500Z 36008KT 9999 FEW038 SCT050 BKN280 25/13 Q1013=
METAR YBCG 010500Z AUTO 35014KT 9999 // NCD 23/16 Q1013=
METAR YBHM 010500Z AUTO 11008KT 9999 // NCD 23/19 Q1016=
METAR YBMA 010500Z AUTO 17015KT 9999 // NCD 27/03 Q1018=
METAR YBRK 010500Z AUTO 34006KT 9999 // NCD 27/12 Q1015=
METAR YBRM 010500Z AUTO 12012KT 9999 // NCD 29/08 Q1015=
METAR YCIN 010500Z AUTO 15013KT 9999 // NCD 30/10 Q1015=
METAR YFRT 010500Z AUTO 20008KT 160V220 9999 // OVC036 18/09 Q1025=
METAR YMAV 010500Z AUTO 25023KT 3500 // BKN015 BKN020 OVC026 10/09 Q1007=
METAR YMHB 010500Z 31007KT 9999 FEW040 SCT050 16/04 Q1002=
METAR YMLT 010500Z AUTO 30010KT 9999 // SCT012 SCT019 SCT034 11/09 Q1004=
METAR YPEA 010500Z AUTO 09008KT 9999 // SCT040 19/09 Q1026=
METAR YPGV 010500Z 09012KT 9999 FEW030 30/19 Q1013=
METAR YPKG 010500Z AUTO 03005KT 9999 // NCD 18/08 Q1026=
METAR YPPD 010500Z AUTO 12014KT 9999 // NCD 28/M01 Q1018=
METAR YSCB 010500Z AUTO 32013KT 9999 -RA SCT024 BKN049 BKN072 08/05 Q1008
TEMPO 0500/0600 3000 SHRA BKN008=
METAR YSDU 010500Z AUTO 26018KT 9999 // SCT019 BKN033 BKN039 11/08 Q1012=
METAR YSNF 010500Z 24007KT 9999 FEW027 SCT260 19/13 Q1019=
METAR YSRI 010500Z AUTO 31015KT 9999 // SCT090 21/04 Q1006=
METAR YWLM 010500Z 30015KT 9999 FEW047 SCT075 23/08 Q1006=


......................................................................................


Date: 01-Jun-2563

SAAU69 AMMC 010500 CCA
METAR YWLM 010500Z 30015KT 9999 FEW047 SCT075 23/08 Q1006
NOSIG=


......................................................................................


Date: 01-Jun-2563

SAOM32 OOMS 010500 RRA
METAR OOSH 010450Z AUTO 23015KT //// ////// 41/17 Q1003=


......................................................................................


Date: 01-Jun-2563

SAAE34 VTBB 010500 CCA
METAR COR VVCI 010500Z 20009KT 9999 FEW020 SCT032 33/27 Q1006 NOSIG=


......................................................................................


Date: 01-Jun-2563

SAAU31 AMMC 010500
METAR YBAS 010500Z AUTO 14007KT 100V170 9999 // NCD 20/00 Q1022=
METAR YBBN 010500Z 02011KT 9999 FEW025 BKN270 BKN300 22/17 Q1014
NOSIG=
METAR YBCS 010500Z AUTO 06008KT 9999 // SCT037 28/20 Q1014
NOSIG=
METAR YBTL 010500Z 06013KT 9999 FEW025 25/21 Q1015
NOSIG=
METAR YMML 010500Z 26023KT 6000 RA BKN018 BKN025 09/07 Q1007=
METAR YPAD 010500Z 21013KT 9999 FEW031 SCT038 14/08 Q1019
NOSIG=
METAR YPCC 010500Z 13015KT 9999 FEW018 BKN039 27/24 Q1014=
METAR YPDN 010500Z 33009KT 9999 FEW041 30/22 Q1012=
METAR YPKU 010500Z AUTO 12008KT 9999 // NCD 34/M01 Q1014=
METAR YPLM 010500Z AUTO 02003KT 9999 // NCD 23/07 Q1019=
METAR YPPH 010500Z 09008KT 9999 BKN042 19/09 Q1026
NOSIG=
METAR YPTN 010500Z AUTO 11012KT 9999 // NCD 34/09 Q1013=
METAR YPXM 010500Z AUTO 09009KT 9999 // BKN010 OVC013 26/24 Q1014=
METAR YSSY 010500Z 29017KT CAVOK 23/03 Q1005
FM0630 28018G28KT CAVOK
FM0500 MOD TURB BLW 5000FT=


......................................................................................


Date: 01-Jun-2563

SAJP35 RJTD 010500
METAR RJAA 010500Z 14011KT 100V180 9999 FEW010 BKN020 22/18 Q1011
NOSIG=
METAR RJBB 010500Z 24004KT 9999 FEW025 BKN/// 22/19 Q1009 NOSIG=
METAR RJTT 010500Z 08003KT 040V120 3000 R34L/P2000N R22/2000N
R34R/1500VP2000U R05/P2000N -RA BR FEW004 SCT015 BKN020
20/19 Q1011 TEMPO FEW003 BKN008=
METAR RJOO 010500Z 23007KT 180V280 9999 FEW030 BKN/// 27/17 Q1009=
METAR RJGG 010500Z 25007KT 9999 FEW025 SCT150 BKN/// 22/16 Q1010
NOSIG=
METAR RJSN 010500Z 15005KT 090V200 9999 FEW040 SCT080 BKN140 27/15
Q1007=
METAR RJCH 010500Z 15008KT 9999 FEW030 BKN/// 19/12 Q1008=
METAR RJSA 010500Z 03007KT 9999 FEW035 SCT050 BKN/// 23/09 Q1008=
METAR RJSF 010500Z 18008KT 9999 FEW010 SCT012 BKN020 19/19 Q1012=
METAR RJSI 010500Z 19017KT 160V220 9999 FEW030 SCT140 BKN/// 25/14
Q1009=


......................................................................................


Date: 01-Jun-2563

SAJP37 RJTD 010500 RRA
METAR RJFR 010500Z 07007KT 9999 FEW005 SCT010 BKN020 20/19 Q1009=


......................................................................................


Date: 01-Jun-2563

SAJP37 RJTD 010500
METAR RJAA 010500Z 14011KT 100V180 9999 FEW010 BKN020 22/18 Q1011
NOSIG=
METAR RJBB 010500Z 24004KT 9999 FEW025 BKN/// 22/19 Q1009 NOSIG=
METAR RJTT 010500Z 08003KT 040V120 3000 R34L/P2000N R22/2000N
R34R/1500VP2000U R05/P2000N -RA BR FEW004 SCT015 BKN020
20/19 Q1011 TEMPO FEW003 BKN008=
METAR RJOO 010500Z 23007KT 180V280 9999 FEW030 BKN/// 27/17 Q1009=
METAR RJFF 010500Z 14005KT 070V180 9999 FEW010 SCT025 BKN035 24/21
Q1009 BECMG 31007KT=
METAR RJGG 010500Z 25007KT 9999 FEW025 SCT150 BKN/// 22/16 Q1010
NOSIG=
METAR RJFK 010500Z 21007KT 180V250 9999 VCSH FEW010 BKN015 BKN070
25/21 Q1011=
METAR RJFU 010500Z 28007KT 240V310 9999 FEW010 SCT015 BKN020 24/21
Q1009=
METAR RJCH 010500Z 15008KT 9999 FEW030 BKN/// 19/12 Q1008=
METAR RJNS 010500Z 04004KT 340V120 4000 R30/1300VP2000D -SHRA BR
FEW000 BKN007 BKN015 20/20 Q1010=


......................................................................................


Date: 01-Jun-2563

SAJP51 RJTD 010500 RRA
METAR RJFF 010500Z 14005KT 070V180 9999 FEW010 SCT025 BKN035 24/21
Q1009 BECMG 31007KT=
METAR RJFG 010500Z 27009KT 9999 FEW004 SCT010 BKN015 23/21 Q1011=
METAR RJFK 010500Z 21007KT 180V250 9999 VCSH FEW010 BKN015 BKN070
25/21 Q1011=
METAR RJFM 010500Z 12004KT 9999 FEW008 BKN015 BKN/// 23/21 Q1010=
METAR RJFO 010500Z 14010KT 9999 FEW010 SCT020 BKN030 22/19 Q1009=
METAR RJFR 010500Z 07007KT 9999 FEW005 SCT010 BKN020 20/19 Q1009=
METAR RJFS 010500Z 31003KT 220V020 9999 FEW005 SCT020 BKN/// 26/21
Q1009=
METAR RJFT 010500Z 23009KT 9999 BKN020 BKN080 26/21 Q1010=
METAR RJFU 010500Z 28007KT 240V310 9999 FEW010 SCT015 BKN020 24/21
Q1009=
METAR RJGG 010500Z 25007KT 9999 FEW025 SCT150 BKN/// 22/16 Q1010
NOSIG=
METAR RJKA 010500Z 32012KT 290V350 9999 FEW015 SCT025 BKN150 27/23
Q1010=
METAR RJKI 010500Z AUTO 33006KT 9999 FEW009 OVC014 26/24 Q1011=
METAR RJNK 010500Z 28008KT 260V320 9999 FEW050 BKN230 26/16 Q1007=
METAR RJNS 010500Z 04004KT 340V120 4000 R30/1300VP2000D -SHRA BR
FEW000 BKN007 BKN015 20/20 Q1010=
METAR RJNT 010500Z 36005KT 320V060 9999 FEW030 SCT120 BKN/// 25/16
Q1007=
METAR RJNW 010500Z 25011KT 210V280 9999 FEW040 SCT080 BKN100 23/16
Q1008=
METAR RJOA 010500Z 18004KT 110V220 9999 FEW010 BKN020 21/18 Q1010=
METAR RJOB 010500Z 22005KT 170V260 9999 FEW020 BKN030 BKN/// 23/17
Q1010=
METAR RJOC 010500Z 24015KT 9999 FEW025 BKN035 BKN090 23/19 Q1008=
METAR RJOH 010500Z 25007KT 9999 FEW030 BKN040 BKN100 26/18 Q1007=


......................................................................................


Date: 01-Jun-2563

SAJP51 RJTD 010500 RRB
METAR RJOK 010500Z 18006KT 140V210 9999 FEW020 BKN050 23/19 Q1010=
METAR RJOM 010500Z 32007KT 9999 FEW030 SCT100 BKN/// 22/18 Q1009=
METAR RJOO 010500Z 23007KT 180V280 9999 FEW030 BKN/// 27/17 Q1009=
METAR RJOR 010500Z 32007KT 9999 FEW040 SCT050 BKN/// 26/19 Q1007=
METAR RJOS 010500Z 06006KT 9999 FEW015 SCT030 BKN070 24/18 Q1010=
METAR RJOT 010500Z 07005KT 360V120 9999 FEW015 BKN/// 23/19 Q1009=
METAR RJOW 010500Z 18007KT 9999 FEW020 SCT030 BKN040 24/20 Q1008=
METAR RJOY 010500Z 27012KT 230V290 9999 FEW030 BKN/// 26/17 Q1009=
METAR RJSA 010500Z 03007KT 9999 FEW035 SCT050 BKN/// 23/09 Q1008=
METAR RJSC 010500Z VRB03KT 9999 FEW040 SCT050 BKN090 26/14 Q1008=
METAR RJSD 010500Z AUTO 07007KT 030V100 9999 NSC 23/15 Q1007=
METAR RJSF 010500Z 18008KT 9999 FEW010 SCT012 BKN020 19/19 Q1012=
METAR RJSI 010500Z 19017KT 160V220 9999 FEW030 SCT140 BKN/// 25/14
Q1009=
METAR RJSK 010500Z 25010KT 210V280 9999 FEW050 SCT100 BKN120 24/13
Q1008=
METAR RJSM 010500Z 10011KT 9999 FEW035 BKN250 21/12 Q1008=
METAR RJSN 010500Z 15005KT 090V200 9999 FEW040 SCT080 BKN140 27/15
Q1007=
METAR RJSR 010500Z 29006KT 250V330 9999 FEW040 SCT060 BKN/// 26/14
Q1007=
METAR RJSS 010500Z 16019KT 9999 FEW020 SCT050 BKN120 21/14 Q1009=
METAR RJSY 010500Z 25007KT 9999 FEW040 SCT060 BKN070 23/15 Q1008=
METAR RJTF 010500Z 35001KT 3500 -RA BR FEW004 SCT006 BKN020 20/19
Q1011=


......................................................................................


Date: 01-Jun-2563

SAJP51 RJTD 010500 RRC
METAR RJTI 010500Z 11005KT 4500 -SHRA BR FEW003 BKN010 BKN020 20/19
Q1011=
METAR RJTO 010500Z 06007KT 020V120 9999 -SHRA FEW001 SCT008 BKN020
20/20 Q1010=
METAR RJTT 010500Z 08003KT 040V120 3000 R34L/P2000N R22/2000N
R34R/1500VP2000U R05/P2000N -RA BR FEW004 SCT015 BKN020
20/19 Q1011 TEMPO FEW003 BKN008=
METAR ROAH 010500Z 35008KT 9999 FEW010 SCT/// 27/25 Q1011=
METAR ROIG 010500Z 21015KT 9999 FEW010 SCT015 31/29 Q1010=
METAR ROMD 010500Z AUTO 23013KT 9999 BKN007 29/26 Q1012=
METAR ROMY 010500Z 20011KT 9999 VCSH FEW010 FEW020CB BKN045 BKN070
29/26 Q1011=
METAR RORK 010500Z AUTO 23013KT 9999 FEW009 SCT011 29/25 Q1012=
METAR RORS 010500Z 20008KT 9999 -SHRA SCT010 FEW020CB BKN048 28/27
Q1010=
METAR RORY 010500Z AUTO 33008KT 9999 FEW010 SCT014 27/24 Q1011=
METAR ROYN 010500Z AUTO 36004KT 9999 FEW023 SCT025 BKN032 29/26
Q1010=


......................................................................................


Date: 01-Jun-2563

SAJP51 RJTD 010500
METAR RJAA 010500Z 14011KT 100V180 9999 FEW010 BKN020 22/18 Q1011
NOSIG=
METAR RJAF 010500Z 15014KT 9999 FEW040 SCT050 BKN/// 23/14 Q1010=
METAR RJAH 010500Z 10005KT 9999 FEW015 BKN020 BKN035 21/17 Q1011=
METAR RJBB 010500Z 24004KT 9999 FEW025 BKN/// 22/19 Q1009 NOSIG=
METAR RJBD 010500Z 28005KT 200V320 9999 FEW030 BKN/// 22/18 Q1010=
METAR RJBE 010500Z 25007KT 9999 FEW020 BKN060 BKN/// 22/18 Q1009=
METAR RJBT 010500Z 19010KT 9999 FEW030 SCT045 BKN060 26/18 Q1008=
METAR RJCB 010500Z 16016KT 9999 FEW060 25/08 Q1008=
METAR RJCC 010500Z 18012KT 9999 FEW050 SCT/// 22/11 Q1008=
METAR RJCH 010500Z 15008KT 9999 FEW030 BKN/// 19/12 Q1008=
METAR RJCK 010500Z 21012KT 9999 R17/P2000N PRFG FEW001 SCT004 13/11
Q1010=
METAR RJCM 010500Z 06013KT CAVOK 23/03 Q1008=
METAR RJCN 010500Z 19009KT 9999 FEW035 24/14 Q1009=
METAR RJCO 010500Z 14017KT 9999 FEW030 29/10 Q1007=
METAR RJCW 010500Z 21018KT 9999 FEW050 24/08 Q1007=
METAR RJDC 010500Z 08011KT 9999 -SHRA FEW004 SCT008 BKN040 20/19
Q1009=
METAR RJDT 010500Z 34006KT 300V010 9999 FEW010 BKN/// 23/19 Q1009=
METAR RJEB 010500Z 11012KT 9999 FEW050 21/05 Q1008=
METAR RJEC 010500Z 11006KT 040V170 9999 FEW040 SCT080 26/10 Q1007=
METAR RJFE 010500Z 34008KT 9999 FEW010 SCT015 BKN/// 25/20 Q1010=


......................................................................................


Date: 01-Jun-2563

SAMS31 WMKK 010500
METAR WBGG 010500Z 09003KT 360V150 9999 SCT014 30/26 Q1011 NOSIG=
METAR WBKK 010500Z 04012KT 320V090 0800 +TSRA FEW007 FEW016CB SCT035 25/24 Q1010 26010G25KT TEMPO 0500 +TSRA=
METAR WBSB 010500Z 22006KT 9999 SCT015 BKN140 29/25 Q1011 RESHRA NOSIG=
METAR WMKK 010500Z VRB05KT 9999 FEW017CB SCT018 31/25 Q1011 NOSIG=
METAR WMKP 010500Z 22007KT 190V260 9000 FEW020 31/25 Q1011 NOSIG=
METAR WSSL 010500Z 24005KT 200V300 9999 FEW015 FEW018TCU FEW020CB BKN160 28/24 Q1012 RETS=
METAR WSSS 010500Z 25003KT 180V340 9999 -RA FEW015 FEW018TCU BKN160 28/25 Q1012 NOSIG=


......................................................................................


Date: 01-Jun-2563

SATR31 UTAA 010500
METAR UTAA 010500Z VRB02KT 9999 SCT099 27/15 Q1011
R88/CLRD70 NOSIG=
METAR UTAK 010500Z 18014KT 9999 SCT008 19/15 Q1011 R16R/CLRD70 NOSIG=
METAR UTAV 010500Z VRB02KT CAVOK 37/01 Q1008 R31/CLRD70 NOSIG=
METAR UTAM 010500Z 29008KT CAVOK 31/06 Q1009 R88/CLRD70 NOSIG=
METAR UTAT 010500Z 27004KT 190V360 CAVOK 36/07 Q1009 NOSIG=


......................................................................................


Date: 01-Jun-2563

SAAU60 AMMC 010500 CCA
METAR YBBN 010500Z 02011KT 9999 FEW025 BKN270 BKN300 22/17 Q1014
NOSIG=


......................................................................................


Date: 01-Jun-2563

SAAU60 AMMC 010500
METAR YABA 010500Z AUTO 33007KT 9999 // OVC020 16/12 Q1026=
METAR YAMB 010500Z 36008KT 9999 FEW038 SCT050 BKN280 25/13 Q1013
NOSIG=
METAR YARG 010500Z AUTO /////KT 9999 // NCD 33/08 Q1015=
METAR YAYE 010500Z AUTO 17007KT 150V210 9999 // NCD 21/04 Q1023=
METAR YBAS 010500Z AUTO 14007KT 100V170 9999 // NCD 20/00 Q1022=
METAR YBBN 010500Z 02011KT 9999 FEW025 BKN270 BKN300 22/17 Q1014=
METAR YBCG 010500Z AUTO 35014KT 9999 // NCD 23/16 Q1013=
METAR YBCS 010500Z AUTO 06008KT 9999 // SCT037 28/20 Q1014
NOSIG=
METAR YBCV 010500Z AUTO 25009KT 9999 // NCD 22/01 Q1016=
METAR YBDV 010500Z AUTO 23013KT //// // ////// 22/06 Q1020=


......................................................................................


Date: 01-Jun-2563

SAAU65 AMMC 010500
METAR YLRE 010500Z AUTO 19014KT 9999 // NCD 26/03 Q1017=
METAR YMAV 010500Z AUTO 25023KT 3500 // BKN015 BKN020 OVC026 10/09 Q1007=
METAR YMAY 010500Z AUTO 29010KT 9999 // SCT035 09/07 Q1009=
METAR YMDG 010504Z AUTO 28017G27KT 9999 -SHRA SCT041 BKN046 BKN054 13/06
Q1011=
METAR YMEK 010500Z AUTO 07009KT 9999 // NCD 20/05 Q1025=
METAR YMEN 010500Z AUTO 25017KT 7000 SHRA OVC018 10/08 Q1007=
METAR YMER 010500Z AUTO 33006KT 9999 // OVC091 19/05 Q1003=
METAR YMIA 010500Z AUTO 23012KT 9999 // SCT076 12/04 Q1017=
METAR YMML 010500Z 26023KT 6000 RA BKN018 BKN025 09/07 Q1007=
METAR YMOR 010500Z AUTO 29014KT 9999 // SCT093 23/03 Q1013=


......................................................................................


Date: 01-Jun-2563

SAHK31 VHHH 010500
METAR VHHH 010500Z 20011KT 9999 FEW012 SCT028 31/25 Q1010 NOSIG=
METAR RCTP 010500Z 25018KT 9999 FEW015 BKN060 31/26 Q1011 NOSIG
RMK A2986=
METAR RCKH 010500Z 26010KT 220V290 9999 FEW012 SCT150 32/25 Q1011
NOSIG RMK 25009KT/R09 A2988=
METAR RCSS 010500Z 30008KT 270V360 9999 VCTS FEW015 FEW020CB
SCT040 BKN120 32/25 Q1010 NOSIG RMK 30011KT/R10 TS SE-S MOV NE
A2984=
METAR RCMQ 010500Z 27011KT 9999 FEW016 SCT200 32/24 Q1012 NOSIG
RMK A2990=
METAR RCNN 010500Z 26008KT 9999 FEW014 SCT200 32/24 Q1012 NOSIG
RMK A2989=
METAR RCFN 010500Z 16006KT 110V210 9999 FEW010 BKN022 30/25 Q1011
NOSIG RMK A2986=
METAR VMMC 010500Z 19013KT 9999 FEW012 SCT028 31/28 Q1009 NOSIG=
METAR RPLL 010500Z 13010KT 080V180 9999 FEW025 SCT300 34/24 Q1010
NOSIG RMK A2983=
METAR RPVM 010500Z 05008KT 020V080 9999 FEW018CB 34/23 Q1011 RMK
A2985 CB E,SE,S=
METAR RPMD 010500Z 14009KT 110V170 9999 VCSH FEW015CB SCT016 32/24
Q1010 RMK A2983 CB N,E, VCSH E=
METAR RPLB 010500Z 22010KT 9999 FEW020 SCT300 33/23 Q1011 NOSIG RMK
A2985=
METAR RPLI 010500Z 32008KT 9999 SCT018TCU 33/26 Q1010 NOSIG RMK A2983
TCU NE-SE=
METAR RPMZ 010500Z 08004KT 360V170 5000 TSRA FEW016CB FEW017 OVC080
24/23 Q1012 RMK A2988 CB SE-SW=


......................................................................................


Date: 01-Jun-2563

SAJP31 RJTD 010500
METAR RJAA 010500Z 14011KT 100V180 9999 FEW010 BKN020 22/18 Q1011
NOSIG=
METAR RJBB 010500Z 24004KT 9999 FEW025 BKN/// 22/19 Q1009 NOSIG=
METAR RJTT 010500Z 08003KT 040V120 3000 R34L/P2000N R22/2000N
R34R/1500VP2000U R05/P2000N -RA BR FEW004 SCT015 BKN020
20/19 Q1011 TEMPO FEW003 BKN008=
METAR RJOO 010500Z 23007KT 180V280 9999 FEW030 BKN/// 27/17 Q1009=
METAR ROAH 010500Z 35008KT 9999 FEW010 SCT/// 27/25 Q1011=
METAR RJGG 010500Z 25007KT 9999 FEW025 SCT150 BKN/// 22/16 Q1010
NOSIG=
METAR RJCH 010500Z 15008KT 9999 FEW030 BKN/// 19/12 Q1008=
METAR RJSS 010500Z 16019KT 9999 FEW020 SCT050 BKN120 21/14 Q1009=


......................................................................................


Date: 01-Jun-2563

SAJP32 RJTD 010500 RRA
METAR RJFO 010500Z 14010KT 9999 FEW010 SCT020 BKN030 22/19 Q1009=
METAR RJNT 010500Z 36005KT 320V060 9999 FEW030 SCT120 BKN/// 25/16
Q1007=


......................................................................................


Date: 01-Jun-2563

SAJP32 RJTD 010500
METAR RJFF 010500Z 14005KT 070V180 9999 FEW010 SCT025 BKN035 24/21
Q1009 BECMG 31007KT=
METAR RJCC 010500Z 18012KT 9999 FEW050 SCT/// 22/11 Q1008=
METAR RJFK 010500Z 21007KT 180V250 9999 VCSH FEW010 BKN015 BKN070
25/21 Q1011=
METAR RJSN 010500Z 15005KT 090V200 9999 FEW040 SCT080 BKN140 27/15
Q1007=
METAR RJFT 010500Z 23009KT 9999 BKN020 BKN080 26/21 Q1010=
METAR RJFU 010500Z 28007KT 240V310 9999 FEW010 SCT015 BKN020 24/21
Q1009=
METAR RJNK 010500Z 28008KT 260V320 9999 FEW050 BKN230 26/16 Q1007=
METAR RJOA 010500Z 18004KT 110V220 9999 FEW010 BKN020 21/18 Q1010=
METAR RJOB 010500Z 22005KT 170V260 9999 FEW020 BKN030 BKN/// 23/17
Q1010=
METAR RJOT 010500Z 07005KT 360V120 9999 FEW015 BKN/// 23/19 Q1009=


......................................................................................


Date: 01-Jun-2563

SAJP38 RJTD 010500 RRA
METAR RJCK 010500Z 21012KT 9999 R17/P2000N PRFG FEW001 SCT004 13/11
Q1010=
METAR RJCM 010500Z 06013KT CAVOK 23/03 Q1008=
METAR RJCB 010500Z 16016KT 9999 FEW060 25/08 Q1008=
METAR RJOC 010500Z 24015KT 9999 FEW025 BKN035 BKN090 23/19 Q1008=
METAR RJOH 010500Z 25007KT 9999 FEW030 BKN040 BKN100 26/18 Q1007=
METAR ROIG 010500Z 21015KT 9999 FEW010 SCT015 31/29 Q1010=
METAR RJFS 010500Z 31003KT 220V020 9999 FEW005 SCT020 BKN/// 26/21
Q1009=
METAR RJSI 010500Z 19017KT 160V220 9999 FEW030 SCT140 BKN/// 25/14
Q1009=


......................................................................................


Date: 01-Jun-2563

SAJP38 RJTD 010500
METAR RJNS 010500Z 04004KT 340V120 4000 R30/1300VP2000D -SHRA BR
FEW000 BKN007 BKN015 20/20 Q1010=
METAR RJSA 010500Z 03007KT 9999 FEW035 SCT050 BKN/// 23/09 Q1008=
METAR RJSF 010500Z 18008KT 9999 FEW010 SCT012 BKN020 19/19 Q1012=
METAR RJOM 010500Z 32007KT 9999 FEW030 SCT100 BKN/// 22/18 Q1009=
METAR RJOK 010500Z 18006KT 140V210 9999 FEW020 BKN050 23/19 Q1010=
METAR RJFM 010500Z 12004KT 9999 FEW008 BKN015 BKN/// 23/21 Q1010=
METAR RJEC 010500Z 11006KT 040V170 9999 FEW040 SCT080 26/10 Q1007=
METAR RJFR 010500Z 07007KT 9999 FEW005 SCT010 BKN020 20/19 Q1009=
METAR RJSK 010500Z 25010KT 210V280 9999 FEW050 SCT100 BKN120 24/13
Q1008=
METAR RJAH 010500Z 10005KT 9999 FEW015 BKN020 BKN035 21/17 Q1011=


......................................................................................


Date: 01-Jun-2563

SAMS31 WMKK 010500
METAR WBGG 010500Z NIL=
METAR WBKK 010500Z NIL=
METAR WBSB 010500Z NIL=
METAR WMKK 010500Z NIL=
METAR WMKP 010500Z NIL=
METAR WSSL 010500Z 24005KT 200V300 9999 FEW015 FEW018TCU FEW020CB
BKN160 28/24 Q1012 RETS=
METAR WSSS 010500Z 25003KT 180V340 9999 -RA FEW015 FEW018TCU BKN160
28/25 Q1012 NOSIG=


......................................................................................


Date: 01-Jun-2563

SAMS32 WMKK 010500
NIL


......................................................................................


Date: 01-Jun-2563

SAMS34 WMKK 010500
NIL


......................................................................................


Date: 01-Jun-2563

SAPA31 KWBC 010500
METAR
AGGG NIL=
AGGH 010500Z 02009KT 9999 FEW020 FEW020CB 31/25 Q1009 RMK CB TO
ENE=
ANAU NIL=
AYPY NIL=
PGNT NIL=
PGRO 010450Z 090K12T 7SM SCT015 29/24 A2987=
PGSN 010454Z 10011KT 10SM FEW025 32/23 A2990 RMK AO2 SLP144
T03170233=
PGUA 010456Z 10012KT 10SM FEW018 30/24 A2990 RMK AO2A SLP115
T02960235 PWINO $=
PGUM 010454Z 09013KT 10SM SCT024 31/23 A2990 RMK AO2 SLP115
T03060233=
PGWT 010457Z 10010KT 7SM FEW016 SCT080 SCT150 32/24 A2989=
PHJH NIL=
PHJR NIL=
PHMK 010454Z AUTO 04008KT 10SM SCT021 BKN028 BKN036 24/19 A3007
RMK AO2 RAE11 SLP184 P0000 T02440189 TSNO=
PJON NIL=
PKMJ 010457Z 08010KT 156SM FEW015 SCT050 BKN300 31/25 A2986=
PKMR 010452Z 10009KT 15SM FEW015 SCT050 BKN300 30/25 A2984 RMK
SLP107 T02960250=
PKWA 010500Z AUTO 07011KT 10SM SCT023 SCT028 31/25 A2986 RMK AO2
T03050254=
PLCH 010500Z 12003KT 9999 SCT020 28/22 Q1010=
PMDY 010456Z AUTO 21006KT 9SM 26/24 A3004 RMK AO2 RAE00 SLP170
P0000 T02610239 $=
PTKK 010452Z 07008G16KT 15SM FEW014 BKN120 OVC280 30/26 A2980 RMK
SLP093 T02970262=
PTKR NIL=
PTPN NIL=
PTRO 010450Z 10006G15KT 15SM SCT017 BKN120 BKN300 31/24 A2985=
PTSA NIL=
PTTP 010453Z 10006KT 15SM SCT018 BKN300 29/25 A2984 RMK SLP105
T02940249=
PTYA 010451Z 12007KT 12SM FEW020 FEW300 31/25 A2985 RMK SLP110
T03090248=
PWAK 010458Z AUTO 07007KT 9999 CLR M A2995 RMK AO2 SLPNO FZRANO
$=


......................................................................................


Date: 01-Jun-2563

SASD20 OEJD 010500
METAR OEAB 010500Z 00000KT CAVOK 25/02 Q1025 NOSIG=
METAR OEAH 010500Z 33009KT CAVOK 36/03 Q1006 NOSIG=
METAR OEAO 010500Z 24004KT CAVOK 29/06 Q1012=
METAR OEAR 010500Z 33003KT CAVOK 33/12 Q1008=
METAR OEBA 010500Z 33010KT CAVOK 27/00 Q1020 NOSIG=
METAR OEBH 010500Z 24003KT CAVOK 29/05 Q1016 NOSIG=
METAR OEDF 010500Z 32012KT CAVOK 35/09 Q1004 NOSIG=
METAR OEDM 010500Z 18006KT CAVOK 32/01 Q1014=
METAR OEDR 010500Z 29013KT CAVOK 36/11 Q1003 NOSIG=
METAR OEGN 010500Z 00000KT CAVOK 33/27 Q1007 NOSIG=
METAR OEGS 010500Z 10005KT CAVOK 32/10 Q1010=
METAR OEGT 010500Z 30012KT CAVOK 19/04 Q1013 NOSIG=
METAR OEHL 010500Z 18002KT CAVOK 30/03 Q1013=
METAR OEJB 010500Z NIL=
METAR OEJN 010500Z 02010KT CAVOK 28/21 Q1008 NOSIG=
METAR OEKJ 010500Z 19012KT CAVOK 34/02 Q1013=
METAR OEKK 010500Z NIL=


......................................................................................


Date: 01-Jun-2563

SASD21 OEJD 010500
METAR OEKM 010500Z 18004KT CAVOK 25/06 Q1024 NOSIG=
METAR OEMA 010500Z 00000KT CAVOK 33/00 Q1012 NOSIG=
METAR OEMK 010500Z NIL=
METAR OENG 010500Z 00000KT CAVOK 30/10 Q1016 NOSIG=
METAR OEPA 010500Z 03012KT CAVOK 33/09 Q1009 NOSIG=
METAR OERF 010500Z 08011KT CAVOK 33/M02 Q1009=
METAR OERK 010500Z 15004KT CAVOK 35/09 Q1012 NOSIG=
METAR OERR 010500Z 04010KT CAVOK 27/M01 Q1010=
METAR OERY 010500Z NIL=
METAR OESH 010500Z 08010KT CAVOK 30/08 Q1012 NOSIG=
METAR OESK 010500Z 11003KT CAVOK 30/01 Q1012=
METAR OETB 010500Z 33004KT CAVOK 24/05 Q1013 NOSIG=
METAR OETF 010500Z 21004KT CAVOK 28/00 Q1020 NOSIG=
METAR OETR 010500Z 06008KT CAVOK 24/05 Q1014=
METAR OEWD 010500Z 19008KT CAVOK 32/15 Q1010 NOSIG=
METAR OEWJ 010500Z 11003KT CAVOK 27/22 Q1008 NOSIG=
METAR OEYN 010500Z 33003KT CAVOK 26/22 Q1005 NOSIG=


......................................................................................


Date: 01-Jun-2563

SAMS33 WMKK 010500
METAR WMAU 010500Z VRB05KT 9999 FEW018TCU SCT020 33/26 Q1011=
METAR WMBA 010500Z 19006KT 140V300 9999 SCT021 31/27 Q1011=
METAR WMKA 010500Z 15005KT 110V210 9999 FEW020 32/25 Q1011=
METAR WMKB 010500Z 21005KT 150V290 9000 FEW020 32/24 Q1011 NOSIG=
METAR WMKC 010500Z VRB03KT 9999 FEW018 34/25 Q1011=
METAR WMKD 010500Z VRB03KT 9999 SCT019 33/27 Q1011 NOSIG=
METAR WMKE 010500Z 13008KT 030V190 9999 SCT014 32/27 Q1010=
METAR WMKI 010500Z 19006KT 130V260 9999 FEW020 32/23 Q1011=
METAR WMKL 010500Z VRB05KT 9999 FEW022 31/28 Q1011=
METAR WMKM 010500Z VRB03KT 7000 -TSRA FEW010 FEW017CB SCT025 26/25
Q1013=
METAR WMKN 010500Z VRB05KT 9999 SCT018 33/26 Q1011=


......................................................................................


Date: 01-Jun-2563

SAIR36 OIII 010500 RRA
METAR OIMN 010500Z 00000KT 7000 FEW010 21/14 Q1017=


......................................................................................


Date: 01-Jun-2563

SAAU31 AMMC 010500 CCA
METAR YPDN 010500Z 33009KT 9999 FEW041 30/22 Q1012
NOSIG=


......................................................................................


Date: 01-Jun-2563

SAMS32 WMKK 010500 RRA
METAR WMKJ 010500Z 25006KT 190V330 3000 TSRA FEW008 FEW016CB SCT018 24/24 Q1013=


......................................................................................


Date: 01-Jun-2563

SAMS33 WMKK 010500
NIL


......................................................................................


Date: 01-Jun-2563

SAMS38 WMKK 010500
METAR WBGB 010500Z 26005KT 210V330 9999 -RA FEW003 SCT014 OVC140
26/26 Q1012=
METAR WBGR 010500Z 18007KT 9999 SCT014 BKN150 29/26 Q1011=
METAR WBGS 010500Z 32004KT 260V010 9999 RA FEW009 SCT015 OVC140 25/24
Q1013=
METAR WBKL 010500Z VRB04KT 9999 FEW015 BKN270 29/26 Q1010=
METAR WBKS 010500Z 03007KT 350V070 9999 SCT017 32/25 Q1009=
METAR WBKW 010500Z VRB06KT 9999 VCSH FEW016CB 32/26 Q1010=
METAR WMKD 010500Z VRB03KT 9999 SCT019 33/27 Q1011 NOSIG=
METAR WMKL 010500Z VRB05KT 9999 FEW022 31/28 Q1011=
METAR WMKM 010500Z VRB03KT 7000 -TSRA FEW010 FEW017CB SCT025 26/25
Q1013=


......................................................................................


Date: 01-Jun-2563

SAUZ31 UTTW 010500
METAR UTFN 010500Z 13004KT 070V180 9999 NSC 30/07 Q1010 R28/CLRD70
NOSIG=
METAR UTNN 010500Z VRB02KT CAVOK 36/01 Q1009 R33/CLRD60 NOSIG=
METAR UTNU 010500Z 27004KT 6000 NSC 33/09 Q1009 R31/CLRD70 NOSIG=
METAR UTSA 010500Z 06006KT 8000 NSC 33/08 Q1009 R07/CLRD70 NOSIG=
METAR UTSB 010500Z VRB02KT CAVOK 33/07 Q1008 R01/CLRD70 NOSIG=
METAR UTSK 010500Z 22006KT 180V260 CAVOK 33/07 Q1009 R16/CLRD70=
METAR UTSS 010500Z 14008KT 110V190 9999 NSC 31/09 Q1011 R09/CLRD70
NOSIG=
METAR UTST 010500Z 21004KT 160V250 CAVOK 32/10 Q1009 R88/CLRD70
NOSIG=
METAR UTFA 010500Z NIL=
METAR UTFF 010500Z 33006KT 290V360 9999 NSC 30/08 Q1010 R99/CLRD70=
METAR UTTT 010500Z 22006KT 180V280 CAVOK 32/09 Q1009 R08R/CLRD70
NOSIG=


......................................................................................


Date: 01-Jun-2563

SASD21 OEJD 010500 RRA
METAR OERY 010500Z 11005KT CAVOK 36/00 Q1012=


......................................................................................


Date: 01-Jun-2563

SAAR20 OEJD 010500
METAR OBBI 010500Z 31015KT CAVOK 34/21 Q1004 NOSIG=
METAR OKBK 010500Z 36012KT 7000 NSC 35/06 Q1006 NOSIG=
METAR OMAA 010500Z 22012KT 8000 NSC 37/18 Q1006 NOSIG=
METAR OMAD 010500Z VRB07KT 9000 NSC 36/20 Q1006 BECMG 22008KT=
METAR OMAL 010500Z 18014KT 8000 NSC 35/21 Q1009 BECMG 24012KT=
METAR OMDB 010500Z 23013KT 190V260 4500 DU NSC 37/20 Q1006 TEMPO
3000=
METAR OMFJ 010500Z 10006KT 7000 NSC 38/26 Q1004 RMK A2967=
METAR OMRK 010500Z 21016KT 4000 DU NSC 39/20 Q1006 A2971=
METAR OMSJ 010500Z 20017KT 6000 NSC 38/20 Q1006 TEMPO 4000 DU=
METAR OOMS 010450Z 21014KT CAVOK 40/22 Q1005 NOSIG=
METAR OOSA 010450Z 12009KT 6000 FEW014 BKN025 BKN100 30/27 Q1008
NOSIG=
METAR OOSH 010450Z AUTO 23015KT //// ////// 41/17 Q1003 RMK 1000=
METAR OODQ 010450Z AUTO 22017KT //// R22///// NCD 32/26 Q1009 NOSIG
RMK RH72? 0=
METAR OTBD 010500Z AUTO 21007KT 180V260 CAVOK 34/20 Q1005 NOSIG=
METAR OTBH 010500Z NIL=
METAR OTHH 010500Z AUTO 23009KT CAVOK 33/19 Q1005 NOSIG=
METAR OYAA 010500Z NIL=
METAR OYSN 010500Z NIL=


......................................................................................


Date: 01-Jun-2563

SASD31 OEJD 010500 RRA
METAR OERY 010500Z 11005KT CAVOK 36/00 Q1012=


......................................................................................


Date: 01-Jun-2563

SAAU61 AMMC 010500
METAR YBHI 010500Z AUTO 23021KT 9999 // OVC051 14/01 Q1018=
METAR YBHM 010500Z AUTO 11008KT 9999 // NCD 23/19 Q1016=
METAR YBLN 010500Z AUTO 12003KT //// // ////// 17/12 Q1027=
METAR YBMA 010500Z AUTO 17015KT 9999 // NCD 27/03 Q1018=
METAR YBMK 010500Z AUTO 06010KT 9999 // NCD 24/17 Q1015=
METAR YBNA 010500Z AUTO 35009KT 9999 // NCD 24/14 Q1012=
METAR YBOK 010500Z 29013KT CAVOK 24/08 Q1014
NOSIG=
METAR YBPN 010500Z AUTO 09007KT 9999 // SCT041 SCT048 26/17 Q1015=
METAR YBRK 010500Z AUTO 34006KT 9999 // NCD 27/12 Q1015=
METAR YBRM 010500Z AUTO 12012KT 9999 // NCD 29/08 Q1015=


......................................................................................


Date: 01-Jun-2563

SAAU62 AMMC 010500
METAR YBTL 010500Z 06013KT 9999 FEW025 25/21 Q1015
NOSIG=
METAR YBUD 010500Z AUTO 06011KT 9999 // BKN017 21/16 Q1015=
METAR YBWP 010500Z AUTO 13007KT 100V160 9999 // BKN049 31/19 Q1012=
METAR YBWX 010500Z AUTO 07021KT //// // ////// 24/13 Q1018=
METAR YCAS 010500Z AUTO 36012KT //// // ////// 25/13 Q1011=
METAR YCBA 010500Z AUTO 24014KT 5000 // SCT060 SCT080 15/02 Q1015=
METAR YCBB 010500Z AUTO 27016KT 9999 // SCT053 BKN095 14/03 Q1012=
METAR YCBP 010500Z AUTO 21015KT 9999 // SCT043 18/07 Q1023=
METAR YCCY 010500Z AUTO 19012KT 9999 // NCD 29/00 Q1017=


......................................................................................


Date: 01-Jun-2563

SAAU63 AMMC 010500
METAR YCDU 010500Z AUTO 21013KT 9999 // SCT038 16/11 Q1024=
METAR YCIN 010500Z AUTO 15013KT 9999 // NCD 30/10 Q1015=
METAR YCNM 010500Z AUTO 27015KT //// // ////// 17/05 Q1013=
METAR YCOM 010500Z AUTO 32015KT 9999 // ////// 08/M00 Q1005=
METAR YDBY 010500Z AUTO 12012KT 9999 // NCD 30/12 Q1015=
METAR YEML 010500Z AUTO 27007KT 220V280 9999 // SCT063 BKN099 27/11 Q1015=
METAR YESP 010500Z AUTO 26005KT 9999 // SCT013 SCT024 OVC029 16/14 Q1027=
METAR YFRT 010500Z AUTO 20008KT 160V220 9999 // OVC036 18/09 Q1025=
METAR YGEL 010500Z AUTO 08011KT 9999 // NCD 21/10 Q1024=


......................................................................................


Date: 01-Jun-2563

SAAU64 AMMC 010500
METAR YGFN 010500Z AUTO 36009KT 9999 // NCD 24/12 Q1011=
METAR YGLA 010500Z AUTO 04009KT 9999 // SCT075 24/16 Q1015=
METAR YGTE 010500Z AUTO 13007KT 090V160 9999 // NCD 32/15 Q1013=
METAR YGTH 010500Z AUTO 26019KT 9999 // SCT038 BKN046 BKN052 12/03 Q1012=
METAR YHID 010500Z AUTO 10015KT 9999 // NCD 29/22 Q1012=
METAR YHUG 010500Z AUTO 21011KT 190V250 9999 // SCT085 29/06 Q1015=
METAR YKRY 010500Z AUTO 33010KT 9999 // NCD 22/10 Q1015=
METAR YLEC 010500Z AUTO 19015KT 9999 // NCD 15/01 Q1021=
METAR YLIS 010500Z AUTO 35013KT 9999 // NCD 24/13 Q1012=


......................................................................................


Date: 01-Jun-2563

SAAU66 AMMC 010500
METAR YMTG 010500Z AUTO 22013KT 9999 -SHRA SCT030 SCT040 BKN049 09/06 Q1015=
METAR YNAR 010500Z AUTO 27012KT 9999 // SCT009 SCT032 BKN045 11/05 Q1011=
METAR YNBR 010500Z AUTO 33017KT 9999 // NCD 22/02 Q1011=
METAR YNTN 010500Z AUTO 17010KT 9999 // NCD 32/07 Q1013=
METAR YNWN 010500Z AUTO 09008KT 9999 // NCD 22/01 Q1023=
METAR YOLD 010500Z AUTO 20013KT 180V240 9999 // NCD 17/03 Q1022=
METAR YPAD 010500Z 21013KT 9999 FEW031 SCT038 14/08 Q1019
NOSIG=
METAR YPBO 010500Z AUTO /////KT 9999 // NCD 25/M03 Q1021=
METAR YPCC 010500Z 13015KT 9999 FEW018 BKN039 27/24 Q1014=


......................................................................................


Date: 01-Jun-2563

SAAU67 AMMC 010500
METAR YPDN 010500Z 33009KT 9999 FEW041 30/22 Q1012
NOSIG=
METAR YPEA 010500Z AUTO 09008KT 9999 // SCT040 19/09 Q1026=
METAR YPGV 010500Z 09012KT 9999 FEW030 30/19 Q1013=
METAR YPKG 010500Z AUTO 03005KT 9999 // NCD 18/08 Q1026=
METAR YPKU 010500Z AUTO 12008KT 9999 // NCD 34/M01 Q1014=
METAR YPLM 010500Z AUTO 02003KT 9999 // NCD 23/07 Q1019=
METAR YPPD 010500Z AUTO 12014KT 9999 // NCD 28/M01 Q1018=
METAR YPPH 010500Z 09008KT 9999 BKN042 19/09 Q1026
NOSIG=
METAR YPTN 010500Z AUTO 11012KT 9999 // NCD 34/09 Q1013=


......................................................................................


Date: 01-Jun-2563

SAAU68 AMMC 010500
METAR YCFS 010500Z AUTO 01009KT 9999 // NCD 24/13 Q1010=
METAR YPWR 010500Z AUTO 22015KT 9999 // NCD 16/03 Q1022=
METAR YPXM 010500Z AUTO 09009KT 9999 // BKN010 OVC013 26/24 Q1014=
METAR YRMD 010500Z AUTO 20014KT 9999 // NCD 31/04 Q1015=
METAR YSCB 010500Z AUTO 32013KT 9999 -RA SCT024 BKN049 BKN072 08/05 Q1008
TEMPO 0500/0600 3000 SHRA BKN008=
METAR YSDU 010500Z AUTO 26018KT 9999 // SCT019 BKN033 BKN039 11/08 Q1012=
METAR YSNF 010500Z 24007KT 9999 FEW027 SCT260 19/13 Q1019=
METAR YSRI 010500Z AUTO 31015KT 9999 // SCT090 21/04 Q1006=
METAR YSSY 010500Z 29017KT CAVOK 23/03 Q1005
FM0630 28018G28KT CAVOK
FM0500 MOD TURB BLW 5000FT=


......................................................................................


Date: 01-Jun-2563

SAKO51 RJTD 010500
METAR RKJJ 010500Z 29011KT 9999 FEW040 26/12 Q1011 RMK SLP111 8/500
9/200=
METAR RKPC 010500Z 30005KT 270V330 8000 SCT006 BKN020 OVC120 18/16
Q1013 NOSIG=
METAR RKPK 010500Z 18005KT CAVOK 29/16 Q1007=
METAR RKSI 010500Z 25015KT CAVOK 21/10 Q1010 NOSIG=
METAR RKSM 010500Z 29008KT 9999 FEW030 25/10 A2981=
METAR RKSS 010500Z 25014KT 220V280 CAVOK 24/10 Q1009 NOSIG=
METAR RKTN 010500Z 32015KT 9999 FEW050 FEW200 29/07 Q1008=
METAR RKTU 010500Z 32011KT 9999 FEW040 FEW200 26/07 Q1010=


......................................................................................


Date: 01-Jun-2563

SANG31 AMMC 010500
NIL


......................................................................................


Date: 01-Jun-2563

SANP31 VNKT 010520
METAR VNKT 010520Z 20003KT 9999 FEW015 SCT030 24/17 Q1017 NOSIG=


......................................................................................


Date: 01-Jun-2563

SAPA31 KWBC 010500 RRA
METAR
AYPY 010500Z 16015G25KT 9999 HZ SCT015 SCT045 30/24 1010=


......................................................................................


Date: 01-Jun-2563

SACI51 RJTD 010500
METAR ZBAA 010500Z 20008MPS 170V240 CAVOK 32/09 Q1003 NOSIG=
METAR ZBTJ 010500Z 20006MPS CAVOK 31/03 Q1005 NOSIG=
METAR ZBYN 010500Z 15003MPS CAVOK 22/11 Q1009 NOSIG=
METAR ZGGG 010500Z 06002MPS 010V120 8000 -TSRA SCT010 FEW026CB
BKN033 25/22 Q1010 RESHRA BECMG AT0540 -SHRA=
METAR ZGKL 010500Z 17003MPS 130V220 9999 FEW016 SCT026 29/24 Q1009
NOSIG=
METAR ZGNN 010500Z 16003MPS 100V180 9999 SCT026 FEW030TCU SCT033
33/25 Q1007 NOSIG=
METAR ZGOW 010500Z 20004MPS 160V240 9999 FEW021TCU FEW021 31/26
Q1010 NOSIG=
METAR ZGSZ 010500Z 17009MPS 9999 FEW020CB FEW020 31/27 Q1009 NOSIG=
METAR ZLXY 010500Z 28007MPS 230V330 CAVOK 29/12 Q1011 NOSIG=
METAR ZPPP 010500Z 24006MPS 210V270 9999 FEW026TCU SCT026 25/13
Q1020 NOSIG=
METAR ZSAM 010500Z 20004MPS 9999 SCT023 BKN040 28/26 Q1010 RETS
NOSIG=
METAR ZSHC 010500Z VRB02MPS 9999 BKN033 31/20 Q1010 NOSIG=
METAR ZSNJ 010500Z 13003MPS 070V180 9999 SCT030 33/19 Q1009 NOSIG=
METAR ZSQD 010500Z 16007MPS CAVOK 27/10 Q1010 NOSIG=
METAR ZSSS 010500Z 16006MPS CAVOK 30/19 Q1011 NOSIG=
METAR ZWWW 010500Z 04002MPS 350V150 CAVOK 31/04 Q1013 NOSIG=
METAR ZYTL 010500Z 28006MPS CAVOK 27/10 Q1009 NOSIG=
METAR ZYTX 010500Z 29005MPS 9999 FEW040 23/09 Q1006 NOSIG=


......................................................................................


Date: 01-Jun-2563

SASB31 VCCC 010510
METAR VCBI 010510Z 22012KT 9999 SCT018 31/27 Q1012 NOSIG=
METAR VRMM 010500Z 24009KT 9999 FEW018TCU 32/27 Q1012 NOSIG=
METAR VCRI 010510Z 22011KT 9999 SCT018 33/25 Q1012 NOSIG=


......................................................................................


Date: 01-Jun-2563

SAPA31 KWBC 010500 RRB
METAR
PKWA 010520Z AUTO 06011KT 10SM SCT021 SCT026 BKN047 30/25 A2987
RMK AO2 T03000254=


......................................................................................


Date: 01-Jun-2563

SATH31 VTBU 010530
METAR VTBU 010530Z 22004KT 9999 FEW020 31/25 Q1011 NOSIG=


......................................................................................


Date: 01-Jun-2563

SAAE31 VDPP 010530
METAR VDPP 010530Z VRB01KT 9999 SCT015 35/24 Q1009=


......................................................................................


Date: 01-Jun-2563

SPTH31 VTCT 010526
SPECI VTCT 010528Z 16005KT 9999 TS FEW018CB BKN025 32/24 Q1011 TEMPO
7000 -TSRA=


......................................................................................


Date: 01-Jun-2563

SATH31 VTSP 010530
METAR VTSP 010530Z 28007KT 240V310 9999 FEW020 32/23 Q1010 NOSIG=


......................................................................................


Date: 01-Jun-2563

SAPA31 KWBC 010500
METAR
AGGG NIL=
AGGH 010500Z 02009KT 9999 FEW020 FEW020CB 31/25 Q1009 RMK CB TO
ENE=
ANAU NIL=
AYPY NIL=
PGNT NIL=
PGRO 010450Z 090K12T 7SM SCT015 29/24 A2987=
PGSN 010454Z 10011KT 10SM FEW025 32/23 A2990 RMK AO2 SLP144
T03170233=
PGUA 010456Z 10012KT 10SM FEW018 30/24 A2990 RMK AO2A SLP115
T02960235 PWINO ?=
PGUM 010454Z 09013KT 10SM SCT024 31/23 A2990 RMK AO2 SLP115
T03060233=
PGWT 010457Z 10010KT 7SM FEW016 SCT080 SCT150 32/24 A2989=
PHJH NIL=
PHJR NIL=
PHMK 010454Z AUTO 04008KT 10SM SCT021 BKN028 BKN036 24/19 A3007
RMK AO2 RAE11 SLP184 P0000 T02440189 TSNO=
PJON NIL=
PKMJ 010457Z 08010KT 156SM FEW015 SCT050 BKN300 31/25 A2986=
PKMR 010452Z 10009KT 15SM FEW015 SCT050 BKN300 30/25 A2984 RMK
SLP107 T02960250=
PKWA 010500Z AUTO 07011KT 10SM SCT023 SCT028 31/25 A2986 RMK AO2
T03050254=
PLCH 010500Z 12003KT 9999 SCT020 28/22 Q1010=
PMDY 010456Z AUTO 21006KT 9SM 26/24 A3004 RMK AO2 RAE00 SLP170
P0000 T02610239 ?=
PTKK 010452Z 07008G16KT 15SM FEW014 BKN120 OVC280 30/26 A2980 RMK
SLP093 T02970262=
PTKR NIL=
PTPN NIL=
PTRO 010450Z 10006G15KT 15SM SCT017 BKN120 BKN300 31/24 A2985=
PTSA NIL=
PTTP 010453Z 10006KT 15SM SCT018 BKN300 29/25 A2984 RMK SLP105
T02940249=
PTYA 010451Z 12007KT 12SM FEW020 FEW300 31/25 A2985 RMK SLP110
T03090248=
PWAK 010458Z AUTO 07007KT 9999 CLR M A2995 RMK AO2 SLPNO FZRANO
?=


......................................................................................


Date: 01-Jun-2563

SATH31 VTBD 010530
METAR VTBD 010530Z 27005KT 9999 SCT020 35/24 Q1010 NOSIG=


......................................................................................


Date: 01-Jun-2563

SATH31 VTBS 010530
METAR VTBS 010530Z 19006KT 140V250 9999 FEW020 34/24 Q1010 NOSIG=


......................................................................................


Date: 01-Jun-2563

SATH31 VTSM 010530
METAR VTSM 010530Z 36006KT 330V090 9999 FEW020 34/25 Q1011 NOSIG=


......................................................................................


Date: 01-Jun-2563

SATH31 VTSS 010530
METAR VTSS 010530Z 21005KT 090V260 9999 FEW020 33/23 Q1010 NOSIG=


......................................................................................


Date: 01-Jun-2563

SAPK31 OPKC 010529
METAR OPGD 010525Z NIL=
METAR OPIS 010525Z 09004KT 6000 SCT040 BKN100 26/18 Q1012 NOSIG=
METAR OPKC 010525Z 27010KT 6000 BKN020 33/22 Q1008 NOSIG=
METAR OPLA 010525Z 09005KT 8000 SCT100 26/14 Q1011 RMK QFE985 RMK
A29.85=
METAR OPNH 010525Z NIL=
METAR OPMT 010525Z NIL=
METAR OPPS 010525Z NIL=
METAR OPRN 010525Z NIL=
METAR OPSK 010525Z NIL=
METAR OPST 010525Z NIL=


......................................................................................


Date: 01-Jun-2563

SATH31 VTCC 010530
METAR VTCC 010530Z 12006KT 070V180 9999 VCSH FEW025CB BKN035 34/21
Q1010=


......................................................................................


Date: 01-Jun-2563

SATH31 VTCC 010530 CCA
METAR COR VTCC 010530Z 12006KT 070V180 9999 VCSH FEW025CB BKN035
34/21 Q1010 NOSIG=


......................................................................................


Date: 01-Jun-2563

SAIR31 OIII 010530
METAR OIAW 010530Z 31004KT CAVOK 37/03 Q1004=
METAR OIFM 010530Z 32006KT 4500 HZ NSC 29/02 Q1019 A3011=
METAR OIII 010530Z 15004KT CAVOK 32/M02 Q1014 A2995=
METAR OIKB 010530Z 21008KT 1500 DU NSC 37/22 Q1004 A2968=
METAR OIKK 010530Z 11004KT CAVOK 31/01 Q1020 A3013=
METAR OIMM 010530Z NIL=
METAR OISS 010530Z 00000KT CAVOK 32/02 Q1018 A3007=
METAR OITT 010530Z 26004KT CAVOK 23/02 Q1018 A3008=
METAR OIZH 010530Z 35004KT CAVOK 32/M05 Q1016 A3003=


......................................................................................


Date: 01-Jun-2563

SAIR32 OIII 010530
METAR OIAA 010530Z NIL=
METAR OIBK 010530Z 19004KT 3000 HZ NSC 33/27 Q1005=
METAR OICC 010530Z 31004KT CAVOK 23/M10 Q1018 A3007=
METAR OIGG 010530Z 08004KT CAVOK 24/14 Q1013=
METAR OIIE 010530Z NIL=
METAR OINZ 010530Z NIL=
METAR OITR 010530Z NIL=
METAR OIYY 010530Z 33010KT CAVOK 34/M03 Q1016=


......................................................................................


Date: 01-Jun-2563

SAIR33 OIII 010530
METAR OIBB 010530Z NIL=
METAR OIBP 010530Z NIL=
METAR OICK 010530Z 34002KT CAVOK 29/01 Q1016=
METAR OICS 010530Z NIL=
METAR OIHH 010530Z NIL=
METAR OITL 010530Z 00000KT CAVOK 19/10 Q1017=
METAR OIZC 010530Z NIL=


......................................................................................


Date: 01-Jun-2563

SAHK31 VHHH 010530
METAR VHHH 010530Z 21010KT 180V240 9999 -SHRA FEW012 SCT025
32/25 Q1010 NOSIG=


......................................................................................


Date: 01-Jun-2563

SAPK31 OPKC 010533 RRA
METAR OPMT 010530Z 00000KT 9999 FEW120 32/22 Q1008 NOSIG=
METAR OPNH 010600Z 13510KT 5000M HZ NSC 36/21 Q1006 NOSIG=


......................................................................................


Date: 01-Jun-2563

SASR31 WSSS 010530
METAR WSSS 010530Z 26004KT 190V320 9999 VCSH FEW015 FEW017CB
FEW018TCU BKN160 28/24 Q1012 TEMPO TL0615 14015G30KT 2000 +TSRA BECMG
FM0615 TL0630 4000 TSRA=


......................................................................................


Date: 01-Jun-2563

SAAE31 VTBB 010530
METAR VTBD 010530Z 27005KT 9999 SCT020 35/24 Q1010 NOSIG=
METAR VTBS 010530Z 19006KT 140V250 9999 FEW020 34/24 Q1010 NOSIG=
METAR VTBU 010530Z 22004KT 9999 FEW020 31/25 Q1011 NOSIG=
METAR VTCC 010530Z 12006KT 070V180 9999 VCSH FEW025CB BKN035 34/21
Q1010=
METAR VTCC 010530Z 12006KT 070V180 9999 VCSH FEW025CB BKN035
34/21 Q1010 NOSIG=
METAR VTCT 010530Z NIL=
METAR VTSG 010530Z NIL=
METAR VTSP 010530Z 28007KT 240V310 9999 FEW020 32/23 Q1010 NOSIG=
METAR VTSS 010530Z 21005KT 090V260 9999 FEW020 33/23 Q1010 NOSIG=


......................................................................................


Date: 01-Jun-2563

SAAE32 VTBB 010530
METAR VDPP 010530Z VRB01KT 9999 SCT015 35/24 Q1009=
METAR VDSR 010530Z VRB03KT 9999 SCT015 SCT040 34/23 Q1009=
METAR VDSV 010530Z 08003KT 9000 -TSRA SCT015 FEW017CB SCT040 29/27
Q1011 CB:NE=
METAR VLVT 010530Z 12002KT 9999 SCT016 BKN040 30/26 Q1011 NOSIG=
METAR VYMD 010530Z 14007G17KT 7000 BKN020 FEW025CB 34/26 Q1009=
METAR VYYY 010530Z 16009KT 7000 BKN018 FEW025CB BKN100 31/26 Q1010=
METAR VYNT 010530Z NIL=


......................................................................................


Date: 01-Jun-2563

SAAE34 VTBB 010530
METAR VVCI 010530Z 17012KT 9999 FEW020 SCT032 33/27 Q1006 NOSIG=
METAR VVCR 010530Z 11009KT 9999 FEW015 34/25 Q1010 NOSIG=
METAR VVCT 010530Z VRB03KT 9999 SCT015 35/23 Q1010
NOSIG=
METAR VVNB 010530Z 02004KT 330V090 CAVOK 35/24 Q1006 NOSIG=
METAR VVPB 010530Z 04007KT 9999 FEW020 SCT080 34/26 Q1010 NOSIG=
METAR VVPQ 010530Z NIL=
METAR VVTS 010530Z VRB01KT 9999 BKN017 35/25 Q1009 NOSIG =
METAR VVDN 010530Z 06005KT 9999 FEW015 35/25 Q1010 NOSIG=


......................................................................................


Date: 01-Jun-2563

SATH31 VTCC 010530 CCB
METAR COR VTCC 010530Z 12006KT 070V180 9999 VCSH FEW025CB BKN035
34/21 Q1010 TEMPO FM0550 22015G25KT 5000 TSRA=


......................................................................................


Date: 01-Jun-2563

SAAE31 VTBB 010530 CCA
METAR COR VTCC 010530Z 12006KT 070V180 9999 VCSH FEW025CB BKN035
34/21 Q1010 TEMPO FM0550 22015G25KT 5000 TSRA=


......................................................................................


Date: 01-Jun-2563

SAHK31 VHHH 010530
METAR VHHH 010530Z 21010KT 180V240 9999 -SHRA FEW012 SCT025
32/25 Q1010 NOSIG=
METAR RCTP 010530Z 25019KT 9999 FEW015 BKN060 32/27 Q1010 NOSIG
RMK A2984=
METAR RCKH 010530Z 26012KT 230V300 9999 FEW015 32/24 Q1011 NOSIG
RMK 27011KT/R09 A2986=
METAR RCSS 010530Z 32007KT 270V360 9999 FEW015 FEW020TCU BKN045
BKN200 32/26 Q1010 RETS NOSIG RMK 30010KT/R10 TCU S A2983=
METAR RCMQ 010530Z 26008KT 9999 FEW016 SCT200 32/24 Q1011 NOSIG
RMK A2988=
METAR RCNN 010530Z 27007KT 9999 FEW014 SCT200 32/24 Q1011 NOSIG
RMK A2987=
METAR RCFN 010530Z 15005KT 100V210 9999 FEW010 BKN023 30/26 Q1010
NOSIG RMK A2985=
METAR VMMC 010530Z 20012KT 9999 FEW012 SCT025 31/27 Q1009 NOSIG=


......................................................................................


Date: 01-Jun-2563

SAAE34 VTBB 010530 RRA
METAR VVPQ 010530Z 27006KT 230V310 9999 FEW017 SCT040 32/26 Q1010
NOSIG=


......................................................................................


Date: 01-Jun-2563

SAMS31 WMKK 010530
METAR WBGG 010530Z 02004KT 320V080 9999 SCT020 29/26 Q1011 NOSIG=
METAR WBKK 010530Z VRB04KT 1500 +TSRA FEW008 FEW016CB SCT030 25/25 Q1011 TEMPO 3000 +TSRA=
METAR WBSB 010530Z 23006KT 9999 SCT015 BKN140 29/25 Q1011 RESHRA NOSIG=
METAR WMKK 010530Z VRB04KT 9999 FEW017CB SCT018 31/25 Q1011 NOSIG=
METAR WMKP 010530Z 23006KT 190V280 9000 FEW020 32/26 Q1011 NOSIG=
METAR WSSL 010530Z NIL=
METAR WSSS 010530Z 26004KT 190V320 9999 VCSH FEW015 FEW017CB FEW018TCU BKN160 28/24 Q1012 TEMPO TL0615 14015G30KT 2000 +TSRA BECMG FM0615 TL0630 4000 TSRA=


......................................................................................


Date: 01-Jun-2563

SAPK31 OPKC 010533 RRA
METAR OPMT 010530Z 00000KT 9999 FEW120 32/22 Q1008 NOSIG=


......................................................................................


Date: 01-Jun-2563

SAJP51 RJTD 010530
METAR RJAA 010530Z 14010KT 120V180 9999 FEW020 BKN030 BKN070 22/18
Q1011 NOSIG=
METAR RJBB 010530Z 25004KT 9999 FEW025 SCT060 BKN/// 24/18 Q1009
NOSIG=
METAR RJCC 010530Z 16013KT 9999 FEW050 SCT/// 21/10 Q1008=
METAR RJFF 010530Z 13005KT 070V170 9999 FEW015 SCT020 BKN030 25/21
Q1008 BECMG 31007KT=
METAR RJGG 010530Z 24005KT 9999 FEW025 SCT150 BKN/// 22/17 Q1009
NOSIG=
METAR RJTT 010530Z 02003KT 8000 VCSH FEW003 BKN025 20/19 Q1011
NOSIG=
METAR ROAH 010530Z 35011KT 9999 SCT010 BKN/// 28/24 Q1011=


......................................................................................


Date: 01-Jun-2563

SAMS31 WMKK 010530
METAR WBGG 010530Z NIL=
METAR WBKK 010530Z NIL=
METAR WBSB 010530Z NIL=
METAR WMKK 010530Z NIL=
METAR WMKP 010530Z NIL=
METAR WSSL 010530Z NIL=
METAR WSSS 010530Z 26004KT 190V320 9999 VCSH FEW015 FEW017CB
FEW018TCU BKN160 28/24 Q1012 TEMPO TL0615 14015G30KT 2000 +TSRA BECMG
FM0615 TL0630 4000 TSRA=


......................................................................................


Date: 01-Jun-2563

SAAH10 OAKB 010350
METAR OAKB 010350Z VRB04KT CAVOK 23/M04 Q1018 RMK A3008 BLU BLU=


......................................................................................


Date: 01-Jun-2563

SAUZ31 UTTW 010530
METAR UTFN 010530Z 11004KT 040V180 9999 NSC 31/06 Q1010 R28/CLRD70
NOSIG=
METAR UTNN 010530Z 06002KT CAVOK 37/02 Q1009 R33/CLRD60 NOSIG=
METAR UTNU 010530Z 22006KT 6000 NSC 35/07 Q1009 R31/CLRD70 NOSIG=
METAR UTSA 010530Z 36006KT 9000 NSC 33/08 Q1009 R07/CLRD70 NOSIG=
METAR UTSB 010530Z 22002KT CAVOK 35/07 Q1008 R01/CLRD70 NOSIG=
METAR UTSK 010530Z 22008KT 190V260 CAVOK 33/07 Q1009 R16/CLRD70=
METAR UTSS 010530Z 13004KT 9999 NSC 31/07 Q1011 R09/CLRD70 NOSIG=
METAR UTST 010530Z VRB02KT CAVOK 33/06 Q1009 R88/CLRD70 NOSIG=
METAR UTFA 010530Z NIL=
METAR UTFF 010530Z 35006KT 280V360 9999 NSC 31/08 Q1010 R99/CLRD70=
METAR UTTT 010530Z 23006KT 200V280 CAVOK 32/11 Q1009 R08R/CLRD70
NOSIG=


......................................................................................


Date: 01-Jun-2563

SAPA31 KWBC 010500 RRC
METAR
PKWA 010540Z AUTO 08013KT 10SM SCT036 BKN048 BKN060 30/25 A2987
RMK AO2 T02960253=


......................................................................................


Date: 01-Jun-2563

SATR31 UTAA 010600
METAR UTAA 010600Z NIL=
METAR UTAK 010600Z NIL=
METAR UTAM 010600Z NIL=
METAR UTAT 010600Z NIL=
METAR UTAV 010600Z NIL=


......................................................................................


Date: 01-Jun-2563

SANP31 VNKT 010550
METAR VNKT 010550Z 22005KT 9999 FEW015 SCT030 25/15 Q1017 NOSIG=


......................................................................................


Date: 01-Jun-2563

SAAE31 VDPP 010600
METAR VDPP 010600Z VRB03KT 9999 SCT015 34/22 Q1009=


......................................................................................


Date: 01-Jun-2563

SAAH10 OAKB 010550

METAR OAKB 010550Z 33010KT CAVOK 27/M04 Q1018 RMK A3008 BLU BLU=


......................................................................................


Date: 01-Jun-2563

SATH31 VTBU 010600
METAR VTBU 010600Z 21004KT 9999 FEW020 31/25 Q1011 NOSIG=


......................................................................................


Date: 01-Jun-2563

SATH31 VTCN 010600
METAR VTCN 010600Z VRB03KT 9999 FEW020TCU SCT030 34/24 Q1009 NOSIG=


......................................................................................


Date: 01-Jun-2563

SATH31 VTPB 010600
METAR VTPB 010600Z 00000KT 9999 BKN025 33/25 Q1010 NOSIG=


......................................................................................


Date: 01-Jun-2563

SATH31 VTSG 010600
METAR VTSG 010600Z 20004KT 120V270 9999 SCT020 34/28 Q1011 NOSIG=


......................................................................................


Date: 01-Jun-2563

SATH31 VTST 010600
METAR VTST 010600Z VRB03KT 9999 SCT025 33/25 Q1010 NOSIG=


......................................................................................


Date: 01-Jun-2563

SATH31 VTCP 010600
METAR VTCP 010600Z VRB03KT 9999 SCT020 37/23 Q1009 NOSIG=


......................................................................................


Date: 01-Jun-2563

SATH31 VTSF 010600
METAR VTSF 010600Z 08005KT 030V130 9999 SCT018 35/27 Q1010 NOSIG=


......................................................................................


Date: 01-Jun-2563

SATH31 VTCH 010600
METAR VTCH 010600Z 31009KT 9999 VCSH FEW020CB SCT025 31/23 Q1010=


......................................................................................


Date: 01-Jun-2563

SATH31 VTCL 010600
METAR VTCL 010600Z VRB03KT 9999 FEW023TCU 38/22 Q1010 NOSIG=


......................................................................................


Date: 01-Jun-2563

SATH31 VTPM 010600
METAR VTPM 010600Z 26008KT 9999 SCT030 33/23 Q1011 NOSIG=


......................................................................................


Date: 01-Jun-2563

SATH31 VTPP 010600
METAR VTPP 010600Z VRB05KT 9999 SCT040 35/23 Q1009 NOSIG=


......................................................................................


Date: 01-Jun-2563

SATH31 VTPO 010600
METAR VTPO 010600Z VRB02KT 9999 FEW025 34/23 Q1008 NOSIG=


......................................................................................


Date: 01-Jun-2563

SATH31 VTSE 010600
METAR VTSE 010600Z 12007KT 090V170 9999 FEW020 34/26 Q1010 NOSIG=


......................................................................................


Date: 01-Jun-2563

SATH31 VTSP 010600
METAR VTSP 010600Z 27009KT 240V300 9999 FEW020 31/23 Q1010 NOSIG=


......................................................................................


Date: 01-Jun-2563

SATH31 VTUI 010600
METAR VTUI 010600Z 04006KT 360V070 9999 TS FEW015CB SCT030 BKN080
27/25 Q1011 NOSIG=


......................................................................................


Date: 01-Jun-2563

SATH31 VTUL 010600
METAR VTUL 010600Z 15004KT 090V230 9999 BKN030 33/24 Q1010 NOSIG=


......................................................................................


Date: 01-Jun-2563

SATH31 VTUW 010600
METAR VTUW 010600Z 35005KT 310V020 9999 FEW020 26/25 Q1012 RETS
NOSIG=


......................................................................................


Date: 01-Jun-2563

SAOM32 OOMS 010600
METAR OOMS 010550Z 21011KT CAVOK 42/20 Q1004 NOSIG=
METAR OOSA 010550Z 11009KT 2000 RA FEW009 BKN018 OVC020 29/27 Q1009
TEMPO 1500=
METAR OOSH 010600Z NIL=
METAR OODQ 010550Z AUTO 22017KT //// R22///// NCD 33/25 Q1009 NOSIG=


......................................................................................


Date: 01-Jun-2563

SAPK31 OPKC 010559
METAR OPGD 010555Z NIL=
METAR OPIS 010555Z 13006KT 6000 SCT040 BKN100 27/18 Q1012 NOSIG=
METAR OPKC 010555Z 27010KT 6000 BKN020 34/22 Q1008 NOSIG=
METAR OPLA 010555Z 09008KT 8000 SCT100 29/18 Q1010 NOSIG RMK QFE985
RMK A29.83=
METAR OPNH 010600Z 13510KT 5000M HZ NSC 36/21 Q1006 NOSIG=
METAR OPMT 010555Z NIL=
METAR OPPS 010600Z 36006KT 7000 HZ FEW040 FEW100 28/19 Q1011=
METAR OPRN 010555Z NIL=
METAR OPSK 010555Z NIL=
METAR OPST 010555Z NIL=


......................................................................................


Date: 01-Jun-2563

SASD31 OEJD 010600
METAR OEDF 010600Z 33013KT CAVOK 37/10 Q1004 NOSIG=
METAR OEDR 010600Z 34010KT CAVOK 38/06 Q1003 NOSIG=
METAR OEJN 010600Z NIL=
METAR OEMA 010600Z 00000KT CAVOK 34/02 Q1013 NOSIG=
METAR OERK 010600Z 14006KT CAVOK 37/06 Q1012 NOSIG=
METAR OERY 010600Z NIL=
METAR OYAA 010600Z NIL=
METAR OYSN 010600Z NIL=


......................................................................................


Date: 01-Jun-2563

SATH31 VTBD 010600
METAR VTBD 010600Z 22006KT 160V260 9999 SCT020 35/25 Q1010 NOSIG=


......................................................................................


Date: 01-Jun-2563

SATH31 VTBS 010600
METAR VTBS 010600Z VRB04KT 9999 FEW020 35/23 Q1009 NOSIG=


......................................................................................


Date: 01-Jun-2563

SATH31 VTCC 010600
METAR VTCC 010600Z 35009KT 9999 VCSH FEW025CB BKN030 31/22 Q1010
NOSIG=


......................................................................................


Date: 01-Jun-2563

SATH31 VTCT 010600
METAR VTCT 010600Z 20006KT 160V250 9999 -TSRA FEW018CB BKN025 31/25
Q1010 NOSIG=


......................................................................................


Date: 01-Jun-2563

SATH31 VTPH 010600
METAR VTPH 010600Z 06009KT 020V090 9999 FEW018 34/24 Q1010 NOSIG=


......................................................................................


Date: 01-Jun-2563

SATH31 VTPN 010600
METAR VTPN 010600Z 00000KT 9999 SCT025 36/23 Q1009=


......................................................................................


Date: 01-Jun-2563

SATH31 VTPT 010600
METAR VTPT 010600Z /////KT 9999 FEW020TCU SCT026 37/23 Q//// NOSIG=


......................................................................................


Date: 01-Jun-2563

SATH31 VTSB 010600
METAR VTSB 010600Z VRB04KT 9999 FEW020 35/24 Q1010=


......................................................................................


Date: 01-Jun-2563

SATH31 VTSC 010600
METAR VTSC 010600Z 08009KT 050V120 9999 FEW020 32/25 Q1010 NOSIG =


......................................................................................


Date: 01-Jun-2563

SATH31 VTSM 010600
METAR VTSM 010600Z 33005KT 290V020 9999 FEW020 35/26 Q1011 NOSIG=


......................................................................................


Date: 01-Jun-2563

SATH31 VTSR 010600
METAR VTSR 010600Z 28006KT 220V330 9999 SCT025 34/26 Q1010 NOSIG=


......................................................................................


Date: 01-Jun-2563

SATH31 VTSS 010600
METAR VTSS 010600Z 12005KT 080V220 9999 FEW020 34/24 Q1010 NOSIG=


......................................................................................


Date: 01-Jun-2563

SATH31 VTUD 010600
METAR VTUD 010600Z VRB03KT 9999 SCT022 31/25 Q1011 NOSIG=


......................................................................................


Date: 01-Jun-2563

SATH31 VTUK 010600
METAR VTUK 010600Z 21004KT 150V270 9999 SCT025 33/24 Q1011 NOSIG=


......................................................................................


Date: 01-Jun-2563

SATH31 VTUO 010600
METAR VTUO 010600Z 26004KT 180V340 9999 SCT030 36/20 Q1010 NOSIG=


......................................................................................


Date: 01-Jun-2563

SATH31 VTUV 010600
METAR VTUV 010600Z 34006KT 280V020 8000 VCSH FEW020CB SCT030 34/26
Q1009 NOSIG=


......................................................................................


Date: 01-Jun-2563

SATH31 VTBO 010600
METAR VTBO 010600Z 22003KT 9999 FEW020 BKN100 31/27 Q1010=


......................................................................................


Date: 01-Jun-2563

SATH31 VTUU 010600
METAR VTUU 010600Z 21004KT 9999 SCT030 33/25 Q1010 NOSIG =


......................................................................................


Date: 01-Jun-2563

SAHK31 VHHH 010600
METAR VHHH 010600Z 20010KT 160V240 9999 FEW012 SCT025 32/25
Q1010 TEMPO 4000 SHRA=


......................................................................................


Date: 01-Jun-2563

SAIR31 OIII 010600
METAR OIAW 010600Z 31004KT CAVOK 38/04 Q1004=
METAR OIFM 010600Z 27004KT 4000 HZ NSC 30/02 Q1019 A3011=
METAR OIII 010600Z 26008KT CAVOK 32/M04 Q1014 A2995 NOSIG=
METAR OIKB 010600Z 21014KT 1500 DU NSC 37/24 Q1004 A2967 NOSIG=
METAR OIKK 010600Z 02004KT CAVOK 31/01 Q1020 A3013=
METAR OIMM 010600Z 02006KT CAVOK 31/M05 Q1015 A2999=
METAR OISS 010600Z 00000KT CAVOK 32/00 Q1018 A3006=
METAR OITT 010600Z 35004KT CAVOK 24/M01 Q1018 A3007 NOSIG=
METAR OIZH 010600Z 03006KT CAVOK 32/M05 Q1016 A3003 NOSIG=


......................................................................................


Date: 01-Jun-2563

SAIR32 OIII 010600
METAR OIAA 010600Z 35010KT CAVOK 37/07 Q1004=
METAR OIBK 010600Z 00000KT 3000 HZ NSC 34/27 Q1005 NOSIG=
METAR OICC 010600Z 29004KT CAVOK 25/M09 Q1018 A3007=
METAR OIGG 010600Z 08004KT CAVOK 24/12 Q1013=
METAR OIIE 010600Z 33014KT CAVOK 31/M02 Q1013=
METAR OINZ 010600Z 22006KT 9999 FEW025 26/17 Q1013=
METAR OITR 010600Z 03004KT CAVOK 24/03 Q1016=
METAR OIYY 010600Z 35008KT CAVOK 35/M01 Q1016=


......................................................................................


Date: 01-Jun-2563

SAIR33 OIII 010600
METAR OIBB 010600Z 21006KT CAVOK 34/24 Q1003 A2962=
METAR OIBP 010600Z 19008KT 3000 DU NSC 34/28 Q1004 A2966=
METAR OICK 010600Z 33004KT CAVOK 30/01 Q1016=
METAR OICS 010600Z 00000KT CAVOK 22/M08 Q1018 A3008=
METAR OIHH 010600Z 01004KT CAVOK 24/M03 Q1018=
METAR OITL 010600Z 27006KT CAVOK 20/10 Q1016=
METAR OIZC 010600Z NIL=


......................................................................................


Date: 01-Jun-2563

SAIR34 OIII 010600
METAR OIAG 010600Z NIL=
METAR OIAM 010600Z 33012KT CAVOK 40/12 Q1003=
METAR OICI 010600Z 32002KT CAVOK 31/M00 Q1018 A3006=
METAR OIKQ 010600Z 25012KT 4000 HZ NSC 37/28 Q1005=
METAR OINN 010600Z 03002KT 9999 FEW022 22/18 Q1013=
METAR OINR 010600Z 07004KT CAVOK 24/16 Q1012=
METAR OISL 010600Z 00000KT 7000 NSC 37/15 Q1009 NOSIG=
METAR OISY 010600Z 00000KT CAVOK 26/05 Q1022=
METAR OITZ 010600Z 24004KT CAVOK 23/01 Q1017=


......................................................................................


Date: 01-Jun-2563

SAIR35 OIII 010600
METAR OIAD 010600Z NIL=
METAR OIBJ 010600Z 23006KT 7000 NSC 37/14 Q1010=
METAR OIBS 010600Z 22008KT 3000 BR NSC 33/29 Q1005=
METAR OIHR 010600Z 00000KT 8000 NSC 23/03 Q1020=
METAR OIKM 010600Z NIL=
METAR OIKR 010600Z NIL=
METAR OING 010600Z 05004KT 9999 FEW025 26/17 Q1014 NOSIG=
METAR OIZB 010600Z 34023KT CAVOK 36/03 Q1006=
METAR OIZI 010600Z 17004KT 5000 HZ NSC 37/16 Q1009=


......................................................................................


Date: 01-Jun-2563

SATH31 VTUQ 010600
METAR VTUQ 010600Z VRB03KT 9999 SCT025 34/25 Q1011 NOSIG=


......................................................................................


Date: 01-Jun-2563

SATH40 VTBB 010600
METAR VTBD 010600Z 22006KT 160V260 9999 SCT020 35/25 Q1010 NOSIG=
METAR VTBS 010600Z VRB04KT 9999 FEW020 35/23 Q1009 NOSIG=
METAR VTBU 010600Z 21004KT 9999 FEW020 31/25 Q1011 NOSIG=
METAR VTCC 010600Z 35009KT 9999 VCSH FEW025CB BKN030 31/22 Q1010
NOSIG=
METAR VTCT 010600Z 20006KT 160V250 9999 -TSRA FEW018CB BKN025 31/25
Q1010 NOSIG=
METAR VTSB 010600Z VRB04KT 9999 FEW020 35/24 Q1010=
METAR VTSG 010600Z 20004KT 120V270 9999 SCT020 34/28 Q1011 NOSIG=
METAR VTSP 010600Z 27009KT 240V300 9999 FEW020 31/23 Q1010 NOSIG=
METAR VTSS 010600Z 12005KT 080V220 9999 FEW020 34/24 Q1010 NOSIG=
METAR VTUD 010600Z VRB03KT 9999 SCT022 31/25 Q1011 NOSIG=
METAR VTUU 010600Z 21004KT 9999 SCT030 33/25 Q1010 NOSIG =


......................................................................................


Date: 01-Jun-2563

SATR31 UTAA 010600 RRA
METAR UTAK 010600Z 18014KT 9999 FEW008 20/15 Q1011 R16R/CLRD70
NOSIG=
METAR UTAM 010600Z 31008KT CAVOK 33/07 Q1008 R88/CLRD70 NOSIG=


......................................................................................


Date: 01-Jun-2563

SAAU32 AMMC 010600 CCA
METAR YAMB 010600Z 36007KT 9999 FEW048 SCT150 BKN280 24/13 Q1012
NOSIG=


......................................................................................


Date: 01-Jun-2563

SAAU32 AMMC 010600
METAR YAMB 010600Z 36007KT 9999 FEW048 SCT150 BKN280 24/13 Q1012=
METAR YBCG 010600Z AUTO 36015KT 9999 // SCT038 SCT043 21/16 Q1013=
METAR YBHM 010600Z AUTO 10009KT 9999 // NCD 23/19 Q1016=
METAR YBMA 010600Z AUTO 15013KT 9999 // NCD 27/04 Q1018=
METAR YBRK 010600Z AUTO 01004KT 9999 // NCD 26/14 Q1015=
METAR YBRM 010600Z AUTO 12013KT 9999 // NCD 30/09 Q1015=
METAR YCIN 010600Z AUTO 13011KT 9999 // NCD 30/10 Q1014=
METAR YFRT 010600Z AUTO 19007KT 9999 // OVC040 19/08 Q1025=
METAR YMAV 010600Z AUTO 23016KT 9999 // SCT015 SCT023 OVC030 10/09 Q1009=
METAR YMHB 010600Z 25007KT 9999 FEW040 BKN058 15/05 Q1003=
METAR YMLT 010600Z AUTO 32012KT 4600 DZ OVC036 10/09 Q1004=
METAR YPEA 010600Z AUTO 04004KT 350V070 9999 // SCT040 18/09 Q1026=
METAR YPGV 010600Z 12012KT 9999 FEW035 29/20 Q1013=
METAR YPKG 010600Z AUTO 02004KT 360V150 9999 // NCD 19/08 Q1026=
METAR YPPD 010600Z AUTO 12014KT 9999 // NCD 29/M01 Q1017=
METAR YSCB 010600Z AUTO 32011KT 9999 -RA SCT019 SCT029 BKN051 07/05 Q1008=
METAR YSDU 010600Z AUTO 25013KT 9999 // SCT016 SCT031 BKN045 09/07 Q1014=
METAR YSNF 010600Z AUTO 23008KT 9999 // SCT029 18/12 Q1019=
METAR YSRI 010600Z AUTO 30019KT 9999 // OVC082 20/04 Q1006=
METAR YWLM 010600Z 33009KT CAVOK 21/08 Q1006=


......................................................................................


Date: 01-Jun-2563

SAAU65 AMMC 010600
METAR YLRE 010600Z AUTO 20011KT 9999 // NCD 26/03 Q1017=
METAR YMAV 010600Z AUTO 23016KT 9999 // SCT015 SCT023 OVC030 10/09 Q1009=
METAR YMAY 010600Z AUTO 27015KT 9999 // SCT024 OVC033 09/07 Q1010=
METAR YMDG 010600Z AUTO 30014KT 9999 // SCT035 BKN044 OVC057 12/06 Q1011=
METAR YMEK 010600Z AUTO 05009KT 9999 // NCD 20/04 Q1024=
METAR YMEN 010600Z AUTO 24019KT 4500 -SHRA BKN009 OVC014 09/09 Q1008=
METAR YMER 010600Z AUTO 27009KT 9999 // SCT049 BKN071 OVC083 16/08 Q1004=
METAR YMIA 010600Z AUTO 23014KT 9999 // BKN068 12/03 Q1017=
METAR YMML 010600Z 25021KT 3000 -DZ BKN015 09/07 Q1008=
METAR YMOR 010600Z AUTO 31014KT 9999 // NCD 22/02 Q1012=


......................................................................................


Date: 01-Jun-2563

SAAU69 AMMC 010600
METAR YSTW 010600Z AUTO 33012KT 9999 // NCD 18/07 Q1011=
METAR YSWG 010600Z 25013KT 9000 -SHRA SCT013 SCT020 BKN025 07/07 Q1011=
METAR YTEF 010600Z AUTO 09016KT 9999 // NCD 25/M01 Q1020=
METAR YTNK 010600Z AUTO 11009KT 9999 // NCD 29/06 Q1018=
METAR YTRE 010600Z AUTO 05006KT 9999 // SCT076 SCT096 BKN110 19/13 Q1007=
METAR YWGT 010600Z AUTO 28013KT 9999 // SCT018 SCT023 BKN041 09/06 Q1009=
METAR YWHA 010600Z AUTO 22014KT 9999 // ////// 17/06 Q1021=
METAR YWLM 010600Z 33009KT CAVOK 21/08 Q1006=


......................................................................................


Date: 01-Jun-2563

SAIR36 OIII 010600
METAR OIBA 010600Z 23006KT 4000 HZ NSC 34/28 Q1005=
METAR OIBV 010600Z 13010KT 2200 HZ FEW020 32/27 Q1005=
METAR OIFS 010600Z 13004KT CAVOK 26/04 Q1023=
METAR OIIP 010600Z 27008KT 7000 NSC 26/M00 Q1014 A2996=
METAR OIMB 010600Z 00000KT CAVOK 31/M09 Q1017=
METAR OIMN 010600Z 12006KT 7000 FEW010 23/13 Q1016=
METAR OIMS 010600Z NIL=
METAR OIMT 010600Z NIL=
METAR OIZJ 010600Z 27006KT 6000 NSC 35/25 Q1003=


......................................................................................


Date: 01-Jun-2563

SAIR37 OIII 010600
METAR OIBL 010600Z 34004KT 3000 HZ NSC 35/21 Q1005=
METAR OIBQ 010600Z 00000KT 7000 NSC 32/27 Q1003=
METAR OIIK 010600Z 16004KT CAVOK 27/07 Q1015=
METAR OIMC 010600Z AUTO 28006KT //// // ////// 32/14 Q1010=
METAR OIMD 010600Z AUTO 12008KT //// // ////// 33/M03 Q1011=
METAR OIMQ 010600Z AUTO 11010KT //// // ////// 32/M04 Q1016=
METAR OINE 010600Z 00000KT 9999 FEW030 26/17 Q1012=
METAR OITK 010600Z NIL=
METAR OITM 010600Z 18004KT CAVOK 25/M01 Q1016=


......................................................................................


Date: 01-Jun-2563

SAIR38 OIII 010600
METAR OIAH 010600Z 00000KT CAVOK 38/11 Q1010=
METAR OIBH 010600Z 23008KT 7000 NSC 35/23 Q1003=
METAR OICM 010600Z NIL=
METAR OIIS 010600Z NIL=
METAR OIMJ 010600Z 06012KT CAVOK 27/05 Q1016=
METAR OISF 010600Z 18004KT CAVOK 35/04 Q1014 A2996=
METAR OISR 010600Z 12006KT 4000 HZ NSC 37/14 Q1007 A2976 NOSIG=
METAR OITP 010600Z 20006KT CAVOK 26/14 Q1012=
METAR OITU 010600Z NIL=


......................................................................................


Date: 01-Jun-2563

SATH31 VTCC 010600 CCA
METAR COR VTCC 010600Z 35009KT 9999 -TSRA FEW025CB BKN030 31/22 Q1010
TEMPO 5000 TSRA=


......................................................................................


Date: 01-Jun-2563

SATH40 VTBB 010600 CCA
METAR COR VTCC 010600Z 35009KT 9999 -TSRA FEW025CB BKN030 31/22 Q1010
TEMPO 5000 TSRA=


......................................................................................


Date: 01-Jun-2563

SAAE33 VTBB 010600
METAR VLLB 010600Z 02002KT 9999 SCT018 FEW060 33/21 Q1009 NOSIG=
METAR VLLN 010600Z 14002KT 9999 FEW020 FEW100 30/24 Q1012 NOSIG=
METAR VLPS 010600Z 18004KT 9999 SCT020 FEW200 33/25 Q1010 NOSIG=
METAR VLSK 010600Z 20006KT 8000 SCT020 BKN100 34/24 Q1011 NOSIG=


......................................................................................


Date: 01-Jun-2563

SASD31 OEJD 010600 RRA
METAR OEJN 010600Z 01009KT CAVOK 31/20 Q1008 NOSIG=
METAR OERY 010600Z 12007KT CAVOK 37/01 Q1012=


......................................................................................


Date: 01-Jun-2563

SAAE31 VTBB 010600
METAR VTBD 010600Z 22006KT 160V260 9999 SCT020 35/25 Q1010 NOSIG=
METAR VTBS 010600Z VRB04KT 9999 FEW020 35/23 Q1009 NOSIG=
METAR VTBU 010600Z 21004KT 9999 FEW020 31/25 Q1011 NOSIG=
METAR VTCC 010600Z 35009KT 9999 -TSRA FEW025CB BKN030 31/22 Q1010
TEMPO 5000 TSRA=
METAR VTCC 010600Z 35009KT 9999 VCSH FEW025CB BKN030 31/22 Q1010
NOSIG=
METAR VTCT 010600Z 20006KT 160V250 9999 -TSRA FEW018CB BKN025 31/25
Q1010 NOSIG=
METAR VTSG 010600Z 20004KT 120V270 9999 SCT020 34/28 Q1011 NOSIG=
METAR VTSP 010600Z 27009KT 240V300 9999 FEW020 31/23 Q1010 NOSIG=
METAR VTSS 010600Z 12005KT 080V220 9999 FEW020 34/24 Q1010 NOSIG=


......................................................................................


Date: 01-Jun-2563

SAAE32 VTBB 010600
METAR VDPP 010600Z VRB03KT 9999 SCT015 34/22 Q1009=
METAR VDSR 010600Z VRB03KT 9999 SCT015 SCT040 34/22 Q1009=
METAR VDSV 010600Z VRB01KT 9999 SCT015 SCT040 31/25 Q1011=
METAR VLVT 010600Z 09004KT 9999 SCT016 SCT040 31/25 Q1010 NOSIG=
METAR VYMD 010600Z NIL=
METAR VYYY 010600Z 14005KT 7000 -RA BKN015 FEW020CB BKN100 31/26
Q1010=
METAR VYNT 010600Z NIL=


......................................................................................


Date: 01-Jun-2563

SAAE34 VTBB 010600
METAR VVCI 010600Z 18013KT 9999 FEW020 SCT032 34/27 Q1006 NOSIG=
METAR VVCI 010600Z 18013KT 9999 FEW020 SCT032 34/27 Q1005 NOSIG=
METAR VVCR 010600Z 11010KT 9999 FEW015 34/25 Q1010 NOSIG=
METAR VVCT 010600Z 26004KT 9999 SCT015 36/23 Q1009
NOSIG=
METAR VVNB 010600Z 34003KT 270V030 9999 SCT048 35/23 Q1005 NOSIG=
METAR VVPB 010600Z NIL=
METAR VVPQ 010600Z NIL=
METAR VVTS 010600Z 30006KT 270V360 9999 BKN017 35/24 Q1009 NOSIG =
METAR VVDN 010600Z 09006KT 040V130 9999 FEW015 35/25 Q1009
NOSIG=


......................................................................................


Date: 01-Jun-2563

SAAU32 AMMC 010600 CCB
METAR YWLM 010600Z 33009KT CAVOK 21/08 Q1006
NOSIG=


......................................................................................


Date: 01-Jun-2563

SAAU60 AMMC 010600
METAR YABA 010600Z AUTO 33006KT 9999 // OVC024 16/12 Q1026=
METAR YAMB 010600Z 36007KT 9999 FEW048 SCT150 BKN280 24/13 Q1012
NOSIG=
METAR YARG 010600Z AUTO /////KT 9999 // NCD 34/08 Q1015=
METAR YAYE 010600Z AUTO 17010KT 9999 // NCD 21/04 Q1022=
METAR YBAS 010600Z AUTO 14007KT 100V180 9999 // NCD 21/00 Q1022=
METAR YBBN 010600Z 02013KT 9999 FEW024 BKN270 BKN300 21/17 Q1013=
METAR YBCG 010600Z AUTO 36015KT 9999 // SCT038 SCT043 21/16 Q1013=
METAR YBCS 010600Z AUTO 06005KT 9999 // SCT034 BKN100 26/20 Q1014
NOSIG=
METAR YBCV 010600Z AUTO 25009KT 9999 // NCD 22/02 Q1016=
METAR YBDV 010600Z AUTO 24013KT //// // ////// 22/06 Q1020=


......................................................................................


Date: 01-Jun-2563

SAAU69 AMMC 010600 CCA
METAR YWLM 010600Z 33009KT CAVOK 21/08 Q1006
NOSIG=


......................................................................................


Date: 01-Jun-2563

SAIR36 OIII 010600 RRA
METAR OIMT 010600Z AUTO 15002KT //// // ////// 38/01 Q1009=


......................................................................................


Date: 01-Jun-2563

SAJP51 RJTD 010600 RRA
METAR RJFF 010600Z 32007KT 270V010 9999 FEW015 SCT020 BKN/// 26/21
Q1008 NOSIG=
METAR RJFG 010600Z 28008KT 9999 -SHRA FEW004 SCT010 BKN015 23/21
Q1011=
METAR RJFK 010600Z 21005KT 150V260 9999 FEW010 SCT015 BKN/// 24/21
Q1010=
METAR RJFM 010600Z 12005KT 9999 FEW010 SCT070 BKN/// 24/21 Q1009=
METAR RJFO 010600Z 14008KT 6000 SHRA FEW005 BKN015 BKN025 21/20
Q1009=
METAR RJFR 010600Z VRB05KT 9999 FEW005 SCT015 BKN030 21/20 Q1008=
METAR RJFS 010600Z 18007KT 9999 FEW020 BKN030 BKN/// 25/21 Q1009=
METAR RJFT 010600Z 23010KT 9999 SCT020 BKN/// 27/21 Q1009=
METAR RJFU 010600Z VRB04KT 9999 FEW010 BKN020 BKN/// 24/22 Q1009=
METAR RJGG 010600Z 22006KT 9999 FEW025 SCT050 BKN/// 22/17 Q1009
NOSIG=
METAR RJKA 010600Z 32011KT 290V350 9999 FEW015 BKN025 BKN035 26/22
Q1011=
METAR RJKI 010600Z AUTO 33010KT 9999 FEW012 OVC017 26/24 Q1011=
METAR RJNK 010600Z 29008KT 260V320 9999 FEW050 BKN230 25/17 Q1007=
METAR RJNS 010600Z 01003KT 250V060 3500 R30/2000N -SHRA BR FEW000
SCT008 BKN015 20/20 Q1009=
METAR RJNT 010600Z 03005KT 330V070 9999 FEW030 SCT120 BKN/// 27/16
Q1007=
METAR RJNW 010600Z 23008KT 9999 FEW040 BKN050 22/16 Q1008=
METAR RJOA 010600Z 20003KT 170V240 9999 FEW010 BKN020 BKN/// 21/18
Q1010=
METAR RJOB 010600Z 24008KT 200V270 9999 FEW020 SCT025 BKN035 24/18
Q1009=
METAR RJOC 010600Z 24017KT 9999 FEW015 SCT035 BKN050 22/19 Q1007=
METAR RJOH 010600Z 26010KT 9999 FEW030 BKN040 BKN100 25/19 Q1007=


......................................................................................


Date: 01-Jun-2563

SAJP51 RJTD 010600 RRB
METAR RJOK 010600Z 18006KT 9999 FEW015 SCT030 BKN045 23/18 Q1010=
METAR RJOM 010600Z 30006KT 9999 FEW030 BKN/// 22/18 Q1009=
METAR RJOO 010600Z 22006KT 140V260 9999 FEW030 SCT060 BKN/// 26/17
Q1008=
METAR RJOR 010600Z 05005KT 9999 FEW040 SCT050 BKN060 26/18 Q1007=
METAR RJOS 010600Z 08006KT 9999 FEW030 SCT050 BKN/// 24/18 Q1009=
METAR RJOT 010600Z VRB04KT 9999 FEW020 SCT120 BKN/// 25/19 Q1009=
METAR RJOW 010600Z 30007KT 250V330 9999 FEW015 SCT025 BKN080 24/20
Q1008=
METAR RJOY 010600Z 26010KT 220V290 9999 FEW030 BKN/// 26/17 Q1009=
METAR RJSA 010600Z 05008KT 9999 FEW040 SCT070 BKN140 22/09 Q1007=
METAR RJSC 010600Z 22005KT 180V250 9999 FEW040 BKN050 BKN080 26/14
Q1008=
METAR RJSD 010600Z AUTO 06004KT 020V110 9999 NSC 24/16 Q1007=
METAR RJSF 010600Z 18010KT 150V210 9999 FEW009 SCT012 BKN020 18/18
Q1011=
METAR RJSI 010600Z 18015KT 9999 FEW030 SCT120 BKN130 24/15 Q1009=
METAR RJSK 010600Z 27010KT 9999 FEW050 SCT060 BKN090 24/13 Q1008=
METAR RJSM 010600Z 10008KT 9999 FEW035 BKN230 21/12 Q1007=
METAR RJSN 010600Z 14005KT 090V180 9999 FEW040 SCT080 BKN140 25/18
Q1007=
METAR RJSR 010600Z 28011KT 9999 FEW040 SCT120 BKN/// 25/14 Q1007=
METAR RJSS 010600Z 16017KT 9999 FEW010 BKN050 BKN120 19/14 Q1009=
METAR RJSY 010600Z VRB02KT 9999 FEW040 SCT050 BKN060 23/15 Q1007=
METAR RJTF 010600Z VRB01KT 3000 -RA BR FEW004 BKN006 BKN025 20/19
Q1011=


......................................................................................


Date: 01-Jun-2563

SAJP51 RJTD 010600 RRC
METAR RJTI 010600Z VRB01KT 9999 FEW005 SCT020 BKN025 20/19 Q1010=
METAR RJTO 010600Z 05009KT 8000 -SHRA FEW001 SCT007 BKN015 20/19
Q1010=
METAR RJTT 010600Z 02004KT 9999 FEW003 BKN025 20/19 Q1010 BECMG
08005KT TEMPO 3000 -SHRA BR FEW003 BKN008=
METAR ROAH 010600Z 36010KT 9999 SCT010 BKN/// 27/25 Q1011=
METAR ROIG 010600Z 22014KT 9999 FEW010 SCT015 30/28 Q1010=
METAR ROMD 010600Z AUTO 23015KT 9999 BKN007 BKN009 29/26 Q1012=
METAR ROMY 010600Z 18010KT 7000 R22/1000VP1800U TSRA SCT010 FEW020CB
BKN030 27/26 Q1010=
METAR RORK 010600Z AUTO 23013KT 9999 NCD 28/24 Q1012=
METAR RORS 010600Z 01006KT 1500 R17/0500VP2000U +TSRA FEW005 BKN012
FEW020CB 26/25 Q1010=
METAR RORY 010600Z AUTO 34008KT 9999 FEW009 26/24 Q1011=
METAR ROYN 010600Z AUTO 01003KT 9999 NCD 29/26 Q1010=


......................................................................................


Date: 01-Jun-2563

SAJP51 RJTD 010600
METAR RJAA 010600Z 15010KT 9999 FEW010 SCT020 BKN030 22/19 Q1011
NOSIG=
METAR RJAF 010600Z 15015KT 9999 FEW035 SCT050 BKN/// 23/14 Q1009=
METAR RJAH 010600Z 17003KT 140V210 9999 FEW015 SCT025 BKN035 22/16
Q1010=
METAR RJBB 010600Z 23005KT 9999 FEW025 SCT070 BKN/// 22/18 Q1009
NOSIG=
METAR RJBD 010600Z 28005KT 220V320 9999 FEW015 SCT030 BKN/// 22/19
Q1010=
METAR RJBE 010600Z 23007KT 9999 FEW020 SCT060 BKN/// 23/18 Q1009=
METAR RJBT 010600Z 19009KT 150V230 9999 FEW035 SCT060 BKN/// 27/18
Q1007=
METAR RJCB 010600Z 15014KT 9999 FEW060 23/09 Q1008=
METAR RJCC 010600Z 17012KT 9999 FEW050 21/10 Q1008=
METAR RJCH 010600Z 17004KT 130V200 9999 FEW040 SCT/// 18/12 Q1007=
METAR RJCK 010600Z 20012KT 4000 R17/1300VP2000D BCFG BR FEW001
SCT002 BKN003 13/12 Q1010=
METAR RJCM 010600Z 07011KT CAVOK 22/02 Q1007=
METAR RJCN 010600Z 21009KT 180V250 9999 FEW035 24/13 Q1009=
METAR RJCO 010600Z 15017G27KT 9999 FEW030 29/09 Q1006=
METAR RJCW 010600Z 21014KT 9999 FEW060 24/10 Q1007=
METAR RJDC 010600Z 06009KT 9999 FEW004 SCT015 BKN020 20/19 Q1009=
METAR RJDT 010600Z 26007KT 150V300 9999 FEW010 BKN/// 22/18 Q1008=
METAR RJEB 010600Z 11013KT 9999 FEW050 21/05 Q1007=
METAR RJEC 010600Z 25003KT 180V350 9999 FEW050 SCT080 25/09 Q1007=
METAR RJFE 010600Z 36008KT 290V040 9999 FEW020 BKN/// 24/19 Q1010=


......................................................................................


Date: 01-Jun-2563

SASR31 WSSS 010600
METAR WSSS 010600Z 20007KT 170V260 3000 R20R/P2000 R20C/1200U +SHRA
FEW010 FEW014CB SCT016TCU BKN150 26/24 Q1012 TEMPO TL0630 TSRA BECMG
FM0630 TL0645 4000 SHRA=


......................................................................................


Date: 01-Jun-2563

SATR31 UTAA 010600
METAR UTAA 010600Z 06004KT 020V150 9999 FEW099 28/15 Q1011
R88/CLRD70 NOSIG=
METAR UTAK 010600Z 18014KT 9999 FEW008 20/15 Q1011 R16R/CLRD70 NOSIG=
METAR UTAV 010600Z VRB02KT 8000 NSC 38/M02 Q1008 R31/CLRD70 NOSIG=
METAR UTAM 010600Z 31008KT CAVOK 33/07 Q1008 R88/CLRD70 NOSIG=
METAR UTAT 010600Z 21006KT 170V250 CAVOK 38/04 Q1008 NOSIG=


......................................................................................


Date: 01-Jun-2563

SAAE34 VTBB 010600 RRA
METAR VVPB 010600Z 05009KT 9999 FEW020 SCT080 34/26 Q1009 NOSIG=


......................................................................................


Date: 01-Jun-2563

SAHK31 VHHH 010600
METAR VHHH 010600Z 20010KT 160V240 9999 FEW012 SCT025 32/25
Q1010 TEMPO 4000 SHRA=
METAR RCTP 010600Z 25020KT 9999 FEW015 BKN060 31/26 Q1010 NOSIG
RMK A2983=
METAR RCKH 010600Z 28011KT 240V300 9999 FEW016 31/24 Q1010 NOSIG
RMK 27013KT/R09 A2985=
METAR RCSS 010600Z 30011KT 270V330 9999 FEW015 BKN045 BKN200 33/25
Q1009 NOSIG RMK 29011KT/R10 A2981=
METAR RCMQ 010600Z 25009KT 9999 FEW016 SCT200 31/24 Q1011 NOSIG
RMK A2987=
METAR RCNN 010600Z 26007KT 9999 FEW014 SCT200 31/24 Q1011 NOSIG
RMK A2986=
METAR RCFN 010600Z 10004KT 060V150 9999 FEW018 BKN025 30/26 Q1010
NOSIG RMK A2983=
METAR VMMC 010600Z 19011KT 9999 FEW012 SCT025 30/27 Q1009 NOSIG=
METAR RPLL 010600Z VRB08KT 9999 FEW025 SCT300 34/25 Q1010 NOSIG RMK
A2983=
METAR RPVM 010600Z 05008KT 9999 FEW018CB SCT300 33/23 Q1010 RMK A2983
CB W=
METAR RPMD 010600Z 16009KT 130V190 9999 VCSH SCT015CB SCT290 32/24
Q1009 RMK A2980 CB NE,SE,NW VCSH NE,SE=
METAR RPLB 010600Z 22009KT 9999 FEW020 SCT300 33/25 Q1010 NOSIG RMK
A2983=
METAR RPLI 010600Z 34008KT 9999 FEW017CB SCT018 33/27 Q1010 NOSIG RMK
A2983 CB SE-S=
METAR RPMZ 010600Z VRB02KT 7000 -RA FEW016CB SCT017 OVC090 24/24
Q1010 RETS RMK A2983 CB E,S-SW=


......................................................................................


Date: 01-Jun-2563

SAJP31 RJTD 010600
METAR RJAA 010600Z 15010KT 9999 FEW010 SCT020 BKN030 22/19 Q1011
NOSIG=
METAR RJBB 010600Z 23005KT 9999 FEW025 SCT070 BKN/// 22/18 Q1009
NOSIG=
METAR RJTT 010600Z 02004KT 9999 FEW003 BKN025 20/19 Q1010 BECMG
08005KT TEMPO 3000 -SHRA BR FEW003 BKN008=
METAR RJOO 010600Z 22006KT 140V260 9999 FEW030 SCT060 BKN/// 26/17
Q1008=
METAR ROAH 010600Z 36010KT 9999 SCT010 BKN/// 27/25 Q1011=
METAR RJGG 010600Z 22006KT 9999 FEW025 SCT050 BKN/// 22/17 Q1009
NOSIG=
METAR RJCH 010600Z 17004KT 130V200 9999 FEW040 SCT/// 18/12 Q1007=
METAR RJSS 010600Z 16017KT 9999 FEW010 BKN050 BKN120 19/14 Q1009=


......................................................................................


Date: 01-Jun-2563

SAJP32 RJTD 010600 RRA
METAR RJFO 010600Z 14008KT 6000 SHRA FEW005 BKN015 BKN025 21/20
Q1009=
METAR RJNT 010600Z 03005KT 330V070 9999 FEW030 SCT120 BKN/// 27/16
Q1007=


......................................................................................


Date: 01-Jun-2563

SAJP32 RJTD 010600
METAR RJFF 010600Z 32007KT 270V010 9999 FEW015 SCT020 BKN/// 26/21
Q1008 NOSIG=
METAR RJCC 010600Z 17012KT 9999 FEW050 21/10 Q1008=
METAR RJFK 010600Z 21005KT 150V260 9999 FEW010 SCT015 BKN/// 24/21
Q1010=
METAR RJSN 010600Z 14005KT 090V180 9999 FEW040 SCT080 BKN140 25/18
Q1007=
METAR RJFT 010600Z 23010KT 9999 SCT020 BKN/// 27/21 Q1009=
METAR RJFU 010600Z VRB04KT 9999 FEW010 BKN020 BKN/// 24/22 Q1009=
METAR RJNK 010600Z 29008KT 260V320 9999 FEW050 BKN230 25/17 Q1007=
METAR RJOA 010600Z 20003KT 170V240 9999 FEW010 BKN020 BKN/// 21/18
Q1010=
METAR RJOB 010600Z 24008KT 200V270 9999 FEW020 SCT025 BKN035 24/18
Q1009=
METAR RJOT 010600Z VRB04KT 9999 FEW020 SCT120 BKN/// 25/19 Q1009=


......................................................................................


Date: 01-Jun-2563

SAJP38 RJTD 010600 RRA
METAR RJCK 010600Z 20012KT 4000 R17/1300VP2000D BCFG BR FEW001
SCT002 BKN003 13/12 Q1010=
METAR RJCM 010600Z 07011KT CAVOK 22/02 Q1007=
METAR RJCB 010600Z 15014KT 9999 FEW060 23/09 Q1008=
METAR RJOC 010600Z 24017KT 9999 FEW015 SCT035 BKN050 22/19 Q1007=
METAR RJOH 010600Z 26010KT 9999 FEW030 BKN040 BKN100 25/19 Q1007=
METAR ROIG 010600Z 22014KT 9999 FEW010 SCT015 30/28 Q1010=
METAR RJFS 010600Z 18007KT 9999 FEW020 BKN030 BKN/// 25/21 Q1009=
METAR RJSI 010600Z 18015KT 9999 FEW030 SCT120 BKN130 24/15 Q1009=


......................................................................................


Date: 01-Jun-2563

SAJP38 RJTD 010600
METAR RJNS 010600Z 01003KT 250V060 3500 R30/2000N -SHRA BR FEW000
SCT008 BKN015 20/20 Q1009=
METAR RJSA 010600Z 05008KT 9999 FEW040 SCT070 BKN140 22/09 Q1007=
METAR RJSF 010600Z 18010KT 150V210 9999 FEW009 SCT012 BKN020 18/18
Q1011=
METAR RJOM 010600Z 30006KT 9999 FEW030 BKN/// 22/18 Q1009=
METAR RJOK 010600Z 18006KT 9999 FEW015 SCT030 BKN045 23/18 Q1010=
METAR RJFM 010600Z 12005KT 9999 FEW010 SCT070 BKN/// 24/21 Q1009=
METAR RJEC 010600Z 25003KT 180V350 9999 FEW050 SCT080 25/09 Q1007=
METAR RJFR 010600Z VRB05KT 9999 FEW005 SCT015 BKN030 21/20 Q1008=
METAR RJSK 010600Z 27010KT 9999 FEW050 SCT060 BKN090 24/13 Q1008=
METAR RJAH 010600Z 17003KT 140V210 9999 FEW015 SCT025 BKN035 22/16
Q1010=


......................................................................................


Date: 01-Jun-2563

SAMS31 WMKK 010600
METAR WBGG 010600Z 34006KT 300V020 9000 FEW015CB SCT016 29/25 Q1011 NOSIG=
METAR WBKK 010600Z 24004KT 190V300 9000 -TSRA FEW013 FEW016CB SCT030 25/25 Q1011 RETSRA NOSIG=
METAR WBSB 010600Z 22007KT 9999 SCT015 FEW016CB BKN140 31/25 Q1010 NOSIG=
METAR WMKK 010600Z 16004KT 070V240 9999 FEW017CB SCT018 31/25 Q1011 NOSIG=
METAR WMKP 010600Z 22006KT 170V250 9000 FEW020 31/26 Q1011 NOSIG=
METAR WSSL 010600Z 26004KT 220V300 9999 -TSRA FEW015 FEW018TCU FEW020CB BKN180 27/25 Q1012=
METAR WSSS 010600Z 20007KT 170V260 3000 R20R/P2000 R20C/1200U +SHRA FEW010 FEW014CB SCT016TCU BKN150 26/24 Q1012 TEMPO TL0630 TSRA BECMG FM0630 TL0645 4000 SHRA=


......................................................................................


Date: 01-Jun-2563

SAPA31 KWBC 010600
METAR
AGGG NIL=
AGGH 010600Z 05006KT 9999 FEW019 FEW020CB SCT300 30/26 Q1010 RMK
CB ASSW SH TO SSE=
ANAU NIL=
AYPY NIL=
PGNT NIL=
PGRO 010550Z 09011KT 7SM FEW014 29/24 A2986=
PGSN 010554Z 08013KT 10SM FEW025 SCT047 SCT095 31/24 A2989 RMK AO2
SLP143 T03060239 10333 20306 56012=
PGUA 010556Z 12011KT 10SM SCT018 29/23 A2990 RMK AO2A RWY24L
SLP115 T02910233 10302 20288 56013 PWINO $=
PGUM 010554Z 10009KT 10SM FEW024 BKN070 31/23 A2989 RMK AO2 SLP113
60000 T03060228 10311 20283 56014=
PGWT NIL=
PHJH NIL=
PHJR NIL=
PHMK 010554Z AUTO 02007G18KT 6SM -RA FEW014 BKN020 OVC034 23/20
A3008 RMK AO2 RAB11 SLP189 P0002 60002 T02280200 10278 20228
51017 TSNO=
PJON NIL=
PKMJ 010558Z 09009KT 15SM FEW015 SCT050 BKN300 30/25 A2987=
PKMR 010551Z 11011KT 15SM FEW015 SCT050 BKN300 29/25 A2986 RMK
SLP112 8/801 T02890245 10307 20289 53003=
PKWA 010600Z AUTO 09008KT 10SM SCT036 BKN050 OVC095 29/25 A2988
RMK AO2 T02930253=
PLCH 010600Z 12006KT 9999 FEW020 27/23 Q1011=
PMDY 010556Z AUTO 22007KT 9SM 26/24 A3005 RMK AO2 SLP175 60006
T02610239 10283 20256 53000 $=
PTKK 010550Z 06009G15KT 15SM FEW014 SCT120 BKN280 30/26 A2980 RMK
SLP093 8/171 T03020263 10313 20282 56007=
PTKR NIL=
PTPN NIL=
PTRO 010550Z 09009G14KT 15SM SCT017 BKN120 BKN300 32/24 A2983=
PTSA NIL=
PTTP 010555Z 06003KT 15SM SCT018 BKN300 29/25 A2984 RMK SLP105
60000 8/101 T02890249 10311 20272 56008=
PTYA 010552Z VRB05KT 12SM FEW020 FEW300 31/25 A2984 RMK SLP107
8/101 T03100248 10311 20303 57014=
PWAK 010558Z AUTO 11006KT 9999 FEW020 SCT030 M A2995 RMK AO2 SLPNO
55007 FZRANO $=


......................................................................................


Date: 01-Jun-2563

SAAU31 AMMC 010600 CCA
METAR YPAD 010600Z 22013KT 9999 FEW031 14/07 Q1019
NOSIG=


......................................................................................


Date: 01-Jun-2563

SAAU31 AMMC 010600 CCB
METAR YPPH 010600Z 08005KT 9999 BKN042 18/10 Q1026
NOSIG=


......................................................................................


Date: 01-Jun-2563

SAAU31 AMMC 010600
METAR YBAS 010600Z AUTO 14007KT 100V180 9999 // NCD 21/00 Q1022=
METAR YBBN 010600Z 02013KT 9999 FEW024 BKN270 BKN300 21/17 Q1013=
METAR YBCS 010600Z AUTO 06005KT 9999 // SCT034 BKN100 26/20 Q1014
NOSIG=
METAR YBTL 010600Z 06013KT 9999 FEW020 24/21 Q1015
NOSIG=
METAR YMML 010600Z 25021KT 3000 -DZ BKN015 09/07 Q1008=
METAR YPAD 010600Z 22013KT 9999 FEW031 14/07 Q1019=
METAR YPCC 010600Z 12016KT 9999 FEW018 BKN035 27/23 Q1013=
METAR YPDN 010600Z 34009KT 9999 FEW030 30/22 Q1012=
METAR YPKU 010600Z AUTO 15008KT 9999 // NCD 34/// Q1013=
METAR YPLM 010600Z AUTO 00000KT 9999 // BKN084 24/08 Q1018=
METAR YPPH 010600Z 08005KT 9999 BKN042 18/10 Q1026=
METAR YPTN 010600Z AUTO 11011KT 9999 // NCD 35/09 Q1013=
METAR YPXM 010600Z AUTO 11010KT 9999 // BKN010 OVC014 27/25 Q1013=
METAR YSSY 010600Z 27015KT 9999 FEW048 BKN080 21/02 Q1006
FM0630 28018G28KT CAVOK
FM0600 MOD TURB BLW 5000FT=


......................................................................................


Date: 01-Jun-2563

SAJP35 RJTD 010600
METAR RJAA 010600Z 15010KT 9999 FEW010 SCT020 BKN030 22/19 Q1011
NOSIG=
METAR RJBB 010600Z 23005KT 9999 FEW025 SCT070 BKN/// 22/18 Q1009
NOSIG=
METAR RJTT 010600Z 02004KT 9999 FEW003 BKN025 20/19 Q1010 BECMG
08005KT TEMPO 3000 -SHRA BR FEW003 BKN008=
METAR RJOO 010600Z 22006KT 140V260 9999 FEW030 SCT060 BKN/// 26/17
Q1008=
METAR RJGG 010600Z 22006KT 9999 FEW025 SCT050 BKN/// 22/17 Q1009
NOSIG=
METAR RJSN 010600Z 14005KT 090V180 9999 FEW040 SCT080 BKN140 25/18
Q1007=
METAR RJCH 010600Z 17004KT 130V200 9999 FEW040 SCT/// 18/12 Q1007=
METAR RJSA 010600Z 05008KT 9999 FEW040 SCT070 BKN140 22/09 Q1007=
METAR RJSF 010600Z 18010KT 150V210 9999 FEW009 SCT012 BKN020 18/18
Q1011=
METAR RJSI 010600Z 18015KT 9999 FEW030 SCT120 BKN130 24/15 Q1009=


......................................................................................


Date: 01-Jun-2563

SAJP37 RJTD 010600 RRA
METAR RJFR 010600Z VRB05KT 9999 FEW005 SCT015 BKN030 21/20 Q1008=


......................................................................................


Date: 01-Jun-2563

SAJP37 RJTD 010600
METAR RJAA 010600Z 15010KT 9999 FEW010 SCT020 BKN030 22/19 Q1011
NOSIG=
METAR RJBB 010600Z 23005KT 9999 FEW025 SCT070 BKN/// 22/18 Q1009
NOSIG=
METAR RJTT 010600Z 02004KT 9999 FEW003 BKN025 20/19 Q1010 BECMG
08005KT TEMPO 3000 -SHRA BR FEW003 BKN008=
METAR RJOO 010600Z 22006KT 140V260 9999 FEW030 SCT060 BKN/// 26/17
Q1008=
METAR RJFF 010600Z 32007KT 270V010 9999 FEW015 SCT020 BKN/// 26/21
Q1008 NOSIG=
METAR RJGG 010600Z 22006KT 9999 FEW025 SCT050 BKN/// 22/17 Q1009
NOSIG=
METAR RJFK 010600Z 21005KT 150V260 9999 FEW010 SCT015 BKN/// 24/21
Q1010=
METAR RJFU 010600Z VRB04KT 9999 FEW010 BKN020 BKN/// 24/22 Q1009=
METAR RJCH 010600Z 17004KT 130V200 9999 FEW040 SCT/// 18/12 Q1007=
METAR RJNS 010600Z 01003KT 250V060 3500 R30/2000N -SHRA BR FEW000
SCT008 BKN015 20/20 Q1009=


......................................................................................


Date: 01-Jun-2563

SASD20 OEJD 010600
METAR OEAB 010600Z 00000KT CAVOK 27/02 Q1025 NOSIG=
METAR OEAH 010600Z 35012KT CAVOK 39/02 Q1006 NOSIG=
METAR OEAO 010600Z 32008KT CAVOK 32/M01 Q1012=
METAR OEAR 010600Z 27003KT CAVOK 36/11 Q1008=
METAR OEBA 010600Z 35008KT CAVOK 29/01 Q1021 NOSIG=
METAR OEBH 010600Z 28003KT CAVOK 32/06 Q1016 NOSIG=
METAR OEDF 010600Z 33013KT CAVOK 37/10 Q1004 NOSIG=
METAR OEDM 010600Z 15010KT CAVOK 35/00 Q1013=
METAR OEDR 010600Z 34010KT CAVOK 38/06 Q1003 NOSIG=
METAR OEGN 010600Z 25003KT 9999 FEW030 34/27 Q1008 NOSIG=
METAR OEGS 010600Z 15013KT CAVOK 36/10 Q1010=
METAR OEGT 010600Z 28022KT CAVOK 21/04 Q1012 NOSIG=
METAR OEHL 010600Z 21008KT CAVOK 33/03 Q1013=
METAR OEJB 010600Z NIL=
METAR OEJN 010600Z 01009KT CAVOK 31/20 Q1008 NOSIG=
METAR OEKJ 010600Z 16006KT CAVOK 37/00 Q1013=
METAR OEKK 010600Z NIL=


......................................................................................


Date: 01-Jun-2563

SASD21 OEJD 010600
METAR OEKM 010600Z 00000KT CAVOK 28/05 Q1025 NOSIG=
METAR OEMA 010600Z 00000KT CAVOK 34/02 Q1013 NOSIG=
METAR OEMK 010600Z NIL=
METAR OENG 010600Z 30004KT CAVOK 32/12 Q1016 NOSIG=
METAR OEPA 010600Z 04008KT CAVOK 36/11 Q1009 NOSIG=
METAR OERF 010600Z 09016KT CAVOK 36/M02 Q1009=
METAR OERK 010600Z 14006KT CAVOK 37/06 Q1012 NOSIG=
METAR OERR 010600Z 04011KT CAVOK 30/M02 Q1010=
METAR OERY 010600Z 12007KT CAVOK 37/01 Q1012=
METAR OESH 010600Z 06008KT CAVOK 32/08 Q1011 NOSIG=
METAR OESK 010600Z 12010KT 8000 NSC 32/00 Q1012=
METAR OETB 010600Z 32009KT CAVOK 25/04 Q1014 NOSIG=
METAR OETF 010600Z 15004KT CAVOK 31/M03 Q1020 NOSIG=
METAR OETR 010600Z 36010KT CAVOK 26/06 Q1014=
METAR OEWD 010600Z 21004KT CAVOK 34/16 Q1010 NOSIG=
METAR OEWJ 010600Z 21005KT CAVOK 28/21 Q1008 NOSIG=
METAR OEYN 010600Z 07006KT CAVOK 28/18 Q1006 NOSIG=


......................................................................................


Date: 01-Jun-2563

SAAU31 AMMC 010600 CCC
METAR YBBN 010600Z 02013KT 9999 FEW024 BKN270 BKN300 21/17 Q1013
NOSIG=


......................................................................................


Date: 01-Jun-2563

SAAU32 AMMC 010600 CCC
SPECI YMHB 010604Z AUTO 19015KT 180V260 9999 // BKN057 OVC070 13/06 Q1003=


......................................................................................


Date: 01-Jun-2563

SAAU60 AMMC 010600 CCA
METAR YBBN 010600Z 02013KT 9999 FEW024 BKN270 BKN300 21/17 Q1013
NOSIG=


......................................................................................


Date: 01-Jun-2563

SAAU69 AMMC 010600 CCB
SPECI YSWG 010604Z AUTO 26013KT 9999 // SCT016 SCT027 OVC037 07/07 Q1011=


......................................................................................


Date: 01-Jun-2563

SAMS31 WMKK 010600
METAR WBGG 010600Z NIL=
METAR WBKK 010600Z NIL=
METAR WBSB 010600Z NIL=
METAR WMKK 010600Z NIL=
METAR WMKP 010600Z NIL=
METAR WSSL 010600Z 26004KT 220V300 9999 -TSRA FEW015 FEW018TCU
FEW020CB BKN180 27/25 Q1012=
METAR WSSS 010600Z 20007KT 170V260 3000 R20R/P2000 R20C/1200U +SHRA
FEW010 FEW014CB SCT016TCU BKN150 26/24 Q1012 TEMPO TL0630 TSRA BECMG
FM0630 TL0645 4000 SHRA=


......................................................................................


Date: 01-Jun-2563

SAMS32 WMKK 010600
NIL


......................................................................................


Date: 01-Jun-2563

SAMS33 WMKK 010600
NIL


......................................................................................


Date: 01-Jun-2563

SAMS34 WMKK 010600
NIL


......................................................................................


Date: 01-Jun-2563

SAAE34 VTBB 010600 RRB
METAR VVPQ 010600Z 28006KT 250V330 9999 FEW017 SCT040 32/25 Q1010
NOSIG=


......................................................................................


Date: 01-Jun-2563

SAMS38 WMKK 010600
METAR WBGB 010600Z 24008KT 210V270 9999 -RA FEW003 SCT014 OVC140
26/25 Q1011=
METAR WBGR 010600Z 24008KT 240V300 9999 SCT014 BKN150 29/26 Q1010=
METAR COR WBGS 010600Z 30006KT 240V340 9999 RA FEW009 SCT015 OVC140
25/24 Q1012=
METAR WBKL 010600Z VRB07KT 9999 SCT014 SCT140 BKN270 29/26 Q1010=
METAR WBKS 010600Z 03009KT 340V070 9999 FEW017 32/25 Q1008=
METAR WBKW 010600Z VRB07KT 9999 FEW016CB 31/25 Q1009=
METAR WMKD 010600Z VRB03KT 9999 FEW017CB 34/27 Q1010 NOSIG=
METAR WMKL 010600Z 23006KT 190V320 9999 FEW017CB 32/28 Q1011=
METAR WMKM 010600Z 00000KT 9000 -RA FEW010 SCT026 27/25 Q1012=


......................................................................................


Date: 01-Jun-2563

SAUZ31 UTTW 010600
METAR UTFN 010600Z 12002KT 9999 FEW050CB 32/06 Q1009 R28/CLRD70
NOSIG=
METAR UTNN 010600Z 11002KT CAVOK 38/01 Q1009 R33/CLRD60 NOSIG=
METAR UTNU 010600Z 22002KT 6000 NSC 37/06 Q1009 R31/CLRD70 NOSIG=
METAR UTSA 010600Z 02004KT 9000 NSC 34/07 Q1009 R07/CLRD70 NOSIG=
METAR UTSB 010600Z 27004KT CAVOK 36/06 Q1008 R01/CLRD70 NOSIG=
METAR UTSK 010600Z 24008KT 200V270 CAVOK 35/03 Q1009 R16/CLRD70=
METAR UTSS 010600Z 06004KT 9999 NSC 32/07 Q1011 R09/CLRD70 NOSIG=
METAR UTST 010600Z VRB02KT CAVOK 34/06 Q1009 R88/CLRD70 NOSIG=
METAR UTFA 010600Z NIL=
METAR UTFF 010600Z 36006KT 9999 NSC 31/06 Q1010 R99/CLRD70=
METAR UTTT 010600Z 24006KT 170V280 CAVOK 33/11 Q1009 R08R/CLRD70
NOSIG=


......................................................................................


Date: 01-Jun-2563

SAAR20 OEJD 010600
METAR OBBI 010600Z 32015KT CAVOK 35/20 Q1004 NOSIG=
METAR OKBK 010600Z 01011KT 7000 NSC 38/06 Q1006 NOSIG=
METAR OMAA 010600Z 21012KT 180V240 8000 NSC 38/18 Q1006 NOSIG=
METAR OMAD 010600Z 20007KT 170V260 CAVOK 37/20 Q1006 NOSIG=
METAR OMAL 010600Z 20013KT 160V220 9000 NSC 36/21 Q1009 NOSIG=
METAR OMDB 010600Z 21013KT 5000 DU NSC 38/20 Q1006 TEMPO 3000=
METAR OMFJ 010600Z 29011KT 250V310 7000 FEW025 42/17 Q1004 A2966=
METAR OMRK 010600Z 21016KT 4000 DU NSC 39/20 39/20 Q1006 A2972=
METAR OMSJ 010600Z 20017KT 5000 BLDU NSC 38/19 Q1006 TEMPO 3000=
METAR OOMS 010550Z 21011KT CAVOK 42/20 Q1004 NOSIG=
METAR OOSA 010550Z 11009KT 2000 RA FEW009 BKN018 OVC020 29/27 Q1009
TEMPO 1500=
METAR OOSH 010600Z NIL=
METAR OODQ 010550Z AUTO 22017KT //// R22///// NCD 33/25 Q1009 NOSIG
RMK RH62? 0=
METAR OTBD 010600Z AUTO 23006KT 190V270 CAVOK 37/18 Q1005 NOSIG=
METAR OTBH 010600Z NIL=
METAR OTHH 010600Z AUTO 25008KT CAVOK 36/15 Q1004 NOSIG=
METAR OYAA 010600Z NIL=
METAR OYSN 010600Z NIL=


......................................................................................


Date: 01-Jun-2563

SAPA31 KWBC 010600
METAR
AGGG NIL=
AGGH 010600Z 05006KT 9999 FEW019 FEW020CB SCT300 30/26 Q1010 RMK
CB ASSW SH TO SSE=
ANAU NIL=
AYPY NIL=
PGNT NIL=
PGRO 010550Z 09011KT 7SM FEW014 29/24 A2986=
PGSN 010554Z 08013KT 10SM FEW025 SCT047 SCT095 31/24 A2989 RMK AO2
SLP143 T03060239 10333 20306 56012=
PGUA 010556Z 12011KT 10SM SCT018 29/23 A2990 RMK AO2A RWY24L
SLP115 T02910233 10302 20288 56013 PWINO ?=
PGUM 010554Z 10009KT 10SM FEW024 BKN070 31/23 A2989 RMK AO2 SLP113
60000 T03060228 10311 20283 56014=
PGWT NIL=
PHJH NIL=
PHJR NIL=
PHMK 010554Z AUTO 02007G18KT 6SM -RA FEW014 BKN020 OVC034 23/20
A3008 RMK AO2 RAB11 SLP189 P0002 60002 T02280200 10278 20228
51017 TSNO=
PJON NIL=
PKMJ 010558Z 09009KT 15SM FEW015 SCT050 BKN300 30/25 A2987=
PKMR 010551Z 11011KT 15SM FEW015 SCT050 BKN300 29/25 A2986 RMK
SLP112 8/801 T02890245 10307 20289 53003=
PKWA 010600Z AUTO 09008KT 10SM SCT036 BKN050 OVC095 29/25 A2988
RMK AO2 T02930253=
PLCH 010600Z 12006KT 9999 FEW020 27/23 Q1011=
PMDY 010556Z AUTO 22007KT 9SM 26/24 A3005 RMK AO2 SLP175 60006
T02610239 10283 20256 53000 ?=
PTKK 010550Z 06009G15KT 15SM FEW014 SCT120 BKN280 30/26 A2980 RMK
SLP093 8/171 T03020263 10313 20282 56007=
PTKR NIL=
PTPN NIL=
PTRO 010550Z 09009G14KT 15SM SCT017 BKN120 BKN300 32/24 A2983=
PTSA NIL=
PTTP 010555Z 06003KT 15SM SCT018 BKN300 29/25 A2984 RMK SLP105
60000 8/101 T02890249 10311 20272 56008=
PTYA 010552Z VRB05KT 12SM FEW020 FEW300 31/25 A2984 RMK SLP107
8/101 T03100248 10311 20303 57014=
// END PART 01 //


......................................................................................


Date: 01-Jun-2563

SAPA31 KWBC 010600 RRA
METAR
PGWT 010559Z 11008KT 7SM SCT016 SCT070 31/24 A2988 RMK LAST=


......................................................................................


Date: 01-Jun-2563

SAAU61 AMMC 010600
METAR YBHI 010600Z AUTO 23019KT 9999 // BKN055 14/M00 Q1019=
METAR YBHM 010600Z AUTO 10009KT 9999 // NCD 23/19 Q1016=
METAR YBLN 010600Z AUTO 05005KT //// // ////// 17/11 Q1026=
METAR YBMA 010600Z AUTO 15013KT 9999 // NCD 27/04 Q1018=
METAR YBMK 010600Z AUTO 04008KT 9999 // NCD 23/17 Q1015=
METAR YBNA 010600Z AUTO 03009KT 9999 // NCD 22/15 Q1012=
METAR YBOK 010600Z 28014KT CAVOK 22/08 Q1014=
METAR YBPN 010600Z AUTO 11009KT 9999 // NCD 25/17 Q1015=
METAR YBRK 010600Z AUTO 01004KT 9999 // NCD 26/14 Q1015=
METAR YBRM 010600Z AUTO 12013KT 9999 // NCD 30/09 Q1015=


......................................................................................


Date: 01-Jun-2563

SAAU62 AMMC 010600
METAR YBTL 010600Z 06013KT 9999 FEW020 24/21 Q1015
NOSIG=
METAR YBUD 010600Z AUTO 05009KT 9999 // SCT015 20/17 Q1015=
METAR YBWP 010600Z AUTO 10005KT 9999 // BKN051 32/19 Q1011=
METAR YBWX 010600Z AUTO 07016KT //// // ////// 24/12 Q1018=
METAR YCAS 010600Z AUTO 36011KT //// // ////// 23/13 Q1011=
METAR YCBA 010600Z AUTO 25015KT 9999 // BKN073 14/01 Q1015=
METAR YCBB 010600Z AUTO 29016KT 9999 // SCT047 OVC054 OVC086 13/04 Q1012=
METAR YCBP 010600Z AUTO 21016KT 9999 // BKN047 17/06 Q1023=
METAR YCCY 010600Z AUTO 18012KT 9999 // NCD 28/02 Q1017=


......................................................................................


Date: 01-Jun-2563

SAAU63 AMMC 010600
METAR YCDU 010600Z AUTO 25011KT 9999 // NCD 16/10 Q1024=
METAR YCIN 010600Z AUTO 13011KT 9999 // NCD 30/10 Q1014=
METAR YCNM 010600Z AUTO 27015KT //// // ////// 16/06 Q1014=
METAR YCOM 010600Z AUTO 30011KT 9999 // ////// 07/M00 Q1006=
METAR YDBY 010600Z AUTO 14010KT 9999 // NCD 31/12 Q1014=
METAR YEML 010600Z AUTO 29005KT 9999 // SCT100 27/12 Q1015=
METAR YESP 010600Z AUTO 22007KT 9999 // SCT005 OVC011 15/14 Q1027=
METAR YFRT 010600Z AUTO 19007KT 9999 // OVC040 19/08 Q1025=
METAR YGEL 010600Z AUTO 09010KT 9999 // NCD 23/09 Q1023=


......................................................................................


Date: 01-Jun-2563

SAAU64 AMMC 010600
METAR YGFN 010600Z AUTO 36005KT 9999 // NCD 24/12 Q1011=
METAR YGLA 010600Z AUTO 05008KT 9999 // NCD 23/16 Q1015=
METAR YGTE 010600Z AUTO 17006KT 9999 // NCD 31/20 Q1013=
METAR YGTH 010600Z AUTO 25018KT 9999 // SCT040 SCT049 SCT062 11/03 Q1013=
METAR YHID 010600Z AUTO 10016KT 9999 // NCD 28/22 Q1012=
METAR YHUG 010600Z AUTO 21009KT 9999 // NCD 29/04 Q1015=
METAR YKRY 010600Z AUTO 33009KT 9999 // NCD 21/10 Q1016=
METAR YLEC 010600Z AUTO 21016KT 9999 // NCD 15/M00 Q1021=
METAR YLIS 010600Z AUTO 35010KT 9999 // NCD 23/13 Q1012=


......................................................................................


Date: 01-Jun-2563

SAAU66 AMMC 010600
METAR YMTG 010600Z AUTO 25014KT 9999 // SCT037 SCT041 BKN046 10/06 Q1015=
METAR YNAR 010600Z AUTO 26013KT 9999 // SCT040 BKN045 BKN115 10/04 Q1012=
METAR YNBR 010600Z AUTO 28018KT 9999 // NCD 20/M02 Q1012=
METAR YNTN 010600Z AUTO 14010KT 9999 // NCD 32/07 Q1013=
METAR YNWN 010600Z AUTO 11010KT 9999 // NCD 23/02 Q1022=
METAR YOLD 010600Z AUTO 21013KT 9999 // NCD 17/02 Q1022=
METAR YPAD 010600Z 22013KT 9999 FEW031 14/07 Q1019
NOSIG=
METAR YPBO 010600Z AUTO /////KT 9999 // NCD 23/M02 Q1020=
METAR YPCC 010600Z 12016KT 9999 FEW018 BKN035 27/23 Q1013=


......................................................................................


Date: 01-Jun-2563

SAAU67 AMMC 010600
METAR YPDN 010600Z 34009KT 9999 FEW030 30/22 Q1012=
METAR YPEA 010600Z AUTO 04004KT 350V070 9999 // SCT040 18/09 Q1026=
METAR YPGV 010600Z 12012KT 9999 FEW035 29/20 Q1013=
METAR YPKG 010600Z AUTO 02004KT 360V150 9999 // NCD 19/08 Q1026=
METAR YPKU 010600Z AUTO 15008KT 9999 // NCD 34/// Q1013=
METAR YPLM 010600Z AUTO 00000KT 9999 // BKN084 24/08 Q1018=
METAR YPPD 010600Z AUTO 12014KT 9999 // NCD 29/M01 Q1017=
METAR YPPH 010600Z 08005KT 9999 BKN042 18/10 Q1026
NOSIG=
METAR YPTN 010600Z AUTO 11011KT 9999 // NCD 35/09 Q1013=


......................................................................................


Date: 01-Jun-2563

SAAU68 AMMC 010600
METAR YCFS 010600Z AUTO 01009KT 9999 // NCD 23/13 Q1010=
METAR YPWR 010600Z AUTO 21013KT 9999 // NCD 15/03 Q1022=
METAR YPXM 010600Z AUTO 11010KT 9999 // BKN010 OVC014 27/25 Q1013=
METAR YRMD 010600Z AUTO 21015KT 9999 // NCD 30/04 Q1015=
METAR YSCB 010600Z AUTO 32011KT 9999 -RA SCT019 SCT029 BKN051 07/05 Q1008=
METAR YSDU 010600Z AUTO 25013KT 9999 // SCT016 SCT031 BKN045 09/07 Q1014=
METAR YSNF 010600Z AUTO 23008KT 9999 // SCT029 18/12 Q1019=
METAR YSRI 010600Z AUTO 30019KT 9999 // OVC082 20/04 Q1006=
METAR YSSY 010600Z 27015KT 9999 FEW048 BKN080 21/02 Q1006
FM0630 28018G28KT CAVOK
FM0600 MOD TURB BLW 5000FT=


......................................................................................


Date: 01-Jun-2563

SAKO51 RJTD 010600
METAR RKJJ 010600Z 32008KT 9999 FEW040 26/13 Q1010 RMK SLP108 8/500
9/200=
METAR RKPC 010600Z 32008KT 290V350 9999 SCT008 BKN030 19/15 Q1012
NOSIG=
METAR RKPK 010600Z 24011KT CAVOK 29/15 Q1006=
METAR RKPS 010600Z 25011KT 9999 FEW040 30/12 Q1008 RMK SLP082 8/500
9/100=
METAR RKSI 010600Z 25017KT CAVOK 22/11 Q1009 NOSIG=
METAR RKSM 010600Z 26010KT 9999 FEW030 SCT200 25/09 A2981=
METAR RKSS 010600Z 27018KT CAVOK 24/08 Q1009 NOSIG=
METAR RKTH 010600Z 27015KT CAVOK 30/06 Q1006 RMK SLP065 8/005 9/001=
METAR RKTN 010600Z 32015KT 9999 FEW050 FEW200 29/08 Q1007=
METAR RKTU 010600Z 31011KT 9999 FEW040 SCT200 25/07 Q1009=


......................................................................................


Date: 01-Jun-2563

SANG31 AMMC 010600
METAR AYMO NIL=
METAR AYPY 010600Z 15010G25KT 9999 HZ FEW030 SCT060 29/24 Q1010
RMK:CB TO N/NE=


......................................................................................


Date: 01-Jun-2563

SAPA31 KWBC 010600 RRB
METAR
AYPY 010600Z 15010G25KT 9999 HZ FEW030 SCT060 29/24 Q1010 RMK:CB
TO N/NE=


......................................................................................


Date: 01-Jun-2563

SAAR20 OEJD 010600 RRA
METAR OOSH 010550Z AUTO 23013KT //// ////// 42/17 Q1003 RMK 1000=


......................................................................................


Date: 01-Jun-2563

SAOM32 OOMS 010600 RRA
METAR OOSH 010550Z AUTO 23013KT //// ////// 42/17 Q1003=


......................................................................................


Date: 01-Jun-2563

SPTH31 VTCL 010620
SPECI VTCL 010620Z 24010G23KT 9999 TS FEW020CB 36/23 Q1009 TEMPO 7000 -TSRA=


......................................................................................


Date: 01-Jun-2563

SACI51 RJTD 010600
METAR ZBAA 010600Z 21008MPS 180V240 CAVOK 31/10 Q1002 NOSIG=
METAR ZBTJ 010600Z 19006MPS 160V230 CAVOK 33/04 Q1004 NOSIG=
METAR ZBYN 010600Z 18002MPS 110V230 CAVOK 23/08 Q1007 NOSIG=
METAR ZGGG 010600Z VRB01MPS 9999 FEW016 FEW040CB BKN040 25/23 Q1009
RETS NOSIG=
METAR ZGKL 010600Z 18005MPS 150V210 9999 FEW016 SCT026 30/23 Q1008
NOSIG=
METAR ZGNN 010600Z 17003MPS 110V250 9999 SCT030 FEW033CB 34/26 Q1006
NOSIG=
METAR ZGOW 010600Z 18005MPS 150V220 9999 FEW021CB FEW021 31/26 Q1009
BECMG AT0650 2500 TSRA=
METAR ZGSZ 010600Z 17007MPS 9999 FEW020CB FEW020 30/27 Q1009 NOSIG=
METAR ZLXY 010600Z 27006MPS 240V320 9999 SCT070 27/11 Q1011 NOSIG=
METAR ZPPP 010600Z 22006MPS 180V240 9999 SCT030 25/12 Q1019 NOSIG=
METAR ZSAM 010600Z 19003MPS 120V240 9999 SCT020 31/27 Q1009 BECMG
TL0750 24005MPS TSRA FEW030CB BKN030=
METAR ZSHC 010600Z 18003MPS 130V230 9999 BKN030 32/19 Q1009 NOSIG=
METAR ZSNJ 010600Z 16004MPS 120V200 9999 SCT033 33/18 Q1008 NOSIG=
METAR ZSQD 010600Z 18007MPS CAVOK 27/11 Q1010 NOSIG=
METAR ZSSS 010600Z 14005MPS 120V180 CAVOK 31/19 Q1010 NOSIG=
METAR ZWWW 010600Z VRB02MPS CAVOK 32/03 Q1013 NOSIG=
METAR ZYTL 010600Z 24005MPS 210V270 CAVOK 27/06 Q1008 NOSIG=
METAR ZYTX 010600Z 27003MPS 220V340 CAVOK 24/09 Q1006 NOSIG=


......................................................................................


Date: 01-Jun-2563

SANP31 VNKT 010620
METAR VNKT 010620Z 28004KT 9999 FEW015 SCT030 25/16 Q1017 NOSIG=


......................................................................................


Date: 01-Jun-2563

SAPA31 KWBC 010600 RRC
METAR
AYPY 010600Z 15010G25KT 9999 HZ FEW030 SCT060 29/24 Q1010 RMK/CB
TO N/NE=


......................................................................................


Date: 01-Jun-2563

SAPA31 KWBC 010600 RRD
METAR
PKWA 010620Z AUTO 10007KT 10SM SCT060 OVC070 29/26 A2989 RMK AO2
T02900255=


......................................................................................


Date: 01-Jun-2563

SASB31 VCCC 010610
METAR VCBI 010610Z 23012KT 9999 SCT018 31/27 Q1012 NOSIG=
METAR VRMM 010600Z 23009KT 9999 FEW018 FEW019CB 32/26
Q1012 CB S,SW NOSIG=
METAR VCRI 010610Z 23010KT 210V270 9999 SCT018 33/25 Q1011 NOSIG=


......................................................................................


Date: 01-Jun-2563

SAAE31 VDPP 010630
METAR VDPP 010630Z 14004KT 090V180 9999 SCT015 36/22 Q1008=


......................................................................................


Date: 01-Jun-2563

SATH31 VTBU 010630
METAR VTBU 010630Z 21007KT 9999 FEW020 31/25 Q1010 NOSIG=


......................................................................................


Date: 01-Jun-2563

SATH31 VTSM 010630
METAR VTSM 010630Z 34006KT 290V030 9999 FEW020 34/26 Q1011 NOSIG=


......................................................................................


Date: 01-Jun-2563

SATH31 VTBD 010630
METAR VTBD 010630Z 24005KT 190V350 9999 SCT020 35/25 Q1009 NOSIG=


......................................................................................


Date: 01-Jun-2563

SATH31 VTBS 010630
METAR VTBS 010630Z 20007KT 140V260 9999 FEW020 35/21 Q1009 NOSIG=


......................................................................................


Date: 01-Jun-2563

SATH31 VTCC 010630
METAR VTCC 010630Z 36012KT 9000 -TSRA FEW025CB BKN030 28/24 Q1010
NOSIG=


......................................................................................


Date: 01-Jun-2563

SATH31 VTSS 010630
METAR VTSS 010630Z VRB05KT 9999 FEW020 34/23 Q1010 NOSIG=


......................................................................................


Date: 01-Jun-2563

SAPK31 OPKC 010629
METAR OPGD 010625Z NIL=
METAR OPIS 010625Z 18006KT 6000 SCT040 BKN100 27/16 Q1012 NOSIG=
METAR OPKC 010625Z 27010KT 6000 BKN020 34/22 Q1007 NOSIG=
METAR OPLA 010625Z 06008KT 8000 SCT100 29/18 Q1010 RMK QFE985 RMK
A29.83=
METAR OPNH 010625Z NIL=
METAR OPMT 010630Z 23004KT 9999 FEW120 33/21 Q1007 NOSIG=
METAR OPPS 010625Z NIL=
METAR OPRN 010625Z NIL=
METAR OPSK 010600Z 13010KT 4000 HZ NSC 36/20 Q1004 NOSIG=
METAR OPST 010625Z NIL=


......................................................................................


Date: 01-Jun-2563

SATH31 VTSP 010630
METAR VTSP 010630Z 27009KT 240V320 9999 FEW020 32/24 Q1010 NOSIG=


......................................................................................


Date: 01-Jun-2563

SAHK31 VHHH 010630
METAR VHHH 010630Z 20010KT 150V230 9999 FEW012 SCT025 32/25
Q1009 TEMPO 4000 SHRA=


......................................................................................


Date: 01-Jun-2563

SAAU31 AMMC 010600 CCD
METAR YPPH 010600Z 08005KT 9999 BKN042 18/10 Q1026=


......................................................................................


Date: 01-Jun-2563

SAAU67 AMMC 010600 CCA
METAR YPPH 010600Z 08005KT 9999 BKN042 18/10 Q1026=


......................................................................................


Date: 01-Jun-2563

SAIR31 OIII 010630
METAR OIAW 010630Z 30004KT CAVOK 40/01 Q1004=
METAR OIFM 010630Z 20010KT 4500 HZ NSC 32/02 Q1019 A3010=
METAR OIII 010630Z 22008KT CAVOK 32/M05 Q1014 A2995=
METAR OIKB 010630Z NIL=
METAR OIKK 010630Z 01004KT CAVOK 31/01 Q1020 A3012=
METAR OIMM 010630Z 15010KT CAVOK 32/M05 Q1015 A2999=
METAR OISS 010630Z 00000KT CAVOK 34/01 Q1017 A3006=
METAR OITT 010630Z 24004KT CAVOK 24/M01 Q1018 A3007=
METAR OIZH 010630Z 05006KT CAVOK 32/M05 Q1016 A3002=


......................................................................................


Date: 01-Jun-2563

SAIR32 OIII 010630
METAR OIAA 010630Z NIL=
METAR OIBK 010630Z 10004KT 3000 HZ NSC 34/27 Q1005=
METAR OICC 010630Z 30004KT CAVOK 27/M10 Q1017 A3005=
METAR OIGG 010630Z 10006KT CAVOK 25/12 Q1013=
METAR OIIE 010630Z NIL=
METAR OINZ 010630Z NIL=
METAR OITR 010630Z NIL=
METAR OIYY 010630Z NIL=


......................................................................................


Date: 01-Jun-2563

SAIR33 OIII 010630
METAR OIBB 010630Z NIL=
METAR OIBP 010630Z 19006KT 3000 DU NSC 35/28 Q1004 A2966=
METAR OICK 010630Z 13002KT CAVOK 31/02 Q1016=
METAR OICS 010630Z NIL=
METAR OIHH 010630Z NIL=
METAR OITL 010630Z 28006KT CAVOK 21/10 Q1016=
METAR OIZC 010630Z NIL=


......................................................................................


Date: 01-Jun-2563

SAAE31 VTBB 010630
METAR VTBD 010630Z 24005KT 190V350 9999 SCT020 35/25 Q1009 NOSIG=
METAR VTBS 010630Z 20007KT 140V260 9999 FEW020 35/21 Q1009 NOSIG=
METAR VTBU 010630Z 21007KT 9999 FEW020 31/25 Q1010 NOSIG=
METAR VTCC 010630Z 36012KT 9000 -TSRA FEW025CB BKN030 28/24 Q1010
NOSIG=
METAR VTCT 010630Z NIL=
METAR VTSG 010630Z NIL=
METAR VTSP 010630Z 27009KT 240V320 9999 FEW020 32/24 Q1010 NOSIG=
METAR VTSS 010630Z VRB05KT 9999 FEW020 34/23 Q1010 NOSIG=


......................................................................................


Date: 01-Jun-2563

SAAE32 VTBB 010630
METAR VDPP 010630Z 14004KT 090V180 9999 SCT015 36/22 Q1008=
METAR VDSR 010630Z VRB03KT 9999 SCT015 SCT040 34/21 Q1008=
METAR VDSV 010630Z 22004KT 180V240 9999 SCT015 SCT040 31/26 Q1010=
METAR VLVT 010630Z 02002KT 9999 SCT016 BKN040 31/25 Q1010 NOSIG=
METAR VYMD 010630Z 14005G15KT 7000 BKN020 FEW025CB 34/24 Q1009=
METAR VYYY 010630Z 13005KT 7000 BKN015 FEW020CB BKN100 31/24 Q1009=
METAR VYNT 010630Z NIL=


......................................................................................


Date: 01-Jun-2563

SAAE34 VTBB 010630
METAR VVCI 010630Z 17014KT 9999 FEW043 34/27 Q1005 NOSIG=
METAR VVCR 010630Z 11008KT 9999 FEW015 35/24 Q1010 NOSIG=
METAR VVCT 010630Z VRB03KT 9999 SCT015 FEW017TCU 35/23 Q1009
NOSIG TCU/N=
METAR VVNB 010630Z VRB03KT 9999 SCT048 35/23 Q1005 NOSIG=
METAR VVPB 010630Z 04011KT 9999 FEW020 SCT080 34/25 Q1009 NOSIG=
METAR VVPQ 010630Z 29005KT 250V340 9999 FEW017 SCT040 33/25 Q1010
NOSIG=
METAR VVTS 010630Z 30006KT 270V350 9999 BKN017 35/25 Q1008 NOSIG =
METAR VVDN 010630Z 08003KT 040V150 9999 FEW015TCU 34/24 Q1009
NOSIG=


......................................................................................


Date: 01-Jun-2563

SASR31 WSSS 010630
METAR WSSS 010630Z 23005G17KT 160V300 1800 +TSRA FEW008 FEW013CB
SCT015TCU BKN150 27/25 Q1012 BECMG FM0700 TL0715 3500 TSRA BECMG
FM0715 TL0730 6000 SHRA=


......................................................................................


Date: 01-Jun-2563

SAHK31 VHHH 010630
METAR VHHH 010630Z 20010KT 150V230 9999 FEW012 SCT025 32/25
Q1009 TEMPO 4000 SHRA=
METAR RCTP 010630Z 25017KT 9999 -SHRA FEW018 BKN100 30/26 Q1009
NOSIG RMK A2982=
METAR RCKH 010630Z 26011KT 230V300 9999 FEW018 32/24 Q1010 NOSIG
RMK 27011KT/R09 A2984=
METAR RCSS 010630Z 30011KT 260V320 9999 FEW015 BKN045 BKN150 33/24
Q1009 WS R28 NOSIG RMK 29012KT/R10 A2981=
METAR RCMQ 010630Z 26008KT 9999 FEW016 SCT200 32/24 Q1011 NOSIG
RMK A2987=
METAR RCNN 010630Z 26007KT 9999 FEW014 SCT200 32/24 Q1010 NOSIG
RMK A2984=
METAR RCFN 010630Z 07005KT 030V110 9999 FEW018 SCT026 BKN040 30/25
Q1009 NOSIG RMK A2981=
METAR VMMC 010630Z 20012KT 9999 FEW015 SCT025 30/27 Q1009 NOSIG=


......................................................................................


Date: 01-Jun-2563

SAMS31 WMKK 010630
METAR WBGG 010630Z 35004KT 270V060 6000 TSRA FEW015CB SCT016 28/26 Q1011 RETS 3000 TSRA=
METAR WBKK 010630Z VRB03KT 9000 -TSRA FEW013 FEW016CB SCT035 25/24 Q1010 NOSIG=
METAR COR WBSB 010630Z 20007KT 9999 SCT015 FEW016CB BKN140 30/25 Q1010 TEMPO 7000 SHRA=
METAR WMKK 010630Z VRB03KT 9999 FEW017CB SCT018 31/24 Q1010 NOSIG=
METAR WMKP 010630Z 22007KT 170V280 9999 FEW018TCU 31/26 Q1010 NOSIG=
METAR WSSL 010630Z NIL=
METAR WSSS 010630Z 23005G17KT 160V300 1800 +TSRA FEW008 FEW013CB SCT015TCU BKN150 27/25 Q1012 BECMG FM0700 TL0715 3500 TSRA BECMG FM0715 TL0730 6000 SHRA=


......................................................................................


Date: 01-Jun-2563

SAJP51 RJTD 010630
METAR RJAA 010630Z 14010KT 110V170 9999 FEW010 SCT015 BKN030 22/18
Q1011 NOSIG=
METAR RJBB 010630Z 23009KT 9999 FEW025 BKN/// 23/18 Q1009 NOSIG=
METAR RJCC 010630Z 17015KT 9999 FEW010 20/12 Q1008=
METAR RJFF 010630Z 28007KT 230V320 9999 FEW015 SCT025 BKN070 26/21
Q1008 NOSIG=
METAR RJGG 010630Z 24006KT 9999 FEW025 BKN045 BKN/// 22/17 Q1009
NOSIG=
METAR RJTT 010630Z 36003KT 9999 FEW008 BKN027 20/20 Q1010 BECMG
08005KT=
METAR ROAH 010630Z 36009KT 9999 SCT010 BKN/// 27/24 Q1011=


......................................................................................


Date: 01-Jun-2563

SAMS31 WMKK 010630
METAR WBGG 010630Z NIL=
METAR WBKK 010630Z NIL=
METAR WBSB 010630Z NIL=
METAR WMKK 010630Z NIL=
METAR WMKP 010630Z NIL=
METAR WSSL 010630Z NIL=
METAR WSSS 010630Z 23005G17KT 160V300 1800 +TSRA FEW008 FEW013CB
SCT015TCU BKN150 27/25 Q1012 BECMG FM0700 TL0715 3500 TSRA BECMG
FM0715 TL0730 6000 SHRA=


......................................................................................


Date: 01-Jun-2563

SAUZ31 UTTW 010630
METAR UTFN 010630Z 10004KT 9999 FEW050CB 32/06 Q1009 R28/CLRD70
NOSIG=
METAR UTNN 010630Z 20004KT CAVOK 39/00 Q1009 R33/CLRD60 NOSIG=
METAR UTNU 010630Z 03010KT 7000 NSC 36/11 Q1009 R31/CLRD70 NOSIG=
METAR UTSA 010630Z 36006KT 9999 NSC 34/07 Q1009 R07/CLRD70 NOSIG=
METAR UTSB 010630Z 34008KT CAVOK 36/06 Q1008 R01/CLRD70 NOSIG=
METAR UTSK 010630Z 26008KT 230V300 CAVOK 35/04 Q1009 R16/CLRD70=
METAR UTSS 010630Z 35004KT 260V070 9999 NSC 32/07 Q1011 R09/CLRD70
NOSIG=
METAR UTST 010630Z 24004KT 180V300 CAVOK 34/05 Q1009 R88/CLRD70
NOSIG=
METAR UTFA 010630Z NIL=
METAR UTFF 010630Z 35006KT 9999 NSC 32/06 Q1010 R99/CLRD70=
METAR UTTT 010630Z 23006KT 190V280 CAVOK 33/11 Q1009 R08R/CLRD70
NOSIG=


......................................................................................


Date: 01-Jun-2563

SAPA31 KWBC 010600 RRE
METAR
PKWA 010640Z AUTO 09009KT 10SM SCT070 BKN090 29/26 A2989 RMK AO2
T02860256=


......................................................................................


Date: 01-Jun-2563

SAAH10 OAKB 010650
METAR OAKB 010650Z 34006KT CAVOK 27/M05 Q1018 RMK A3007 BLU BLU=


......................................................................................


Date: 01-Jun-2563

SPTH31 VTCL 010646
SPECI VTCL 010646Z 26011KT 9999 -RA SCT025 30/21 Q1009 RETS NOSIG=


......................................................................................


Date: 01-Jun-2563

SATR31 UTAA 010700
METAR UTAA 010700Z NIL=
METAR UTAK 010700Z NIL=
METAR UTAM 010700Z NIL=
METAR UTAT 010700Z NIL=
METAR UTAV 010700Z NIL=


......................................................................................


Date: 01-Jun-2563

SANP31 VNKT 010650
METAR VNKT 010650Z 01005KT 9999 FEW015 SCT030 BKN100 25/16 Q1016
NOSIG=


......................................................................................


Date: 01-Jun-2563

SATH31 VTBU 010700
METAR VTBU 010700Z 19008KT 9999 FEW020 SCT100 31/24 Q1010 NOSIG=


......................................................................................


Date: 01-Jun-2563

SATH31 VTSG 010700
METAR VTSG 010700Z 22010KT 190V250 9999 SCT020 33/27 Q1010 NOSIG=


......................................................................................


Date: 01-Jun-2563

SATH31 VTCN 010700
METAR VTCN 010700Z VRB03KT 9999 FEW030 34/24 Q1008 NOSIG=


......................................................................................


Date: 01-Jun-2563

SATH31 VTST 010700
METAR VTST 010700Z VRB03KT 9999 SCT025 34/25 Q1010 NOSIG=


......................................................................................


Date: 01-Jun-2563

SAAE31 VDPP 010700
METAR VDPP 010700Z 15004KT 9999 SCT015 FEW017CB 37/22
Q1008 CB S/W=


......................................................................................


Date: 01-Jun-2563

SATH31 VTCL 010700
METAR VTCL 010700Z 26006KT 230V310 9999 SCT025 30/21 Q1009 RETS NOSIG=


......................................................................................


Date: 01-Jun-2563

SATH31 VTCP 010700
METAR VTCP 010700Z 17006KT 090V240 9999 SCT025 37/23 Q1007 NOSIG=


......................................................................................


Date: 01-Jun-2563

SATH31 VTPP 010700
METAR VTPP 010700Z VRB05KT 9999 FEW040 35/22 Q1008 NOSIG=


......................................................................................


Date: 01-Jun-2563

SATH31 VTSF 010700
METAR VTSF 010700Z 08006KT 030V140 9999 FEW018 35/27 Q1009 NOSIG=


......................................................................................


Date: 01-Jun-2563

SAPK31 OPKC 010659
METAR OPGD 010655Z NIL=
METAR OPIS 010655Z 13006KT 6000 SCT040 BKN100 28/18 Q1011 NOSIG=
METAR OPKC 010655Z 22008KT 6000 BKN020 34/22 Q1007 NOSIG=
METAR OPLA 010655Z 09005KT 8000 SCT100 30/18 Q1010 NOSIG RMK QFE984
RMK A29.83=
METAR OPNH 010700Z 18008KT 5000M HZ NSC 37/22 Q1006 NOSIG=
METAR OPMT 010700Z 00000KT 9999 FEW120 34/21 Q1007 NOSIG=
METAR OPPS 010700Z 05010KT 7000 HZ SCT040 FEW100 29/19 Q1010=
METAR OPRN 010655Z NIL=
METAR OPSK 010700Z 13010KT 4000 HZ NSC 38/19 Q1004 NOSIG=
METAR OPST 010700Z 05008KT 5000 FU SCT040 SCT100 24/19 Q1011 TEMPO
05015G25KT 3000 -TSRA FEW030CB RH71=


......................................................................................


Date: 01-Jun-2563

SATH31 VTPM 010700
METAR VTPM 010700Z 26008KT 9999 SCT030 33/23 Q1010 NOSIG=


......................................................................................


Date: 01-Jun-2563

SATH31 VTSM 010700
METAR VTSM 010700Z 35007KT 300V060 9999 FEW020 35/26 Q1010 NOSIG=


......................................................................................


Date: 01-Jun-2563

SATH31 VTBO 010700
METAR VTBO 010700Z 24004KT 9999 FEW020 BKN100 31/27 Q1010=


......................................................................................


Date: 01-Jun-2563

SATH31 VTCH 010700
METAR VTCH 010700Z 02004KT 320V100 9999 FEW025 35/22 Q1009=


......................................................................................


Date: 01-Jun-2563

SATH31 VTPO 010700
METAR VTPO 010700Z VRB02KT 9999 FEW020TCU FEW025 35/23 Q1007 NOSIG=


......................................................................................


Date: 01-Jun-2563

SATH31 VTSE 010700
METAR VTSE 010700Z 13007KT 100V170 9999 FEW020 34/26 Q1009 NOSIG=


......................................................................................


Date: 01-Jun-2563

SATH31 VTSP 010700
METAR VTSP 010700Z 27008KT 240V300 9999 FEW020 31/25 Q1010 NOSIG=


......................................................................................


Date: 01-Jun-2563

SATH31 VTUI 010700
METAR VTUI 010700Z 09005KT 060V120 9999 TS FEW015CB BKN030 27/25
Q1010 NOSIG=


......................................................................................


Date: 01-Jun-2563

SATH31 VTUL 010700
METAR VTUL 010700Z 12007KT 070V200 9999 BKN030 34/25 Q1009 NOSIG=


......................................................................................


Date: 01-Jun-2563

SATH31 VTUW 010700
METAR VTUW 010700Z VRB02KT 9999 -RA SCT035 26/24 Q1010 NOSIG=


......................................................................................


Date: 01-Jun-2563

SATH31 VTBD 010700
METAR VTBD 010700Z 24003KT 9999 SCT020 35/24 Q1009 NOSIG=


......................................................................................


Date: 01-Jun-2563

SATH31 VTBS 010700
METAR VTBS 010700Z 20006KT 150V230 9999 FEW020 35/22 Q1009 NOSIG=


......................................................................................


Date: 01-Jun-2563

SATH31 VTCC 010700
METAR VTCC 010700Z 36009KT 9999 TS FEW025CB BKN030 29/23 Q1009 NOSIG=


......................................................................................


Date: 01-Jun-2563

SATH31 VTCT 010700
METAR VTCT 010700Z VRB04KT 9999 SCT025 31/23 Q1009 RETS NOSIG=


......................................................................................


Date: 01-Jun-2563

SATH31 VTPH 010700
METAR VTPH 010700Z 08008KT 9999 FEW018 33/23 Q1009 NOSIG=


......................................................................................


Date: 01-Jun-2563

SATH31 VTPT 010700
METAR VTPT 010700Z /////KT 9999 SCT026 38/24 Q//// NOSIG=


......................................................................................


Date: 01-Jun-2563

SATH31 VTSB 010700
METAR VTSB 010700Z VRB04KT 9999 FEW020 35/24 Q1009=


......................................................................................


Date: 01-Jun-2563

SATH31 VTSC 010700
METAR VTSC 010700Z 07008KT 9999 FEW020 32/25 Q1009 NOSIG =


......................................................................................


Date: 01-Jun-2563

SATH31 VTSR 010700
METAR VTSR 010700Z 30008KT 270V350 9999 SCT025 34/26 Q1010 NOSIG=


......................................................................................


Date: 01-Jun-2563

SATH31 VTSS 010700
METAR VTSS 010700Z VRB04KT 9999 FEW020 35/24 Q1009 NOSIG=


......................................................................................


Date: 01-Jun-2563

SATH31 VTUD 010700
METAR VTUD 010700Z 02005KT 340V070 9999 SCT025 31/25 Q1009 NOSIG=


......................................................................................


Date: 01-Jun-2563

SATH31 VTUK 010700
METAR VTUK 010700Z 19004KT 080V250 9999 SCT025 33/24 Q1009 NOSIG=


......................................................................................


Date: 01-Jun-2563

SATH31 VTUO 010700
METAR VTUO 010700Z 32003KT 240V040 9999 BKN030 36/21 Q1009 NOSIG=


......................................................................................


Date: 01-Jun-2563

SATH31 VTUV 010700
METAR VTUV 010700Z 32006KT 270V010 9999 VCSH FEW020CB SCT030 34/25
Q1008 NOSIG=


......................................................................................


Date: 01-Jun-2563

SAOM32 OOMS 010700
METAR OOMS 010650Z 17007KT 090V200 CAVOK 43/20 Q1004 NOSIG=
METAR OOSA 010650Z 28006KT 250V310 6000 SCT012 BKN020 OVC025 27/25
Q1008 NOSIG=
METAR OOSH 010700Z NIL=
METAR OODQ 010650Z AUTO 21017G30KT //// R22/P2000N NCD 35/25 Q1009
NOSIG=


......................................................................................


Date: 01-Jun-2563

SASD31 OEJD 010700
METAR OEDF 010700Z 02012KT CAVOK 42/06 Q1004 NOSIG=
METAR OEDR 010700Z NIL=
METAR OEJN 010700Z 36014KT CAVOK 32/19 Q1008 NOSIG=
METAR OEMA 010700Z 00000KT CAVOK 35/02 Q1012 NOSIG=
METAR OERK 010700Z NIL=
METAR OERY 010700Z 15010KT CAVOK 39/01 Q1012=
METAR OYAA 010700Z NIL=
METAR OYSN 010700Z NIL=


......................................................................................


Date: 01-Jun-2563

SATH31 VTUQ 010700
METAR VTUQ 010700Z VRB05KT 9999 SCT025 34/25 Q1009 NOSIG=


......................................................................................


Date: 01-Jun-2563

SATH31 VTUU 010700
METAR VTUU 010700Z 17005KT 090V220 9999 SCT030 32/25 Q1009 NOSIG =


......................................................................................


Date: 01-Jun-2563

SATR31 UTAA 010700 RRA
METAR UTAK 010700Z 18012KT 9999 FEW008 21/15 Q1011 R16R/CLRD70
NOSIG=
METAR UTAM 010700Z 34006KT CAVOK 35/06 Q1008 R88/CLRD70 NOSIG=


......................................................................................


Date: 01-Jun-2563

SAAU69 AMMC 010700
METAR YSTW 010700Z AUTO 32013KT 9999 // BKN072 BKN091 17/06 Q1011=
METAR YSWG 010700Z AUTO 27013KT 9999 // SCT035 BKN040 OVC046 07/07 Q1012=
METAR YTEF 010700Z AUTO 08016KT 9999 // NCD 25/M00 Q1019=
METAR YTNK 010700Z AUTO 16010KT 9999 // NCD 28/06 Q1018=
METAR YTRE 010700Z AUTO 01005KT 9999 // SCT060 SCT089 SCT110 19/12 Q1008=
METAR YWGT 010700Z AUTO 28015KT 9999 // SCT020 BKN048 OVC098 08/05 Q1010=
METAR YWHA 010700Z AUTO 20012KT 9999 // ////// 15/08 Q1021=
METAR YWLM 010700Z AUTO 33008KT 9999 // BKN077 OVC097 21/08 Q1007=


......................................................................................


Date: 01-Jun-2563

SAIR31 OIII 010700
METAR OIAW 010700Z 31006KT CAVOK 41/05 Q1004=
METAR OIFM 010700Z 22008KT 4000 HZ NSC 32/02 Q1019 A3010=
METAR OIII 010700Z 24010KT CAVOK 33/M08 Q1014 A2995 NOSIG=
METAR OIKB 010700Z 26012KT 1500 DU NSC 38/20 Q1004 A2967 NOSIG=
METAR OIKK 010700Z 08004KT 9999 FEW040 33/00 Q1019 A3011=
METAR OIMM 010700Z 12006KT 9999 FEW040 33/M06 Q1015 A2998=
METAR OISS 010700Z 00000KT CAVOK 34/05 Q1017 A3005=
METAR OITT 010700Z 24004KT CAVOK 25/M01 Q1018 A3007 NOSIG=
METAR OIZH 010700Z 01008KT CAVOK 34/M04 Q1016 A3002 NOSIG=


......................................................................................


Date: 01-Jun-2563

SAIR32 OIII 010700
METAR OIAA 010700Z 35012KT CAVOK 40/03 Q1004=
METAR OIBK 010700Z 12008KT 3000 HZ NSC 34/27 Q1005 NOSIG=
METAR OICC 010700Z 29006KT CAVOK 29/M16 Q1017 A3005=
METAR OIGG 010700Z 00000KT CAVOK 25/12 Q1013=
METAR OIIE 010700Z 35012KT CAVOK 33/M05 Q1013=
METAR OINZ 010700Z 30006KT 9999 FEW025 27/17 Q1012=
METAR OITR 010700Z 10004KT CAVOK 26/03 Q1016=
METAR OIYY 010700Z 34008KT 9999 FEW040 36/M01 Q1016=


......................................................................................


Date: 01-Jun-2563

SAIR33 OIII 010700
METAR OIBB 010700Z 21012KT CAVOK 35/24 Q1003 A2964=
METAR OIBP 010700Z 18006KT 3000 DU NSC 36/27 Q1004 A2966=
METAR OICK 010700Z 26002KT CAVOK 32/M00 Q1016=
METAR OICS 010700Z 00000KT CAVOK 26/M09 Q1018 A3006=
METAR OIHH 010700Z 33004KT CAVOK 27/M00 Q1018=
METAR OITL 010700Z VRB04KT CAVOK 23/09 Q1016=
METAR OIZC 010700Z NIL=


......................................................................................


Date: 01-Jun-2563

SAIR34 OIII 010700
METAR OIAG 010700Z 35016KT CAVOK 44/03 Q1004=
METAR OIAM 010700Z NIL=
METAR OICI 010700Z 02004KT CAVOK 32/01 Q1018 A3006=
METAR OIKQ 010700Z 25014KT 4000 HZ NSC 36/29 Q1005 NOSIG=
METAR OINN 010700Z 06004KT 9999 FEW022 23/17 Q1013=
METAR OINR 010700Z 05004KT CAVOK 24/16 Q1012=
METAR OISL 010700Z 07004KT 7000 NSC 39/15 Q1009 NOSIG=
METAR OISY 010700Z 00000KT 9999 FEW040 29/01 Q1022=
METAR OITZ 010700Z 18004KT CAVOK 26/M03 Q1017=


......................................................................................


Date: 01-Jun-2563

SAIR35 OIII 010700
METAR OIAD 010700Z NIL=
METAR OIBJ 010700Z 22008KT 6000 NSC 39/15 Q1010=
METAR OIBS 010700Z 24008KT 3000 HZ NSC 33/29 Q1006=
METAR OIHR 010700Z 00000KT 7000 NSC 24/02 Q1020=
METAR OIKM 010700Z NIL=
METAR OIKR 010700Z NIL=
METAR OING 010700Z 00000KT 9999 FEW025 28/16 Q1015 NOSIG=
METAR OIZB 010700Z 34023G33KT CAVOK 37/02 Q1007=
METAR OIZI 010700Z 17004KT 5000 HZ NSC 39/15 Q1009=


......................................................................................


Date: 01-Jun-2563

SAIR36 OIII 010700
METAR OIBA 010700Z 27004KT 4000 HZ FEW030 SCT100 34/28 Q1005=
METAR OIBV 010700Z 15008KT 2200 HZ NSC 33/26 Q1005=
METAR OIFS 010700Z 27004KT CAVOK 30/01 Q1023=
METAR OIIP 010700Z 28010KT 7000 NSC 28/02 Q1014 A2996=
METAR OIMB 010700Z 00000KT CAVOK 33/M07 Q1017=
METAR OIMN 010700Z 00000KT 8000 NSC 26/12 Q1016=
METAR OIMS 010700Z NIL=
METAR OIMT 010700Z NIL=
METAR OIZJ 010700Z 26006KT 6000 NSC 35/25 Q1003=


......................................................................................


Date: 01-Jun-2563

SAIR37 OIII 010700
METAR OIBL 010700Z 21008KT 3000 HZ NSC 33/27 Q1005=
METAR OIBQ 010700Z 31008KT 7000 NSC 32/26 Q1003=
METAR OIIK 010700Z 24004KT CAVOK 29/05 Q1015=
METAR OIMC 010700Z 33014KT CAVOK 35/13 Q1011=
METAR OIMD 010700Z 12010KT CAVOK 35/M03 Q1011=
METAR OIMQ 010700Z 13012KT CAVOK 32/M04 Q1016=
METAR OINE 010700Z 00000KT 9999 FEW030 27/16 Q1012=
METAR OITK 010700Z NIL=
METAR OITM 010700Z 24004KT CAVOK 26/M03 Q1016=


......................................................................................


Date: 01-Jun-2563

SAIR38 OIII 010700
METAR OIAH 010700Z 00000KT CAVOK 41/12 Q1010=
METAR OIBH 010700Z 27010KT 7000 NSC 36/22 Q1003=
METAR OICM 010700Z 30010KT CAVOK 42/M01 Q1006=
METAR OIIS 010700Z NIL=
METAR OIMJ 010700Z 05010KT CAVOK 29/06 Q1016=
METAR OISF 010700Z 20004KT CAVOK 36/03 Q1013 A2994=
METAR OISR 010700Z 13006KT 4000 HZ NSC 41/14 Q1007 A2976 NOSIG=
METAR OITP 010700Z 18004KT CAVOK 28/14 Q1011=
METAR OITU 010700Z NIL=


......................................................................................


Date: 01-Jun-2563

SATH31 VTPB 010700
METAR VTPB 010700Z 00000KT 9999 BKN025 34/25 Q1008 NOSIG=


......................................................................................


Date: 01-Jun-2563

SATH40 VTBB 010700
METAR VTBD 010700Z 24003KT 9999 SCT020 35/24 Q1009 NOSIG=
METAR VTBS 010700Z 20006KT 150V230 9999 FEW020 35/22 Q1009 NOSIG=
METAR VTBU 010700Z 19008KT 9999 FEW020 SCT100 31/24 Q1010 NOSIG=
METAR VTCC 010700Z 36009KT 9999 TS FEW025CB BKN030 29/23 Q1009 NOSIG=
METAR VTCT 010700Z VRB04KT 9999 SCT025 31/23 Q1009 RETS NOSIG=
METAR VTSB 010700Z VRB04KT 9999 FEW020 35/24 Q1009=
METAR VTSG 010700Z 22010KT 190V250 9999 SCT020 33/27 Q1010 NOSIG=
METAR VTSP 010700Z 27008KT 240V300 9999 FEW020 31/25 Q1010 NOSIG=
METAR VTSS 010700Z VRB04KT 9999 FEW020 35/24 Q1009 NOSIG=
METAR VTUD 010700Z 02005KT 340V070 9999 SCT025 31/25 Q1009 NOSIG=
METAR VTUU 010700Z 17005KT 090V220 9999 SCT030 32/25 Q1009 NOSIG =


......................................................................................


Date: 01-Jun-2563

SAAU65 AMMC 010700
METAR YLRE 010700Z AUTO 21009KT 9999 // NCD 25/03 Q1017=
METAR YMAV 010701Z AUTO 25017KT 6000 // SCT016 BKN020 OVC025 09/09 Q1011=
METAR YMAY 010700Z AUTO 28013KT 9999 // SCT024 SCT029 OVC036 08/06 Q1011=
METAR YMDG 010700Z AUTO 27013KT 9999 -SHRA SCT015 SCT019 SCT026 09/08 Q1012=
METAR YMEK 010700Z AUTO 07006KT 9999 // NCD 20/04 Q1024=
METAR YMEN 010700Z AUTO 24018KT 2900 -SHRA BKN006 OVC010 09/09 Q1010=
METAR YMER 010700Z AUTO 24005KT 9999 // OVC097 15/07 Q1005=
METAR YMIA 010700Z AUTO 23011G22KT 9999 // SCT047 BKN056 BKN068 12/03 Q1018=
METAR YMML 010700Z 24018KT 3000 -DZ FEW009 SCT011 OVC018 08/08 Q1010=
METAR YMOR 010700Z AUTO 31015KT 9999 // NCD 20/01 Q1013=


......................................................................................


Date: 01-Jun-2563

SAAE31 VTBB 010700
METAR VTBD 010700Z 24003KT 9999 SCT020 35/24 Q1009 NOSIG=
METAR VTBS 010700Z 20006KT 150V230 9999 FEW020 35/22 Q1009 NOSIG=
METAR VTBU 010700Z 19008KT 9999 FEW020 SCT100 31/24 Q1010 NOSIG=
METAR VTCC 010700Z 36009KT 9999 TS FEW025CB BKN030 29/23 Q1009 NOSIG=
METAR VTCT 010700Z VRB04KT 9999 SCT025 31/23 Q1009 RETS NOSIG=
METAR VTSG 010700Z 22010KT 190V250 9999 SCT020 33/27 Q1010 NOSIG=
METAR VTSP 010700Z 27008KT 240V300 9999 FEW020 31/25 Q1010 NOSIG=
METAR VTSS 010700Z VRB04KT 9999 FEW020 35/24 Q1009 NOSIG=


......................................................................................


Date: 01-Jun-2563

SAAE33 VTBB 010700
METAR VLLB 010700Z NIL=
METAR VLLN 010700Z NIL=
METAR VLPS 010700Z NIL=
METAR VLSK 010700Z NIL=


......................................................................................


Date: 01-Jun-2563

SAAU31 AMMC 010700 CCA
METAR YBTL 010700Z 06009KT 9999 FEW018 24/21 Q1016
NOSIG=


......................................................................................


Date: 01-Jun-2563

SAAU31 AMMC 010700 CCB
METAR YBBN 010700Z 01014KT CAVOK 20/17 Q1014
NOSIG=


......................................................................................


Date: 01-Jun-2563

SAAU31 AMMC 010700 CCC
METAR YPAD 010700Z 23010KT 9999 FEW029 SCT041 13/07 Q1020
NOSIG=


......................................................................................


Date: 01-Jun-2563

SAAU31 AMMC 010700 CCD
METAR YPPH 010700Z 16006KT 9999 BKN042 19/09 Q1026
NOSIG=


......................................................................................


Date: 01-Jun-2563

SAAU31 AMMC 010700
METAR YBAS 010700Z AUTO 17009KT 9999 // NCD 21/01 Q1022=
METAR YBBN 010700Z 01014KT CAVOK 20/17 Q1014=
METAR YBCS 010700Z AUTO 14007KT 9999 // BKN034 BKN105 25/19 Q1014
NOSIG=
METAR YBTL 010700Z 06009KT 9999 FEW018 24/21 Q1016=
METAR YMML 010700Z 24018KT 3000 -DZ FEW009 SCT011 OVC018 08/08 Q1010=
METAR YPAD 010700Z 23010KT 9999 FEW029 SCT041 13/07 Q1020=
METAR YPCC 010700Z 13011KT 9999 VCSH FEW016 BKN030 27/24 Q1013=
METAR YPDN 010700Z 35008KT 9999 FEW030 30/21 Q1012
NOSIG=
METAR YPKU 010700Z AUTO 15006KT 110V180 9999 // NCD 34/// Q1013=
METAR YPLM 010700Z AUTO 02002KT 9999 // SCT084 24/07 Q1018=
METAR YPPH 010700Z 16006KT 9999 BKN042 19/09 Q1026=
METAR YPTN 010700Z AUTO 09009KT 9999 // NCD 34/09 Q1013=
METAR YPXM 010700Z AUTO 09011KT 9999 // BKN008 BKN012 27/25 Q1013=
METAR YSSY 010700Z 28019G29KT 9999 FEW044 BKN090 19/03 Q1007=


......................................................................................


Date: 01-Jun-2563

SAHK31 VHHH 010700
METAR VHHH 010700Z 19010KT 170V250 9999 FEW012 SCT025 31/26
Q1009 NOSIG=


......................................................................................


Date: 01-Jun-2563

SAMS33 WMKK 010600 CCA
METAR COR WMKM 010600Z 00000KT 9000 -RA FEW010 SCT026 27/25 Q1012
RETSRA=


......................................................................................


Date: 01-Jun-2563

SASD31 OEJD 010700 RRA
METAR OERK 010700Z 16007KT CAVOK 39/05 Q1012 NOSIG=


......................................................................................


Date: 01-Jun-2563

SASR31 WSSS 010700
METAR WSSS 010700Z 19009KT 170V230 1200 R20R/0900U R20C/P2000 +TSRA
FEW008 FEW013CB FEW015TCU OVC130 25/25 Q1012 BECMG FM0720 TL0730 1800
TSRA BECMG FM0730 TL0745 4000 -TSRA BECMG FM0745 TL0800 6000 SHRA=


......................................................................................


Date: 01-Jun-2563

SAAE32 VTBB 010700
METAR VDPP 010700Z 15004KT 9999 SCT015 FEW017CB 37/22
Q1008 CB S/W=
METAR VDSR 010700Z 24004KT 190V280 9999 SCT015 SCT040 35/21 Q1008=
METAR VDSV 010700Z VRB03KT 9999 SCT015 SCT040 32/26 Q1010=
METAR VLVT 010700Z NIL=
METAR VYMD 010700Z NIL=
METAR VYYY 010700Z 12005KT 7000 BKN015 FEW020CB BKN100 31/24 Q1009=
METAR VYNT 010700Z NIL=


......................................................................................


Date: 01-Jun-2563

SAAE34 VTBB 010700
METAR VVCI 010700Z 18012KT 150V220 9999 FEW017 34/27 Q1004 NOSIG=
METAR VVCI 010700Z 18012KT 150V220 9999 FEW017 34/27 Q1005 NOSIG=
METAR VVCR 010700Z 11008KT 9999 FEW015 36/22 Q1009 NOSIG=
METAR VVCT 010700Z VRB03KT 9999 SCT015 FEW017TCU 35/23 Q1009
NOSIG TCU/N=
METAR VVNB 010700Z VRB02KT 9999 FEW048 36/23 Q1004 NOSIG=
METAR VVPB 010700Z 05007KT 9999 FEW020 SCT080 34/25 Q1008 NOSIG=
METAR VVPQ 010700Z 27006KT 250V330 9999 FEW017 SCT040 31/25 Q1009
NOSIG=
METAR VVTS 010700Z 32005KT 240V010 9999 SCT015 FEW017CB 36/25 Q1008
NOSIG RMK CB OVER RWY=
METAR VVDN 010700Z 24003KT 020V190 9999 FEW015CB 34/24 Q1008
NOSIG=


......................................................................................


Date: 01-Jun-2563

SAAU32 AMMC 010700
METAR YAMB 010700Z 02005KT 9999 FEW045 SCT079 BKN280 22/13 Q1013=
METAR YBCG 010700Z AUTO 36015KT 9999 // NCD 21/17 Q1013=
METAR YBHM 010700Z AUTO 08008KT 9999 // NCD 22/19 Q1016=
METAR YBMA 010700Z AUTO 17014KT 9999 // NCD 26/04 Q1018=
METAR YBRK 010700Z AUTO 35005KT 9999 // NCD 25/13 Q1015=
METAR YBRM 010700Z AUTO 12011KT 9999 // NCD 30/08 Q1014=
METAR YCIN 010700Z AUTO 14012KT 9999 // NCD 30/11 Q1014=
METAR YFRT 010700Z AUTO 20010KT 9999 // BKN042 18/09 Q1025=
METAR YMAV 010701Z AUTO 25017KT 6000 // SCT016 BKN020 OVC025 09/09 Q1011=
METAR YMHB 010700Z AUTO 19012KT 9999 // OVC061 10/07 Q1004=
METAR YMLT 010700Z AUTO 02006KT 6000 -SHRA BKN033 BKN038 OVC044 10/09 Q1004=
METAR YPEA 010700Z AUTO 09006KT 060V130 9999 // BKN040 OVC045 19/09 Q1026=
METAR YPGV 010700Z AUTO 14012KT 9999 // SCT030 BKN039 28/21 Q1013=
METAR YPKG 010700Z AUTO 19002KT 9999 // NCD 19/08 Q1025=
METAR YPPD 010700Z AUTO 12014KT 9999 // NCD 28/M01 Q1017=
METAR YSCB 010700Z AUTO 34008KT 9999 // BKN032 BKN038 06/05 Q1009 RERA=
METAR YSDU 010700Z AUTO 30005KT 9999 // SCT062 SCT086 BKN110 08/06 Q1014=
METAR YSNF 010700Z AUTO 22005KT 9999 // BKN031 17/12 Q1020=
METAR YSRI 010700Z AUTO 27016KT 9999 // SCT072 BKN081 17/06 Q1008=
METAR YWLM 010700Z AUTO 33008KT 9999 // BKN077 OVC097 21/08 Q1007=


......................................................................................


Date: 01-Jun-2563

SAAU60 AMMC 010700
METAR YABA 010700Z AUTO 33005KT 9999 // OVC024 16/12 Q1026=
METAR YAMB 010700Z 02005KT 9999 FEW045 SCT079 BKN280 22/13 Q1013=
METAR YARG 010700Z AUTO /////KT 9999 // NCD 34/08 Q1014=
METAR YAYE 010700Z AUTO 17007KT 9999 // NCD 21/03 Q1022=
METAR YBAS 010700Z AUTO 17009KT 9999 // NCD 21/01 Q1022=
METAR YBBN 010700Z 01014KT CAVOK 20/17 Q1014
NOSIG=
METAR YBCG 010700Z AUTO 36015KT 9999 // NCD 21/17 Q1013=
METAR YBCS 010700Z AUTO 14007KT 9999 // BKN034 BKN105 25/19 Q1014
NOSIG=
METAR YBCV 010700Z AUTO 24008KT 9999 // NCD 21/02 Q1017=
METAR YBDV 010700Z AUTO 23013KT //// // ////// 21/06 Q1020=


......................................................................................


Date: 01-Jun-2563

SAHK31 VHHH 010700
METAR VHHH 010700Z 19010KT 170V250 9999 FEW012 SCT025 31/26
Q1009 NOSIG=
METAR RCTP 010700Z 26017KT 9999 FEW018 BKN100 30/27 Q1009 NOSIG
RMK A2982=
METAR RCKH 010700Z 27012KT 240V300 9999 FEW018 32/24 Q1010 NOSIG
RMK 27011KT/R09 A2983=
METAR RCSS 010700Z 29012KT 9999 FEW015 BKN045 BKN180 32/25 Q1009
NOSIG RMK 29012KT/R10 A2981=
METAR RCMQ 010700Z 26008KT 9999 FEW012 SCT025 31/24 Q1011 NOSIG
RMK A2986=
METAR RCNN 010700Z 27007KT 9999 FEW014 SCT200 31/24 Q1010 NOSIG
RMK A2983=
METAR RCFN 010700Z 03007KT 340V070 9999 FEW018 SCT026 BKN036 31/25
Q1009 NOSIG RMK A2981=
METAR VMMC 010700Z 20013KT 9999 FEW015 SCT025 30/27 Q1008 NOSIG=
METAR RPLL 010700Z 12011KT 9999 FEW025TCU SCT300 34/25 Q1009 NOSIG
RMK A2980 TCU N=
METAR RPVM 010700Z 05008KT 9999 FEW018CB SCT300 33/23 Q1010 RMK A2983
CB W=
METAR RPMD 010700Z 17008KT 140V200 9999 TS SCT015CB SCT090 BKN290
31/25 Q1009 RMK A2980 CB NW VCSH NE=
METAR RPLB 010700Z 23010KT 9999 FEW018TCU FEW020 SCT300 34/24 Q1010
NOSIG RMK A2983 TCU NE=
METAR RPLI 010700Z 02004KT 9999 FEW017CB SCT018 BKN290 32/25 Q1009
NOSIG RMK A2980 CB S=
METAR RPMZ 010700Z 00000KT 9000 -RA FEW016CB FEW017 OVC090 25/25
Q1010 RMK A2983 CB S,SW=


......................................................................................


Date: 01-Jun-2563

SAJP31 RJTD 010700
METAR RJAA 010700Z 14008KT 100V160 9999 FEW010 SCT015 BKN030 21/18
Q1010 NOSIG=
METAR RJBB 010700Z 25007KT 9999 FEW025 BKN/// 24/18 Q1009 NOSIG=
METAR RJTT 010700Z 36004KT 9999 FEW010 BKN030 BKN050 21/20 Q1010
BECMG 08005KT=
METAR RJOO 010700Z 22006KT 160V260 9999 FEW030 BKN/// 26/17 Q1008=
METAR ROAH 010700Z 01009KT 9999 FEW010 BKN/// 27/23 Q1011=
METAR RJGG 010700Z 23007KT 9999 VCSH FEW025 SCT045 BKN/// 22/17
Q1009 NOSIG=
METAR RJCH 010700Z 20003KT 130V250 9999 FEW040 SCT/// 17/13 Q1007=
METAR RJSS 010700Z 16017KT 9999 FEW020 SCT040 BKN050 19/14 Q1009=


......................................................................................


Date: 01-Jun-2563

SAJP32 RJTD 010700 RRA
METAR RJFO 010700Z 16003KT 120V250 9999 FEW005 BKN015 BKN020 22/20
Q1008=
METAR RJNT 010700Z 36006KT 330V030 9999 FEW030 SCT060 BKN/// 26/16
Q1007=


......................................................................................


Date: 01-Jun-2563

SAJP32 RJTD 010700
METAR RJFF 010700Z 31010KT 9999 FEW015 SCT030 BKN070 26/20 Q1008
NOSIG=
METAR RJCC 010700Z 16014KT 9999 FEW008 19/13 Q1008=
METAR RJFK 010700Z 20005KT 9999 FEW010 BKN015 BKN025 23/21 Q1010=
METAR RJSN 010700Z 17005KT 120V200 9999 FEW040 SCT080 BKN120 25/17
Q1007=
METAR RJFT 010700Z 25009KT 9999 VCSH BKN020 BKN/// 26/21 Q1009=
METAR RJFU 010700Z 27006KT 230V290 9999 -SHRA FEW010 SCT015 BKN020
24/22 Q1009=
METAR RJNK 010700Z 25016KT 9999 FEW030 BKN050 BKN090 27/16 Q1007=
METAR RJOA 010700Z 23003KT 150V270 9999 -SHRA FEW010 BKN020 21/19
Q1009=
METAR RJOB 010700Z 23006KT 190V260 9999 FEW025 BKN035 BKN/// 24/18
Q1008=
METAR RJOT 010700Z 02007KT 9999 FEW020 SCT030 BKN/// 24/18 Q1008=


......................................................................................


Date: 01-Jun-2563

SAJP38 RJTD 010700 RRA
METAR RJCK 010700Z 20008KT 160V230 9999 R17/P2000N PRFG FEW001
BKN004 BKN005 13/12 Q1010=
METAR RJCM 010700Z 05008KT CAVOK 22/03 Q1007=
METAR RJCB 010700Z 15013KT 9999 FEW060 23/10 Q1007=
METAR RJOC 010700Z 25014KT 9999 -SHRA FEW007 SCT030 BKN040 21/19
Q1007=
METAR RJOH 010700Z 27010KT 9999 FEW030 BKN040 BKN100 24/19 Q1007=
METAR ROIG 010700Z 22015KT 9999 FEW008 BKN010 FEW015TCU 29/28 Q1009=
METAR RJFS 010700Z 21006KT 9999 FEW025 BKN040 24/22 Q1008=
METAR RJSI 010700Z 19015KT 9999 FEW030 SCT100 BKN/// 23/15 Q1009=


......................................................................................


Date: 01-Jun-2563

SAJP38 RJTD 010700
METAR RJNS 010700Z 02003KT 340V080 9999 FEW002 SCT015 BKN020 20/20
Q1009=
METAR RJSA 010700Z 03004KT 350V060 9999 FEW040 SCT070 BKN120 21/09
Q1007=
METAR RJSF 010700Z 19008KT 9999 FEW009 SCT012 BKN015 18/18 Q1011=
METAR RJOM 010700Z VRB02KT 9999 FEW030 SCT060 BKN110 22/18 Q1008=
METAR RJOK 010700Z 14003KT 100V190 9999 FEW015 SCT035 BKN050 23/18
Q1009=
METAR RJFM 010700Z 14009KT 9999 FEW015 SCT025 BKN/// 23/21 Q1008=
METAR RJEC 010700Z 33003KT 300V020 9999 FEW050 SCT090 25/12 Q1006=
METAR RJFR 010700Z VRB05KT 9999 FEW008 SCT010 BKN020 21/19 Q1008=
METAR RJSK 010700Z 30007KT 9999 FEW050 BKN070 23/13 Q1008=
METAR RJAH 010700Z 16005KT 8000 -RA FEW015 BKN025 BKN035 21/17
Q1010=


......................................................................................


Date: 01-Jun-2563

SAJP51 RJTD 010700 RRA
METAR RJFF 010700Z 31010KT 9999 FEW015 SCT030 BKN070 26/20 Q1008
NOSIG=
METAR RJFG 010700Z 29010KT 9999 FEW006 SCT015 BKN130 23/20 Q1010=
METAR RJFK 010700Z 20005KT 9999 FEW010 BKN015 BKN025 23/21 Q1010=
METAR RJFM 010700Z 14009KT 9999 FEW015 SCT025 BKN/// 23/21 Q1008=
METAR RJFO 010700Z 16003KT 120V250 9999 FEW005 BKN015 BKN020 22/20
Q1008=
METAR RJFR 010700Z VRB05KT 9999 FEW008 SCT010 BKN020 21/19 Q1008=
METAR RJFS 010700Z 21006KT 9999 FEW025 BKN040 24/22 Q1008=
METAR RJFT 010700Z 25009KT 9999 VCSH BKN020 BKN/// 26/21 Q1009=
METAR RJFU 010700Z 27006KT 230V290 9999 -SHRA FEW010 SCT015 BKN020
24/22 Q1009=
METAR RJGG 010700Z 23007KT 9999 VCSH FEW025 SCT045 BKN/// 22/17
Q1009 NOSIG=
METAR RJKA 010700Z 32009KT 280V350 9999 FEW020 SCT035 BKN150 26/22
Q1010=
METAR RJKI 010700Z AUTO 33010KT 9999 OVC028 25/23 Q1010=
METAR RJNK 010700Z 25016KT 9999 FEW030 BKN050 BKN090 27/16 Q1007=
METAR RJNS 010700Z 02003KT 340V080 9999 FEW002 SCT015 BKN020 20/20
Q1009=
METAR RJNT 010700Z 36006KT 330V030 9999 FEW030 SCT060 BKN/// 26/16
Q1007=
METAR RJNW 010700Z 25006KT 220V290 9999 FEW040 BKN050 BKN060 22/15
Q1008=
METAR RJOA 010700Z 23003KT 150V270 9999 -SHRA FEW010 BKN020 21/19
Q1009=
METAR RJOB 010700Z 23006KT 190V260 9999 FEW025 BKN035 BKN/// 24/18
Q1008=
METAR RJOC 010700Z 25014KT 9999 -SHRA FEW007 SCT030 BKN040 21/19
Q1007=
METAR RJOH 010700Z 27010KT 9999 FEW030 BKN040 BKN100 24/19 Q1007=


......................................................................................


Date: 01-Jun-2563

SAJP51 RJTD 010700 RRB
METAR RJOK 010700Z 14003KT 100V190 9999 FEW015 SCT035 BKN050 23/18
Q1009=
METAR RJOM 010700Z VRB02KT 9999 FEW030 SCT060 BKN110 22/18 Q1008=
METAR RJOO 010700Z 22006KT 160V260 9999 FEW030 BKN/// 26/17 Q1008=
METAR RJOR 010700Z 32014KT 9999 FEW040 SCT050 BKN060 24/18 Q1007=
METAR RJOS 010700Z 08008KT 9999 FEW030 SCT050 BKN/// 23/17 Q1008=
METAR RJOT 010700Z 02007KT 9999 FEW020 SCT030 BKN/// 24/18 Q1008=
METAR RJOW 010700Z 21006KT 170V240 9999 FEW020 SCT035 BKN/// 26/19
Q1007=
METAR RJOY 010700Z 25005KT 210V280 9999 FEW030 SCT050 BKN/// 26/18
Q1008=
METAR RJSA 010700Z 03004KT 350V060 9999 FEW040 SCT070 BKN120 21/09
Q1007=
METAR RJSC 010700Z 10009KT 9999 FEW040 SCT060 BKN080 25/16 Q1008=
METAR RJSD 010700Z AUTO 08004KT 9999 NSC 23/14 Q1007=
METAR RJSF 010700Z 19008KT 9999 FEW009 SCT012 BKN015 18/18 Q1011=
METAR RJSI 010700Z 19015KT 9999 FEW030 SCT100 BKN/// 23/15 Q1009=
METAR RJSK 010700Z 30007KT 9999 FEW050 BKN070 23/13 Q1008=
METAR RJSM 010700Z 08008KT 9999 FEW035 SCT150 BKN230 19/12 Q1006=
METAR RJSN 010700Z 17005KT 120V200 9999 FEW040 SCT080 BKN120 25/17
Q1007=
METAR RJSR 010700Z 27010KT 9999 FEW040 SCT070 BKN/// 23/13 Q1007=
METAR RJSS 010700Z 16017KT 9999 FEW020 SCT040 BKN050 19/14 Q1009=
METAR RJSY 010700Z 27004KT 240V300 9999 FEW040 SCT050 BKN060 22/15
Q1007=
METAR RJTF 010700Z 36003KT 4000 BR FEW004 SCT006 BKN025 20/19 Q1010=


......................................................................................


Date: 01-Jun-2563

SAJP51 RJTD 010700 RRC
METAR RJTI 010700Z VRB01KT 9999 FEW010 SCT020 BKN030 21/19 Q1010=
METAR RJTO 010700Z 06010KT 2000 -SHRA BR FEW000 SCT004 BKN010 20/19
Q1009=
METAR RJTT 010700Z 36004KT 9999 FEW010 BKN030 BKN050 21/20 Q1010
BECMG 08005KT=
METAR ROAH 010700Z 01009KT 9999 FEW010 BKN/// 27/23 Q1011=
METAR ROIG 010700Z 22015KT 9999 FEW008 BKN010 FEW015TCU 29/28 Q1009=
METAR ROMD 010700Z AUTO 22013KT 9999 BKN007 29/26 Q1012=
METAR ROMY 010700Z 19011KT 9999 -SHRA FEW012 SCT020 FEW025CB BKN030
28/26 Q1010=
METAR RORK 010700Z AUTO 23013KT 9999 FEW009 28/25 Q1011=
METAR RORS 010700Z 29004KT 240V350 9999 -SHRA FEW007 SCT009 BKN012
FEW020CB 27/27 Q1010=
METAR RORY 010700Z AUTO 36005KT 9999 BKN011 BKN022 26/23 Q1011=
METAR ROYN 010700Z AUTO 02003KT 340V050 9999 NCD 30/26 Q1009=


......................................................................................


Date: 01-Jun-2563

SAJP51 RJTD 010700
METAR RJAA 010700Z 14008KT 100V160 9999 FEW010 SCT015 BKN030 21/18
Q1010 NOSIG=
METAR RJAF 010700Z 15016KT 9999 FEW035 SCT050 BKN/// 23/15 Q1009=
METAR RJAH 010700Z 16005KT 8000 -RA FEW015 BKN025 BKN035 21/17
Q1010=
METAR RJBB 010700Z 25007KT 9999 FEW025 BKN/// 24/18 Q1009 NOSIG=
METAR RJBD 010700Z VRB03KT 9999 SCT015 BKN/// 23/19 Q1009=
METAR RJBE 010700Z 21008KT 9999 FEW025 SCT060 BKN/// 22/17 Q1008=
METAR RJBT 010700Z 19010KT 170V230 9999 FEW035 SCT100 BKN/// 26/18
Q1007=
METAR RJCB 010700Z 15013KT 9999 FEW060 23/10 Q1007=
METAR RJCC 010700Z 16014KT 9999 FEW008 19/13 Q1008=
METAR RJCH 010700Z 20003KT 130V250 9999 FEW040 SCT/// 17/13 Q1007=
METAR RJCK 010700Z 20008KT 160V230 9999 R17/P2000N PRFG FEW001
BKN004 BKN005 13/12 Q1010=
METAR RJCM 010700Z 05008KT CAVOK 22/03 Q1007=
METAR RJCN 010700Z 19011KT 150V210 9999 FEW040 22/14 Q1009=
METAR RJCO 010700Z 16016KT 9999 FEW030 SCT220 27/08 Q1006=
METAR RJCW 010700Z 21010KT 9999 FEW050 24/11 Q1006=
METAR RJDC 010700Z 07011KT 9999 FEW008 SCT015 BKN020 21/20 Q1008=
METAR RJDT 010700Z 24004KT 170V330 9999 FEW015 BKN/// 24/17 Q1008=
METAR RJEB 010700Z 11011KT 9999 FEW050 21/05 Q1007=
METAR RJEC 010700Z 33003KT 300V020 9999 FEW050 SCT090 25/12 Q1006=
METAR RJFE 010700Z 35008KT 310V040 9999 FEW015 SCT020 BKN/// 23/19
Q1010=


......................................................................................


Date: 01-Jun-2563

SAMS38 WMKK 010600 CCA
METAR COR WMKM 010600Z 00000KT 9000 -RA FEW010 SCT026 27/25 Q1012
RETSRA=


......................................................................................


Date: 01-Jun-2563

SAPA31 KWBC 010700
METAR
AGGG NIL=
AGGH 010700Z 09007KT 9999 FEW019 FEW020 SCT300 29/25 Q1011 RMKS/
CB TO S/ SSW=
AGGH 010700Z 09007KT 9999 FEW019 FEW020 SCT300 29/25 Q1011 RMKS:
CB TO S, SSW=
ANAU NIL=
AYPY NIL=
PGNT NIL=
PGRO 010650Z 10010KT 7SM SCT016 29/24 A2987=
PGSN 010654Z 10011KT 10SM FEW023 31/23 A2990 RMK AO2 SLP146
T03110233=
PGUA 010656Z 11012KT 10SM FEW020 29/23 A2990 RMK AO2A SLP115
T02860228 PWINO $=
PGUM 010654Z 10011KT 10SM SCT024 30/23 A2989 RMK AO2 SLP114
T03000233=
PGWT NIL=
PHJH NIL=
PHJR NIL=
PHMK 010654Z AUTO 03008G15KT 5SM -RA FEW007 BKN019 OVC033 A3009
RMK AO2 RAE01B24 SLPNO P0000 TSNO $=
PJON NIL=
PKMJ 010654Z 08010KT 15SM FEW015 SCT050 BKN300 30/25 A2987=
PKMR 010652Z 10011KT 15SM FEW015 SCT050 BKN300 28/25 A2987 RMK
SLP115 T02790247=
PKWA 010700Z AUTO 09009KT 10SM BKN090 29/26 A2990 RMK AO2
T02860256=
PLCH 010700Z 11004KT 9999 FEW020 27/22 Q1011=
PMDY 010656Z AUTO 24005KT 9SM 26/24 A3006 RMK AO2 RAB03E27 SLP177
P0004 T02560239 $=
PTKK 010650Z VRB06KT 15SM SCT014CB BKN120 OVC280 29/26 A2982 RMK
CB ALQDS MOV SW SLP100 T02890260=
PTKR NIL=
PTPN NIL=
PTRO 010650Z 10009KT 15SM SCT016 SCT120 BKN300 31/24 A2982=
PTSA NIL=
PTTP 010654Z 08005KT 15SM SCT018 BKN300 29/24 A2986 RMK SLP110
T02880244=
PTYA 010651Z VRB03KT 12SM FEW019 FEW300 31/24 A2984 RMK SLP105
T03060242=
PWAK 010658Z AUTO 09006KT 9999 FEW023 M A2996 RMK AO2 SLPNO FZRANO
$=


......................................................................................


Date: 01-Jun-2563

SATR31 UTAA 010700
METAR UTAA 010700Z 04004KT 9999 FEW099 30/15 Q1011
R88/CLRD70 NOSIG=
METAR UTAK 010700Z 18012KT 9999 FEW008 21/15 Q1011 R16R/CLRD70 NOSIG=
METAR UTAV 010700Z 30010KT 210V330 CAVOK 38/M04 Q1008 R31/CLRD70
NOSIG=
METAR UTAM 010700Z 34006KT CAVOK 35/06 Q1008 R88/CLRD70 NOSIG=
METAR UTAT 010700Z 23008KT 210V280 CAVOK 39/03 Q1008 NOSIG=


......................................................................................


Date: 01-Jun-2563

SAMS31 WMKK 010700
METAR WBGG 010700Z 09005KT 340V140 1000 +TSRA FEW015CB SCT018 26/26 Q1011 RETSRA TEMPO 0500 +TSRA=
METAR WBKK 010700Z 19004KT 160V260 9999 -TSRA FEW013 FEW016CB SCT035 25/24 Q1010 NOSIG=
METAR WBSB 010700Z 21008KT 9000 SCT015 FEW016CB BKN140 30/25 Q1010 TEMPO 7000 SHRA=
METAR WMKK 010700Z VRB02KT 9999 FEW017CB SCT018 31/24 Q1010 NOSIG=
METAR WMKP 010700Z 22007KT 160V280 9999 FEW017CB 31/26 Q1010 NOSIG=
METAR WSSL 010700Z 16015KT 140V200 1200 R03/P2000N R21/P2000D +TSRA FEW008 FEW013CB BKN015TCU 25/24 Q1011=
METAR WSSS 010700Z 19009KT 170V230 1200 R20R/0900U R20C/P2000 +TSRA FEW008 FEW013CB FEW015TCU OVC130 25/25 Q1012 BECMG FM0720 TL0730 1800 TSRA BECMG FM0730 TL0745 4000 -TSRA BECMG FM0745 TL0800 6000 SHRA=


......................................................................................


Date: 01-Jun-2563

SAAE32 VTBB 010700 RRA
METAR VLVT 010700Z 36004KT 9999 SCT016 FEW040 32/25 Q1009 NOSIG=


......................................................................................


Date: 01-Jun-2563

SAAE33 VTBB 010700 RRA
METAR VLLB 010700Z 18006KT 9999 SCT018 FEW060 34/21 Q1009 NOSIG=
METAR VLLN 010700Z 14002KT 9000 TS SCT020 FEW023CB FEW100 31/24
Q1011 NOSIG=
METAR VLPS 010700Z 22002KT 9999 SCT020 FEW200 34/24 Q1010 NOSIG=
METAR VLSK 010700Z 36006KT 7000 TS SCT016 FEW023CB BKN093 27/24
Q1010 CB,OVER AD NOSIG=


......................................................................................


Date: 01-Jun-2563

SAAU32 AMMC 010700 CCA
METAR YAMB 010700Z 02005KT 9999 FEW045 SCT079 BKN280 22/13 Q1013
FM0800 33008KT 9999 -SHRA SCT045 BKN060=


......................................................................................


Date: 01-Jun-2563

SAAU60 AMMC 010700 CCA
METAR YAMB 010700Z 02005KT 9999 FEW045 SCT079 BKN280 22/13 Q1013
FM0800 33008KT 9999 -SHRA SCT045 BKN060=


......................................................................................


Date: 01-Jun-2563

SAJP35 RJTD 010700
METAR RJAA 010700Z 14008KT 100V160 9999 FEW010 SCT015 BKN030 21/18
Q1010 NOSIG=
METAR RJBB 010700Z 25007KT 9999 FEW025 BKN/// 24/18 Q1009 NOSIG=
METAR RJTT 010700Z 36004KT 9999 FEW010 BKN030 BKN050 21/20 Q1010
BECMG 08005KT=
METAR RJOO 010700Z 22006KT 160V260 9999 FEW030 BKN/// 26/17 Q1008=
METAR RJGG 010700Z 23007KT 9999 VCSH FEW025 SCT045 BKN/// 22/17
Q1009 NOSIG=
METAR RJSN 010700Z 17005KT 120V200 9999 FEW040 SCT080 BKN120 25/17
Q1007=
METAR RJCH 010700Z 20003KT 130V250 9999 FEW040 SCT/// 17/13 Q1007=
METAR RJSA 010700Z 03004KT 350V060 9999 FEW040 SCT070 BKN120 21/09
Q1007=
METAR RJSF 010700Z 19008KT 9999 FEW009 SCT012 BKN015 18/18 Q1011=
METAR RJSI 010700Z 19015KT 9999 FEW030 SCT100 BKN/// 23/15 Q1009=


......................................................................................


Date: 01-Jun-2563

SAJP37 RJTD 010700 RRA
METAR RJFR 010700Z VRB05KT 9999 FEW008 SCT010 BKN020 21/19 Q1008=


......................................................................................


Date: 01-Jun-2563

SAJP37 RJTD 010700
METAR RJAA 010700Z 14008KT 100V160 9999 FEW010 SCT015 BKN030 21/18
Q1010 NOSIG=
METAR RJBB 010700Z 25007KT 9999 FEW025 BKN/// 24/18 Q1009 NOSIG=
METAR RJTT 010700Z 36004KT 9999 FEW010 BKN030 BKN050 21/20 Q1010
BECMG 08005KT=
METAR RJOO 010700Z 22006KT 160V260 9999 FEW030 BKN/// 26/17 Q1008=
METAR RJFF 010700Z 31010KT 9999 FEW015 SCT030 BKN070 26/20 Q1008
NOSIG=
METAR RJGG 010700Z 23007KT 9999 VCSH FEW025 SCT045 BKN/// 22/17
Q1009 NOSIG=
METAR RJFK 010700Z 20005KT 9999 FEW010 BKN015 BKN025 23/21 Q1010=
METAR RJFU 010700Z 27006KT 230V290 9999 -SHRA FEW010 SCT015 BKN020
24/22 Q1009=
METAR RJCH 010700Z 20003KT 130V250 9999 FEW040 SCT/// 17/13 Q1007=
METAR RJNS 010700Z 02003KT 340V080 9999 FEW002 SCT015 BKN020 20/20
Q1009=


......................................................................................


Date: 01-Jun-2563

SAMS31 WMKK 010700
METAR WBGG 010700Z NIL=
METAR WBKK 010700Z NIL=
METAR WBSB 010700Z NIL=
METAR WMKK 010700Z NIL=
METAR WMKP 010700Z NIL=
METAR WSSL 010700Z 16015KT 140V200 1200 R03/P2000N R21/P2000D +TSRA
FEW008 FEW013CB BKN015TCU 25/24 Q1011=
METAR WSSS 010700Z NIL=


......................................................................................


Date: 01-Jun-2563

SAMS32 WMKK 010700
NIL


......................................................................................


Date: 01-Jun-2563

SAMS33 WMKK 010700
METAR WMAU 010700Z 18012KT 110V240 7000 -RA FEW017CB SCT025 24/24
Q1012 RERA=
METAR WMBA 010700Z VRB06KT 9999 SCT022 32/27 Q1010=
METAR WMKA 010700Z 24006KT 160V300 9999 FEW017CB 33/26 Q1010=
METAR WMKB 010700Z 22009KT 150V280 9000 FEW017CB 32/24 Q1009 NOSIG=
METAR WMKC 010700Z 07010KT 030V100 9999 FEW018 33/25 Q1009=
METAR WMKD 010700Z VRB06KT 9999 FEW017CB 32/27 Q1009 NOSIG=
METAR WMKE 010700Z VRB08KT 9999 FEW015 32/26 Q1009=
METAR WMKI 010700Z 22008KT 160V260 9999 FEW017CB 33/24 Q1009=
METAR WMKL 010700Z VRB04KT 9999 FEW017CB 32/27 Q1010=
METAR WMKM 010700Z 00000KT 9999 FEW019 30/25 Q1010=
METAR WMKN 010700Z VRB06KT 9999 SCT018 33/26 Q1009=


......................................................................................


Date: 01-Jun-2563

SAMS34 WMKK 010700
NIL


......................................................................................


Date: 01-Jun-2563

SASD20 OEJD 010700
METAR OEAB 010700Z 02005KT CAVOK 28/M02 Q1025 NOSIG=
METAR OEAH 010700Z 01006KT CAVOK 41/02 Q1006 NOSIG=
METAR OEAO 010700Z 03007KT CAVOK 33/M01 Q1012=
METAR OEAR 010700Z 30005KT CAVOK 39/09 Q1008=
METAR OEBA 010700Z 01007KT CAVOK 31/02 Q1020 NOSIG=
METAR OEBH 010700Z 32003KT CAVOK 34/07 Q1016 NOSIG=
METAR OEDF 010700Z 02012KT CAVOK 42/06 Q1004 NOSIG=
METAR OEDM 010700Z 17012KT CAVOK 37/00 Q1013=
METAR OEDR 010700Z 01016KT CAVOK 41/04 Q1003 NOSIG=
METAR OEGN 010700Z 24008KT 9000 FEW030 34/28 Q1007 NOSIG=
METAR OEGS 010700Z 16016KT 8000 NSC 40/09 Q1010=
METAR OEGT 010700Z 30022KT CAVOK 24/02 Q1013 NOSIG=
METAR OEHL 010700Z 21012KT CAVOK 37/02 Q1012 NOSIG=
METAR OEJB 010700Z NIL=
METAR OEJN 010700Z 36014KT CAVOK 32/19 Q1008 NOSIG=
METAR OEKJ 010700Z 15007KT CAVOK 39/00 Q1013=
METAR OEKK 010700Z NIL=


......................................................................................


Date: 01-Jun-2563

SASD21 OEJD 010700
METAR OEKM 010700Z 36008KT CAVOK 29/02 Q1024 NOSIG=
METAR OEMA 010700Z 00000KT CAVOK 35/02 Q1012 NOSIG=
METAR OEMK 010700Z NIL=
METAR OENG 010700Z 09004KT CAVOK 34/12 Q1016 NOSIG=
METAR OEPA 010700Z 06006KT CAVOK 38/09 Q1009 NOSIG=
METAR OERF 010700Z 10017KT CAVOK 38/M02 Q1009=
METAR OERK 010700Z 16007KT CAVOK 39/05 Q1012 NOSIG=
METAR OERR 010700Z 09013KT CAVOK 32/M04 Q1010=
METAR OERY 010700Z 15010KT CAVOK 39/01 Q1012=
METAR OESH 010700Z 02008KT CAVOK 34/07 Q1011 NOSIG=
METAR OESK 010700Z 13009KT CAVOK 34/M01 Q1012=
METAR OETB 010700Z 33012KT CAVOK 28/M03 Q1013 NOSIG=
METAR OETF 010700Z VRB03KT CAVOK 32/M04 Q1020 NOSIG=
METAR OETR 010700Z 35008KT CAVOK 28/06 Q1013=
METAR OEWD 010700Z 13004KT CAVOK 37/17 Q1010 NOSIG=
METAR OEWJ 010700Z 20008KT CAVOK 28/23 Q1008 NOSIG=
METAR OEYN 010700Z 00000KT CAVOK 31/18 Q1006 NOSIG=


......................................................................................


Date: 01-Jun-2563

SASD31 OEJD 010700 RRB
METAR OEDR 010700Z 01016KT CAVOK 41/04 Q1003 NOSIG=


......................................................................................


Date: 01-Jun-2563

SAIR36 OIII 010700 RRA
METAR OIMT 010700Z AUTO 16002KT //// // ////// 41/01 Q1008=


......................................................................................


Date: 01-Jun-2563

SAMS32 WMKK 010700 RRA
METAR WMKJ 010700Z 00000KT 8000 -TSRA FEW010 FEW017CB 25/25 Q1011=


......................................................................................


Date: 01-Jun-2563

SAMS33 WMKK 010700
NIL


......................................................................................


Date: 01-Jun-2563

SAMS38 WMKK 010700
METAR WBGB 010700Z 24008KT 180V280 9999 -RA FEW005 SCT014 OVC140
27/25 Q1011=
METAR WBGR 010700Z 25008KT 230V300 9999 SCT014 BKN150 29/25 Q1010=
METAR WBGS 010700Z 29003KT 210V340 9999 RA FEW009 SCT015 OVC140 25/24
Q1012=
METAR COR WBKL 010700Z VRB06KT 9999 SCT014 SCT140 BKN270 29/26 Q1009=
METAR WBKS 010700Z 05010KT 020V110 9999 FEW016 FEW017CB 32/25 Q1008=
METAR WBKW 010700Z 14006KT 100V210 9999 FEW017 32/25 Q1008=
METAR WMKD 010700Z VRB06KT 9999 FEW017CB 32/27 Q1009 NOSIG=
METAR WMKL 010700Z VRB04KT 9999 FEW017CB 32/27 Q1010=
METAR WMKM 010700Z 00000KT 9999 FEW019 30/25 Q1010=


......................................................................................


Date: 01-Jun-2563

SAUZ31 UTTW 010700
METAR UTFN 010700Z 16004KT 040V200 9999 FEW050CB 33/05 Q1009
R28/CLRD70 NOSIG=
METAR UTNN 010700Z 24004KT CAVOK 38/00 Q1009 R33/CLRD60 NOSIG=
METAR UTNU 010700Z 09004KT 8000 NSC 37/04 Q1009 R31/CLRD70 NOSIG=
METAR UTSA 010700Z 02006KT 010V140 9000 NSC 36/03 Q1009 R07/CLRD70
NOSIG=
METAR UTSB 010700Z 31006KT 270V350 CAVOK 37/06 Q1008 R01/CLRD70
NOSIG=
METAR UTSK 010700Z 26008KT 240V300 CAVOK 36/M00 Q1009 R16/CLRD70=
METAR UTSS 010700Z 27006KT 200V330 9999 NSC 33/07 Q1011 R09/CLRD70
NOSIG=
METAR UTST 010700Z 16004KT CAVOK 35/03 Q1009 R88/CLRD70 NOSIG=
METAR UTFA 010700Z NIL=
METAR UTFF 010700Z 35006KT 290V360 9999 NSC 32/05 Q1010 R18/CLRD70=
METAR UTTT 010700Z 21006KT 150V280 CAVOK 34/10 Q1009 R08R/CLRD70
NOSIG=


......................................................................................


Date: 01-Jun-2563

SAAR20 OEJD 010700
METAR OBBI 010700Z 32009KT 300V360 CAVOK 35/21 Q1005 NOSIG=
METAR OKBK 010700Z 03012KT 7000 NSC 40/06 Q1006 NOSIG=
METAR OMAA 010700Z 22013KT 180V250 7000 NSC 40/18 Q1005 NOSIG=
METAR OMAD 010700Z 20005KT 150V280 8000 NSC 39/20 Q1006 NOSIG=
METAR OMAL 010700Z 18012KT 9000 NSC 38/21 Q1009 BECMG 24012KT=
METAR OMDB 010700Z 24014KT 5000 DU NSC 40/19 Q1005 TEMPO 3000=
METAR OMFJ 010700Z 28012KT 240V310 7000 NSC 43/17 Q1004 A2966=
METAR OMRK 010700Z 22013KT 5000 DU NSC 40/20 Q1006 A2972=
METAR OMSJ 010700Z 21015KT 5000 DU NSC 40/18 Q1006 TEMPO 3000=
METAR OOMS 010650Z 17007KT 090V200 CAVOK 43/20 Q1004 NOSIG=
METAR OOSA 010650Z 28006KT 250V310 6000 SCT012 BKN020 OVC025 27/25
Q1008 NOSIG=
METAR OOSH 010700Z NIL=
METAR OODQ 010650Z AUTO 21017G30KT //// R22/P2000N NCD 35/25 Q1009
NOSIG RMK RH55? 0=
METAR OTBD 010700Z AUTO 23005KT 170V320 CAVOK 39/16 Q1004 NOSIG=
METAR OTBH 010700Z NIL=
METAR OTHH 010700Z AUTO 24006KT 210V280 CAVOK 38/14 Q1004 NOSIG=
METAR OYAA 010700Z NIL=
METAR OYSN 010700Z NIL=


......................................................................................


Date: 01-Jun-2563

SAAU61 AMMC 010700
METAR YBHI 010700Z AUTO 22015KT 9999 // NCD 13/M00 Q1019=
METAR YBHM 010700Z AUTO 08008KT 9999 // NCD 22/19 Q1016=
METAR YBLN 010700Z AUTO 05004KT 020V080 //// // ////// 17/11 Q1026=
METAR YBMA 010700Z AUTO 17014KT 9999 // NCD 26/04 Q1018=
METAR YBMK 010700Z AUTO 04006KT 9999 // NCD 22/17 Q1016=
METAR YBNA 010700Z AUTO 01008KT 9999 // NCD 20/16 Q1013=
METAR YBOK 010700Z 29008KT CAVOK 18/11 Q1014
NOSIG=
METAR YBPN 010700Z AUTO 09006KT 9999 // NCD 23/17 Q1016=
METAR YBRK 010700Z AUTO 35005KT 9999 // NCD 25/13 Q1015=
METAR YBRM 010700Z AUTO 12011KT 9999 // NCD 30/08 Q1014=


......................................................................................


Date: 01-Jun-2563

SAAU62 AMMC 010700
METAR YBTL 010700Z 06009KT 9999 FEW018 24/21 Q1016
NOSIG=
METAR YBUD 010700Z AUTO 04008KT 9999 // SCT074 BKN096 20/17 Q1016=
METAR YBWP 010700Z AUTO 28007KT 9999 // BKN057 28/21 Q1012=
METAR YBWX 010700Z AUTO 06014KT //// // ////// 24/15 Q1017=
METAR YCAS 010700Z AUTO 36010KT //// // ////// 19/14 Q1012=
METAR YCBA 010700Z AUTO 25013KT 9999 // NCD 13/M01 Q1016=
METAR YCBB 010700Z AUTO 25016KT 9999 // SCT027 BKN037 OVC046 10/07 Q1013=
METAR YCBP 010700Z AUTO 21016KT 9999 // SCT049 17/06 Q1023=
METAR YCCY 010700Z AUTO 18012KT 9999 // NCD 27/02 Q1017=


......................................................................................


Date: 01-Jun-2563

SAAU63 AMMC 010700
METAR YCDU 010700Z AUTO 20014KT 9999 // SCT025 SCT039 BKN046 14/10 Q1024=
METAR YCIN 010700Z AUTO 14012KT 9999 // NCD 30/11 Q1014=
METAR YCNM 010700Z AUTO 25009KT //// // ////// 15/06 Q1014=
METAR YCOM 010700Z AUTO 29006KT 9999 // ////// 06/M00 Q1007=
METAR YDBY 010700Z AUTO 14013KT 9999 // NCD 31/12 Q1014=
METAR YEML 010700Z AUTO 00000KT 9999 // SCT105 26/11 Q1015=
METAR YESP 010700Z AUTO 00000KT 9999 // BKN013 BKN020 OVC033 16/14 Q1027=
METAR YFRT 010700Z AUTO 20010KT 9999 // BKN042 18/09 Q1025=
METAR YGEL 010700Z AUTO 11007KT 9999 // NCD 23/08 Q1023=


......................................................................................


Date: 01-Jun-2563

SAAU64 AMMC 010700
METAR YGFN 010700Z AUTO 01005KT 9999 // SCT079 20/12 Q1011=
METAR YGLA 010700Z AUTO 04007KT 9999 // SCT056 SCT068 BKN100 22/16 Q1015=
METAR YGTE 010700Z AUTO 17006KT 9999 // NCD 29/19 Q1013=
METAR YGTH 010700Z AUTO 25014KT 9999 // NCD 08/05 Q1014=
METAR YHID 010700Z AUTO 13013KT 9999 // NCD 28/21 Q1012=
METAR YHUG 010700Z AUTO 21010KT 9999 // BKN091 28/04 Q1016=
METAR YKRY 010700Z AUTO 34005KT 9999 // NCD 19/10 Q1016=
METAR YLEC 010700Z AUTO 20015KT 9999 // NCD 15/M01 Q1021=
METAR YLIS 010705Z AUTO 34021KT 2900 // SCT025 SCT046 BKN059 17/13 Q1012=


......................................................................................


Date: 01-Jun-2563

SAAU66 AMMC 010700
METAR YMTG 010700Z AUTO 24009KT 9999 // SCT036 SCT045 OVC053 10/05 Q1016=
METAR YNAR 010700Z AUTO 27011KT 9999 // SCT033 OVC041 10/04 Q1013=
METAR YNBR 010700Z AUTO 28015KT 9999 // NCD 18/01 Q1013=
METAR YNTN 010700Z AUTO 16006KT 9999 // NCD 32/06 Q1013=
METAR YNWN 010700Z AUTO 10008KT 9999 // NCD 23/01 Q1022=
METAR YOLD 010700Z AUTO 21013KT 9999 // NCD 16/03 Q1022=
METAR YPAD 010700Z 23010KT 9999 FEW029 SCT041 13/07 Q1020
NOSIG=
METAR YPBO 010700Z AUTO /////KT 9999 // NCD 24/M03 Q1020=
METAR YPCC 010700Z 13011KT 9999 VCSH FEW016 BKN030 27/24 Q1013=


......................................................................................


Date: 01-Jun-2563

SAAU67 AMMC 010700
METAR YPDN 010700Z 35008KT 9999 FEW030 30/21 Q1012
NOSIG=
METAR YPEA 010700Z AUTO 09006KT 060V130 9999 // BKN040 OVC045 19/09 Q1026=
METAR YPGV 010700Z AUTO 14012KT 9999 // SCT030 BKN039 28/21 Q1013=
METAR YPKG 010700Z AUTO 19002KT 9999 // NCD 19/08 Q1025=
METAR YPKU 010700Z AUTO 15006KT 110V180 9999 // NCD 34/// Q1013=
METAR YPLM 010700Z AUTO 02002KT 9999 // SCT084 24/07 Q1018=
METAR YPPD 010700Z AUTO 12014KT 9999 // NCD 28/M01 Q1017=
METAR YPPH 010700Z 16006KT 9999 BKN042 19/09 Q1026
NOSIG=
METAR YPTN 010700Z AUTO 09009KT 9999 // NCD 34/09 Q1013=


......................................................................................


Date: 01-Jun-2563

SAAU68 AMMC 010700
METAR YCFS 010700Z AUTO 01005KT 9999 // NCD 20/13 Q1010=
METAR YPWR 010700Z AUTO 23013KT 9999 // SCT047 15/03 Q1023=
METAR YPXM 010700Z AUTO 09011KT 9999 // BKN008 BKN012 27/25 Q1013=
METAR YRMD 010700Z AUTO 20014KT 9999 // NCD 28/03 Q1016=
METAR YSCB 010700Z AUTO 34008KT 9999 // BKN032 BKN038 06/05 Q1009 RERA=
METAR YSDU 010700Z AUTO 30005KT 9999 // SCT062 SCT086 BKN110 08/06 Q1014=
METAR YSNF 010700Z AUTO 22005KT 9999 // BKN031 17/12 Q1020=
METAR YSNW 010700Z 30015KT CAVOK 13/03 Q1008
FM0700 SEV TURB BLW 5000FT=
METAR YSRI 010700Z AUTO 27016KT 9999 // SCT072 BKN081 17/06 Q1008=
METAR YSSY 010700Z 28019G29KT 9999 FEW044 BKN090 19/03 Q1007=


......................................................................................


Date: 01-Jun-2563

SAKO51 RJTD 010700
METAR RKJJ 010700Z 31010KT 9999 FEW040 SCT200 26/09 Q1010 RMK SLP103
8/508 9/102=
METAR RKPC 010700Z 28004KT 240V330 9999 SCT006 BKN030 18/15 Q1012
BECMG SCT030=
METAR RKPK 010700Z 24012KT CAVOK 28/15 Q1006=
METAR RKPS 010700Z 29009KT 9999 FEW040 30/11 Q1008 RMK SLP080 8/500
9/100=
METAR RKSI 010700Z 25015KT CAVOK 21/11 Q1009 NOSIG=
METAR RKSM 010700Z 24009KT 9999 FEW030 BKN200 25/09 A2981=
METAR RKSS 010700Z 27016KT CAVOK 24/09 Q1009 NOSIG=
METAR RKTN 010700Z 33013KT 9999 FEW050 FEW200 28/07 Q1007=
METAR RKTU 010700Z 31013KT CAVOK 26/05 Q1009=


......................................................................................


Date: 01-Jun-2563

SANG31 AMMC 010700
METAR AYMO NIL=
METAR AYPY 010700Z 16010G20KT 9999 HZ SCT040 29/25 Q1010=


......................................................................................


Date: 01-Jun-2563

SAPA31 KWBC 010700 RRA
METAR
AYPY 010700Z 16010G20KT 9999 HZ SCT040 29/25 Q1010=


......................................................................................


Date: 01-Jun-2563

SAOM32 OOMS 010700 RRA
METAR OOSH 010650Z AUTO 26009KT //// ////// 44/14 Q1003=


......................................................................................


Date: 01-Jun-2563

SANP31 VNKT 010720
METAR VNKT 010720Z 35007KT 9999 FEW015 SCT030 BKN100 25/16 Q1016
NOSIG=


......................................................................................


Date: 01-Jun-2563

SAAR20 OEJD 010700 RRA
METAR OOSH 010650Z AUTO 26009KT //// ////// 44/14 Q1003 RMK 1000=


......................................................................................


Date: 01-Jun-2563

SACI51 RJTD 010700
METAR ZBAA 010700Z 20006MPS CAVOK 31/10 Q1001 NOSIG=
METAR ZBTJ 010700Z 19006MPS 160V220 CAVOK 33/03 Q1002 NOSIG=
METAR ZBYN 010700Z 20002MPS 170V270 CAVOK 24/10 Q1006 NOSIG=
METAR ZGGG 010700Z 08003MPS 040V120 9999 FEW053 26/23 Q1008 NOSIG=
METAR ZGKL 010700Z 18003MPS 140V220 9999 SCT026 31/24 Q1008 NOSIG=
METAR ZGNN 010700Z 15007MPS 9999 SHRA SCT030 FEW033CB 31/27 Q1005
BECMG TL0730 TSRA=
METAR ZGOW 010700Z 23005MPS 9999 FEW020 FEW030CB BKN050 30/25 Q1009
NOSIG=
METAR ZGSZ 010700Z 17007MPS 9999 FEW020CB FEW020 SCT033 30/27 Q1009
NOSIG=
METAR ZLXY 010700Z 28007MPS 250V320 9999 SCT070 27/10 Q1011 NOSIG=
METAR ZPPP 010700Z 22008G13MPS 9999 FEW030TCU BKN030 26/13 Q1018
NOSIG=
METAR ZSAM 010700Z 18005MPS 9999 SCT023 FEW023TCU 31/26 Q1009 TEMPO
TL0830 VRB02MPS TS BKN010 FEW020CB BKN020=
METAR ZSHC 010700Z 13003MPS 080V160 9999 BKN030 32/21 Q1008 NOSIG=
METAR ZSNJ 010700Z 16004MPS 110V210 9999 SCT040 33/17 Q1008 NOSIG=
METAR ZSQD 010700Z 19007MPS CAVOK 25/09 Q1009 NOSIG=
METAR ZSSS 010700Z 14005MPS 110V180 CAVOK 31/18 Q1009 NOSIG=
METAR ZWWW 010700Z 36003MPS 290V040 CAVOK 34/01 Q1012 NOSIG=
METAR ZYTL 010700Z 24006MPS 190V270 CAVOK 28/05 Q1007 NOSIG=
METAR ZYTX 010700Z 26004MPS CAVOK 24/08 Q1005 NOSIG=


......................................................................................


Date: 01-Jun-2563

SASB31 VCCC 010710
METAR VCBI 010710Z 22013KT 9999 SCT018 31/27 Q1011 NOSIG=
METAR VRMM 010700Z 23012KT 9999 SCT017 FEW018CB 29/25
Q1012 CB S,SW,W TEMPO 5000 SHRA=
METAR VCRI 010710Z 22011KT 9999 SCT018 34/25 Q1010 NOSIG=


......................................................................................


Date: 01-Jun-2563

SAPA31 KWBC 010700 RRB
METAR
PKWA 010720Z AUTO 08015G21KT 10SM SCT022 SCT090 29/26 A2990 RMK
AO2 T02860257=


......................................................................................


Date: 01-Jun-2563

SAAE31 VDPP 010730
METAR VDPP 010730Z 19006KT 130V220 9999 SCT015 FEW017CB 37/22
Q1007 CB S/W=


......................................................................................


Date: 01-Jun-2563

SATH31 VTBU 010730
METAR VTBU 010730Z 19007KT 9999 FEW020 SCT100 31/23 Q1009 NOSIG=


......................................................................................


Date: 01-Jun-2563

SATH31 VTSM 010730
METAR VTSM 010730Z 30007KT 260V360 9999 FEW020 35/26 Q1010 NOSIG=


......................................................................................


Date: 01-Jun-2563

SAIR34 OIII 010700 RRA
METAR OIAM 010700Z 33012KT CAVOK 42/M02 Q1004=


......................................................................................


Date: 01-Jun-2563

SATH31 VTSP 010730
METAR VTSP 010730Z 27008KT 240V310 9999 FEW018TCU 32/24 Q1010 NOSIG=


......................................................................................


Date: 01-Jun-2563

SATH31 VTBD 010730
METAR VTBD 010730Z 25007KT 220V310 9999 SCT020 35/24 Q1008 NOSIG=


......................................................................................


Date: 01-Jun-2563

SATH31 VTBS 010730
METAR VTBS 010730Z 19008KT 120V240 9999 FEW020 35/23 Q1008 NOSIG=


......................................................................................


Date: 01-Jun-2563

SATH31 VTCC 010730
METAR VTCC 010730Z 01010KT 9999 SCT035 33/22 Q1008 RETS NOSIG=


......................................................................................


Date: 01-Jun-2563

SATH31 VTSS 010730
METAR VTSS 010730Z VRB05KT 9999 FEW020 35/23 Q1009 NOSIG=


......................................................................................


Date: 01-Jun-2563

SAPA31 KWBC 010700
METAR
AGGG NIL=
AGGH 010700Z 09007KT 9999 FEW019 FEW020 SCT300 29/25 Q1011 RMKS/
CB TO S/ SSW=
AGGH 010700Z 09007KT 9999 FEW019 FEW020 SCT300 29/25 Q1011 RMKS:
CB TO S, SSW=
ANAU NIL=
AYPY NIL=
PGNT NIL=
PGRO 010650Z 10010KT 7SM SCT016 29/24 A2987=
PGSN 010654Z 10011KT 10SM FEW023 31/23 A2990 RMK AO2 SLP146
T03110233=
PGUA 010656Z 11012KT 10SM FEW020 29/23 A2990 RMK AO2A SLP115
T02860228 PWINO ?=
PGUM 010654Z 10011KT 10SM SCT024 30/23 A2989 RMK AO2 SLP114
T03000233=
PGWT NIL=
PHJH NIL=
PHJR NIL=
PHMK 010654Z AUTO 03008G15KT 5SM -RA FEW007 BKN019 OVC033 A3009
RMK AO2 RAE01B24 SLPNO P0000 TSNO ?=
PJON NIL=
PKMJ 010654Z 08010KT 15SM FEW015 SCT050 BKN300 30/25 A2987=
PKMR 010652Z 10011KT 15SM FEW015 SCT050 BKN300 28/25 A2987 RMK
SLP115 T02790247=
PKWA 010700Z AUTO 09009KT 10SM BKN090 29/26 A2990 RMK AO2
T02860256=
PLCH 010700Z 11004KT 9999 FEW020 27/22 Q1011=
PMDY 010656Z AUTO 24005KT 9SM 26/24 A3006 RMK AO2 RAB03E27 SLP177
P0004 T02560239 ?=
PTKK 010650Z VRB06KT 15SM SCT014CB BKN120 OVC280 29/26 A2982 RMK
CB ALQDS MOV SW SLP100 T02890260=
PTKR NIL=
PTPN NIL=
PTRO 010650Z 10009KT 15SM SCT016 SCT120 BKN300 31/24 A2982=
PTSA NIL=
PTTP 010654Z 08005KT 15SM SCT018 BKN300 29/24 A2986 RMK SLP110
T02880244=
PTYA 010651Z VRB03KT 12SM FEW019 FEW300 31/24 A2984 RMK SLP105
T03060242=
PWAK 010658Z AUTO 09006KT 9999 FEW023 M A2996 RMK AO2 SLPNO FZRANO
?=


......................................................................................


Date: 01-Jun-2563

SAPK31 OPKC 010729
METAR OPGD 010725Z NIL=
METAR OPIS 010725Z 13007KT 6000 SCT040 BKN100 28/19 Q1011 NOSIG=
METAR OPKC 010725Z 22008KT 6000 BKN020 34/22 Q1007 NOSIG=
METAR OPLA 010725Z NIL=
METAR OPNH 010725Z NIL=
METAR OPMT 010725Z NIL=
METAR OPPS 010725Z NIL=
METAR OPRN 010725Z NIL=
METAR OPSK 010725Z NIL=
METAR OPST 010725Z NIL=


......................................................................................


Date: 01-Jun-2563

SAHK31 VHHH 010730
METAR VHHH 010730Z 19011KT 160V220 9999 FEW012 SCT030 31/26
Q1008 NOSIG=


......................................................................................


Date: 01-Jun-2563

SAPA31 KWBC 010700 RRC
METAR
PHMK 010727Z AUTO 03010KT 6SM HZ FEW006 BKN013 OVC036 A3010 RMK
AO2 RAE00 P0000 TSNO $=


......................................................................................


Date: 01-Jun-2563

SAAE31 VTBB 010730
METAR VTBD 010730Z 25007KT 220V310 9999 SCT020 35/24 Q1008 NOSIG=
METAR VTBS 010730Z 19008KT 120V240 9999 FEW020 35/23 Q1008 NOSIG=
METAR VTBU 010730Z 19007KT 9999 FEW020 SCT100 31/23 Q1009 NOSIG=
METAR VTCC 010730Z 01010KT 9999 SCT035 33/22 Q1008 RETS NOSIG=
METAR VTCT 010730Z NIL=
METAR VTSG 010730Z NIL=
METAR VTSP 010730Z 27008KT 240V310 9999 FEW018TCU 32/24 Q1010 NOSIG=
METAR VTSS 010730Z VRB05KT 9999 FEW020 35/23 Q1009 NOSIG=


......................................................................................


Date: 01-Jun-2563

SAAE32 VTBB 010730
METAR VDPP 010730Z 19006KT 130V220 9999 SCT015 FEW017CB 37/22
Q1007 CB S/W=
METAR VDSR 010730Z 19004KT 080V230 9999 SCT015 SCT040 35/21 Q1007=
METAR VDSV 010730Z VRB04KT 9999 SCT015 SCT040 32/26 Q1009=
METAR VLVT 010730Z 14002KT 9999 SCT016 FEW040 32/26 Q1008 NOSIG=
METAR VYMD 010730Z 14005G15KT 7000 BKN020 FEW025CB 34/24 Q1007=
METAR VYYY 010730Z 18005KT 7000 BKN015 FEW020CB BKN100 31/24 Q1009=
METAR VYNT 010730Z NIL=


......................................................................................


Date: 01-Jun-2563

SAAE34 VTBB 010730
METAR VVCI 010730Z 18013KT 9999 FEW017 34/26 Q1004 NOSIG=
METAR VVCR 010730Z 14008KT 9999 FEW015 36/24 Q1009 NOSIG=
METAR VVCT 010730Z VRB05KT 9999 SCT015 FEW017TCU 35/23 Q1008
NOSIG TCU/N=
METAR VVNB 010730Z VRB03KT CAVOK 36/21 Q1003 NOSIG=
METAR VVPB 010730Z 08007KT 9999 FEW020 SCT080 34/25 Q1008 NOSIG=
METAR VVPQ 010730Z VRB03KT 9999 FEW017 SCT040 31/25 Q1009
NOSIG=
METAR VVTS 010730Z NIL=
METAR VVDN 010730Z 10006KT 060V140 9999 FEW015CB 34/23 Q1008
NOSIG=


......................................................................................


Date: 01-Jun-2563

SAIR31 OIII 010730
METAR OIAW 010730Z 30006KT CAVOK 42/03 Q1004=
METAR OIFM 010730Z 21008KT 5000 HZ NSC 34/01 Q1019 A3009=
METAR OIII 010730Z 25012KT CAVOK 33/M08 Q1014 A2995=
METAR OIKB 010730Z 25008KT 2500 DU NSC 39/19 Q1004 A2967=
METAR OIKK 010730Z 30004KT 9999 FEW040 33/00 Q1019 A3011=
METAR OIMM 010730Z NIL=
METAR OISS 010730Z 08006KT CAVOK 35/02 Q1017 A3005=
METAR OITT 010730Z 14004KT CAVOK 26/M01 Q1018 A3006=
METAR OIZH 010730Z 36008KT CAVOK 34/M04 Q1016 A3001=


......................................................................................


Date: 01-Jun-2563

SAIR32 OIII 010730
METAR OIAA 010730Z NIL=
METAR OIBK 010730Z 17008KT 3000 HZ NSC 34/27 Q1005=
METAR OICC 010730Z 29004KT CAVOK 30/M17 Q1017 A3004=
METAR OIGG 010730Z 00000KT CAVOK 26/12 Q1012=
METAR OIIE 010730Z NIL=
METAR OINZ 010730Z NIL=
METAR OITR 010730Z NIL=
METAR OIYY 010730Z 33008KT 9999 FEW040 36/M01 Q1016=


......................................................................................


Date: 01-Jun-2563

SAIR33 OIII 010730
METAR OIBB 010730Z NIL=
METAR OIBP 010730Z 18008KT 4000 DU NSC 37/27 Q1004 A2966=
METAR OICK 010730Z 29004KT CAVOK 33/M01 Q1015=
METAR OICS 010730Z NIL=
METAR OIHH 010730Z NIL=
METAR OITL 010730Z 23004KT CAVOK 23/08 Q1016=
METAR OIZC 010730Z NIL=


......................................................................................


Date: 01-Jun-2563

SAPK31 OPKC 010725 RRA
METAR OPLA 010725Z 06014KT 7000 FEW100 31/18 Q1010 TEMPO 06015G30KT
3000 RMK QFE985 RMK A29.83=
METAR OPMT 010730Z 00000KT 9999 FEW120 35/21 Q1007 NOSIG=


......................................................................................


Date: 01-Jun-2563

SAIR31 OIII 010730 RRA
METAR OIMM 010730Z 13008KT 9999 FEW040 33/M08 Q1015 A2998=


......................................................................................


Date: 01-Jun-2563

SAHK31 VHHH 010730
METAR VHHH 010730Z 19011KT 160V220 9999 FEW012 SCT030 31/26
Q1008 NOSIG=
METAR RCTP 010730Z 24015KT 9999 FEW018 SCT100 30/26 Q1009 NOSIG
RMK A2980=
METAR RCKH 010730Z 27010KT 9999 FEW018 31/23 Q1009 NOSIG RMK
28010KT/R09 A2982=
METAR RCSS 010730Z 30012KT 270V340 9999 FEW020 SCT045 BKN250 33/25
Q1008 NOSIG RMK 30010KT/R10 A2979=
METAR RCMQ 010730Z 24007KT 9999 FEW012 SCT025 31/24 Q1010 NOSIG
RMK A2984=
METAR RCNN 010730Z 27007KT 9999 FEW014 SCT200 31/24 Q1010 NOSIG
RMK A2983=
METAR RCFN 010730Z 02007KT 350V070 9999 FEW019 BKN036 30/26 Q1009
NOSIG RMK A2980=
METAR VMMC 010730Z 20012KT 9999 FEW015 SCT028 30/27 Q1008 NOSIG=


......................................................................................


Date: 01-Jun-2563

SAPA31 KWBC 010700 RRD
METAR
PHMK 010727Z AUTO 03010KT 6SM HZ FEW006 BKN013 OVC036 A3010 RMK
AO2 RAE00 P0000 TSNO /=


......................................................................................


Date: 01-Jun-2563

SASR31 WSSS 010730
METAR WSSS 010730Z 12004KT 080V190 3000 TSRA FEW010 FEW015CB OVC140
25/25 Q1012 RERA BECMG FM0800 TL0815 SHRA BECMG FM0815 TL0830 6000
NSW=


......................................................................................


Date: 01-Jun-2563

SAMS31 WMKK 010730
METAR WBGG 010730Z 17006KT 4000 TSRA FEW015CB SCT020 25/24 Q1011 RETSRA NOSIG=
METAR WBKK 010730Z 13005KT 9999 -TSRA FEW013 FEW016CB SCT035 25/24 Q1009 NOSIG=
METAR COR WBSB 010730Z 20009KT 6000 -SHRA SCT015 FEW016CB BKN140 29/25 Q1010 TEMPO 7000 SHRA TSRA=
METAR WMKK 010730Z VRB03KT 9999 FEW018 31/25 Q1009 NOSIG=
METAR WMKP 010730Z 23007KT 200V260 9999 FEW017CB 31/26 Q1009 NOSIG=
METAR WSSL 010730Z NIL=
METAR WSSS 010730Z 12004KT 080V190 3000 TSRA FEW010 FEW015CB OVC140 25/25 Q1012 RERA BECMG FM0800 TL0815 SHRA BECMG FM0815 TL0830 6000 NSW=


......................................................................................


Date: 01-Jun-2563

SAJP51 RJTD 010730
METAR RJAA 010730Z 14008KT 100V170 9999 FEW010 SCT015 BKN060 21/19
Q1010 NOSIG=
METAR RJBB 010730Z 24007KT 9999 FEW025 BKN/// 23/18 Q1008 NOSIG=
METAR RJCC 010730Z 17015KT 9999 FEW008 17/13 Q1008=
METAR RJFF 010730Z 31014KT 9999 FEW010 BKN/// 25/21 Q1008 NOSIG=
METAR RJGG 010730Z 19006KT 9999 FEW025 SCT100 BKN/// 22/18 Q1009
NOSIG=
METAR RJTT 010730Z 02004KT 9999 FEW015 BKN030 BKN050 21/19 Q1010
BECMG 10006KT=
METAR ROAH 010730Z 02007KT 330V100 9999 FEW015 BKN/// 27/23 Q1011=


......................................................................................


Date: 01-Jun-2563

SAMS31 WMKK 010730
METAR WBGG 010730Z NIL=
METAR WBKK 010730Z NIL=
METAR WBSB 010730Z NIL=
METAR WMKK 010730Z NIL=
METAR WMKP 010730Z NIL=
METAR WSSL 010730Z NIL=
METAR WSSS 010730Z 12004KT 080V190 3000 TSRA FEW010 FEW015CB OVC140
25/25 Q1012 RERA BECMG FM0800 TL0815 SHRA BECMG FM0815 TL0830 6000
NSW=


......................................................................................


Date: 01-Jun-2563

SAAE34 VTBB 010730 RRA
METAR VVTS 010730Z 18011KT 150V220 9999 TS SCT015 FEW017CB 31/25
Q1007 TEMPO FM0735 TL0810 17018G28KT 2000 +TSRA RMK CB OVER RWY=


......................................................................................


Date: 01-Jun-2563

SAUZ31 UTTW 010730
METAR UTFN 010730Z 18004KT 9999 FEW050CB 34/05 Q1008 R28/CLRD70
NOSIG=
METAR UTNN 010730Z 23006KT CAVOK 39/M03 Q1008 R33/CLRD60 NOSIG=
METAR UTNU 010730Z 10004KT 8000 NSC 38/01 Q1009 R31/CLRD70 NOSIG=
METAR UTSA 010730Z 37004KT 9000 NSC 36/03 Q1009 R07/CLRD70 NOSIG=
METAR UTSB 010730Z 32008KT 300V360 CAVOK 38/05 Q1008 R01/CLRD70
NOSIG=
METAR UTSK 010730Z 29006KT 230V360 CAVOK 36/M01 Q1009 R16/CLRD70=
METAR UTSS 010730Z 31006KT 9999 NSC 33/07 Q1011 R09/CLRD70 NOSIG=
METAR UTST 010730Z 20002KT CAVOK 36/02 Q1009 R88/CLRD70 NOSIG=
METAR UTFA 010730Z NIL=
METAR UTFF 010730Z 32006KT 280V350 9999 NSC 33/05 Q1010 R18/CLRD70=
METAR UTTT 010730Z 26006KT 180V330 CAVOK 34/09 Q1009 R08R/CLRD70
NOSIG=


......................................................................................


Date: 01-Jun-2563

SAPA31 KWBC 010700 RRE
METAR
PKWA 010740Z AUTO 06009KT 5SM -RA SCT020 SCT027 BKN046 28/26 A2991
RMK AO2 P0005 T02820256=


......................................................................................


Date: 01-Jun-2563

SAPA31 KWBC 010700 RRC
METAR
PHMK 010727Z AUTO 03010KT 6SM HZ FEW006 BKN013 OVC036 A3010 RMK
AO2 RAE00 P0000 TSNO ?=


......................................................................................


Date: 01-Jun-2563

SATH31 VTUI 010730
METAR VTUI 010730Z 06004KT 340V120 9999 SCT030 BKN080 27/25 Q1010
RETS NOSIG=


......................................................................................


Date: 01-Jun-2563

SANP31 VNKT 010750 CCA
METAR VNKT 010750Z 27009KT 240V310 9999 FEW015 SCT030 26/16 Q1015
NOSIG=


......................................................................................


Date: 01-Jun-2563

SANP31 VNKT 010750
METAR VNKT 010750Z 27009KT 9999 FEW015 SCT030 26/16 Q1015 NOSIG=


......................................................................................


Date: 01-Jun-2563

SATR31 UTAA 010800
METAR UTAA 010800Z NIL=
METAR UTAK 010800Z NIL=
METAR UTAM 010800Z NIL=
METAR UTAT 010800Z NIL=
METAR UTAV 010800Z NIL=


......................................................................................


Date: 01-Jun-2563

SAPA31 KWBC 010700 RRF
METAR
PHMK 010744Z AUTO 03008KT 6SM HZ FEW007 BKN017 OVC037 A3010 RMK
AO2 RAE00 P0000 TSNO $=


......................................................................................


Date: 01-Jun-2563

SAAH10 OAKB 010750
METAR OAKB 010750Z 01012KT CAVOK 27/M06 Q1017 RMK A3006 BLU BLU=


......................................................................................


Date: 01-Jun-2563

SATH31 VTSG 010800
METAR VTSG 010800Z 23009KT 200V260 9999 SCT020 33/26 Q1010 NOSIG=


......................................................................................


Date: 01-Jun-2563

SAAE31 VDPP 010800
METAR VDPP 010800Z 17006KT 140V210 9999 SCT015 FEW017CB 37/20
Q1007 CB S/W=


......................................................................................


Date: 01-Jun-2563

SATH31 VTBU 010800
METAR VTBU 010800Z 18005KT 9999 FEW020 SCT100 31/23 Q1009 NOSIG=


......................................................................................


Date: 01-Jun-2563

SATH31 VTPB 010800
METAR VTPB 010800Z VRB02KT 9999 BKN025 35/25 Q1007 NOSIG=


......................................................................................


Date: 01-Jun-2563

SATH31 VTST 010800
METAR VTST 010800Z 22007KT 170V250 9999 FEW025 34/24 Q1009 NOSIG=


......................................................................................


Date: 01-Jun-2563

SATH31 VTUW 010800
METAR VTUW 010800Z VRB02KT 9999 FEW025 27/25 Q1009 NOSIG=


......................................................................................


Date: 01-Jun-2563

SATH31 VTCL 010800
METAR VTCL 010800Z VRB02KT 9999 FEW025 35/21 Q1008 NOSIG=


......................................................................................


Date: 01-Jun-2563

SATH31 VTCN 010800
METAR VTCN 010800Z VRB05KT 9999 FEW030 35/23 Q1007 NOSIG=


......................................................................................


Date: 01-Jun-2563

SATH31 VTPP 010800
METAR VTPP 010800Z VRB02KT 9999 FEW040 36/22 Q1007 NOSIG=


......................................................................................


Date: 01-Jun-2563

SATH31 VTCH 010800
METAR VTCH 010800Z 16003KT 9999 FEW025 37/22 Q1007=


......................................................................................


Date: 01-Jun-2563

SATH31 VTCP 010800
METAR VTCP 010800Z VRB03KT 9999 SCT025 37/23 Q1006 NOSIG=


......................................................................................


Date: 01-Jun-2563

SATH31 VTPM 010800
METAR VTPM 010800Z 28009KT 9999 FEW030 32/23 Q1010 NOSIG=


......................................................................................


Date: 01-Jun-2563

SATH31 VTSF 010800
METAR VTSF 010800Z 06007KT 010V120 9999 FEW018 35/27 Q1008 NOSIG=


......................................................................................


Date: 01-Jun-2563

SATH31 VTPO 010800
METAR VTPO 010800Z 16004KT 9999 FEW020TCU FEW025 36/24 Q1006 NOSIG=


......................................................................................


Date: 01-Jun-2563

SATH31 VTSE 010800
METAR VTSE 010800Z 14007KT 090V200 9999 FEW018TCU 34/25 Q1008 NOSIG=


......................................................................................


Date: 01-Jun-2563

SATH31 VTSM 010800
METAR VTSM 010800Z 33007KT 270V360 9999 FEW020 35/26 Q1010 NOSIG=


......................................................................................


Date: 01-Jun-2563

SATH31 VTSP 010800
METAR VTSP 010800Z 27009KT 240V300 9999 FEW018TCU 31/24 Q1009 NOSIG=


......................................................................................


Date: 01-Jun-2563

SATH31 VTUI 010800
METAR VTUI 010800Z 06004KT 340V120 9999 SCT030 BKN080 27/25 Q1009
NOSIG=


......................................................................................


Date: 01-Jun-2563

SATH31 VTUL 010800
METAR VTUL 010800Z 14006KT 100V190 9999 BKN030 34/24 Q1008 NOSIG=


......................................................................................


Date: 01-Jun-2563

SAOM32 OOMS 010800
METAR OOMS 010750Z 05010KT 020V080 CAVOK 39/25 Q1004 NOSIG=
METAR OOSA 010750Z 20004KT 150V240 4000 -RA SCT010 BKN020 OVC025
29/26 Q1008 TEMPO 3000=
METAR OOSH 010800Z NIL=
METAR OODQ 010750Z AUTO 21013KT 180V240 CAVOK 35/25 Q1008 NOSIG=


......................................................................................


Date: 01-Jun-2563

SASD31 OEJD 010800
METAR OEDF 010800Z 02013KT CAVOK 44/05 Q1004 NOSIG=
METAR OEDR 010800Z NIL=
METAR OEJN 010800Z 34012KT CAVOK 34/17 Q1008 NOSIG=
METAR OEMA 010800Z 32005KT CAVOK 37/00 Q1012 NOSIG=
METAR OERK 010800Z 17007KT CAVOK 40/05 Q1011 NOSIG=
METAR OERY 010800Z 15010KT CAVOK 39/00 Q1012=
METAR OYAA 010800Z NIL=
METAR OYSN 010800Z NIL=


......................................................................................


Date: 01-Jun-2563

SATH31 VTBD 010800
METAR VTBD 010800Z 29006KT 230V030 9999 SCT020 35/23 Q1007 NOSIG=


......................................................................................


Date: 01-Jun-2563

SATH31 VTBS 010800
METAR VTBS 010800Z 17011KT 140V200 9999 FEW020 35/23 Q1008 NOSIG=


......................................................................................


Date: 01-Jun-2563

SATH31 VTCC 010800
METAR VTCC 010800Z 02009KT 9999 FEW025TCU SCT035 34/21 Q1008 NOSIG=


......................................................................................


Date: 01-Jun-2563

SATH31 VTCT 010800
METAR VTCT 010800Z 23009KT 190V270 9999 TS FEW018CB BKN025 31/23
Q1009 TEMPO 7000 -TSRA=


......................................................................................


Date: 01-Jun-2563

SATH31 VTPH 010800
METAR VTPH 010800Z 08008KT 050V110 9999 FEW018 33/23 Q1008 NOSIG=


......................................................................................


Date: 01-Jun-2563

SATH31 VTPT 010800
METAR VTPT 010800Z /////KT 9999 SCT026 39/23 Q//// NOSIG=


......................................................................................


Date: 01-Jun-2563

SATH31 VTSC 010800
METAR VTSC 010800Z 05008KT 9999 FEW020 32/25 Q1009 NOSIG =


......................................................................................


Date: 01-Jun-2563

SATH31 VTSR 010800
METAR VTSR 010800Z 30008KT 270V340 9999 FEW025 33/25 Q1009 NOSIG=


......................................................................................


Date: 01-Jun-2563

SATH31 VTSS 010800
METAR VTSS 010800Z 27009KT 9999 FEW020 34/25 Q1008 NOSIG=


......................................................................................


Date: 01-Jun-2563

SATH31 VTUK 010800
METAR VTUK 010800Z 31003KT 260V340 9999 FEW018CB SCT025 33/24 Q1008
NOSIG=


......................................................................................


Date: 01-Jun-2563

SATH31 VTUO 010800
METAR VTUO 010800Z 32004KT 250V360 9999 BKN030 35/21 Q1008 NOSIG=


......................................................................................


Date: 01-Jun-2563

SATH31 VTUV 010800
METAR VTUV 010800Z 16008KT 8000 FEW020CB SCT030 31/25 Q1007 NOSIG=


......................................................................................


Date: 01-Jun-2563

SAPK31 OPKC 010759
METAR OPGD 010755Z NIL=
METAR OPIS 010755Z 09014KT 6000 FEW030TCU SCT040 BKN100 29/19 Q1011
TEMPO 12015G30KT 3000 -TSRA FEW030CB=
METAR OPKC 010755Z 21009KT 6000 BKN020 34/23 Q1007 NOSIG=
METAR OPLA 010755Z 10012KT 7000 FEW100 31/18 Q1009 TEMPO 06015G30KT
3000 RMK QFE983 RMK A29.80=
METAR OPNH 010800Z 13510KT 5000M HZ NSC 39/22 Q1005 NOSIG=
METAR OPMT 010755Z NIL=
METAR OPPS 010800Z 13010KT 7000 HZ SCT040 FEW100 31/20 Q1009=
METAR OPRN 010755Z NIL=
METAR OPSK 010800Z 13004KT 4000 HZ NSC 39/20 Q1002 NOSIG=
METAR OPST 010800Z 04506KT 5000 FU SCT040 BKN100 26/19 Q1011 NOSIG
RH66=


......................................................................................


Date: 01-Jun-2563

SATH31 VTBO 010800
METAR VTBO 010800Z 22005KT 9999 FEW020 SCT100 31/27 Q1009=


......................................................................................


Date: 01-Jun-2563

SATH31 VTSB 010800
METAR VTSB 010800Z 24006KT 190V290 9999 FEW020 36/24 Q1008=


......................................................................................


Date: 01-Jun-2563

SATH31 VTUD 010800
METAR VTUD 010800Z VRB03KT 9999 SCT030 33/26 Q1008 NOSIG=


......................................................................................


Date: 01-Jun-2563

SATH31 VTUU 010800
METAR VTUU 010800Z 16004KT 080V230 9999 SCT030 33/25 Q1008 NOSIG =


......................................................................................


Date: 01-Jun-2563

SAAU69 AMMC 010800
METAR YSTW 010800Z AUTO 28013KT 9999 // NCD 15/03 Q1013=
METAR YSWG 010800Z AUTO 27011KT 9999 // SCT030 BKN038 BKN046 07/07 Q1013=
METAR YTEF 010800Z AUTO 09014KT 9999 // NCD 25/00 Q1019=
METAR YTNK 010800Z AUTO 14009KT 9999 // NCD 27/06 Q1018=
METAR YTRE 010800Z AUTO 29016G26KT 9999 // SCT095 22/05 Q1008=
METAR YWGT 010800Z AUTO 27011KT 9999 // BKN017 OVC022 OVC051 08/06 Q1012=
METAR YWHA 010800Z AUTO 20010KT 9999 // ////// 13/10 Q1022=
METAR YWLM 010800Z AUTO 30017KT 9999 // NCD 19/05 Q1008=


......................................................................................


Date: 01-Jun-2563

SAIR31 OIII 010800
METAR OIAW 010800Z 30006KT CAVOK 43/05 Q1004=
METAR OIFM 010800Z 30006KT 5000 HZ NSC 34/01 Q1019 A3009=
METAR OIII 010800Z 24014KT CAVOK 34/M07 Q1014 A2995 NOSIG=
METAR OIKB 010800Z 24010KT 3000 DU NSC 40/21 Q1004 A2967=
METAR OIKK 010800Z 03004KT 9999 FEW040 33/M01 Q1019 A3009=
METAR OIMM 010800Z 13004KT 9999 FEW040 34/M06 Q1015 A2998=
METAR OISS 010800Z 09006KT 9999 FEW040 35/M01 Q1017 A3005=
METAR OITT 010800Z 36006KT CAVOK 27/M03 Q1018 A3006 NOSIG=
METAR OIZH 010800Z 36006KT CAVOK 35/M04 Q1016 A3000 NOSIG=


......................................................................................


Date: 01-Jun-2563

SAIR32 OIII 010800
METAR OIAA 010800Z 35014KT CAVOK 42/03 Q1004=
METAR OIBK 010800Z 17010KT 3000 HZ NSC 34/27 Q1005 NOSIG=
METAR OICC 010800Z 32006KT CAVOK 32/M16 Q1017 A3004=
METAR OIGG 010800Z 04006KT CAVOK 26/12 Q1012=
METAR OIIE 010800Z 34012KT CAVOK 35/M05 Q1013=
METAR OINZ 010800Z 30006KT 9999 FEW027 28/17 Q1012=
METAR OITR 010800Z 13012KT CAVOK 26/05 Q1016=
METAR OIYY 010800Z 33008KT 9999 FEW035 37/M01 Q1016=


......................................................................................


Date: 01-Jun-2563

SAIR33 OIII 010800
METAR OIBB 010800Z 21014KT CAVOK 34/22 Q1003 A2964=
METAR OIBP 010800Z 10006KT 3000 HZ NSC 37/26 Q1004 A2965=
METAR OICK 010800Z 29008KT CAVOK 34/00 Q1015=
METAR OICS 010800Z 19006KT CAVOK 29/M10 Q1017 A3005=
METAR OIHH 010800Z 28004KT CAVOK 29/M02 Q1018=
METAR OITL 010800Z 20006KT 9999 FEW040 25/08 Q1016=
METAR OIZC 010800Z NIL=


......................................................................................


Date: 01-Jun-2563

SAIR34 OIII 010800
METAR OIAG 010800Z 32016KT CAVOK 45/03 Q1004=
METAR OIAM 010800Z 33010KT CAVOK 44/09 Q1003=
METAR OICI 010800Z 27008KT CAVOK 33/01 Q1017 A3006=
METAR OIKQ 010800Z 26014KT 4000 HZ NSC 36/27 Q1005 NOSIG=
METAR OINN 010800Z 03004KT 9999 FEW022 23/17 Q1013=
METAR OINR 010800Z 09006KT CAVOK 23/17 Q1012=
METAR OISL 010800Z 00000KT 7000 NSC 41/15 Q1009 NOSIG=
METAR OISY 010800Z 32008KT 9999 FEW040 30/M00 Q1022=
METAR OITZ 010800Z 22006KT CAVOK 27/M00 Q1017=


......................................................................................


Date: 01-Jun-2563

SAIR35 OIII 010800
METAR OIAD 010800Z NIL=
METAR OIBJ 010800Z 24012KT 6000 NSC 38/15 Q1010=
METAR OIBS 010800Z 24008KT 3500 HZ NSC 33/28 Q1006=
METAR OIHR 010800Z 01006KT 8000 NSC 29/00 Q1019=
METAR OIKM 010800Z NIL=
METAR OIKR 010800Z NIL=
METAR OING 010800Z 21006KT 9999 FEW025 29/16 Q1013 NOSIG=
METAR OIZB 010800Z 34027KT CAVOK 38/00 Q1006=
METAR OIZI 010800Z 30004KT 6000 NSC 40/13 Q1008=


......................................................................................


Date: 01-Jun-2563

SATH31 VTUQ 010800
METAR VTUQ 010800Z 24006KT 200V290 9999 SCT025 34/25 Q1008 NOSIG=


......................................................................................


Date: 01-Jun-2563

SATH40 VTBB 010800
METAR VTBD 010800Z 29006KT 230V030 9999 SCT020 35/23 Q1007 NOSIG=
METAR VTBS 010800Z 17011KT 140V200 9999 FEW020 35/23 Q1008 NOSIG=
METAR VTBU 010800Z 18005KT 9999 FEW020 SCT100 31/23 Q1009 NOSIG=
METAR VTCC 010800Z 02009KT 9999 FEW025TCU SCT035 34/21 Q1008 NOSIG=
METAR VTCT 010800Z 23009KT 190V270 9999 TS FEW018CB BKN025 31/23
Q1009 TEMPO 7000 -TSRA=
METAR VTSB 010800Z 24006KT 190V290 9999 FEW020 36/24 Q1008=
METAR VTSG 010800Z 23009KT 200V260 9999 SCT020 33/26 Q1010 NOSIG=
METAR VTSP 010800Z 27009KT 240V300 9999 FEW018TCU 31/24 Q1009 NOSIG=
METAR VTSS 010800Z 27009KT 9999 FEW020 34/25 Q1008 NOSIG=
METAR VTUD 010800Z VRB03KT 9999 SCT030 33/26 Q1008 NOSIG=
METAR VTUU 010800Z 16004KT 080V230 9999 SCT030 33/25 Q1008 NOSIG =


......................................................................................


Date: 01-Jun-2563

SATR31 UTAA 010800 RRA
METAR UTAK 010800Z 19010KT 9999 FEW008 22/15 Q1011 R16R/CLRD70
NOSIG=


......................................................................................


Date: 01-Jun-2563

SAIR36 OIII 010800
METAR OIBA 010800Z 27006KT 3500 HZ FEW035 34/29 Q1005=
METAR OIBV 010800Z 18010KT 2000 HZ NSC 33/26 Q1004=
METAR OIFS 010800Z 31012KT 9999 FEW040 30/M01 Q1023=
METAR OIIP 010800Z 29006KT 8000 NSC 30/M05 Q1014 A2996=
METAR OIMB 010800Z 32012KT CAVOK 35/M06 Q1016=
METAR OIMN 010800Z 11006KT 9000 NSC 27/11 Q1015=
METAR OIMS 010800Z NIL=
METAR OIMT 010800Z NIL=
METAR OIZJ 010800Z 27010KT 6000 NSC 37/25 Q1003=


......................................................................................


Date: 01-Jun-2563

SAIR37 OIII 010800
METAR OIBL 010800Z 19006KT 3000 HZ NSC 34/27 Q1005=
METAR OIBQ 010800Z 31010KT 8000 NSC 33/22 Q1003=
METAR OIIK 010800Z 26004KT CAVOK 31/M05 Q1015=
METAR OIMC 010800Z 31012KT CAVOK 36/11 Q1011=
METAR OIMD 010800Z 12016KT 9999 FEW035 36/M03 Q1011=
METAR OIMQ 010800Z 08014KT CAVOK 33/M04 Q1015=
METAR OINE 010800Z 24006KT 9999 FEW030 29/16 Q1011=
METAR OITK 010800Z NIL=
METAR OITM 010800Z 25006KT CAVOK 28/M03 Q1016=


......................................................................................


Date: 01-Jun-2563

SAIR38 OIII 010800
METAR OIAH 010800Z 00000KT CAVOK 43/12 Q1010=
METAR OIBH 010800Z 26010KT 7000 NSC 39/25 Q1003=
METAR OICM 010800Z 28006KT CAVOK 43/03 Q1006=
METAR OIIS 010800Z NIL=
METAR OIMJ 010800Z 05012KT CAVOK 31/03 Q1016=
METAR OISF 010800Z 20008KT CAVOK 37/04 Q1013 A2991=
METAR OISR 010800Z 08010KT 3000 HZ NSC 42/12 Q1007 A2975 NOSIG=
METAR OITP 010800Z 12004KT CAVOK 29/14 Q1011=
METAR OITU 010800Z NIL=


......................................................................................


Date: 01-Jun-2563

SASR31 WSSS 010800
METAR WSSS 010800Z 09004KT 040V120 4500 TSRA FEW012 FEW016CB OVC150
25/24 Q1011 BECMG FM0820 TL0830 6000 SHRA=


......................................................................................


Date: 01-Jun-2563

SASD31 OEJD 010800 RRA
METAR OEDR 010800Z 03012KT CAVOK 42/04 Q1003 NOSIG=


......................................................................................


Date: 01-Jun-2563

SAAE31 VTBB 010800
METAR VTBD 010800Z 29006KT 230V030 9999 SCT020 35/23 Q1007 NOSIG=
METAR VTBS 010800Z 17011KT 140V200 9999 FEW020 35/23 Q1008 NOSIG=
METAR VTBU 010800Z 18005KT 9999 FEW020 SCT100 31/23 Q1009 NOSIG=
METAR VTCC 010800Z 02009KT 9999 FEW025TCU SCT035 34/21 Q1008 NOSIG=
METAR VTCT 010800Z 23009KT 190V270 9999 TS FEW018CB BKN025 31/23
Q1009 TEMPO 7000 -TSRA=
METAR VTSG 010800Z 23009KT 200V260 9999 SCT020 33/26 Q1010 NOSIG=
METAR VTSP 010800Z 27009KT 240V300 9999 FEW018TCU 31/24 Q1009 NOSIG=
METAR VTSS 010800Z 27009KT 9999 FEW020 34/25 Q1008 NOSIG=


......................................................................................


Date: 01-Jun-2563

SAAE32 VTBB 010800
METAR VDPP 010800Z 17006KT 140V210 9999 SCT015 FEW017CB 37/20
Q1007 CB S/W=
METAR VDSR 010800Z VRB03KT 9999 SCT015 35/21 Q1007=
METAR VDSV 010800Z 23005KT 170V290 9999 SCT015 SCT040 31/25 Q1009=
METAR VLVT 010800Z 00000KT 9999 SCT016 SCT050 32/25 Q1008 NOSIG=
METAR VYMD 010800Z NIL=
METAR VYYY 010800Z 18005KT 7000 BKN015 FEW020CB BKN100 33/24 Q1008=
METAR VYNT 010800Z NIL=


......................................................................................


Date: 01-Jun-2563

SAAE33 VTBB 010800
METAR VLLB 010800Z 32008KT 6000 TS SCT018 FEW023CB OVC080 34/21
Q1008 NOSIG=
METAR VLLN 010800Z 14004KT 8000 TS SCT020 FEW023CB BKN100 29/24
Q1010 CB,SE NOSIG=
METAR VLPS 010800Z 22002KT 9999 SCT020 FEW023TCU 33/24 Q1009 TCU,E,W
NOSIG=
METAR VLSK 010800Z 36008KT 7000 TS SCT016 BKN093 27/24 Q1009 NOSIG=


......................................................................................


Date: 01-Jun-2563

SAAE34 VTBB 010800
METAR VVCI 010800Z 17012KT 9999 FEW017 FEW022TCU 34/27 Q1004 NOSIG=
METAR VVCR 010800Z NIL=
METAR VVCT 010800Z 26005KT 9999 SCT015 FEW017TCU 35/24 Q1008
NOSIG TCU/N=
METAR VVNB 010800Z 20004KT 130V290 CAVOK 36/23 Q1003 NOSIG=
METAR VVPB 010800Z 10007KT 9999 FEW020 SCT080 34/25 Q1008 NOSIG=
METAR VVPQ 010800Z 27004KT 9999 FEW017 SCT040 31/25 Q1009
NOSIG=
METAR VVTS 010800Z 15007KT 110V200 9999 SCT015 FEW017CB 32/23 Q1007
RETS NOSIG RMK CB OVER RWY=
METAR VVDN 010800Z 09007KT 9999 FEW015CB 34/26 Q1007 NOSIG=


......................................................................................


Date: 01-Jun-2563

SAPK31 OPKC 010800 RRA
METAR OPMT 010800Z 00000KT 9999 FEW040 35/19 Q1006 NOSIG=


......................................................................................


Date: 01-Jun-2563

SAAU32 AMMC 010800 CCA
METAR YAMB 010800Z 05005KT 9999 VCSH SCT043 BKN084 BKN280 21/13 Q1013
FM0815 33008KT 9999 -SHRA SCT045 BKN060=


......................................................................................


Date: 01-Jun-2563

SAAU32 AMMC 010800
METAR YAMB 010800Z 05005KT 9999 VCSH SCT043 BKN084 BKN280 21/13 Q1013=
METAR YBCG 010800Z AUTO 34009KT 9999 // NCD 20/16 Q1014=
METAR YBHM 010800Z AUTO 07006KT 9999 // NCD 22/19 Q1016=
METAR YBMA 010800Z AUTO 17013KT 9999 // NCD 24/02 Q1019=
METAR YBRK 010800Z AUTO 05005KT 9999 // SCT080 23/16 Q1016=
METAR YBRM 010800Z AUTO 12010KT 9999 // NCD 30/08 Q1014=
METAR YCIN 010800Z AUTO 14011KT 9999 // NCD 29/10 Q1014=
METAR YFRT 010800Z AUTO 22005KT 9999 // SCT039 18/09 Q1025=
METAR YMAV 010800Z AUTO 25014KT 9999 // SCT016 BKN020 BKN027 09/09 Q1012=
METAR YMHB 010800Z AUTO 16008KT 9999 // BKN049 OVC061 10/06 Q1005=
METAR YMLT 010800Z AUTO 35005KT 7000 // SCT003 BKN026 BKN032 10/09 Q1006=
METAR YPEA 010800Z AUTO 10006KT 9999 // OVC045 18/10 Q1026=
METAR YPGV 010800Z AUTO 14010KT 9999 // SCT028 27/20 Q1014=
METAR YPKG 010800Z AUTO 18005KT 9999 // NCD 19/08 Q1026=
METAR YPPD 010800Z AUTO 13012KT 9999 // NCD 27/M04 Q1017=
METAR YSCB 010800Z AUTO 30006KT 9999 -SHRA SCT017 BKN036 BKN041 06/05 Q1010
RESHRA=
METAR YSDU 010800Z AUTO 29006KT 9999 // SCT041 SCT046 SCT057 08/07 Q1015=
METAR YSNF 010800Z AUTO 22004KT 9999 // SCT031 16/12 Q1021=
METAR YSRI 010800Z AUTO 25014KT 9999 // OVC064 14/04 Q1011=
METAR YWLM 010800Z AUTO 30017KT 9999 // NCD 19/05 Q1008=


......................................................................................


Date: 01-Jun-2563

SAAU60 AMMC 010800 CCA
METAR YBBN 010800Z 01012KT CAVOK 20/17 Q1014
NOSIG=


......................................................................................


Date: 01-Jun-2563

SAAU60 AMMC 010800 CCB
METAR YAMB 010800Z 05005KT 9999 VCSH SCT043 BKN084 BKN280 21/13 Q1013
FM0815 33008KT 9999 -SHRA SCT045 BKN060=


......................................................................................


Date: 01-Jun-2563

SAAU60 AMMC 010800 CCC
METAR YBCS 010800Z AUTO 13006KT 9999 // BKN034 OVC105 24/19 Q1015
NOSIG=


......................................................................................


Date: 01-Jun-2563

SAAU60 AMMC 010800
METAR YABA 010800Z AUTO 35004KT 9999 // OVC026 16/12 Q1026=
METAR YAMB 010800Z 05005KT 9999 VCSH SCT043 BKN084 BKN280 21/13 Q1013=
METAR YARG 010800Z AUTO /////KT 9999 // NCD 33/07 Q1014=
METAR YAYE 010800Z AUTO 16006KT 9999 // NCD 20/03 Q1023=
METAR YBAS 010800Z AUTO 18009KT 9999 // NCD 20/01 Q1022=
METAR YBBN 010800Z 01012KT CAVOK 20/17 Q1014=
METAR YBCG 010800Z AUTO 34009KT 9999 // NCD 20/16 Q1014=
METAR YBCS 010800Z AUTO 13006KT 9999 // BKN034 OVC105 24/19 Q1015=
METAR YBCV 010800Z AUTO 24005KT 9999 // NCD 18/00 Q1017=
METAR YBDV 010800Z AUTO 23012KT //// // ////// 19/07 Q1020=


......................................................................................


Date: 01-Jun-2563

SAAU65 AMMC 010800
METAR YLRE 010800Z AUTO 22007KT 9999 // NCD 23/02 Q1018=
METAR YMAV 010800Z AUTO 25014KT 9999 // SCT016 BKN020 BKN027 09/09 Q1012=
METAR YMAY 010800Z AUTO 28011KT 9999 // SCT014 BKN022 BKN026 08/06 Q1012=
METAR YMDG 010800Z AUTO 28009KT 9999 // SCT047 OVC068 08/07 Q1013=
METAR YMEK 010800Z AUTO 10007KT 9999 // NCD 20/04 Q1024=
METAR YMEN 010800Z AUTO 25017KT 2800 -RA BKN006 OVC010 08/08 Q1012=
METAR YMER 010800Z AUTO 25005KT 9999 // OVC079 14/07 Q1006=
METAR YMIA 010800Z AUTO 22007KT 9999 // BKN052 11/04 Q1019=
METAR YMML 010800Z 24021KT 4000 -DZ FEW009 BKN014 BKN024 08/07 Q1012=
METAR YMOR 010800Z AUTO 26012KT 9999 // NCD 17/M00 Q1014=


......................................................................................


Date: 01-Jun-2563

SAHK31 VHHH 010800
METAR VHHH 010800Z 21012KT 170V230 9999 FEW012 SCT030 31/25
Q1008 NOSIG=


......................................................................................


Date: 01-Jun-2563

SAJP51 RJTD 010800 RRA
METAR RJFK 010800Z 25006KT 210V290 9999 FEW010 BKN015 BKN/// 24/21
Q1010=
METAR RJFM 010800Z 15009KT 9999 FEW015 SCT025 BKN180 23/21 Q1008=
METAR RJFO 010800Z 16003KT 110V240 9999 FEW008 SCT025 BKN035 22/20
Q1008=
METAR RJFR 010800Z VRB02KT 9999 FEW005 BKN010 BKN020 21/19 Q1008=
METAR RJFS 010800Z 22004KT 190V270 9999 FEW030 BKN/// 25/22 Q1008=
METAR RJFT 010800Z 22008KT 170V250 9999 SCT025 BKN/// 25/21 Q1009=
METAR RJFU 010800Z 24003KT 190V320 9999 FEW010 SCT020 BKN/// 24/21
Q1008=
METAR RJGG 010800Z 18004KT 9999 FEW025 BKN/// 22/18 Q1008 NOSIG=
METAR RJKA 010800Z 32008KT 290V350 9999 FEW020 BKN/// 25/21 Q1010=
METAR RJKI 010800Z AUTO 33008KT 9999 FEW031 26/23 Q1010=
METAR RJNK 010800Z 21010KT 9999 FEW050 BKN090 BKN230 28/16 Q1006=
METAR RJNS 010800Z 05003KT 330V120 9999 -SHRA FEW005 SCT010 BKN020
20/20 Q1009=
METAR RJNT 010800Z VRB02KT 9999 FEW040 SCT090 BKN140 25/15 Q1007=
METAR RJNW 010800Z 25006KT 200V290 9999 FEW030 SCT045 BKN050 21/16
Q1008=
METAR RJOA 010800Z 27005KT 9999 -SHRA FEW006 SCT020 BKN030 20/19
Q1009=
METAR RJOB 010800Z 25007KT 9999 FEW020 BKN030 23/18 Q1008=
METAR RJOC 010800Z 24006KT 9999 FEW007 SCT025 BKN035 22/20 Q1006=
METAR RJOH 010800Z 27012KT 9999 FEW030 BKN040 BKN100 23/19 Q1006=
METAR RJOK 010800Z 19005KT 9999 FEW015 BKN045 BKN/// 23/19 Q1009=
METAR RJOM 010800Z 22004KT 200V260 9999 -RA FEW030 SCT050 BKN070
20/18 Q1008=


......................................................................................


Date: 01-Jun-2563

SAJP51 RJTD 010800 RRB
METAR RJOO 010800Z 21007KT 160V260 9999 FEW030 SCT060 BKN/// 25/18
Q1008=
METAR RJOR 010800Z 28008KT 9999 FEW040 SCT050 BKN100 22/19 Q1007=
METAR RJOS 010800Z 15004KT 9999 FEW030 SCT050 BKN/// 24/19 Q1008=
METAR RJOT 010800Z 06004KT 020V100 9999 FEW020 SCT030 BKN050 23/19
Q1009=
METAR RJOW 010800Z 28008KT 9999 FEW020 SCT035 BKN/// 25/20 Q1007=
METAR RJOY 010800Z 26008KT 230V290 9999 FEW030 BKN/// 25/18 Q1008=
METAR RJSA 010800Z 08004KT 9999 FEW040 SCT090 BKN/// 21/09 Q1007=
METAR RJSC 010800Z 10008KT 9999 FEW040 SCT060 BKN080 24/16 Q1008=
METAR RJSD 010800Z AUTO VRB02KT 9999 FEW025 BKN070 OVC080 23/15
Q1007=
METAR RJSF 010800Z 18011KT 9999 FEW009 SCT012 BKN020 18/18 Q1011=
METAR RJSI 010800Z 18015KT 9999 FEW030 SCT070 BKN080 22/15 Q1009=
METAR RJSK 010800Z 30004KT 9999 VCSH FEW050 BKN060 22/12 Q1008=
METAR RJSM 010800Z 36006KT 9999 FEW035 BKN120 BKN230 17/13 Q1006=
METAR RJSN 010800Z 36003KT 310V040 9999 FEW050 BKN080 BKN100 23/20
Q1007=
METAR RJSR 010800Z 26007KT 9999 FEW040 SCT070 BKN080 22/13 Q1007=
METAR RJSS 010800Z 17015KT 9999 FEW020 SCT030 BKN045 18/15 Q1009=
METAR RJSY 010800Z 26003KT 9999 FEW040 SCT050 BKN070 21/14 Q1007=
METAR RJTF 010800Z 34002KT 5000 BR FEW015 SCT020 BKN030 20/19 Q1010=
METAR RJTO 010800Z 06008KT 5000 -SHRA BR FEW000 SCT007 BKN015 20/20
Q1009=
METAR RJTT 010800Z 02005KT 9999 VCSH FEW020 BKN030 BKN040 21/19
Q1010 BECMG 10006KT=


......................................................................................


Date: 01-Jun-2563

SAJP51 RJTD 010800 RRC
METAR ROAH 010800Z 35008KT 9999 FEW013 BKN/// 27/23 Q1011=
METAR ROIG 010800Z 23013KT 9999 FEW009 SCT012 29/27 Q1009=
METAR ROMD 010800Z AUTO 21012KT 9999 BKN005 27/25 Q1012=
METAR ROMY 010800Z 21011KT 9999 -SHRA FEW013 SCT018 FEW025CB BKN030
28/27 Q1010=
METAR RORK 010800Z AUTO 23011KT 9999 NCD 28/25 Q1011=
METAR RORS 010800Z 20007KT 160V230 9999 -SHRA FEW010 SCT015 FEW025CB
BKN040 28/27 Q1009=
METAR RORY 010800Z AUTO 36007KT 9999 FEW013 BKN100 BKN120 26/22
Q1011=
METAR ROYN 010800Z AUTO 01007KT 9999 NSC 30/26 Q1009=


......................................................................................


Date: 01-Jun-2563

SAJP51 RJTD 010800
METAR RJAA 010800Z 14011KT 9999 FEW010 SCT014 BKN020 21/18 Q1010
BECMG FEW006 BKN012=
METAR RJAH 010800Z 16008KT 9999 FEW015 BKN025 BKN035 22/16 Q1010=
METAR RJBB 010800Z 23008KT 9999 FEW025 BKN/// 23/19 Q1008 NOSIG=
METAR RJBD 010800Z 22003KT 150V270 9999 SCT015 BKN025 22/19 Q1009=
METAR RJBE 010800Z 20008KT 9999 FEW025 BKN/// 22/18 Q1008=
METAR RJBT 010800Z 19006KT 150V230 9999 FEW035 BKN060 25/18 Q1007=
METAR RJCB 010800Z 16015KT 9999 FEW060 22/10 Q1007=
METAR RJCC 010800Z 17013KT 9999 FEW008 16/13 Q1008=
METAR RJCH 010800Z 25004KT 9999 FEW040 SCT080 BKN130 17/12 Q1007=
METAR RJCK 010800Z 17005KT 140V210 0800 R17/0700V1600D FG BKN001
BKN002 12/12 Q1010=
METAR RJCM 010800Z 02006KT 350V050 CAVOK 22/04 Q1007=
METAR RJCN 010800Z 21011KT 9999 FEW040 20/13 Q1009=
METAR RJCO 010800Z 31011KT 9999 FEW030 22/10 Q1007=
METAR RJCW 010800Z 22007KT 9999 FEW040 SCT/// 22/11 Q1006=
METAR RJDC 010800Z 07010KT 9999 FEW010 SCT020 BKN/// 21/20 Q1008=
METAR RJDT 010800Z 27006KT 190V330 9999 FEW015 SCT/// 24/18 Q1008=
METAR RJEC 010800Z VRB01KT 9999 FEW040 SCT090 25/12 Q1006=
METAR RJFE 010800Z 33006KT 270V010 9999 FEW015 BKN/// 23/19 Q1009=
METAR RJFF 010800Z 32013KT 9999 FEW010 BKN/// 23/20 Q1008 NOSIG=
METAR RJFG 010800Z 28010KT 9999 -SHRA FEW004 BKN010 22/21 Q1010=


......................................................................................


Date: 01-Jun-2563

SAMS31 WMKK 010800
METAR WBGG 010800Z VRB03KT 7000 -TSRA FEW015CB SCT020 25/24 Q1010 RETSRA NOSIG=
METAR WBKK 010800Z 12004KT 9999 -TSRA FEW013 FEW016CB SCT035 25/24 Q1009 NOSIG=
METAR WBSB 010800Z 23007KT 5000 -SHRA SCT015 FEW016CB BKN140 29/25 Q1010 TEMPO 7000 SHRA TSRA=
METAR WMKK 010800Z VRB03KT 9999 FEW018 31/25 Q1009 NOSIG=
METAR WMKP 010800Z 21006KT 170V250 9999 FEW017CB 31/27 Q1009 NOSIG=
METAR WSSL 010800Z 11008KT 3500 TSRA FEW010 FEW015CB SCT017TCU BKN150 25/24 Q1011 RESHRA=
METAR WSSS 010800Z 09004KT 040V120 4500 TSRA FEW012 FEW016CB OVC150 25/24 Q1011 BECMG FM0820 TL0830 6000 SHRA=


......................................................................................


Date: 01-Jun-2563

SATR31 UTAA 010800
METAR UTAA 010800Z 03006KT 340V120 9999 NSC 32/14 Q1010
R88/CLRD70 NOSIG=
METAR UTAK 010800Z 19010KT 9999 FEW008 22/15 Q1011 R16R/CLRD70 NOSIG=
METAR UTAV 010800Z 31008KT 240V360 CAVOK 39/M03 Q1008 R31/CLRD70
NOSIG=
METAR UTAM NIL=
METAR UTAT 010800Z 05008KT CAVOK 39/00 Q1008 NOSIG=


......................................................................................


Date: 01-Jun-2563

SAAU31 AMMC 010800 CCA
METAR YPDN 010800Z 36008KT CAVOK 29/20 Q1012
NOSIG=


......................................................................................


Date: 01-Jun-2563

SAAU31 AMMC 010800
METAR YBAS 010800Z AUTO 18009KT 9999 // NCD 20/01 Q1022=
METAR YBBN 010800Z 01012KT CAVOK 20/17 Q1014
NOSIG=
METAR YBCS 010800Z AUTO 13006KT 9999 // BKN034 OVC105 24/19 Q1015
NOSIG=
METAR YBTL 010800Z AUTO 06007KT 9999 // NCD 23/21 Q1016=
METAR YMML 010800Z 24021KT 4000 -DZ FEW009 BKN014 BKN024 08/07 Q1012=
METAR YPAD 010800Z 23013KT 9999 FEW026 SCT032 BKN058 13/08 Q1020
NOSIG=
METAR YPCC 010800Z 13015KT 9999 FEW016 SCT035 27/23 Q1013=
METAR YPDN 010800Z 36008KT CAVOK 29/20 Q1012=
METAR YPKU 010800Z AUTO 13005KT 9999 // NCD 34/// Q1013=
METAR YPLM 010800Z AUTO 36003KT 9999 // NCD 23/10 Q1018=
METAR YPPH 010800Z 14005KT 9999 FEW040 SCT044 19/09 Q1026=
METAR YPTN 010800Z AUTO 10010KT 9999 // NCD 33/09 Q1013=
METAR YPXM 010800Z AUTO 09011KT 9999 // BKN010 OVC014 27/24 Q1012=
METAR YSSY 010800Z 28020KT CAVOK 17/05 Q1009=


......................................................................................


Date: 01-Jun-2563

SAHK31 VHHH 010800
METAR VHHH 010800Z 21012KT 170V230 9999 FEW012 SCT030 31/25
Q1008 NOSIG=
METAR RCTP 010800Z 25014KT 9999 FEW018 SCT180 31/27 Q1009 NOSIG
RMK A2980=
METAR RCKH 010800Z 27009KT 240V310 9999 FEW018 31/23 Q1009 NOSIG
RMK 28010KT/R09 A2981=
METAR RCSS 010800Z 32007KT 280V350 9999 FEW020 SCT045 BKN250 32/26
Q1009 NOSIG RMK 33006KT/R10 A2980=
METAR RCMQ 010800Z 23007KT 9999 FEW012 SCT025 31/24 Q1010 NOSIG
RMK A2983=
METAR RCNN 010800Z 26006KT 9999 FEW014 SCT200 32/24 Q1009 NOSIG
RMK A2982=
METAR RCFN 010800Z 03007KT 350V100 9999 FEW019 SCT038 31/25 Q1009
NOSIG RMK A2980=
METAR VMMC 010800Z 20012KT 9999 FEW015 SCT028 30/27 Q1008 NOSIG=
METAR RPLL 010800Z 12008KT 030V180 9999 FEW025 SCT300 34/23 Q1009
NOSIG RMK A298